Фактическая погода NOWCAST (расчётный прогноз на ближайшие 2 часа) AUTOTAF (расчётный прогноз на 9 часов) TAF (официальный синоптический прогноз)
Алматы
METAR UAAA 121300Z 31006MPS 9999 VCTS FEW050CB SCT100 BKN200 30/11 Q1002 NOSIG


NOWCAST.SU UAAA 121600Z VRB02MPS 9999 VCSH BKN144CB 23/10 Q1002 NOSIG
RMK TURB: MOD FL70/FL110
AUTOTAF.ME UAAA 120700Z 1208/1217 05004MPS CAVOK TX31/1208Z TN22/1217Z
FM121200 05005MPS 9999 VCSH BKN150CB
FM121300 06004MPS CAVOK
FM121600 VRB02MPS 9999 VCSH BKN150CB
TAF UAAA 121105Z 1212/1312 17003MPS 9999 SCT050CB BKN100 TX31/1310Z TN18/1301Z
TEMPO 1212/1218 28005G13MPS -TSRA BKN050CB BKN100
BECMG 1218/1219 22003G08MPS BKN050CB BKN100
TEMPO 1222/1303 27005G10MPS -TSRA
PROB40 TEMPO 1303/1306 TS
TEMPO 1306/1312 34008G15MPS -TSRA=
Балхаш
METAR UAAH 121500Z 06003MPS CAVOK 27/07 Q1002 NOSIG RMK QFE715/0953


NOWCAST.SU UAAH 121600Z VRB02MPS 9999 BKN151 26/08 Q1003 NOSIG
RMK TURB: MOD FL50/FL110
AUTOTAF.ME UAAH 120700Z 1208/1217 10003MPS CAVOK TX30/1208Z TN25/1217Z
TAF UAAH 121400Z 1215/1224 22004MPS CAVOK=
Алматы (Боралдай)
SYNAR 36870 Алматы (Алма-Ата) 121200Z 00000MPS CAVOK 30/20 Q1005 RMK QFE680/0906 CLD:5CI
(160/14KM)


NOWCAST.SU UAAR 121600Z VRB02MPS 9999 VCSH BKN144CB 24/11 Q1002 NOSIG
RMK TURB: MOD FL70/FL110
AUTOTAF.ME UAAR 120700Z 1208/1217 05004MPS CAVOK TX32/1209Z TN23/1217Z
FM121200 05005MPS 9999 VCSH BKN150CB
FM121300 06004MPS CAVOK
FM121600 VRB02MPS 9999 VCSH BKN150CB
 
Талды-Корган
METAR UAAT 121230Z 30003MPS 260V350 9999 FEW050 SCT200 32/07 Q1002 NOSIG RMK QFE701/0935


NOWCAST.SU UAAT 121600Z 08003MPS 9999 SCT147 22/04 Q1005 NOSIG
RMK TURB: MOD FL90/FL120
AUTOTAF.ME UAAT 120700Z 1208/1217 30005MPS CAVOK TX32/1208Z TN21/1217Z
BECMG 1213/1214 04003MPS
TAF AMD UAAT 121256Z 1212/1221 CNL=
Аягуз
SYNAR 36622 Аягоз 121200Z 04003MPS CAVOK 29/07 Q1006 RMK QFE696/0929 CLD:5ACCI


NOWCAST.SU UAAY 121600Z 04008G15MPS 9999 VCSH SCT144CB 22/08 Q1006 NOSIG
RMK TURB: MOD FL90/FL110
AUTOTAF.ME UAAY 120700Z 1208/1217 05003MPS CAVOK TX31/1211Z TN21/1217Z
FM121600 04008G15MPS 9999 VCSH SCT150CB
 
Астана (Нурсултан Назарбаев)
METAR UACC 121600Z 09004MPS CAVOK 21/14 Q1003 NOSIG RMK QFE721/0962


NOWCAST.SU UACC 121600Z 10005G13MPS 9999 VCSH BKN155CB 24/12 Q1003 NOSIG
RMK TURB: MOD FL50/FL110
AUTOTAF.ME UACC 120700Z 1208/1217 17005MPS 9999 VCSH SCT091CB TX31/1210Z TN23/1217Z
FM121400 11005MPS CAVOK
FM121600 10005G13MPS 9999 VCSH BKN160CB
TAF UACC 121100Z 1212/1312 12005MPS 9999 SCT040 TX30/1310Z TN17/1301Z
TEMPO 1217/1305 FEW040CB BKN100
TEMPO 1305/1312 15005G10MPS SCT040CB BKN100
PROB40 TEMPO 1309/1312 -TSRA BKN040CB=
Кокшетау
METAR UACK 121300Z 12006MPS CAVOK 28/13 Q1003 NOSIG RMK QFE729/0972


NOWCAST.SU UACK 121600Z 08004MPS 9999 VCSH BKN157CB 24/14 Q1003 NOSIG
RMK TURB: MOD FL50/FL70
AUTOTAF.ME UACK 120700Z 1208/1217 13007MPS 9999 VCSH SCT080CB TX30/1210Z TN23/1217Z
FM121300 11004MPS CAVOK
FM121600 08004MPS 9999 VCSH BKN160CB
TAF AMD UACK 121303Z 1213/1221 CNL=
Петропавловск
METAR UACP 121400Z 09005MPS CAVOK 27/18 Q1004 NOSIG RMK QFE741/0988


NOWCAST.SU UACP 121600Z 08004MPS 9999 VCSH SCT078CB 23/16 Q1005 NOSIG
RMK TURB: MOD FL90/FL100
AUTOTAF.ME UACP 120700Z 1208/1217 12003MPS 9999 VCSH BKN040CB TX29/1209Z TN22/1217Z
FM121100 11005MPS CAVOK
FM121200 11007MPS 9999 VCSH BKN080CB
FM121300 11007MPS CAVOK
FM121500 09004MPS 9999 VCSH SCT080CB
TAF AMD UACP 121359Z 1212/1221 CNL=
Тараз (Аулие-Ата)
METAR UADD 121600Z 26009MPS 9999 SCT050CB OVC100 30/08 Q1001 NOSIG RMK QFE695/0927


NOWCAST.SU UADD 121600Z VRB02MPS 9999 -SHRA OVC100CB 24/13 Q1003 NOSIG
RMK TURB: MOD FL70/FL120
AUTOTAF.ME UADD 120700Z 1208/1217 36004MPS 9999 VCSH SCT100CB TX36/1208Z TN24/1216Z
FM121200 23004MPS 8000 HZ NSC
FM121300 23004MPS 9999 -SHRA BKN130CB
BECMG 1213/1214 -SHRA HZ
BECMG 1214/1215 -SHRA
TAF UADD 121100Z 1212/1312 33003G08MPS 9999 BKN040CB BKN100 TX34/1309Z TN22/1223Z
TEMPO 1212/1215 VRB12MPS -TSRA SQ
TEMPO 1215/1306 18003G08MPS
TEMPO 1306/1312 -SHRA BKN030CB=
Толе-Би
SYNAR 38222 Толе Би 121200Z 35001MPS 9999 BKN033 35/11 Q1001 RMK QFE710/0947 CLD:5CU


NOWCAST.SU UADO 121600Z 18005G10MPS 9999 VCSH OVC152CB 25/11 Q1002 NOSIG
RMK TURB: MOD FL70/FL120
AUTOTAF.ME UADO 120700Z 1208/1217 32003MPS CAVOK TX36/1209Z TN24/1217Z
FM121100 33005MPS 9999 VCSH SCT110CB
BECMG 1213/1214 19005G10MPS
 
 


NOSIG
 
Чимкент
METAR UAII 121600Z 17004MPS 140V220 9999 BKN050CB 30/11 Q1002 NOSIG RMK QFE715/0953


NOWCAST.SU UAII 121600Z 28004MPS 8000 -SHRA HZ BKN108CB 30/13 Q1001 NOSIG
RMK TURB: MOD FL70/FL120
AUTOTAF.ME UAII 120700Z 1208/1217 27004MPS 9999 VCSH BKN240CB TX37/1208Z TN28/1217Z
FM121100 29009G14MPS 9999 VCSH DRDU BKN130CB
BECMG 1211/1212 VCSH
BECMG 1212/1213 -SHRA
BECMG 1214/1215 -SHRA DRDU
FM121600 28004MPS 8000 -SHRA HZ BKN110CB
FM121700 VRB02MPS 9999 -SHRA BKN110CB
TAF UAII 121109Z 1212/1312 28003G08MPS 7000 SCT050CB TX35/1310Z TN22/1301Z
TEMPO 1212/1224 19008G18MPS 3100 -TSRA SCT015 BKN033CB
TEMPO 1300/1312 23007G13MPS TS BKN040CB=
Туркестан
METAR UAIT 121600Z 07002MPS 050V110 9999 BKN040CB 30/11 Q0999 NOSIG RMK QFE725/0967


NOWCAST.SU UAIT 121600Z 03007MPS 9999 -SHRA BKN156CB 26/13 Q1002 NOSIG
RMK TURB: MOD FL90/FL110
AUTOTAF.ME UAIT 120700Z 1208/1217 25007MPS 9999 VCSH BKN120CB TX36/1208Z TN25/1217Z
BECMG 1210/1211 VCSH DRDU
BECMG 1211/1212 VCSH
FM121400 02004MPS 9999 -SHRA SCT160CB
TAF UAIT 121105Z 1212/1312 22007G12MPS 9999 SCT040CB TX37/1310Z TN24/1301Z
TEMPO 1212/1221 16010G15MPS 3100 -TSRA BKN030CB
TEMPO 1221/1305 13005MPS=
Жезказган
METAR UAKD 121600Z 12006MPS 9999 BKN040CB 22/16 Q0997 NOSIG RMK QFE715/0953


TSAR UAKD 121600Z LAST HOUR TS OBS: 100/85-99KM, 110/91-105KM
NEAREST TS 100/85KM
NOWCAST.SU UAKD 121600Z 17004MPS 9999 -SHRA BKN108CB 28/10 Q0998 NOSIG
RMK TURB: MOD FL50/FL120
AUTOTAF.ME UAKD 120700Z 1208/1217 17010G15MPS 9999 VCSH DRDU BKN080CB TX32/1210Z TN26/1217Z
TEMPO 1209/1210 VRB14G19MPS 5000 VCTS
BECMG 1209/1210 NSW
TEMPO 1210/1212 VRB14G19MPS -TSGRRA
TEMPO 1212/1213 VRB14G19MPS VCTS
FM121300 19005G10MPS 9999 VCSH BKN080CB
BECMG 1213/1214 -SHRA
BECMG 1216/1217 VCSH
TAF AMD UAKD 111502Z 1112/1121 CNL=
Караганда (Сары-Арка)
METAR UAKK 121600Z 10003MPS CAVOK 17/14 Q1004 NOSIG RMK QFE706/0942


NOWCAST.SU UAKK 121600Z 10005G13MPS 9999 BKN148 21/11 Q1006 NOSIG
RMK TURB: MOD FL70/FL110
AUTOTAF.ME UAKK 120700Z 1208/1217 14003MPS CAVOK TX28/1208Z TN21/1216Z
FM120900 12003MPS 9999 VCSH SCT060CB
BECMG 1212/1213 08005MPS
FM121400 08005G10MPS CAVOK
FM121500 09005G13MPS 9999 VCSH SCT080CB
FM121600 10005G13MPS CAVOK
FM121700 11005G13MPS 9999 VCSH BKN150CB
TAF UAKK 121102Z 1212/1312 14005MPS 9999 SCT040 SCT100 TX28/1309Z TN13/1301Z
TEMPO 1212/1218 09008MPS
TEMPO 1218/1304 10005MPS SCT030CB
BECMG 1304/1306 21005MPS BKN030 BKN100
TEMPO 1304/1312 27011MPS -SHRA BKN030CB
PROB40 TEMPO 1306/1312 TS BKN030CB=
Байконур (Крайний)
SYNAR 35953 Жосалы (Джусалы) 121200Z 22013G16MPS 9999 FEW033 34/11 Q995 RMK QFE737/0983 CLD:3CUCI
(100/69KM)


TSAR UAOL 121600Z LAST HOUR TS OBS: 250/117KM, 260/110KM, 300/93KM, 310/82-108KM, 320/71-126KM, 330/62-118KM, 340/55-156KM, 350/78-152KM, 360/124-149KM
NEAREST TS 340/55KM
NOWCAST.SU UAOL 121600Z 25008MPS 8000 VCSH HZ BKN161CB 30/12 Q0996 NOSIG
RMK TURB: MOD SFC/FL70
AUTOTAF.ME UAOL 120700Z 1208/1217 27009G14MPS 9999 DRDU NSC TX34/1210Z TN28/1217Z
FM120900 27010G15MPS 9999 VCSH DRDU BKN097CB
FM121000 26010G15MPS CAVOK
FM121200 26011G16MPS 9999 VCSH BKN170CB
FM121300 26010G15MPS 9999 DRDU NSC
FM121600 25008MPS 8000 VCSH HZ BKN170CB
BECMG 1216/1217 VCSH DRDU
 
Байконур (Юбилейный)
SYNAR 35953 Жосалы (Джусалы) 121200Z 22013G16MPS 9999 FEW033 34/11 Q995 RMK QFE737/0983 CLD:3CUCI
(130/89KM)


TSAR UAON 121600Z LAST HOUR TS OBS: 230/144KM, 240/130KM, 270/51-80KM, 280/22-36KM, 290/71-85KM, 300/58-95KM, 310/45-83KM, 320/35-73KM, 330/63-140KM, 340/56-162KM, 350/77-153KM, 360/101-149KM
NEAREST TS 280/22KM
NOWCAST.SU UAON 121600Z 25009G14MPS 7000 VCTS DRDU BKN160CB 30/12 Q0995 TEMPO FM1700 5000 TSRA
RMK TURB: MOD SFC/FL70
AUTOTAF.ME UAON 120700Z 1208/1217 26009G14MPS 9999 DRDU NSC TX34/1210Z TN29/1217Z
FM120900 27009G14MPS 9999 VCSH BKN097CB
BECMG 1209/1210 VCSH DRDU
FM121200 26010G15MPS 9999 DRDU NSC
FM121600 25009G14MPS 7000 VCSH DRDU BKN160CB
 
Кызылорда
METAR UAOO 121600Z 28004MPS CAVOK 27/11 Q0996 NOSIG RMK QFE736/0981


NOWCAST.SU UAOO 121600Z 28007MPS 9999 VCSH BKN161CB 31/09 Q0997 NOSIG
RMK TURB: MOD SFC/FL110
AUTOTAF.ME UAOO 120700Z 1208/1217 27005MPS 9999 VCSH SCT097CB TX35/1209Z TN29/1217Z
FM121000 26007MPS CAVOK
FM121200 27007MPS 9999 VCSH BKN110CB
FM121300 27008G13MPS 9999 DRDU NSC
FM121600 28007MPS 9999 VCSH BKN170CB
TAF UAOO 121400Z 1215/1224 27007MPS 9999 BKN033CB BKN100
TEMPO 1221/1224 25007G15MPS 3100 -TSRA BLDU=
Уральск (Ак-Жол)
METAR UARR 121600Z 35012MPS 9999 FEW046CB 22/08 Q1007 NOSIG RMK QFE752/1002


NOWCAST.SU UARR 121600Z 36013G19MPS 9999 BKN063TCU 23/09 Q1007 NOSIG
RMK TURB: MOD SFC/FL50
AUTOTAF.ME UARR 120700Z 1208/1217 35015G20MPS 9999 VCSH BKN080CB TX26/1209Z TN22/1217Z
FM121000 36015G20MPS CAVOK
BECMG 1212/1213 BKN040TCU
BECMG 1215/1216 NSC
TAF UARR 121400Z 1215/1224 33013MPS 9999 SCT050CB
TEMPO 1215/1221 34013G19MPS BKN030CB=
Семипалатинск-2
SYNAR 36026 Новониколаевка 121200Z 05004MPS 9999 //// 30/12 Q1006 RMK QFE732/0976 CLD:NO_OBSERVATIONS
(10/54KM)


NOWCAST.SU UASD 121600Z 09005G12MPS 9999 VCSH BKN159CB 25/14 Q1005 NOSIG
RMK TURB: MOD FL70/FL90
AUTOTAF.ME UASD 120700Z 1208/1217 04003MPS 9999 VCSH SCT060CB TX31/1208Z TN24/1217Z
TEMPO 1210/1211 VRB08G13MPS VCTS
BECMG 1210/1211 VCSH
FM121300 06005MPS CAVOK
FM121600 09005G12MPS 9999 VCSH BKN160CB
 
Усть-Каменогорск
METAR UASK 121600Z 34002MPS 300V360 9999 NSC 19/17 Q1003 NOSIG RMK QFE727/0970


NOWCAST.SU UASK 121600Z VRB02MPS 9999 VCSH BKN157CB 20/13 Q1004 NOSIG
AUTOTAF.ME UASK 120700Z 1208/1217 VRB02MPS CAVOK TX31/1210Z TN19/1217Z
FM121200 33003MPS 9999 VCSH BKN160CB
FM121300 32003MPS CAVOK
FM121600 VRB02MPS 9999 VCSH BKN160CB
TAF UASK 121401Z 1215/1224 30003MPS 9999 NSC
TEMPO 1215/1218 26003MPS=
Павлодар
METAR UASP 121600Z 02003MPS CAVOK 23/18 Q1005 NOSIG RMK QFE743/0991


NOWCAST.SU UASP 121600Z 08004MPS 9999 VCSH BKN162CB 25/14 Q1006 NOSIG
RMK TURB: MOD FL30/FL90
AUTOTAF.ME UASP 120700Z 1208/1217 VRB02MPS 9999 VCSH BKN060CB TX31/1208Z TN24/1217Z
FM121300 05004MPS CAVOK
FM121600 08004MPS 9999 VCSH BKN170CB
TAF UASP 121400Z 1215/1224 02003G08MPS 9999 BKN030CB
TEMPO 1215/1221 VRB13MPS 3100 -TSRA BKN020CB=
Семей
METAR UASS 121600Z 03004MPS CAVOK 24/16 Q1004 NOSIG RMK QFE733/0977


NOWCAST.SU UASS 121600Z 07005G12MPS 9999 VCSH BKN159CB 24/14 Q1005 NOSIG
AUTOTAF.ME UASS 120700Z 1208/1217 04005MPS 9999 VCSH SCT080CB TX31/1208Z TN23/1217Z
FM121100 05007MPS CAVOK
FM121200 06007MPS 9999 VCSH BKN160CB
FM121300 06008G13MPS CAVOK
FM121500 07005G11MPS 9999 VCSH SCT080CB
TAF UASS 121400Z 1215/1224 01005G10MPS CAVOK
TEMPO 1215/1221 05007G12MPS=
Урджар
SYNAR 36639 Урджар 121200Z 00000MPS 9999 FEW020 31/12 Q1003 RMK QFE709/0945 CLD:5CUCI


NOWCAST.SU UASU 121600Z 35003MPS 9999 SCT150 23/09 Q1003 NOSIG
RMK TURB: MOD FL50/FL90
AUTOTAF.ME UASU 120700Z 1208/1217 VRB02MPS CAVOK TX31/1208Z TN22/1217Z
 
Аральск
SYNAR 35746 Аральск 121200Z 27007MPS 9999 BKN020CB 33/11 Q995 RMK QFE740/0987 CLD:6CB


TSAR UATA 121600Z LAST HOUR TS OBS: 010/138-162KM, 020/115-175KM, 030/98-189KM, 040/86-169KM, 050/97-134KM, 060/71-120KM, 070/96-110KM, 080/76-104KM, 100/75-104KM, 110/83-110KM, 120/70-120KM, 130/58-133KM, 140/75-112KM, 150/95KM, 170/157KM, 180/132-157KM, 190/132-158KM
NEAREST TS 130/58KM
NOWCAST.SU UATA 121600Z 27004MPS 9000 VCSH HZ SCT077CB 28/13 Q0993 NOSIG
RMK TURB: MOD FL30/FL90
AUTOTAF.ME UATA 120700Z 1208/1217 26008G13MPS 9999 VCSH DRDU BKN060CB TX32/1211Z TN27/1217Z
TEMPO 1210/1213 VRB14G19MPS VCTS
BECMG 1212/1213 NSW
TEMPO 1213/1214 VRB14G19MPS -TSGRRA
TEMPO 1214/1215 VRB14G19MPS VCTS
BECMG 1214/1215 VCSH
BECMG 1215/1216 VCSH HZ
FM121700 27003MPS 8000 VCSH HZ SCT080CB
 
Актау
METAR UATE 121600Z 01007MPS CAVOK 29/13 Q1006 NOSIG RMK QFE753/1004


NOWCAST.SU UATE 121600Z 35010G15MPS 9999 SCT166 29/09 Q1007 NOSIG
RMK TURB: MOD SFC/FL40
AUTOTAF.ME UATE 120700Z 1208/1217 29008G13MPS CAVOK TX33/1210Z TN27/1217Z
BECMG 1210/1211 HZ
FM121200 35012G17MPS 9999 VCSH SCT170CB
FM121300 36012G17MPS CAVOK
TAF UATE 121100Z 1212/1312 30009G15MPS 9999 SCT050CB TX30/1310Z TN22/1302Z
TEMPO 1212/1218 36009G15MPS
TEMPO 1218/1303 32005MPS SCT006=
Форт-Шевченко
SYNAR 38001 Форт-Шевченко 121200Z 05005MPS CAVOK 30/19 Q1008 RMK QFE758/1010 CLD:SKC


NOWCAST.SU UATF 121600Z 35004MPS 9999 BKN162 28/09 Q1008 NOSIG
RMK TURB: MOD FL30/FL50
AUTOTAF.ME UATF 120700Z 1208/1217 01008G13MPS CAVOK TX31/1208Z TN27/1217Z
BECMG 1216/1217 32003MPS
 
Атырау
METAR UATG 121600Z 34009MPS CAVOK 27/07 Q1004 NOSIG RMK QFE755/1007


NOWCAST.SU UATG 121600Z 36013G18MPS 9999 DRDU SCT083TCU 28/06 Q1004 NOSIG
RMK TURB: MOD SFC/FL110
AUTOTAF.ME UATG 120700Z 1208/1217 34014G19MPS 9999 DRDU NSC TX30/1208Z TN26/1217Z
TAF UATG 121100Z 1212/1312 33012G17MPS 9999 SCT030CB TX29/1310Z TN20/1302Z
TEMPO 1212/1217 3100 BLDU
BECMG 1217/1219 32011MPS
BECMG 1303/1304 33012G17MPS=
Актобе
METAR UATT 121600Z 32009MPS 9999 -SHRA SCT007 BKN020CB 16/15 Q0994 TEMPO 1000 BR BKN005 BKN015CB RMK QFE725/0967


TSAR UATT 121600Z LAST HOUR TS OBS: 020/135KM, 030/116-191KM, 040/106-157KM, 050/116-126KM
NEAREST TS 40/106KM
NOWCAST.SU UATT 121600Z 33012G18MPS 2600 BKN005 BKN010CB 16/16 Q0993 TEMPO -TSRA
RMK TURB: MOD SFC/FL40
AUTOTAF.ME UATT 120700Z 1208/1217 32007MPS 9999 BKN015CB TX19/1208Z TN16/1215Z
TEMPO 1208/1210 VRB08G13MPS -TSRA
BECMG 1208/1209 2500
FM121000 34009G14MPS 9999 -SHRA BKN015CB
BECMG 1210/1211 -SHRA BR
FM121200 34012G17MPS 2500 -SHRA BR BKN015CB
FM121300 34013MPS 0500 +SHRA FG VV015CB
BECMG 1213/1214 +SHRA
FM121500 33013G18MPS 2500 BKN004 BKN010CB
TEMPO 1215/1218 -TSRA
TAF UATT 121104Z 1212/1312 34005MPS 5000 -SHRA BKN033CB TX27/1311Z TN15/1300Z
TEMPO 1212/1219 36018MPS 2000 TSRA BKN007 BKN015CB
BECMG 1219/1220 04005MPS
TEMPO 1219/1306 02010MPS 2000 BR BKN007 BKN015CB
TEMPO 1306/1312 02010MPS 3100 -TSRA BKN011 BKN015CB=
Тенгиз
SYNAR 35715 Кульсары 121200Z 32006MPS 9999 BKN033 30/03 Q1006 RMK QFE752/1003 CLD:5CU
(30/67KM)


NOWCAST.SU UATZ 121600Z 35015G20MPS 9999 VCSH DRDU SCT100CB 27/07 Q1002 NOSIG
RMK TURB: MOD SFC/FL110
AUTOTAF.ME UATZ 120700Z 1208/1217 33013G18MPS 9999 DRDU NSC TX31/1208Z TN26/1217Z
FM121600 35015G20MPS 9999 VCSH DRDU SCT100CB
FM121700 35013G18MPS 9999 DRDU NSC
 
Аркалык (Северный)
SYNAR 35363 Аркалык 121200Z 09006MPS 9999 OVC020 22/16 Q997 RMK QFE717/0956 CLD:8SC
(220/14KM)


TSAR UAUR 121600Z LAST HOUR TS OBS: 260/95KM, 270/94KM
NEAREST TS 270/94KM
NOWCAST.SU UAUR 121600Z 21003MPS 9999 BKN085CB 25/14 Q0998 TEMPO TL1700 VCTS
RMK TURB: MOD FL90/FL120
AUTOTAF.ME UAUR 120700Z 1208/1217 17009MPS 9999 SCT180CB TX29/1209Z TN23/1217Z
TEMPO 1208/1209 VCTS
BECMG 1208/1209 VCSH
BECMG 1209/1210 VCSH DRDU
BECMG 1210/1211 -SHRA
TEMPO 1213/1214 VRB14G19MPS VCTS
TEMPO 1214/1215 VCTS
FM121500 21005G10MPS 9000 HZ NSC
FM121600 21003MPS 9999 BKN080CB
TEMPO 1216/1217 VCTS
FM121700 VRB02MPS 9999 -SHRA OVC080CB
 
Костанай (Наримановка)
METAR UAUU 121600Z 03006MPS 9999 SCT040CB 23/16 Q0998 NOSIG RMK QFE733/0977


NOWCAST.SU UAUU 121600Z VRB02MPS 8000 OVC094CB 23/15 Q1000 TEMPO -SHRA TEMPO -SHRA
AUTOTAF.ME UAUU 120700Z 1208/1217 09011G16MPS CAVOK TX30/1208Z TN23/1216Z
FM121200 07011G16MPS 9999 BKN120CB
TEMPO 1212/1213 VRB14G19MPS VCTS
BECMG 1212/1213 NSW
TEMPO 1213/1214 VRB14G19MPS -TSGRRA
BECMG 1213/1214 05003MPS
TEMPO 1214/1218 -TSRA
BECMG 1214/1215 2500
FM121600 VRB02MPS 8000 OVC094CB
TAF UAUU 121400Z 1215/1224 10008G13MPS 9999 SCT040CB
TEMPO 1215/1224 07011G16MPS 3100 -TSRA BKN008 BKN030CB=
Baku Bine Arpt
METAR UBBB 121600Z 01006KT CAVOK 30/15 Q1008 NOSIG


NOWCAST.SU UBBB 121600Z 36008KT 9999 VCSH BKN169CB 27/22 Q1007 NOSIG
AUTOTAF.ME UBBB 120700Z 1208/1217 35008KT CAVOK TX27/1208Z TN27/1208Z
FM121200 01008KT 9999 VCSH BKN170CB
FM121300 01008KT CAVOK
FM121600 36008KT 9999 VCSH BKN170CB
TAF UBBB 121050Z 1212/1312 03006KT CAVOK TX34/1212Z TN24/1301Z
TEMPO 1212/1215 06012KT FEW060CB
BECMG 1216/1218 34006KT
TEMPO 1218/1303 VRB04KT SCT025
BECMG 1303/1305 35012KT
TEMPO 1305/1312 34018KT SCT030=
Gyandzha
METAR UBBG 121600Z 08006KT 9999 FEW100 30/15 Q1008 NOSIG


TSAR UBBG 121600Z LAST HOUR TS OBS: 280/121KM, 290/128KM
NEAREST TS 280/121KM
NOWCAST.SU UBBG 121600Z VRB02KT 0500 FG SKC 01/01 Q0 NOSIG
AUTOTAF.ME UBBG 121300Z 1214/1223 VRB02KT 0500 FG NSC TX17/1214Z TN13/1221Z
TAF UBBG 121100Z 1212/1312 08008KT 9999 SCT100 TX34/1212Z TN23/1302Z
TEMPO 1214/1220 VRB10KT TS FEW030CB BKN060
BECMG 1220/1222 VRB04KT
TEMPO 1222/1304 28008KT=
Lenkoran
METAR UBBL 121600Z 13006KT 9999 SCT050 27/21 Q1008 NOSIG


NOWCAST.SU UBBL 121600Z VRB02KT 0100 FG SKC 13/09 Q0 NOSIG
AUTOTAF.ME UBBL 121300Z 1214/1223 VRB02KT 0200 FG NSC TX14/1214Z TN12/1217Z
TAF UBBL 121044Z 1212/1312 14006KT 9999 SCT100 TX32/1212Z TN22/1301Z
TEMPO 1212/1216 08008KT FEW040CB
BECMG 1218/1220 VRB04KT
BECMG 1306/1308 13008KT=
Nakhchivan
METAR UBBN 121600Z 11012G22KT 9999 FEW046 BKN100 32/12 Q1005 NOSIG RMK QFE679


NOWCAST.SU UBBN 121600Z VRB02KT 0100 FG SKC 01/01 Q0 NOSIG
AUTOTAF.ME UBBN 121300Z 1214/1223 VRB02KT 0200 FG NSC TX18/1214Z TN11/1222Z
TAF UBBN 121056Z 1212/1312 12010KT 9999 FEW040 SCT100 TX37/1212Z TN20/1302Z
TEMPO 1212/1218 SCT040CB BKN080
PROB30 TEMPO 1214/1218 13016G26KT TS SCT040CB BKN080
TEMPO 1218/1222 08010KT=
METAR UCFL 121600Z 02003MPS 9999 FEW030CB 18/11 Q1013


NOSIG
TAF UCFL 121043Z 1212/1312 15003MPS 9999 BKN030CB
TEMPO 1212/1218 VRB07G12MPS 2000 TSRA BKN020CB
BECMG 1218/1219 35003MPS
BECMG 1304/1306 13003MPS
TEMPO 1304/1312 VRB07G12MPS 2000 TSRA BKN020CB=
Bishkek Manas
METAR UCFM 121600Z 22004MPS 9999 SCT066CB 28/07 Q1001 TEMPO 25008G13MPS


NOWCAST.SU UCFM 121600Z VRB02MPS 0500 FG SKC 01/01 Q0 NOSIG
AUTOTAF.ME UCFM 121300Z 1214/1223 VRB02MPS 0500 FG NSC TX14/1214Z TN10/1220Z
TAF AMD UCFM 121355Z 1214/1312 27003MPS 9999 SCT050CB BKN100
TEMPO 1214/1224 VRB10G17MPS 2000 TSRA DU BKN020CB
TEMPO 1300/1309 VRB07G12MPS 2000 TSRA BKN020CB
TEMPO 1309/1312 14003G08MPS=
Osh
METAR UCFO 121600Z 17003MPS 9999 VCTS SCT050CB 26/13 Q1005 TEMPO VRB07G12MPS TSRA


NOWCAST.SU UCFO 121600Z VRB02MPS 0500 HZ SKC 01/01 Q0 NOSIG
AUTOTAF.ME UCFO 121300Z 1214/1223 VRB02MPS 0500 FG NSC TX13/1214Z TN09/1220Z
BECMG 1215/1216 HZ
BECMG 1216/1217 FG
BECMG 1217/1218 +SN FG
FM122000 VRB02MPS 0500 +SN FG VV004
FM122100 VRB02MPS 0500 FG VV004
TAF AMD UCFO 121245Z 1212/1312 17003G08MPS 6000 SCT050CB
TEMPO 1213/1220 VRB17G22MPS 1000 TSRAGR DS SCT007 BKN020CB
PROB40 TEMPO 1220/1302 VRB12G17MPS 2000 TSRA BKN020CB
BECMG 1302/1304 32005MPS=
Shirak
METAR UDSG 121600Z 04009KT 9999 SCT049CB 23/15 Q1015 NOSIG


TSAR UDSG 121600Z LAST HOUR TS OBS: 010/96KM, 060/83-97KM, 080/73-88KM, 350/94KM, 360/94-119KM
NEAREST TS 80/73KM
NOWCAST.SU UDSG 121600Z VRB02KT 0500 FG SKC 01/01 Q0 NOSIG
AUTOTAF.ME UDSG 121300Z 1214/1223 VRB02KT 0500 FG NSC TX13/1214Z TN09/1222Z
TAF UDSG 121058Z 1212/1312 06006KT 9999 SCT050
TEMPO 1212/1218 VRB16G26KT -TSRA BKN030CB=
Zvartnots
METAR UDYZ 121600Z 02016KT 9999 FEW043CB 31/12 Q1007 NOSIG


TSAR UDYZ 121600Z LAST HOUR TS OBS: 010/113KM, 020/88-118KM, 030/94KM, 340/169KM, 350/162-165KM
NEAREST TS 20/88KM
NOWCAST.SU UDYZ 121600Z VRB02KT 0500 FG SKC 01/01 Q0 NOSIG
AUTOTAF.ME UDYZ 121300Z 1214/1223 VRB02KT 0500 FG NSC TX16/1214Z TN11/1222Z
BECMG 1218/1219 HZ
BECMG 1221/1222 FG
TAF UDYZ 121100Z 1212/1312 04006KT 9999 FEW040
TEMPO 1212/1301 VRB24G34KT -TSRA BKN030CB=
Батагай
SYNAR 24263 Батагай 121200Z 36003MPS 9999 FU NSC 25/09 Q1009 RMK QFE737/0983 CLD:8ACCI


NOWCAST.SU UEBB 121600Z VRB02MPS 0500 FG SKC 01/01 Q0 NOSIG
AUTOTAF.ME UEBB 121300Z 1214/1223 VRB02MPS 0500 FG NSC TX11/1221Z TN08/1217Z
BECMG 1216/1217 OVC004
BECMG 1218/1219 NSC
 
Саккырыр
SYNAR 24261 Батагай-Алыта 121200Z 30001MPS 9999 FU NSC 26/12 Q1011 RMK QFE714/0953 CLD:2CI


NOWCAST.SU UEBS 121600Z VRB02MPS 0500 FG SKC 01/01 Q0 NOSIG
AUTOTAF.ME UEBS 121300Z 1214/1223 VRB02MPS 0500 FG NSC TX09/1214Z TN07/1218Z
 
Талакан
SYNAR 24928 Комака 121200Z 07001MPS 2000 HZ SKC 25/13 Q1004 RMK QFE726/0968 CLD:SKC
(40/56KM)


NOWCAST.SU UECT 121600Z VRB02MPS 0500 FG SKC 01/01 Q0 NOSIG
AUTOTAF.ME UECT 121300Z 1214/1223 VRB02MPS 0500 FG NSC TX11/1214Z TN10/1217Z
 
Алдан
SYNAR 31004 Алдан 121200Z 07001MPS 9999 FU SCT033 23/08 Q1007 RMK QFE696/0928 CLD:8CUASCS


NOWCAST.SU UEEA 121600Z VRB02MPS 0500 HZ SKC 01/01 Q0 NOSIG
AUTOTAF.ME UEEA 121300Z 1214/1223 VRB02MPS 0500 FG NSC TX11/1214Z TN09/1218Z
BECMG 1214/1215 HZ
BECMG 1217/1218 FG
 
Себян-Кюель
SYNAR 24462 Себян-Кюель 121200Z 00000MPS CAVOK 16/14 Q1013 RMK QFE692/0922 CLD:3CI


NOWCAST.SU UEED 121600Z VRB02MPS 0500 FG VV002 01/01 Q0 NOSIG
AUTOTAF.ME UEED 121300Z 1214/1223 VRB02MPS 0500 FG NSC TX10/1223Z TN05/1217Z
BECMG 1215/1216 OVC004
BECMG 1216/1217 NSC
 
Якутск
METAR UEEE 121600Z 34003MPS CAVOK 18/16 Q1008 R23/09//67 NOSIG RMK QFE747


NOWCAST.SU UEEE 121600Z VRB02MPS 0500 FG SKC 08/06 Q0 NOSIG
AUTOTAF.ME UEEE 121300Z 1214/1223 VRB02MPS 0500 FG NSC TX10/1223Z TN07/1217Z
TAF UEEE 121400Z 1215/1321 01003G08MPS 9999 SCT020CB OVC100 TX31/1306Z TN14/1218Z
TEMPO 1218/1223 VRB01MPS 0500 FG VV004=
Покровск
SYNAR 24856 Покровск 121200Z 04002MPS CAVOK 23/15 Q1008 RMK QFE744/0993 CLD:8CI


NOWCAST.SU UEEP 121600Z VRB02MPS 0500 FG SKC 08/07 Q0 NOSIG
AUTOTAF.ME UEEP 121300Z 1214/1223 VRB02MPS 0500 FG NSC TX11/1223Z TN08/1216Z
BECMG 1218/1219 OVC004
BECMG 1222/1223 NSC
 
Чульман
SYNAR 30393 Нерюнгри 121200Z 15004MPS 9999 FU NSC 23/08 Q1008 RMK QFE681/0909 CLD:6CI


NOWCAST.SU UELD 121600Z VRB02MPS 0500 FG SKC 01/01 Q0 NOSIG
AUTOTAF.ME UELD 121300Z 1214/1223 VRB02MPS 0500 FG NSC TX09/1214Z TN08/1217Z
BECMG 1216/1217 OVC004
BECMG 1218/1219 OVC002
BECMG 1219/1220 NSC
 
Нерюнгри (Чульман)
SYNAR 30393 Нерюнгри 121200Z 15004MPS 9999 FU NSC 23/08 Q1008 RMK QFE681/0909 CLD:6CI


NOWCAST.SU UELL 121600Z VRB02MPS 0500 FG VV002 01/01 Q0 NOSIG
AUTOTAF.ME UELL 121300Z 1214/1223 VRB02MPS 0500 FG NSC TX09/1214Z TN08/1215Z
BECMG 1215/1216 OVC004
BECMG 1219/1220 NSC
 
Оймякон
SYNAR 24688 Оймякон 121200Z 26002MPS 9999 FEW033 19/11 Q1009 RMK QFE692/0922 CLD:6SCCS


NOWCAST.SU UEMJ 121600Z VRB02MPS 0500 FG SKC 01/01 Q0 NOSIG
AUTOTAF.ME UEMJ 121300Z 1214/1223 VRB02MPS 0500 FG NSC TX11/1223Z TN06/1218Z
 
Маган
SYNAR 24959 Якутск 121200Z 01001MPS 9999 FEW033 23/15 Q1008 RMK QFE747/0996 CLD:8SCCI
(170/12KM)


NOWCAST.SU UEMM 121600Z VRB02MPS 0500 FG SKC 08/06 Q0 NOSIG
AUTOTAF.ME UEMM 121300Z 1214/1223 VRB02MPS 0500 FG NSC TX11/1223Z TN08/1216Z
 
Олёкминск
SYNAR 24944 Олекминск 121200Z 02005MPS 4000 -SHRA BKN020CB 20/14 Q1005 RMK QFE733/0977 CLD:8CBACCI


NOWCAST.SU UEMO 121600Z VRB02MPS 0500 FG SKC 01/01 Q0 NOSIG
AUTOTAF.ME UEMO 121300Z 1214/1223 VRB02MPS 0500 FG NSC TX11/1214Z TN09/1220Z
BECMG 1218/1219 OVC002
BECMG 1220/1221 OVC004
BECMG 1221/1222 OVC002
FM122300 VRB02MPS 0500 FG NSC
 
Усть-Мая
SYNAR 24966 Усть-Мая 121200Z 31001MPS 9999 FEW033 22/14 Q1007 RMK QFE740/0986 CLD:4SCCI


NOWCAST.SU UEMU 121600Z VRB02MPS 0500 FG VV002 07/07 Q0 NOSIG
AUTOTAF.ME UEMU 121300Z 1214/1223 VRB02MPS 0500 FG VV004 TX11/1223Z TN07/1216Z
BECMG 1216/1217 NSC
BECMG 1219/1220 OVC004
BECMG 1221/1222 NSC
 
Верхневилюйск
SYNAR 24644 Верхневилюйск 121200Z 10002MPS //// //// 24/14 Q1008 RMK QFE746/0994 CLD:NO_OBSERVATIONS


NOWCAST.SU UENI 121600Z VRB02MPS 0500 FG SKC 09/05 Q0 NOSIG
AUTOTAF.ME UENI 121300Z 1214/1223 VRB02MPS 0500 FG NSC TX10/1214Z TN09/1216Z
 
Нюрба
SYNAR 24639 Нюрба 121200Z 05003MPS 9999 FEW020 25/12 Q1008 RMK QFE745/0993 CLD:3SCCI


NOWCAST.SU UENN 121600Z VRB02MPS 0500 FG SKC 10/06 Q0 NOSIG
AUTOTAF.ME UENN 121300Z 1214/1223 VRB02MPS 0500 FG NSC TX11/1214Z TN09/1218Z
 
Айхал
SYNAR 24322 Полярный 121200Z 06002MPS //// //// 25/12 Q1013 RMK QFE715/0953 CLD:NO_OBSERVATIONS
(20/94KM)


NOWCAST.SU UERA 121600Z VRB02MPS 0500 FG SKC 01/01 Q0 NOSIG
AUTOTAF.ME UERA 121300Z 1214/1223 VRB02MPS 0500 FG NSC TX10/1214Z TN08/1217Z
 
Ленск
SYNAR 24923 Ленск 121200Z 00000MPS 0500 HZ VV005 22/20 Q1004 RMK QFE731/0975 CLD:9


NOWCAST.SU UERL 121600Z VRB02MPS 0500 FG SKC 01/01 Q0 NOSIG
AUTOTAF.ME UERL 121300Z 1214/1223 VRB02MPS 0500 FG NSC TX10/1214Z TN08/1220Z
BECMG 1220/1221 OVC004
BECMG 1222/1223 NSC
 
Полярный
METAR UERP 121000Z 07003MPS CAVOK 28/10 Q1010 R18/090060 NOSIG RMK QFE713


NOWCAST.SU UERP 121600Z VRB02MPS 0500 FG SKC 01/01 Q0 NOSIG
AUTOTAF.ME UERP 121300Z 1214/1223 VRB02MPS 0500 FG NSC TX10/1214Z TN08/1218Z
BECMG 1216/1217 OVC004
BECMG 1218/1219 NSC
TAF AMD UERP 121000Z 1209/1309 CNL=
Мирный
METAR UERR 121600Z 03003MPS CAVOK 19/10 Q1008 R25/CLRD60 NOSIG RMK QFE725/0967


NOWCAST.SU UERR 121600Z VRB02MPS 0500 FG SKC 01/01 Q0 NOSIG
AUTOTAF.ME UERR 121300Z 1214/1223 VRB02MPS 0500 FG NSC TX11/1214Z TN09/1217Z
BECMG 1216/1217 OVC004
BECMG 1219/1220 NSC
TAF UERR 121400Z 1215/1315 07003MPS 9999 SCT033 TX25/1305Z TN16/1219Z
TEMPO 1215/1221 2000 HZ VV004
BECMG 1300/1302 07005G11MPS=
Саскылах
SYNAR 21802 Саскылах 121200Z 06004MPS CAVOK 15/09 Q1020 RMK QFE763/1017 CLD:6AC


NOWCAST.SU UERS 121600Z VRB02MPS 0500 FG SKC 05/02 Q0 NOSIG
AUTOTAF.ME UERS 121300Z 1214/1223 VRB02MPS 0500 FG NSC TX06/1214Z TN04/1218Z
 
Оленегорск
SYNAR 21946 Чокурдах 121200Z 24001MPS //// //// 21/14 Q1007 RMK QFE749/0999 CLD:NO_OBSERVATIONS
(10/91KM)


NOWCAST.SU UESN 121600Z VRB02MPS 0500 FG SKC 08/04 Q0 NOSIG
AUTOTAF.ME UESN 121300Z 1214/1223 VRB02MPS 0500 FG NSC TX10/1222Z TN08/1214Z
 
Чокурдах
SYNAR 21946 Чокурдах 121200Z 24001MPS //// //// 21/14 Q1007 RMK QFE749/0999 CLD:NO_OBSERVATIONS


NOWCAST.SU UESO 121600Z VRB02MPS 0500 FG SKC 08/03 Q0 NOSIG
AUTOTAF.ME UESO 121300Z 1214/1223 VRB02MPS 0500 FG NSC TX09/1214Z TN06/1221Z
BECMG 1222/1223 BKN040
 
Черский
SYNAR 25123 Черский 121200Z 34002MPS CAVOK 14/09 Q1008 RMK QFE753/1004 CLD:SKC


NOWCAST.SU UESS 121600Z VRB02MPS 0500 FG SKC 04/02 Q0 NOSIG
AUTOTAF.ME UESS 121300Z 1214/1223 VRB02MPS 0500 FG NSC TX07/1222Z TN04/1215Z
 
Тикси
SYNAR 21824 Тикси 121200Z 35009G12MPS 4000 -DZ OVC010 12/11 Q1016 RMK QFE761/1015 CLD:8ST
(180/13KM)


NOWCAST.SU UEST 121600Z VRB02MPS 0500 FG VV002 02/01 Q0 NOSIG
AUTOTAF.ME UEST 121300Z 1214/1223 VRB02MPS 0500 FG VV004 TX02/1214Z TN01/1218Z
BECMG 1216/1217 NSC
BECMG 1218/1219 OVC002
BECMG 1220/1221 BKN008
FM122200 VRB02MPS 0500 FG VV002
 
Kopitnari
METAR UGKO 121600Z 26006KT 9999 SCT046 28/23 Q1008 NOSIG


TSAR UGKO 121600Z LAST HOUR TS OBS: 010/165KM, 030/75KM, 040/84KM, 050/56-96KM, 060/68-122KM, 070/96-126KM, 080/59-106KM, 110/128KM, 120/125-138KM, 360/137-163KM
NEAREST TS 50/56KM
NOWCAST.SU UGKO 121600Z VRB02KT 0500 FG SKC 15/11 Q0 NOSIG
AUTOTAF.ME UGKO 121300Z 1214/1223 VRB02KT 0500 FG NSC TX16/1214Z TN12/1222Z
BECMG 1218/1219 OVC004
TAF UGKO 121100Z 1212/1312 26007KT 9999 SCT045 TX33/1311Z TN23/1302Z
PROB40 TEMPO 1212/1216 27017KT 4000 TSRA BKN020CB
TEMPO 1218/1222 VRB16KT 3000 TSRA SCT012 BKN015CB
TEMPO 1222/1306 SCT010 BKN026
TEMPO 1306/1312 CAVOK=
Batumi
METAR UGSB 121600Z 22005KT 180V240 9999 SCT019CB BKN035 27/25 Q1009 NOSIG


TSAR UGSB 121600Z LAST HOUR TS OBS: 040/169KM, 050/151KM
NEAREST TS 50/151KM
NOWCAST.SU UGSB 121600Z VRB02KT 0500 FG VV002 12/12 Q0 NOSIG
AUTOTAF.ME UGSB 121300Z 1214/1223 VRB02KT 0500 FG VV004 TX13/1214Z TN12/1215Z
TAF UGSB 121100Z 1212/1312 24007KT 9999 SCT070 TX28/1212Z TN24/1301Z
BECMG 1219/1222 12010KT
PROB40 TEMPO 1223/1304 TSRA BKN020CB
BECMG 1306/1307 27007KT=
Tbilisi Novo-al
METAR UGTB 121600Z 00000KT CAVOK 30/16 Q1010 NOSIG


TSAR UGTB 121600Z LAST HOUR TS OBS: 180/59-85KM, 190/87KM, 200/62KM, 260/68-84KM, 270/99KM, 280/85KM, 300/119-132KM, 310/135-147KM, 320/124-164KM
NEAREST TS 180/59KM
NOWCAST.SU UGTB 121600Z VRB02KT 0500 FG SKC 01/01 Q0 NOSIG
AUTOTAF.ME UGTB 121300Z 1214/1223 VRB02KT 0500 FG NSC TX16/1214Z TN11/1221Z
TAF UGTB 121100Z 1212/1312 17007KT 9999 SCT055CB TX32/1312Z TN21/1302Z
TEMPO 1212/1219 VRB17KT TSRA BKN050CB
BECMG 1300/1302 NSC=
Благовещенск (Игнатьево)
METAR UHBB 121600Z 25001MPS CAVOK 16/13 Q1006 R36/090061 NOSIG RMK QFE737/0983


NOWCAST.SU UHBB 121600Z VRB02MPS 0500 FG VV002 08/07 Q0 NOSIG
AUTOTAF.ME UHBB 121300Z 1214/1223 VRB02MPS 0500 FG NSC TX10/1223Z TN07/1217Z
BECMG 1214/1215 OVC004
BECMG 1219/1220 NSC
BECMG 1221/1222 OVC002
FM122300 VRB02MPS 0500 FG NSC
TAF UHBB 121335Z 1215/1315 36003MPS 9999 FEW030
TEMPO 1215/1301 4000 FU=
Зея
SYNAR 31300 Зея 121200Z 00000MPS 9999 FU VV/// 22/10 Q1006 RMK QFE734/0979 CLD:OBSC


NOWCAST.SU UHBE 121600Z VRB02MPS 0500 FG SKC 01/01 Q0 NOSIG
AUTOTAF.ME UHBE 121300Z 1214/1223 VRB02MPS 0500 FG NSC TX10/1214Z TN08/1217Z
 
Февральск
SYNAR 31388 Норск 121200Z 00000MPS CAVOK 17/13 Q1006 RMK QFE736/0981 CLD:5ACCI
(260/71KM)


NOWCAST.SU UHBF 121600Z VRB02MPS 0500 FG SKC 01/01 Q0 NOSIG
AUTOTAF.ME UHBF 121300Z 1214/1223 VRB02MPS 0500 FG NSC TX10/1214Z TN08/1217Z
 
Свободный
SYNAR 31445 Свободный 121200Z 26001MPS //// //// 18/11 Q1006 RMK QFE736/0982 CLD:NO_OBSERVATIONS


NOWCAST.SU UHBS 121600Z VRB02MPS 0500 FG BKN081 01/01 Q0 NOSIG
AUTOTAF.ME UHBS 121300Z 1214/1223 VRB02MPS 0500 FG NSC TX10/1223Z TN07/1217Z
 
Тында
SYNAR 30499 Тында 121200Z 00000MPS CAVOK 21/13 Q1008 RMK QFE709/0945 CLD:6CC
(220/16KM)


NOWCAST.SU UHBW 121600Z VRB02MPS 0500 FG SKC 01/01 Q0 NOSIG
AUTOTAF.ME UHBW 121300Z 1214/1223 VRB02MPS 0500 FG NSC TX09/1214Z TN07/1219Z
FM122000 VRB02MPS 0500 +SN FG VV002
BECMG 1220/1221 NSC
BECMG 1222/1223 FG
 
Билибино (Купол-1)
SYNAR 25356 Эньмувеем 121200Z 12001MPS 9999 BKN020 10/06 Q1009 RMK QFE749/0999 CLD:7SC
(110/173KM)


NOWCAST.SU UHED 121600Z VRB02MPS 0500 FG SKC 01/01 Q0 NOSIG
AUTOTAF.ME UHED 121300Z 1214/1223 VRB02MPS 0500 FG VV004 TX07/1222Z TN02/1214Z
BECMG 1214/1215 NSC
 
Купол
SYNAR 25356 Эньмувеем 121200Z 12001MPS 9999 BKN020 10/06 Q1009 RMK QFE749/0999 CLD:7SC
(110/175KM)


NOWCAST.SU UHEK 121600Z VRB02MPS 0500 FG SKC 01/01 Q0 NOSIG
AUTOTAF.ME UHEK 121300Z 1214/1223 VRB02MPS 0500 FG VV004 TX07/1222Z TN02/1214Z
BECMG 1214/1215 NSC
 
Новая Кубака
SYNAR 25627 Лабазная 121200Z 17001MPS CAVOK 09/02 Q1009 RMK QFE694/0925 CLD:SKC
(240/86KM)


NOWCAST.SU UHGK 121600Z VRB02MPS 0500 FG SKC 01/M01 Q0 NOSIG
AUTOTAF.ME UHGK 121300Z 1214/1223 VRB02MPS 0500 FG NSC TX10/1223Z TN04/1214Z
 
Глухариное
 


NOWCAST.SU UHGL 121600Z VRB02MPS 0500 FG SKC 01/01 Q0 NOSIG
AUTOTAF.ME UHGL 121300Z 1214/1223 VRB02MPS 0500 FG NSC TX11/1222Z TN08/1214Z
 
Биробиджан (Желтый Яр)
SYNAR 31713 Биробиджан 121200Z 00000MPS 9999 SCT020CB 16/14 Q1007 RMK QFE748/0997 CLD:4CB
(330/20KM)


NOWCAST.SU UHHB 121600Z VRB02MPS 0500 FG VV002 06/06 Q0 NOSIG
AUTOTAF.ME UHHB 121300Z 1214/1223 VRB02MPS 0500 FG VV004 TX09/1223Z TN06/1216Z
BECMG 1218/1219 NSC
BECMG 1222/1223 OVC004
 
Бриакан
SYNAR 31418 Веселая Горка 121200Z 00000MPS //// //// 13/11 Q1008 RMK QFE737/0983 CLD:NO_OBSERVATIONS


NOWCAST.SU UHHE 121600Z VRB02MPS 0500 FG SKC 05/05 Q0 NOSIG
AUTOTAF.ME UHHE 121300Z 1214/1223 VRB02MPS 0500 FG NSC TX07/1223Z TN04/1217Z
BECMG 1217/1218 OVC004
BECMG 1221/1222 OVC002
BECMG 1222/1223 NSC
 
Хабаровск (Новый)
METAR UHHH 121600Z 36001MPS 9999 SCT034 16/13 Q1007 R23R/090060 NOSIG RMK QFE749/0999


NOWCAST.SU UHHH 121600Z VRB02MPS 0500 FG SKC 07/07 Q0 NOSIG
AUTOTAF.ME UHHH 121300Z 1214/1223 VRB02MPS 0500 FG NSC TX09/1223Z TN07/1215Z
BECMG 1216/1217 OVC004
BECMG 1219/1220 NSC
TAF UHHH 121346Z 1215/1321 28003MPS 9999 FEW010 SCT020CB
TEMPO 1216/1221 0500 FG SCT003 SCT020CB=
Чумикан
SYNAR 31286 Чумикан 121200Z 26001MPS 9999 FEW020 14/11 Q1008 RMK QFE755/1006 CLD:3SCACCI


NOWCAST.SU UHHY 121600Z VRB02MPS 0500 FG SKC 05/04 Q0 NOSIG
AUTOTAF.ME UHHY 121300Z 1214/1223 VRB02MPS 0500 FG NSC TX06/1222Z TN05/1214Z
BECMG 1217/1218 OVC004
 
Комсомольск-н/А (Дземги)
SYNAR 31561 Комсомольск-на-Амуре 121200Z 06002MPS 9999 //// 16/00 Q1006 RMK QFE752/1003 CLD:NO_OBSERVATIONS


NOWCAST.SU UHKD 121600Z VRB02MPS 0500 FG SKC 07/06 Q0 NOSIG
AUTOTAF.ME UHKD 121300Z 1214/1223 VRB02MPS 0500 FG NSC TX08/1222Z TN07/1214Z
BECMG 1218/1219 OVC004
BECMG 1221/1222 NSC
 
Комсомольск-на-Амуре (Хурба)
SYNAR 31561 Комсомольск-на-Амуре 121200Z 06002MPS 9999 //// 16/00 Q1006 RMK QFE752/1003 CLD:NO_OBSERVATIONS
(20/14KM)


NOWCAST.SU UHKK 121600Z VRB02MPS 0500 FG SKC 07/06 Q0 NOSIG
AUTOTAF.ME UHKK 121300Z 1214/1223 VRB02MPS 0500 FG NSC TX09/1223Z TN07/1214Z
BECMG 1218/1219 OVC004
BECMG 1221/1222 NSC
 
Советская Гавань (Май-Гатка)
SYNAR 31770 Советская Гавань 121200Z 00000MPS 9999 -DZ BKN010 14/13 Q1005 RMK QFE751/1002 CLD:8STAC
(70/21KM)


NOWCAST.SU UHKM 121600Z VRB02MPS 0500 FG SKC 01/01 Q0 NOSIG
AUTOTAF.ME UHKM 121300Z 1214/1223 VRB02MPS 0500 +SN FG NSC TX09/1223Z TN07/1214Z
BECMG 1215/1216 FG
BECMG 1221/1222 OVC004
 
Анадырь (Угольный)
METAR UHMA 121600Z 02004MPS 9999 FEW016 BKN026 06/05 Q1007 R02/////// NOSIG RMK MID 03004MPS END R02/03004MPS MT OBSC QFE751/1002


NOWCAST.SU UHMA 121600Z VRB02MPS 0500 FG SKC 03/02 Q0 NOSIG
AUTOTAF.ME UHMA 121300Z 1214/1223 VRB02MPS 0500 FG NSC TX06/1222Z TN03/1214Z
TAF UHMA 121357Z 1215/1315 36005G10MPS 9999 SCT025
TEMPO 1215/1315 05010G15MPS 5000 -SHRA BR SCT003 BKN017CB=
Бухта Провидения
METAR UHMD 120500Z 09004MPS 9999 SCT013 OVC023 07/03 Q1004 RMK QBB400 MT OBSC QFE752/1003


NOWCAST.SU UHMD 121600Z VRB02MPS 0100 +SN FG VV001 01/01 Q0 NOSIG
AUTOTAF.ME UHMD 121300Z 1214/1223 VRB02MPS 0200 +SN FG VV002 TX01/1214Z TN01/1214Z
FM121800 VRB02MPS 2500 BR NSC
FM122000 VRB02MPS 0200 FG NSC
FM122300 VRB02MPS 0200 +SN FG VV008
TAF AMD UHMD 120500Z 1203/1209 CNL=
Залив Креста
 


NOWCAST.SU UHME 121600Z VRB02MPS 0100 FG VV001 02/01 Q0 NOSIG
AUTOTAF.ME UHME 121300Z 1214/1223 VRB02MPS 0200 FG VV002 TX05/1221Z TN02/1214Z
BECMG 1217/1218 NSC
 
Омсукчан
SYNAR 25715 Омсукчан 121200Z 00000MPS CAVOK 11/07 Q1008 RMK QFE711/0949 CLD:3CI


NOWCAST.SU UHMF 121600Z VRB02MPS 0500 FG SKC 01/M01 Q0 NOSIG
AUTOTAF.ME UHMF 121300Z 1214/1223 VRB02MPS 0500 FG NSC TX12/1223Z TN05/1216Z
 
Мыс Шмидта
 


NOWCAST.SU UHMI 121600Z VRB02MPS 0100 FG SKC 00/00 Q0 NOSIG
AUTOTAF.ME UHMI 121300Z 1214/1223 VRB02MPS 0200 SN FG NSC TX01/1220Z TN00/1214Z
BECMG 1214/1215 FG
BECMG 1219/1220 OVC004
BECMG 1222/1223 NSC
 
Кепервеем
SYNAR 25147 Билибино 121200Z 04004MPS CAVOK 11/02 Q1009 RMK QFE732/0976 CLD:SKC
(30/25KM)


NOWCAST.SU UHMK 121600Z VRB02MPS 0500 FG SKC 03/M01 Q0 NOSIG
AUTOTAF.ME UHMK 121300Z 1214/1223 VRB02MPS 0500 FG NSC TX09/1223Z TN03/1215Z
 
Залив Лаврентия
SYNAR 25399 Уэлен 121200Z 01003MPS 0700 FG VV/// 03/03 Q1008 RMK QFE755/1007 CLD:OBSC
(50/111KM)


NOWCAST.SU UHML 121600Z VRB02MPS 0100 +SN FG VV029 04/03 Q0 NOSIG
AUTOTAF.ME UHML 121300Z 1214/1223 VRB02MPS 0200 +SN FG VV025 TX04/1214Z TN04/1214Z
 
Магадан (Сокол)
METAR UHMM 121600Z 00000MPS 9999 NSC 08/08 Q1009 RMK QFE742 R28/09002MPS


NOWCAST.SU UHMM 121600Z VRB02MPS 0500 FG SKC 05/01 Q0 NOSIG
AUTOTAF.ME UHMM 121300Z 1214/1223 VRB02MPS 0500 FG NSC TX11/1223Z TN05/1215Z
TAF UHMM 121350Z 1215/1321 22003G10MPS 9999 SCT040=
Омолон
SYNAR 25428 Омолон 121200Z 28001MPS CAVOK 10/05 Q1007 RMK QFE731/0975 CLD:SKC


NOWCAST.SU UHMN 121600Z VRB02MPS 0500 FG SKC 01/00 Q0 NOSIG
AUTOTAF.ME UHMN 121300Z 1214/1223 VRB02MPS 0500 FG NSC TX10/1223Z TN05/1214Z
 
Марково
SYNAR 25551 Марково 121200Z 00000MPS CAVOK 09/08 Q1007 RMK QFE753/1004 CLD:7AC


NOWCAST.SU UHMO 121600Z VRB02MPS 0500 FG SKC 05/03 Q0 NOSIG
AUTOTAF.ME UHMO 121300Z 1214/1223 VRB02MPS 0500 FG NSC TX08/1223Z TN05/1214Z
BECMG 1216/1217 BKN040
BECMG 1217/1218 NSC
 
Певек
SYNAR 25051 Певек 121200Z 24001MPS CAVOK 05/03 Q1011 RMK QFE757/1010 CLD:SKC
(240/18KM)


NOWCAST.SU UHMP 121600Z VRB02MPS 0500 FG SKC 02/00 Q0 NOSIG
AUTOTAF.ME UHMP 121300Z 1214/1223 VRB02MPS 0500 FG NSC TX04/1222Z TN02/1214Z
 
Беринговский
 


NOWCAST.SU UHMR 121600Z VRB02MPS 0500 +SN FG VV017 02/02 Q0 NOSIG
AUTOTAF.ME UHMR 121300Z 1214/1223 VRB02MPS 0500 +SN FG VV015 TX03/1219Z TN02/1214Z
BECMG 1218/1219 OVC025
 
Сеймчан
SYNAR 25703 Сеймчан 121200Z 31001MPS 9999 FEW033 14/12 Q1007 RMK QFE736/0982 CLD:7SCACCI


NOWCAST.SU UHMS 121600Z VRB02MPS 0500 FG SKC 01/01 Q0 NOSIG
AUTOTAF.ME UHMS 121300Z 1214/1223 VRB02MPS 0500 FG NSC TX10/1223Z TN06/1215Z
 
Магадан-13
SYNAR 25913 Магадан 121200Z 25003MPS CAVOK 13/09 Q1009 RMK QFE746/0994 CLD:7ACCI
(240/15KM)


NOWCAST.SU UHMT 121600Z VRB02MPS 0500 FG VV002 05/03 Q0 NOSIG
AUTOTAF.ME UHMT 121300Z 1214/1223 VRB02MPS 0500 FG NSC TX07/1221Z TN05/1215Z
BECMG 1215/1216 OVC004
BECMG 1218/1219 NSC
 
Усть-Омчуг
SYNAR 24898 Усть-Омчуг 121200Z 12001MPS 9999 FEW033 14/09 Q1008 RMK QFE705/0941 CLD:7SCACCI


NOWCAST.SU UHMV 121600Z VRB02MPS 0500 FG SKC 01/01 Q0 NOSIG
AUTOTAF.ME UHMV 121300Z 1214/1223 VRB02MPS 0500 FG NSC TX12/1223Z TN07/1215Z
 
Северо-Эвенск
SYNAR 25820 Эвенск 121200Z 07001MPS //// //// 13/11 Q1007 RMK QFE754/1005 CLD:NO_OBSERVATIONS


NOWCAST.SU UHMW 121600Z VRB02MPS 0100 FG SKC 05/04 Q0 NOSIG
AUTOTAF.ME UHMW 121300Z 1214/1223 VRB02MPS 0200 FG NSC TX08/1222Z TN05/1215Z
 
Богородское
SYNAR 31439 Богородское 121200Z 02002MPS 9999 OVC020CB 15/13 Q1005 RMK QFE750/1001 CLD:8CB


NOWCAST.SU UHNB 121600Z VRB02MPS 0500 FG SKC 06/05 Q0 NOSIG
AUTOTAF.ME UHNB 121300Z 1214/1223 VRB02MPS 0500 FG NSC TX08/1223Z TN06/1214Z
BECMG 1218/1219 OVC004
BECMG 1222/1223 NSC
 
Херпучи
SYNAR 31423 Удинск 121200Z 00000MPS //// //// 14/12 Q1006 RMK QFE752/1003 CLD:NO_OBSERVATIONS


NOWCAST.SU UHNH 121600Z VRB02MPS 0500 FG VV002 05/04 Q0 NOSIG
AUTOTAF.ME UHNH 121300Z 1214/1223 VRB02MPS 0500 FG VV004 TX07/1223Z TN05/1215Z
 
Николаевск-на-Амуре
SYNAR 31369 Николаевск-на-Амуре 121200Z 04002MPS 9999 OVC020CB 11/09 Q1005 RMK QFE749/0999 CLD:8CB


NOWCAST.SU UHNN 121600Z VRB02MPS 0500 FG SKC 06/06 Q0 NOSIG
AUTOTAF.ME UHNN 121300Z 1214/1223 VRB02MPS 0500 FG VV004 TX07/1221Z TN06/1214Z
BECMG 1215/1216 NSC
BECMG 1218/1219 OVC004
 
Ургалан
SYNAR 31152 Нелькан 121200Z 16001MPS CAVOK 23/15 Q1007 RMK QFE726/0969 CLD:5ACCI
(90/99KM)


NOWCAST.SU UHNU 121600Z VRB02MPS 0500 FG VV002 01/01 Q0 NOSIG
AUTOTAF.ME UHNU 121300Z 1214/1223 VRB02MPS 0500 FG NSC TX10/1223Z TN07/1215Z
BECMG 1215/1216 OVC004
BECMG 1218/1219 OVC002
BECMG 1220/1221 OVC004
FM122200 VRB02MPS 0500 FG NSC
 
Нелькан
SYNAR 31152 Нелькан 121200Z 16001MPS CAVOK 23/15 Q1007 RMK QFE726/0969 CLD:5ACCI


NOWCAST.SU UHNX 121600Z VRB02MPS 0500 FG SKC 01/01 Q0 NOSIG
AUTOTAF.ME UHNX 121300Z 1214/1223 VRB02MPS 0500 FG NSC TX10/1223Z TN07/1217Z
BECMG 1218/1219 OVC002
BECMG 1220/1221 NSC
 
Охотск
SYNAR 31088 Охотск 121200Z 13005MPS CAVOK 15/11 Q1008 RMK QFE755/1007 CLD:5CI


NOWCAST.SU UHOO 121600Z VRB02MPS 0500 FG SKC 05/05 Q0 NOSIG
AUTOTAF.ME UHOO 121300Z 1214/1223 VRB02MPS 0500 FG NSC TX09/1223Z TN05/1215Z
BECMG 1217/1218 OVC004
BECMG 1220/1221 NSC
 
Оссора
SYNAR 32246 Оссора 121200Z 22003MPS CAVOK 12/11 Q1009 RMK QFE756/1008 CLD:5AC


NOWCAST.SU UHPD 121600Z VRB02MPS 0500 FG VV002 01/00 Q0 NOSIG
AUTOTAF.ME UHPD 121300Z 1214/1223 VRB02MPS 0500 FG NSC TX05/1223Z TN01/1214Z
BECMG 1214/1215 OVC004
BECMG 1217/1218 NSC
BECMG 1218/1219 OVC004
FM122100 VRB02MPS 0500 FG NSC
 
Тигиль
SYNAR 32293 Тигиль 121200Z 00000MPS CAVOK 12/10 Q1007 RMK QFE754/1005 CLD:2CI


NOWCAST.SU UHPG 121600Z VRB02MPS 0500 FG SKC 05/04 Q0 NOSIG
AUTOTAF.ME UHPG 121300Z 1214/1223 VRB02MPS 0500 FG NSC TX09/1223Z TN05/1215Z
BECMG 1217/1218 OVC004
BECMG 1219/1220 NSC
 
Халактырка
SYNAR 32540 Петропавловск-Камч. 2 121200Z 08001MPS 9999 SCT020 11/10 Q1012 RMK QFE751/1001 CLD:3SC
(290/16KM)


NOWCAST.SU UHPH 121600Z VRB02MPS 0500 FG SKC 05/04 Q0 NOSIG
AUTOTAF.ME UHPH 121300Z 1214/1223 VRB02MPS 0500 FG NSC TX07/1222Z TN05/1214Z
BECMG 1219/1220 OVC004
BECMG 1222/1223 NSC
 
Палана
SYNAR 32227 Палана 121200Z 04002MPS CAVOK 08/07 Q1007 RMK QFE753/1005 CLD:5CC


NOWCAST.SU UHPL 121600Z VRB02MPS 0500 FG VV002 05/04 Q0 NOSIG
AUTOTAF.ME UHPL 121300Z 1214/1223 VRB02MPS 0500 FG NSC TX07/1222Z TN05/1214Z
BECMG 1214/1215 OVC004
BECMG 1216/1217 NSC
BECMG 1219/1220 OVC004
FM122100 VRB02MPS 0500 FG NSC
 
Мильково
SYNAR 32447 Долиновка 121200Z 00000MPS 9999 OVC033 13/13 Q1010 RMK QFE748/0997 CLD:8SC
(30/57KM)


NOWCAST.SU UHPM 121600Z VRB02MPS 0500 FG VV002 06/05 Q0 NOSIG
AUTOTAF.ME UHPM 121300Z 1214/1223 VRB02MPS 0500 FG NSC TX09/1223Z TN06/1214Z
BECMG 1214/1215 OVC004
BECMG 1220/1221 NSC
 
Козыревск
SYNAR 32379 Козыревск 121200Z 00000MPS 9999 FEW020 11/11 Q1009 RMK QFE753/1004 CLD:4SCCI


NOWCAST.SU UHPO 121600Z VRB02MPS 0500 FG SKC 06/04 Q0 NOSIG
AUTOTAF.ME UHPO 121300Z 1214/1223 VRB02MPS 0500 FG NSC TX10/1223Z TN06/1214Z
BECMG 1216/1217 OVC004
BECMG 1218/1219 NSC
 
Петропавловск-Камчатский (Елизово)
METAR UHPP 121600Z 08001MPS 9999 BKN038 09/09 Q1011 R16R/CLRD60 NOSIG RMK QFE755/1007


NOWCAST.SU UHPP 121600Z VRB02MPS 0500 FG SKC 05/05 Q0 NOSIG
AUTOTAF.ME UHPP 121300Z 1214/1223 VRB02MPS 0500 FG NSC TX08/1223Z TN04/1218Z
BECMG 1219/1220 OVC004
BECMG 1221/1222 NSC
TAF UHPP 121331Z 1215/1321 14003G12MPS 9999 BKN030
TEMPO 1215/1221 0500 FG VV002=
Соболево
SYNAR 32477 Соболево 121200Z 16001MPS 9999 RESHRA OVC010 12/12 Q1010 RMK QFE755/1007 CLD:8ST


NOWCAST.SU UHPS 121600Z VRB02MPS 0500 +SN FG VV002 06/06 Q0 NOSIG
AUTOTAF.ME UHPS 121300Z 1214/1223 VRB02MPS 0500 FG VV004 TX06/1214Z TN06/1214Z
BECMG 1214/1215 +SN FG
BECMG 1219/1220 OVC008
FM122100 VRB02MPS 0500 FG VV004
BECMG 1222/1223 OVC008
 
Тиличики
SYNAR 25950 Тиличики 121200Z 06003MPS 9999 OVC003 10/10 Q1008 RMK QFE748/0997 CLD:8ST


NOWCAST.SU UHPT 121600Z VRB02MPS 0500 FG SKC 03/03 Q0 NOSIG
AUTOTAF.ME UHPT 121300Z 1214/1223 VRB02MPS 0500 FG NSC TX08/1223Z TN03/1214Z
BECMG 1217/1218 OVC004
BECMG 1221/1222 NSC
 
Усть-Хайрюзово
SYNAR 32287 Усть-Хайрюзово 121200Z 25004MPS 9999 OVC006 14/13 Q1010 RMK QFE756/1008 CLD:8ST


NOWCAST.SU UHPU 121600Z VRB02MPS 0500 FG VV002 06/05 Q0 NOSIG
AUTOTAF.ME UHPU 121300Z 1214/1223 VRB02MPS 0500 FG VV004 TX07/1221Z TN06/1214Z
 
Авачинский
SYNAR 32547 Сосновка 121200Z 00000MPS 9999 BKN020 12/11 Q1011 RMK QFE754/1006 CLD:8SCAC
(210/11KM)


NOWCAST.SU UHQA 121600Z VRB02MPS 0500 FG SKC 05/05 Q0 NOSIG
AUTOTAF.ME UHQA 121300Z 1214/1223 VRB02MPS 0500 FG NSC TX08/1223Z TN04/1218Z
BECMG 1219/1220 OVC004
BECMG 1221/1222 NSC
 
Запорожье (Озерная)
SYNAR 32594 Озерная 121200Z 07002MPS 9999 BKN020 12/10 Q1010 RMK QFE754/1006 CLD:7SC


NOWCAST.SU UHQO 121600Z VRB02MPS 0500 FG VV002 05/04 Q0 NOSIG
AUTOTAF.ME UHQO 121300Z 1214/1223 VRB02MPS 0500 FG NSC TX07/1222Z TN05/1214Z
BECMG 1214/1215 OVC004
BECMG 1218/1219 OVC002
BECMG 1220/1221 OVC004
FM122200 VRB02MPS 0500 FG NSC
 
Буревестник
 


NOWCAST.SU UHSB 121600Z VRB02MPS 0200 +SN FG VV005 07/07 Q0 NOSIG
AUTOTAF.ME UHSB 121300Z 1214/1223 VRB02MPS 0200 +SN FG VV004 TX07/1214Z TN07/1214Z
BECMG 1216/1217 FG
 
Оха (Новостройка)
SYNAR 32010 Оха 121200Z 06002MPS 1000 BR OVC003 10/10 Q1006 RMK QFE750/1001 CLD:8ST


NOWCAST.SU UHSH 121600Z VRB02MPS 0500 FG VV005 06/05 Q0 NOSIG
AUTOTAF.ME UHSH 121300Z 1214/1223 VRB02MPS 0500 FG VV004 TX07/1223Z TN06/1214Z
 
Итуруп
 


NOWCAST.SU UHSI 121600Z VRB02MPS 0500 FG VV002 07/07 Q0 NOSIG
AUTOTAF.ME UHSI 121300Z 1214/1223 VRB02MPS 0500 FG VV004 TX08/1221Z TN07/1214Z
BECMG 1217/1218 NSC
BECMG 1219/1220 OVC004
 
Шахтерск
SYNAR 32098 Поронайск 121200Z 33001MPS 4000 -SHRA OVC009CB 12/12 Q1006 RMK QFE753/1004 CLD:8CB
(90/74KM)


NOWCAST.SU UHSK 121600Z VRB02MPS 0500 FG VV002 07/06 Q0 NOSIG
AUTOTAF.ME UHSK 121300Z 1214/1223 VRB02MPS 0500 FG VV004 TX07/1214Z TN07/1214Z
BECMG 1216/1217 NSC
BECMG 1217/1218 OVC004
BECMG 1218/1219 OVC002
FM122000 VRB02MPS 0500 FG VV004
FM122200 VRB02MPS 0500 FG VV002
 
Южно-Курильск (Менделеево)
SYNAR 32165 Южно-Курильск 121200Z 00000MPS 0200 FG VV/// 14/14 Q1005 RMK QFE749/0999 CLD:OBSC
(50/11KM)


NOWCAST.SU UHSM 121600Z VRB02MPS 0200 FG VV003 01/01 Q0 NOSIG
AUTOTAF.ME UHSM 121300Z 1214/1223 VRB02MPS 0200 FG VV004 TX09/1222Z TN08/1214Z
BECMG 1221/1222 OVC002
 
Ноглики
SYNAR 32053 Ноглики 121200Z 11003MPS 9999 OVC020CB 11/11 Q1006 RMK QFE751/1001 CLD:8CB
(350/15KM)


NOWCAST.SU UHSN 121600Z VRB02MPS 0500 FG VV002 05/05 Q0 NOSIG
AUTOTAF.ME UHSN 121300Z 1214/1223 VRB02MPS 0500 FG VV004 TX06/1219Z TN05/1214Z
BECMG 1219/1220 OVC002
BECMG 1220/1221 OVC004
BECMG 1221/1222 OVC002
 
Зональное
SYNAR 32061 Александровск-Сахалинский 121200Z 16001MPS 9999 OVC020CB 15/14 Q1004 RMK QFE750/1000 CLD:8CB
(300/53KM)


NOWCAST.SU UHSO 121600Z VRB02MPS 0500 FG VV002 07/07 Q0 NOSIG
AUTOTAF.ME UHSO 121300Z 1214/1223 VRB02MPS 0500 FG VV004 TX08/1222Z TN07/1214Z
BECMG 1219/1220 NSC
 
Южно-Сахалинск (Хомутово)
METAR UHSS 121600Z 35004MPS 7000 -SHRA BKN006 BKN016CB 13/12 Q1004 R01/290060 RMK MT OBSC QFE752/1003


NOWCAST.SU UHSS 121600Z VRB02MPS 0500 FG SKC 07/06 Q0 NOSIG
AUTOTAF.ME UHSS 121300Z 1214/1223 VRB02MPS 0500 FG NSC TX08/1223Z TN07/1214Z
BECMG 1218/1219 OVC002
BECMG 1220/1221 OVC004
BECMG 1221/1222 NSC
TAF UHSS 121400Z 1215/1321 34003MPS 9999 BKN005 BKN020CB
BECMG 1218/1220 0700 FG VV002
BECMG 1222/1224 9999 NSW BKN030CB=
Одопту
SYNAR 32010 Оха 121200Z 06002MPS 1000 BR OVC003 10/10 Q1006 RMK QFE750/1001 CLD:8ST
(330/45KM)


NOWCAST.SU UHSU 121600Z VRB02MPS 0500 FG VV002 05/05 Q0 NOSIG
AUTOTAF.ME UHSU 121300Z 1214/1223 VRB02MPS 0500 FG VV004 TX06/1221Z TN05/1214Z
BECMG 1220/1221 OVC008
BECMG 1221/1222 OVC004
 
Порт Восточный
SYNAR 31970 Находка 121200Z 15002MPS //// //// 20/15 Q1005 RMK QFE748/0998 CLD:NO_OBSERVATIONS
(280/24KM)


NOWCAST.SU UHTK 121600Z VRB02MPS 0500 FG SKC 08/08 Q0 NOSIG
AUTOTAF.ME UHTK 121300Z 1214/1223 VRB02MPS 0500 FG VV004 TX09/1214Z TN08/1215Z
BECMG 1214/1215 NSC
BECMG 1218/1219 OVC002
BECMG 1220/1221 NSC
 
Самарга
SYNAR 31825 Агзу 121200Z 08001MPS //// //// 14/14 Q1005 RMK QFE739/0985 CLD:NO_OBSERVATIONS
(320/49KM)


NOWCAST.SU UHTS 121600Z VRB02MPS 0500 FG VV002 07/06 Q0 NOSIG
AUTOTAF.ME UHTS 121300Z 1214/1223 VRB02MPS 0500 FG VV004 TX08/1223Z TN06/1218Z
BECMG 1216/1217 NSC
 
Арсеньев
SYNAR 31981 Анучино 121200Z 23001MPS CAVOK 18/16 Q1006 RMK QFE737/0983 CLD:2CI
(230/29KM)


NOWCAST.SU UHWA 121600Z VRB02MPS 0500 FG SKC 07/07 Q0 NOSIG
AUTOTAF.ME UHWA 121300Z 1214/1223 VRB02MPS 0500 FG NSC TX10/1223Z TN07/1215Z
BECMG 1218/1219 OVC004
BECMG 1222/1223 NSC
 
Остров Русский (Аякс)
SYNAR 31960 Владивосток 121200Z 34006MPS 9999 BKN020 21/16 Q1005 RMK QFE737/0983 CLD:8SCCS


NOWCAST.SU UHWH 121600Z VRB02MPS 0500 FG SKC 10/10 Q0 NOSIG
AUTOTAF.ME UHWH 121300Z 1214/1223 VRB02MPS 0500 FG NSC TX10/1214Z TN10/1214Z
BECMG 1218/1219 OVC004
BECMG 1221/1222 NSC
 
Кавалерово
SYNAR 31946 Кавалерово 121200Z 12002MPS //// //// 17/15 Q1006 RMK QFE736/0982 CLD:NO_OBSERVATIONS


NOWCAST.SU UHWK 121600Z VRB02MPS 0500 FG VV002 01/01 Q0 NOSIG
AUTOTAF.ME UHWK 121300Z 1214/1223 VRB02MPS 0500 FG VV004 TX09/1223Z TN06/1216Z
BECMG 1216/1217 NSC
 
Озерные Ключи
SYNAR 31960 Владивосток 121200Z 34006MPS 9999 BKN020 21/16 Q1005 RMK QFE737/0983 CLD:8SCCS
(220/34KM)


NOWCAST.SU UHWL 121600Z VRB02MPS 0500 FG SKC 09/08 Q0 NOSIG
AUTOTAF.ME UHWL 121300Z 1214/1223 VRB02MPS 0500 FG NSC TX11/1223Z TN09/1216Z
 
Уссурийск (Барановский)
SYNAR 31961 Тимирязевский 121200Z 06001MPS 9999 FEW033 18/16 Q1005 RMK QFE750/1001 CLD:6SCCI
(330/17KM)


NOWCAST.SU UHWU 121600Z VRB02MPS 0500 FG SKC 08/07 Q0 NOSIG
AUTOTAF.ME UHWU 121300Z 1214/1223 VRB02MPS 0500 FG NSC TX10/1223Z TN07/1218Z
 
Владивосток (Кневичи)
METAR UHWW 121600Z 00000MPS 9999 NSC 16/16 Q1006 R25L/0///70 NOSIG RMK QFE753


NOWCAST.SU UHWW 121600Z VRB02MPS 0500 FG SKC 09/08 Q0 NOSIG
AUTOTAF.ME UHWW 121300Z 1214/1223 VRB02MPS 0500 FG NSC TX11/1223Z TN09/1216Z
TAF UHWW 121400Z 1215/1315 12003MPS 9999 FEW003 BKN016
BECMG 1216/1219 0300 FG BKN002
BECMG 1221/1223 6000 NSW BKN016CB
FM130000 20003G08MPS 9999 BKN020CB
TEMPO 1300/1310 -SHRA=
Чита (Кадала)
METAR UIAA 121600Z 35003MPS 8000 SCT050CB 18/18 Q1005 R29/70D NOSIG RMK QFE696/0928


NOWCAST.SU UIAA 121600Z VRB02MPS 0500 +SN FG VV002 01/01 Q0 NOSIG
AUTOTAF.ME UIAA 121300Z 1214/1223 VRB02MPS 0500 +SN FG VV004 TX10/1214Z TN09/1216Z
BECMG 1216/1217 NSC
FM122000 VRB02MPS 0500 FG VV004
BECMG 1221/1222 +SN FG
TAF UIAA 121400Z 1215/1315 02003MPS 6000 BKN030CB
TEMPO 1215/1218 3100 BR FU
TEMPO 1218/1301 0500 FG VV001=
Красный Чикой
SYNAR 30935 Красный Чикой 121200Z 02002MPS 9999 TSRA BKN033CB 20/20 Q1006 RMK QFE687/0916 CLD:8CBAC


NOWCAST.SU UIAD 121600Z VRB02MPS 0500 +SN FG VV002 01/01 Q0 NOSIG
AUTOTAF.ME UIAD 121300Z 1214/1223 VRB02MPS 0500 +SN FG VV004 TX09/1214Z TN08/1222Z
 
Краснокаменск
SYNAR 30968 Забайкальск 121200Z 07004MPS 4000 HZ SCT020CB 25/10 Q1006 RMK QFE693/0924 CLD:7CBCI
(230/71KM)


NOWCAST.SU UIAE 121600Z VRB02MPS 0500 FG SKC 01/01 Q0 NOSIG
AUTOTAF.ME UIAE 121300Z 1214/1223 VRB02MPS 0500 FG NSC TX10/1214Z TN07/1220Z
BECMG 1222/1223 OVC004
 
Кыра
SYNAR 30949 Кыра 121200Z 13001MPS 9999 FEW033CB 25/19 Q1006 RMK QFE675/0901 CLD:6CBACCC


NOWCAST.SU UIAK 121600Z VRB02MPS 0500 FG VV002 01/01 Q0 NOSIG
AUTOTAF.ME UIAK 121300Z 1214/1223 VRB02MPS 0500 FG VV004 TX10/1214Z TN08/1219Z
BECMG 1220/1221 NSC
 
Могоча
SYNAR 30673 Могоча 121200Z 00000MPS 2000 HZ VV/// 22/10 Q999 RMK QFE694/0926 CLD:OBSC


NOWCAST.SU UIAM 121600Z VRB02MPS 0500 FG VV002 01/01 Q0 NOSIG
AUTOTAF.ME UIAM 121300Z 1214/1223 VRB02MPS 0500 FG VV004 TX09/1214Z TN08/1216Z
BECMG 1221/1222 NSC
 
Чара
SYNAR 30372 Чара 121200Z 30001MPS 1700 TSRA VV/// 19/18 Q1005 RMK QFE691/0922 CLD:OBSC


NOWCAST.SU UIAR 121600Z VRB02MPS 0500 +SN FG VV002 01/01 Q0 NOSIG
AUTOTAF.ME UIAR 121300Z 1214/1223 VRB02MPS 0500 +SN FG VV004 TX09/1223Z TN08/1214Z
BECMG 1217/1218 FG
 
Газимурский завод
SYNAR 30777 Сретенск 121200Z 11003MPS 4000 HZ VV/// 24/14 Q1005 RMK QFE707/0943 CLD:OBSC
(330/89KM)


NOWCAST.SU UIAS 121600Z VRB02MPS 0500 FG VV002 01/01 Q0 NOSIG
AUTOTAF.ME UIAS 121300Z 1214/1223 VRB02MPS 0500 FG VV004 TX09/1214Z TN06/1220Z
BECMG 1216/1217 NSC
BECMG 1220/1221 OVC004
 
Братск
METAR UIBB 121600Z AUTO 29003MPS 9999 // ///012/// 15/14 Q1008 RMK QFE713/0951


NOWCAST.SU UIBB 121600Z VRB02MPS 0500 FG VV002 01/01 Q0 NOSIG
AUTOTAF.ME UIBB 121300Z 1214/1223 VRB02MPS 0500 FG NSC TX09/1214Z TN08/1216Z
BECMG 1214/1215 OVC004
BECMG 1216/1217 +SN FG
FM122000 VRB02MPS 2500 SN BR OVC004
BECMG 1220/1221 1200
FM122200 VRB02MPS 0500 +SN FG VV004
TAF UIBB 121400Z 1215/1315 28002G07MPS 9999 -SHRA FEW001 BKN016CB
TEMPO 1215/1303 1900 SHRA BR VV001=
Усть-Илимск
SYNAR 30014 Чемдальск 121200Z 27002MPS 9999 TSRA BKN020CB 25/21 Q1004 RMK QFE728/0970 CLD:8CBAS
(10/171KM)


NOWCAST.SU UIBS 121600Z VRB02MPS 0500 FG SKC 01/01 Q0 NOSIG
AUTOTAF.ME UIBS 121300Z 1214/1223 VRB02MPS 0500 FG NSC TX09/1214Z TN09/1214Z
BECMG 1219/1220 OVC004
BECMG 1221/1222 NSC
 
Железногорск-Илимский
SYNAR 30323 Усть-Кут 121200Z 00000MPS 9999 TSRA OVC020CB 24/22 Q1004 RMK QFE724/0965 CLD:8CB
(70/109KM)


NOWCAST.SU UIBV 121600Z VRB02MPS 0500 FG VV002 01/01 Q0 NOSIG
AUTOTAF.ME UIBV 121300Z 1214/1223 VRB02MPS 0500 FG VV004 TX09/1214Z TN08/1216Z
BECMG 1221/1222 +SN FG
 
Хилок
SYNAR 30844 Хилок 121200Z 07002MPS 9999 BKN020CB 22/17 Q1006 RMK QFE684/0912 CLD:6CBCI


NOWCAST.SU UICH 121600Z VRB02MPS 0500 +SN FG SKC 01/01 Q0 NOSIG
AUTOTAF.ME UICH 121300Z 1214/1223 VRB02MPS 0500 FG NSC TX10/1214Z TN09/1216Z
BECMG 1214/1215 +SN FG
BECMG 1217/1218 OVC004
BECMG 1218/1219 OVC002
FM122100 VRB02MPS 0500 +SN FG VV004
 
Белая
SYNAR 30710 Иркутск 121200Z 28002MPS 4700 -SHRA OVC020CB 15/15 Q1010 RMK QFE716/0954 CLD:8CB
(150/87KM)


NOWCAST.SU UIIB 121600Z VRB02MPS 0500 +SN FG VV002 01/01 Q0 NOSIG
AUTOTAF.ME UIIB 121300Z 1214/1223 VRB02MPS 0500 +SN FG VV004 TX07/1214Z TN07/1214Z
BECMG 1219/1220 FG
 
Хужир
SYNAR 30637 Узур 121200Z 33001MPS 9999 OVC020CB 18/14 Q1005 RMK QFE713/0951 CLD:8CB
(60/22KM)


NOWCAST.SU UIIH 121600Z VRB02MPS 0500 +SN FG VV002 01/01 Q0 NOSIG
AUTOTAF.ME UIIH 121300Z 1214/1223 VRB02MPS 0500 +SN FG VV004 TX08/1214Z TN08/1214Z
FM121800 VRB02MPS 1200 SN BR OVC004
FM121900 VRB02MPS 0500 +SN FG VV004
BECMG 1219/1220 OVC002
FM122100 VRB02MPS 1200 SN BR OVC004
FM122200 VRB02MPS 0500 +SN FG VV002
 
Иркутск
METAR UIII 121600Z 28006MPS 9999 -SHRA OVC006CB 14/14 Q1009 R30/290150 NOSIG RMK QBB190 MT OBSC QFE713/0950


NOWCAST.SU UIII 121600Z VRB02MPS 0500 +SN FG VV002 01/01 Q0 NOSIG
AUTOTAF.ME UIII 121300Z 1214/1223 VRB02MPS 0500 +SN FG VV004 TX08/1223Z TN07/1214Z
BECMG 1218/1219 FG
TAF UIII 121400Z 1215/1315 30003MPS 2900 -SHRA BR BKN004 BKN007CB
TEMPO 1215/1301 0900 -SHRA FG VV001
BECMG 1302/1304 9999 NSW SCT020CB=
Кырен
SYNAR 30806 Кырен 121200Z 33001MPS 9999 BKN033 16/16 Q1011 RMK QFE692/0922 CLD:8SCAS


NOWCAST.SU UIIN 121600Z VRB02MPS 0500 FG SKC 01/01 Q0 NOSIG
AUTOTAF.ME UIIN 121300Z 1214/1223 VRB02MPS 0500 +SN FG NSC TX07/1214Z TN06/1218Z
BECMG 1215/1216 FG
BECMG 1220/1221 OVC004
BECMG 1221/1222 OVC002
 
Иркутск (Иркутск-2 (Восточный))
SYNAR 30710 Иркутск 121200Z 28002MPS 4700 -SHRA OVC020CB 15/15 Q1010 RMK QFE716/0954 CLD:8CB
(140/13KM)


NOWCAST.SU UIIR 121600Z VRB02MPS 0500 +SN FG VV002 01/01 Q0 NOSIG
AUTOTAF.ME UIIR 121300Z 1214/1223 VRB02MPS 0500 +SN FG VV004 TX08/1223Z TN07/1214Z
BECMG 1218/1219 FG
 
Качуг
SYNAR 30622 Качуг 121200Z 29002MPS 9999 BKN020CB 21/18 Q1006 RMK QFE708/0944 CLD:8CBACCI


NOWCAST.SU UIIX 121600Z VRB02MPS 0500 FG SKC 01/01 Q0 NOSIG
AUTOTAF.ME UIIX 121300Z 1214/1223 VRB02MPS 0500 FG VV004 TX10/1214Z TN08/1223Z
BECMG 1215/1216 NSC
BECMG 1218/1219 +SN FG
BECMG 1219/1220 OVC004
 
Бодайбо
SYNAR 30252 Мамакан 121200Z 20001MPS 9999 FU NSC 28/25 Q1000 RMK QFE727/0970 CLD:7ACCI
(250/15KM)


NOWCAST.SU UIKB 121600Z VRB02MPS 0500 FG SKC 01/01 Q0 NOSIG
AUTOTAF.ME UIKB 121300Z 1214/1223 VRB02MPS 0500 FG NSC TX12/1214Z TN09/1220Z
BECMG 1218/1219 OVC004
 
Таксимо
SYNAR 30455 Уакит 121200Z 22002MPS 2000 HZ FEW033 21/18 Q//// RMK CLD:5SCACCI
(220/128KM)


NOWCAST.SU UIKG 121600Z VRB02MPS 0500 +SN FG VV002 01/01 Q0 NOSIG
AUTOTAF.ME UIKG 121300Z 1214/1223 VRB02MPS 0500 +SN FG VV004 TX11/1214Z TN09/1217Z
BECMG 1217/1218 FG
BECMG 1218/1219 OVC002
BECMG 1220/1221 OVC004
 
Киренск
SYNAR 30230 Киренск 121200Z 29003MPS 9999 TSRA BKN020CB 28/21 Q1001 RMK QFE727/0970 CLD:8CBACCI


NOWCAST.SU UIKK 121600Z VRB02MPS 0500 +SN FG SKC 01/01 Q0 NOSIG
AUTOTAF.ME UIKK 121300Z 1214/1223 VRB02MPS 0500 FG NSC TX13/1214Z TN10/1218Z
BECMG 1215/1216 +SN FG
BECMG 1216/1217 OVC004
BECMG 1218/1219 OVC002
FM122100 VRB02MPS 0500 +SN FG VV004
 
Мама
SYNAR 30157 Мама 121200Z 00000MPS 4000 HZ NSC 28/21 Q999 RMK QFE729/0972 CLD:3CI


NOWCAST.SU UIKM 121600Z VRB02MPS 0500 FG VV002 01/01 Q0 NOSIG
AUTOTAF.ME UIKM 121300Z 1214/1223 VRB02MPS 0500 FG VV004 TX11/1214Z TN09/1220Z
BECMG 1221/1222 NSC
 
Нижнеудинск
SYNAR 29698 Нижнеудинск 121200Z 15001MPS 9999 FEW033 17/16 Q1010 RMK QFE721/0961 CLD:8SCACCI


NOWCAST.SU UINN 121600Z VRB02MPS 0500 FG VV002 01/01 Q0 NOSIG
AUTOTAF.ME UINN 121300Z 1214/1223 VRB02MPS 0500 FG VV004 TX08/1214Z TN06/1218Z
 
Казачинское
SYNAR 30337 Казачинск 121200Z 00000MPS 9999 FU BKN020CB 23/20 Q1003 RMK QFE720/0961 CLD:8CBCS


NOWCAST.SU UITK 121600Z VRB02MPS 0500 FG SKC 01/01 Q0 NOSIG
AUTOTAF.ME UITK 121300Z 1214/1223 VRB02MPS 0500 FG VV004 TX11/1214Z TN10/1216Z
BECMG 1214/1215 NSC
BECMG 1216/1217 +SN FG
BECMG 1221/1222 OVC004
 
Усть-Кут
SYNAR 30323 Усть-Кут 121200Z 00000MPS 9999 TSRA OVC020CB 24/22 Q1004 RMK QFE724/0965 CLD:8CB


NOWCAST.SU UITT 121600Z VRB02MPS 0500 +SN FG VV002 01/01 Q0 NOSIG
AUTOTAF.ME UITT 121300Z 1214/1223 VRB02MPS 0500 +SN FG VV004 TX09/1214Z TN09/1214Z
FM121800 VRB02MPS 0500 FG NSC
BECMG 1218/1219 OVC002
BECMG 1219/1220 NSC
BECMG 1220/1221 OVC004
FM122300 VRB02MPS 0500 +SN FG VV004
 
Бичура
SYNAR 30837 Мухоршибирь 121200Z 29004MPS 9999 RESHRA OVC020CB 20/16 Q1005 RMK QFE690/0920 CLD:8CB
(20/49KM)


NOWCAST.SU UIUA 121600Z VRB02MPS 0500 FG VV002 01/01 Q0 NOSIG
AUTOTAF.ME UIUA 121300Z 1214/1223 VRB02MPS 0500 FG NSC TX09/1214Z TN08/1217Z
BECMG 1214/1215 OVC004
BECMG 1217/1218 NSC
 
Багдарин (Куликово Поле)
SYNAR 30554 Багдарин 121200Z 14001MPS 1400 HZ VV/// 24/17 Q1008 RMK QFE677/0903 CLD:OBSC


NOWCAST.SU UIUB 121600Z VRB02MPS 0500 +SN FG VV002 01/01 Q0 NOSIG
AUTOTAF.ME UIUB 121300Z 1214/1223 VRB02MPS 0500 FG VV004 TX10/1214Z TN08/1218Z
BECMG 1214/1215 NSC
FM121600 VRB02MPS 0500 +SN FG VV004
BECMG 1222/1223 FG
 
Усть-Баргузин
SYNAR 30635 Усть-Баргузин 121200Z 22002MPS 9999 VCFG FEW020CB 19/17 Q1006 RMK QFE713/0951 CLD:8CBACCI


NOWCAST.SU UIUI 121600Z VRB02MPS 0500 +SN FG VV002 01/01 Q0 NOSIG
AUTOTAF.ME UIUI 121300Z 1214/1223 VRB02MPS 0500 +SN FG NSC TX08/1220Z TN07/1214Z
BECMG 1215/1216 OVC004
BECMG 1218/1219 OVC002
BECMG 1219/1220 OVC004
 
Нижнеангарск
SYNAR 30433 Нижнеангарск 121200Z 18002MPS 9999 FU FEW033 22/19 Q1003 RMK QFE710/0947 CLD:8SCCI


NOWCAST.SU UIUN 121600Z VRB02MPS 0500 FG SKC 01/01 Q0 NOSIG
AUTOTAF.ME UIUN 121300Z 1214/1223 VRB02MPS 0500 FG VV004 TX08/1214Z TN07/1217Z
BECMG 1215/1216 NSC
BECMG 1220/1221 OVC004
BECMG 1222/1223 +SN FG
 
Улан-Удэ (Мухино)
METAR UIUU 121600Z VRB01MPS 9000 -SHRA OVC028CB 16/15 Q1006 R08/60D NOSIG RMK MT OBSC QFE710/0947


NOWCAST.SU UIUU 121600Z VRB02MPS 0500 FG VV002 01/01 Q0 NOSIG
AUTOTAF.ME UIUU 121300Z 1214/1223 VRB02MPS 0500 +SN FG VV004 TX09/1214Z TN08/1215Z
BECMG 1215/1216 FG
BECMG 1218/1219 OVC002
BECMG 1220/1221 NSC
FM122200 VRB02MPS 0500 FG VV004
TAF UIUU 121400Z 1215/1315 35005MPS 9999 -SHRA BKN035CB
TEMPO 1215/1224 VRB10MPS 2900 -TSRA OVC011CB=
Кабанск
SYNAR 30825 Иволгинск 121200Z 01002MPS 9999 VCSH OVC020CB 20/15 Q1006 RMK QFE705/0940 CLD:8CB
(130/47KM)


NOWCAST.SU UIUX 121600Z VRB02MPS 1000 SN BR OVC005 01/01 Q0 NOSIG
AUTOTAF.ME UIUX 121300Z 1214/1223 VRB02MPS 0500 +SN FG VV004 TX08/1214Z TN07/1216Z
FM121600 VRB02MPS 1200 SN BR OVC004
BECMG 1217/1218 2500
FM121900 VRB02MPS 0500 +SN FG VV004
BECMG 1219/1220 NSC
FM122200 VRB02MPS 0500 FG VV002
 
Александрия
SYNAR 33614 Светловодск 121200Z 34002MPS 9999 SCT033 34/19 Q1015 RMK QFE753/1005 CLD:3CU
(10/41KM)


NOWCAST.SU UKBA 121600Z VRB02MPS 0500 FG SKC 16/08 Q0 NOSIG
AUTOTAF.ME UKBA 121300Z 1214/1223 VRB02MPS 0500 FG NSC TX17/1214Z TN12/1223Z
 
Киев (Борисполь)
SYNAR 33345 Киев 121200Z 14001MPS 9999 FEW020CB 33/17 Q1018 RMK QFE748/0997 CLD:6CBACCI
(290/24KM)


TSAR UKBB 121600Z LAST HOUR TS OBS: 020/142-167KM, 320/148-165KM, 330/176-182KM, 340/140-170KM, 350/137-157KM
NEAREST TS 350/137KM
NOWCAST.SU UKBB 121600Z VRB02MPS 0500 FG SKC 16/09 Q0 NOSIG
AUTOTAF.ME UKBB 121300Z 1214/1223 VRB02MPS 0500 FG NSC TX17/1214Z TN12/1223Z
 
Белая Церковь
SYNAR 33466 Мироновка 121200Z 14003MPS 9999 SCT033 34/17 Q1016 RMK QFE748/0997 CLD:4SCCI
(100/72KM)


NOWCAST.SU UKBC 121600Z VRB02MPS 0500 FG SKC 17/07 Q0 NOSIG
AUTOTAF.ME UKBC 121300Z 1214/1223 VRB02MPS 0500 FG NSC TX18/1214Z TN13/1222Z
 
Конотоп
SYNAR 33261 Конотоп 121200Z 11002MPS 9999 SCT020 32/20 Q1017 RMK QFE749/0999 CLD:6CUCI


TSAR UKBF 121600Z LAST HOUR TS OBS: 010/163-165KM, 020/169KM, 290/100KM, 300/109KM, 320/93KM, 330/86-119KM, 340/106-130KM
NEAREST TS 330/86KM
NOWCAST.SU UKBF 121600Z VRB02MPS 0500 FG SKC 16/09 Q0 NOSIG
AUTOTAF.ME UKBF 121300Z 1214/1223 VRB02MPS 0500 FG NSC TX16/1214Z TN11/1223Z
 
Кировоград (Фёдоровка)
SYNAR 33711 Кропивницкий 121200Z 07004MPS 9999 BKN050 37/15 Q1015 RMK QFE745/0994 CLD:5CU
(0/17KM)


NOWCAST.SU UKBK 121600Z VRB02MPS 0500 FG SKC 01/01 Q0 NOSIG
AUTOTAF.ME UKBK 121300Z 1214/1223 VRB02MPS 0500 FG NSC TX18/1214Z TN12/1223Z
 
Наливайковка
SYNAR 33345 Киев 121200Z 14001MPS 9999 FEW020CB 33/17 Q1018 RMK QFE748/0997 CLD:6CBACCI
(100/60KM)


TSAR UKBN 121600Z LAST HOUR TS OBS: 010/120-165KM, 020/124-172KM, 340/101-170KM, 350/98-166KM, 360/139-161KM
NEAREST TS 350/98KM
NOWCAST.SU UKBN 121600Z VRB02MPS 0500 FG SKC 17/08 Q0 NOSIG
AUTOTAF.ME UKBN 121300Z 1214/1223 VRB02MPS 0500 FG NSC TX17/1214Z TN13/1222Z
 
Донецк
SYNAR 34625 Матвеев Курган 121200Z 04003MPS CAVOK 34/06 Q1014 RMK QFE756/1008 CLD:SKC
(120/103KM)


NOWCAST.SU UKCC 121600Z VRB02MPS 0500 FG SKC 01/01 Q0 NOSIG
AUTOTAF.ME UKCC 121300Z 1214/1223 VRB02MPS 0500 FG NSC TX17/1214Z TN10/1223Z
 
Новоайдар
SYNAR 34432 Чертково 121200Z 05003MPS CAVOK 30/07 Q1017 RMK QFE749/0999 CLD:SKC
(60/90KM)


NOWCAST.SU UKCD 121600Z VRB02MPS 0500 FG SKC 15/03 Q0 NOSIG
AUTOTAF.ME UKCD 121300Z 1214/1223 VRB02MPS 0500 FG NSC TX16/1214Z TN10/1222Z
 
Краматорск
SYNAR 34415 Изюм 121200Z 09002MPS CAVOK 32/12 Q1016 RMK QFE755/1006 CLD:SKC
(340/58KM)


NOWCAST.SU UKCK 121600Z VRB02MPS 0500 FG SKC 15/03 Q0 NOSIG
AUTOTAF.ME UKCK 121300Z 1214/1223 VRB02MPS 0500 FG NSC TX16/1214Z TN10/1222Z
 
Мариуполь
SYNAR 34712 Мариуполь 121200Z 27098MPS 9999 OVC020 32/12 Q952 RMK QFE708/0944 CLD:3AC


TSAR UKCM 121600Z LAST HOUR TS OBS: 290/117KM, 300/126KM
NEAREST TS 290/117KM
NOWCAST.SU UKCM 121600Z VRB02MPS 0500 FG SKC 16/06 Q0 NOSIG
AUTOTAF.ME UKCM 121300Z 1214/1223 VRB02MPS 0500 FG NSC TX16/1214Z TN13/1222Z
 
Северодонецк
SYNAR 34415 Изюм 121200Z 09002MPS CAVOK 32/12 Q1016 RMK QFE755/1006 CLD:SKC
(290/96KM)


NOWCAST.SU UKCS 121600Z VRB02MPS 0500 FG SKC 15/03 Q0 NOSIG
AUTOTAF.ME UKCS 121300Z 1214/1223 VRB02MPS 0500 FG NSC TX16/1214Z TN10/1222Z
 
Луганск
SYNAR 34535 Каменск-Шахтинский 121200Z 05003MPS CAVOK 33/03 Q1015 RMK QFE756/1008 CLD:SKC
(100/70KM)


NOWCAST.SU UKCW 121600Z VRB02MPS 0500 FG SKC 15/02 Q0 NOSIG
AUTOTAF.ME UKCW 121300Z 1214/1223 VRB02MPS 0500 FG NSC TX16/1214Z TN10/1222Z
 
Енакиево
SYNAR 34625 Матвеев Курган 121200Z 04003MPS CAVOK 34/06 Q1014 RMK QFE756/1008 CLD:SKC
(140/84KM)


NOWCAST.SU UKCY 121600Z VRB02MPS 0500 FG SKC 01/01 Q0 NOSIG
AUTOTAF.ME UKCY 121300Z 1214/1223 VRB02MPS 0500 FG NSC TX16/1214Z TN10/1222Z
 
Бердянск
SYNAR 34712 Мариуполь 121200Z 27098MPS 9999 OVC020 32/12 Q952 RMK QFE708/0944 CLD:3AC
(70/61KM)


TSAR UKDB 121600Z LAST HOUR TS OBS: 310/98KM, 320/87-115KM, 330/107KM
NEAREST TS 320/87KM
NOWCAST.SU UKDB 121600Z VRB02MPS 0500 FG SKC 15/09 Q0 NOSIG
AUTOTAF.ME UKDB 121300Z 1214/1223 VRB02MPS 0500 FG NSC TX15/1214Z TN13/1222Z
 
Днепр
SYNAR 34504 Днепропетровск 121200Z 06004MPS 9999 BKN033 33/17 Q1016 RMK QFE748/0998 CLD:5CU
(340/29KM)


TSAR UKDD 121600Z LAST HOUR TS OBS: 140/105KM, 150/97-126KM
NEAREST TS 150/97KM
NOWCAST.SU UKDD 121600Z VRB02MPS 0500 FG SKC 16/07 Q0 NOSIG
AUTOTAF.ME UKDD 121300Z 1214/1223 VRB02MPS 0500 FG NSC TX17/1214Z TN12/1222Z
 
Запорожье (Мокрая)
SYNAR 34601 Запорожье 121200Z 25098MPS 1500 FEW010 34/18 Q990 RMK QFE732/0977 CLD:3CUCI
(250/23KM)


TSAR UKDE 121600Z LAST HOUR TS OBS: 120/57KM, 130/45KM, 140/72KM, 150/64KM
NEAREST TS 130/45KM
NOWCAST.SU UKDE 121600Z VRB02MPS 0500 HZ SKC 16/08 Q0 NOSIG
AUTOTAF.ME UKDE 121300Z 1214/1223 VRB02MPS 0500 HZ NSC TX17/1214Z TN12/1223Z
BECMG 1216/1217 FG
 
Мелитополь
SYNAR 34601 Запорожье 121200Z 25098MPS 1500 FEW010 34/18 Q990 RMK QFE732/0977 CLD:3CUCI
(350/104KM)


TSAR UKDM 121600Z LAST HOUR TS OBS: 020/89KM, 030/67-95KM, 040/76KM
NEAREST TS 30/67KM
NOWCAST.SU UKDM 121600Z VRB02MPS 0500 HZ SKC 14/10 Q0 NOSIG
AUTOTAF.ME UKDM 121300Z 1214/1223 VRB02MPS 0500 HZ NSC TX16/1214Z TN12/1219Z
BECMG 1216/1217 FG
 
Кривой Рог (Лозоватка)
SYNAR 33791 Кривой Рог 121200Z 08003MPS 9999 SCT030 37/14 Q1017 RMK QFE751/1002 CLD:3CU


NOWCAST.SU UKDR 121600Z VRB02MPS 0500 FG SKC 17/07 Q0 NOSIG
AUTOTAF.ME UKDR 121300Z 1214/1223 VRB02MPS 0500 FG NSC TX18/1214Z TN13/1221Z
 
Майское
SYNAR 34504 Днепропетровск 121200Z 06004MPS 9999 BKN033 33/17 Q1016 RMK QFE748/0998 CLD:5CU
(280/50KM)


TSAR UKEM 121600Z LAST HOUR TS OBS: 170/99-125KM
NEAREST TS 170/99KM
NOWCAST.SU UKEM 121600Z VRB02MPS 0500 FG SKC 16/07 Q0 NOSIG
AUTOTAF.ME UKEM 121300Z 1214/1223 VRB02MPS 0500 FG NSC TX17/1214Z TN11/1223Z
 
Бахчисарай
SYNAR 33946 Симферополь 121200Z 07009G12MPS 9999 FEW027CB 34/15 Q1012 RMK QFE742/0990 CLD:8CBACCI
(20/34KM)


NOWCAST.SU UKFC 121600Z VRB02MPS 0500 FG SKC 14/08 Q0 NOSIG
AUTOTAF.ME UKFC 121300Z 1214/1223 VRB02MPS 0500 FG NSC TX15/1214Z TN11/1222Z
 
Simferopol'
SYNAR 33946 Симферополь 121200Z 07009G12MPS 9999 FEW027CB 34/15 Q1012 RMK QFE742/0990 CLD:8CBACCI
(180/30KM)


NOWCAST.SU UKFF 121600Z VRB02MPS 0500 FG SKC 15/08 Q0 NOSIG
AUTOTAF.ME UKFF 121300Z 1214/1223 VRB02MPS 0500 FG NSC TX16/1214Z TN11/1223Z
 
 


NOSIG
 
Багерово
SYNAR 33983 Керчь 121200Z 03009G14MPS CAVOK 33/18 Q1011 RMK QFE753/1005 CLD:2ACCI
(110/15KM)


NOWCAST.SU UKFR 121600Z VRB02MPS 0500 FG SKC 15/10 Q0 NOSIG
AUTOTAF.ME UKFR 121300Z 1214/1223 VRB02MPS 0500 FG NSC TX15/1214Z TN14/1218Z
 
Севастополь (Бухта Круглая)
SYNAR 33998 Ай-Петри 121200Z 14006MPS 9999 SCT010 24/12 Q//// RMK CLD:6CUCI
(110/52KM)


NOWCAST.SU UKFS 121600Z VRB02MPS 0500 FG SKC 14/11 Q0 NOSIG
AUTOTAF.ME UKFS 121300Z 1214/1223 VRB02MPS 0500 FG NSC TX14/1214Z TN13/1220Z
 
Харьков (Северный)
SYNAR 34300 Харьков 121200Z 09002MPS 9999 BKN033 32/13 Q1019 RMK QFE750/1000 CLD:5CU
(240/12KM)


NOWCAST.SU UKHD 121600Z VRB02MPS 0500 FG SKC 15/05 Q0 NOSIG
AUTOTAF.ME UKHD 121300Z 1214/1223 VRB02MPS 0500 FG NSC TX16/1214Z TN10/1222Z
 
Харьков (Основа)
SYNAR 34300 Харьков 121200Z 09002MPS 9999 BKN033 32/13 Q1019 RMK QFE750/1000 CLD:5CU
(290/12KM)


NOWCAST.SU UKHH 121600Z VRB02MPS 0500 FG SKC 15/05 Q0 NOSIG
AUTOTAF.ME UKHH 121300Z 1214/1223 VRB02MPS 0500 FG NSC TX16/1214Z TN10/1223Z
 
Кременчуг (Большая Кахновка)
SYNAR 33614 Светловодск 121200Z 34002MPS 9999 SCT033 34/19 Q1015 RMK QFE753/1005 CLD:3CU
(240/19KM)


NOWCAST.SU UKHK 121600Z VRB02MPS 0500 HZ SKC 16/09 Q0 NOSIG
AUTOTAF.ME UKHK 121300Z 1214/1223 VRB02MPS 0500 FG NSC TX17/1214Z TN12/1222Z
BECMG 1215/1216 HZ
BECMG 1217/1218 FG
 
Полтава-национальный (Супруновка)
SYNAR 33506 Полтава 121200Z 11002MPS 9999 BKN033 32/17 Q1016 RMK QFE747/0997 CLD:6CU
(70/12KM)


NOWCAST.SU UKHP 121600Z VRB02MPS 0500 FG SKC 16/07 Q0 NOSIG
AUTOTAF.ME UKHP 121300Z 1214/1223 VRB02MPS 0500 FG NSC TX17/1214Z TN12/1222Z
 
Сумы
SYNAR 33275 Сумы 121200Z 11002MPS 9999 SCT020 32/18 Q1024 RMK QFE751/1001 CLD:3CU


NOWCAST.SU UKHS 121600Z VRB02MPS 0500 FG SKC 16/06 Q0 NOSIG
AUTOTAF.ME UKHS 121300Z 1214/1223 VRB02MPS 0500 FG NSC TX16/1214Z TN11/1222Z
 
Чугуев
SYNAR 34300 Харьков 121200Z 09002MPS 9999 BKN033 32/13 Q1019 RMK QFE750/1000 CLD:5CU
(290/39KM)


NOWCAST.SU UKHW 121600Z VRB02MPS 0500 FG SKC 15/05 Q0 NOSIG
AUTOTAF.ME UKHW 121300Z 1214/1223 VRB02MPS 0500 FG NSC TX17/1214Z TN10/1223Z
 
Черкассы
SYNAR 33466 Мироновка 121200Z 14003MPS 9999 SCT033 34/17 Q1016 RMK QFE748/0997 CLD:4SCCI
(290/77KM)


NOWCAST.SU UKKE 121600Z VRB02MPS 0500 FG SKC 16/09 Q0 NOSIG
AUTOTAF.ME UKKE 121300Z 1214/1223 VRB02MPS 0500 FG NSC TX17/1214Z TN11/1223Z
 
Кировоград
SYNAR 33711 Кропивницкий 121200Z 07004MPS 9999 BKN050 37/15 Q1015 RMK QFE745/0994 CLD:5CU


NOWCAST.SU UKKG 121600Z VRB02MPS 0500 FG SKC 17/07 Q0 NOSIG
AUTOTAF.ME UKKG 121300Z 1214/1223 VRB02MPS 0500 FG NSC TX18/1214Z TN12/1222Z
 
Киев (Жуляны им. И.И.Сикорского)
SYNAR 33345 Киев 121200Z 14001MPS 9999 FEW020CB 33/17 Q1018 RMK QFE748/0997 CLD:6CBACCI


TSAR UKKK 121600Z LAST HOUR TS OBS: 030/150-175KM, 040/157KM, 320/132-157KM, 330/124-174KM, 340/157-162KM, 350/127-153KM, 360/127-148KM
NEAREST TS 330/124KM
NOWCAST.SU UKKK 121600Z VRB02MPS 0500 FG SKC 17/09 Q0 NOSIG
AUTOTAF.ME UKKK 121300Z 1214/1223 VRB02MPS 0500 FG NSC TX17/1214Z TN13/1222Z
 
Киев (Киев/Антонов Международный)
SYNAR 33345 Киев 121200Z 14001MPS 9999 FEW020CB 33/17 Q1018 RMK QFE748/0997 CLD:6CBACCI
(130/35KM)


TSAR UKKM 121600Z LAST HOUR TS OBS: 010/106-150KM, 040/143-159KM, 320/103-136KM, 330/96-170KM, 340/114-158KM, 350/127-150KM, 360/104-147KM
NEAREST TS 330/96KM
NOWCAST.SU UKKM 121600Z VRB02MPS 0500 FG SKC 16/09 Q0 NOSIG
AUTOTAF.ME UKKM 121300Z 1214/1223 VRB02MPS 0500 FG NSC TX17/1214Z TN13/1222Z
 
Житомир (Смаковка)
SYNAR 33325 Житомир 121200Z 23002MPS 9999 FEW033CB 35/16 Q1016 RMK QFE742/0989 CLD:5CBCI


TSAR UKKV 121600Z LAST HOUR TS OBS: 010/142-167KM, 020/127-175KM, 030/169-187KM, 360/163KM
NEAREST TS 20/127KM
NOWCAST.SU UKKV 121600Z VRB02MPS 0500 FG SKC 01/01 Q0 NOSIG
AUTOTAF.ME UKKV 121300Z 1214/1223 VRB02MPS 0500 FG NSC TX17/1214Z TN13/1220Z
 
Самбор (Калинов)
SYNAR 33393 Львов 121200Z 17002MPS CAVOK 32/19 Q1016 RMK QFE733/0977 CLD:5CI
(60/53KM)


TSAR UKLA 121600Z LAST HOUR TS OBS: 010/26-50KM, 020/54-79KM, 030/60KM, 040/32KM, 050/42KM, 060/54KM, 070/92KM, 080/105KM, 090/47-102KM, 100/91-105KM, 110/52-113KM, 120/88-100KM, 130/67-104KM, 140/94KM, 150/86-113KM, 350/51KM, 360/71KM
NEAREST TS 10/26KM
NOWCAST.SU UKLA 121600Z VRB02MPS 0500 FG SKC 01/01 Q0 TEMPO -TSRA
AUTOTAF.ME UKLA 121300Z 1214/1223 VRB02MPS 0500 FG NSC TX16/1214Z TN11/1223Z
BECMG 1220/1221 +SN FG
BECMG 1221/1222 OVC004
BECMG 1222/1223 FG
 
Ивано-Франковск
SYNAR 33526 Ивано-Франковск 121200Z 10004MPS 9999 SCT040 34/17 Q1015 RMK QFE736/0982 CLD:6CUCI


TSAR UKLI 121600Z LAST HOUR TS OBS: 010/28-79KM, 020/55KM, 030/33-61KM, 050/42KM, 080/19KM, 240/42KM, 250/55KM, 270/37-51KM, 280/23KM, 300/58KM, 310/46KM, 320/36-163KM, 330/85-172KM, 340/29-159KM, 350/53-100KM, 360/76-100KM
NEAREST TS 80/19KM
NOWCAST.SU UKLI 121600Z VRB02MPS 0500 FG SKC 01/01 Q0 TEMPO -TSRA
AUTOTAF.ME UKLI 121300Z 1214/1223 VRB02MPS 0500 FG NSC TX17/1214Z TN11/1223Z
BECMG 1216/1217 HZ
BECMG 1219/1220 FG
 
Львов (Международный)
SYNAR 33393 Львов 121200Z 17002MPS CAVOK 32/19 Q1016 RMK QFE733/0977 CLD:5CI


TSAR UKLL 121600Z LAST HOUR TS OBS: 090/43-57KM, 110/63-75KM, 120/51-99KM, 130/40-113KM, 140/67-123KM, 150/4-87KM, 160/54-104KM, 170/77-124KM, 180/27-123KM, 250/12KM, 260/25KM, 270/39KM, 290/56KM, 300/44KM, 310/33KM, 320/57KM, 330/24-49KM, 350/44KM
NEAREST TS 150/4KM
NOWCAST.SU UKLL 121600Z VRB02MPS 0500 FG SKC 01/01 Q0 TEMPO -TSRA
AUTOTAF.ME UKLL 121300Z 1214/1223 VRB02MPS 0500 FG NSC TX17/1214Z TN12/1222Z
BECMG 1216/1217 HZ
BECMG 1219/1220 FG
 
Черновцы
SYNAR 33658 Черновцы 121200Z 14003MPS 9999 FEW050 35/14 Q1015 RMK QFE739/0985 CLD:3CUCI
(330/14KM)


TSAR UKLN 121600Z LAST HOUR TS OBS: 180/145KM, 310/105-142KM, 320/123-160KM, 330/115-179KM
NEAREST TS 310/105KM
NOWCAST.SU UKLN 121600Z VRB02MPS 0500 FG SKC 01/01 Q0 NOSIG
AUTOTAF.ME UKLN 121300Z 1214/1223 VRB02MPS 0500 FG NSC TX17/1214Z TN11/1222Z
 
Ровно
SYNAR 33301 Ровно 121200Z 23001MPS 9999 FEW033 33/21 Q1016 RMK QFE741/0988 CLD:2CUCI


TSAR UKLR 121600Z LAST HOUR TS OBS: 200/180KM, 210/157-192KM, 220/144-172KM, 230/135KM
NEAREST TS 230/135KM
NOWCAST.SU UKLR 121600Z VRB02MPS 0500 FG SKC 01/01 Q0 NOSIG
AUTOTAF.ME UKLR 121300Z 1214/1223 VRB02MPS 0500 FG NSC TX17/1214Z TN12/1223Z
 
Староконстантинов
SYNAR 33429 Хмельницкий 121200Z 22004MPS 9999 SCT020 33/18 Q1017 RMK QFE731/0974 CLD:4CUCI
(210/41KM)


NOWCAST.SU UKLS 121600Z VRB02MPS 0500 FG SKC 01/01 Q0 NOSIG
AUTOTAF.ME UKLS 121300Z 1214/1223 VRB02MPS 0500 FG NSC TX16/1214Z TN12/1221Z
 
Ужгород
SYNAR 33631 Ужгород 121200Z 15002MPS 9999 FEW033CB 33/21 Q1014 RMK QFE749/0999 CLD:7CBACCI


TSAR UKLU 121600Z LAST HOUR TS OBS: 020/167KM, 030/153-181KM, 040/161KM, 320/68KM, 330/89-179KM, 340/112KM
NEAREST TS 320/68KM
NOWCAST.SU UKLU 121600Z VRB02MPS 0500 FG SKC 16/10 Q0 NOSIG
AUTOTAF.ME UKLU 121300Z 1214/1223 VRB02MPS 0500 FG NSC TX17/1214Z TN13/1222Z
BECMG 1219/1220 HZ
 
Львовский аэропорт Ягеллон
SYNAR 33393 Львов 121200Z 17002MPS CAVOK 32/19 Q1016 RMK QFE733/0977 CLD:5CI
(60/22KM)


TSAR UKMC 121600Z LAST HOUR TS OBS: 010/51KM, 020/31KM, 060/10KM, 080/23KM, 090/64-78KM, 100/80-93KM, 110/54-114KM, 120/41-125KM, 130/29-130KM, 140/56-93KM, 150/49-105KM, 160/71-121KM, 170/95-117KM, 290/19KM, 310/43KM, 320/7KM, 330/34KM, 340/54KM, 350/30KM, 360/51KM
NEAREST TS 320/7KM
NOWCAST.SU UKMC 121600Z VRB02MPS 0500 FG SKC 01/01 Q0 TEMPO -TSRA
AUTOTAF.ME UKMC 121300Z 1214/1223 VRB02MPS 0500 FG NSC TX17/1214Z TN12/1221Z
BECMG 1216/1217 HZ
BECMG 1219/1220 FG
 
Киев (Гоголев)
SYNAR 33345 Киев 121200Z 14001MPS 9999 FEW020CB 33/17 Q1018 RMK QFE748/0997 CLD:6CBACCI
(250/36KM)


TSAR UKNG 121600Z LAST HOUR TS OBS: 020/120-145KM, 030/181KM, 330/126-182KM, 340/121-170KM, 350/159-161KM
NEAREST TS 20/120KM
NOWCAST.SU UKNG 121600Z VRB02MPS 0500 FG SKC 16/09 Q0 NOSIG
AUTOTAF.ME UKNG 121300Z 1214/1223 VRB02MPS 0500 FG NSC TX17/1214Z TN12/1221Z
 
Арциз (Червоноглинская)
SYNAR 33886 Чадыр-Лунга 121200Z 06004MPS 9999 SCT020 38/12 Q1025 RMK QFE752/1003 CLD:3CU
(300/41KM)


TSAR UKOA 121600Z LAST HOUR TS OBS: 150/70-90KM, 160/63-85KM
NEAREST TS 160/63KM
NOWCAST.SU UKOA 121600Z VRB02MPS 0500 FG SKC 17/05 Q0 NOSIG
AUTOTAF.ME UKOA 121300Z 1214/1223 VRB02MPS 0500 HZ NSC TX18/1214Z TN12/1222Z
BECMG 1214/1215 FG
 
Одесса (Гидропорт)
SYNAR 33837 Одесса 121200Z 15002MPS 9999 FEW020 35/11 Q1013 RMK QFE756/1008 CLD:3CUCI
(160/17KM)


TSAR UKOE 121600Z LAST HOUR TS OBS: 200/164KM, 210/142-170KM
NEAREST TS 210/142KM
NOWCAST.SU UKOE 121600Z VRB02MPS 0500 FG SKC 17/07 Q0 NOSIG
AUTOTAF.ME UKOE 121300Z 1214/1223 VRB02MPS 0500 FG NSC TX18/1214Z TN13/1222Z
 
Херсон (Чернобаевка)
SYNAR 33902 Херсон 121200Z 06004MPS 9999 SCT020 38/10 Q1014 RMK QFE755/1007 CLD:6CUACCI


NOWCAST.SU UKOH 121600Z VRB02MPS 0500 FG SKC 17/07 Q0 NOSIG
AUTOTAF.ME UKOH 121300Z 1214/1223 VRB02MPS 0500 FG NSC TX18/1214Z TN12/1223Z
 
Николаев (Международный)
SYNAR 33902 Херсон 121200Z 06004MPS 9999 SCT020 38/10 Q1014 RMK QFE755/1007 CLD:6CUACCI
(130/69KM)


NOWCAST.SU UKON 121600Z VRB02MPS 0500 FG SKC 18/06 Q0 NOSIG
AUTOTAF.ME UKON 121300Z 1214/1223 VRB02MPS 0500 FG NSC TX18/1214Z TN13/1223Z
 
Одесса (Центральный)
SYNAR 33837 Одесса 121200Z 15002MPS 9999 FEW020 35/11 Q1013 RMK QFE756/1008 CLD:3CUCI


TSAR UKOO 121600Z LAST HOUR TS OBS: 200/147KM, 210/126-154KM
NEAREST TS 210/126KM
NOWCAST.SU UKOO 121600Z VRB02MPS 0500 FG SKC 16/07 Q0 NOSIG
AUTOTAF.ME UKOO 121300Z 1214/1223 VRB02MPS 0500 FG NSC TX17/1214Z TN13/1223Z
 
Нежин
SYNAR 33135 Чернигов 121200Z 11001MPS 9999 FEW033 35/23 Q1018 RMK QFE751/1001 CLD:5CUACCI
(310/60KM)


TSAR UKRN 121600Z LAST HOUR TS OBS: 010/117-140KM, 020/98-144KM, 030/104KM, 300/110KM, 310/121-134KM, 320/125-167KM, 330/128-160KM, 340/54-148KM, 350/50-74KM, 360/72KM
NEAREST TS 350/50KM
NOWCAST.SU UKRN 121600Z VRB02MPS 0500 FG SKC 15/10 Q0 NOSIG
AUTOTAF.ME UKRN 121300Z 1214/1223 VRB02MPS 0500 FG NSC TX16/1214Z TN11/1223Z
BECMG 1216/1217 HZ
BECMG 1217/1218 FG
BECMG 1221/1222 +SN FG
FM122300 VRB02MPS 0500 FG NSC
 
Винница (Гавришовка)
SYNAR 33562 Винница 121200Z 00000MPS 9999 SCT033CB 34/17 Q1023 RMK QFE740/0986 CLD:5CBCI


NOWCAST.SU UKWW 121600Z VRB02MPS 0500 FG SKC 01/01 Q0 NOSIG
AUTOTAF.ME UKWW 121300Z 1214/1223 VRB02MPS 0500 FG NSC TX17/1214Z TN12/1222Z
 
Архангельск (Талаги)
METAR ULAA 121600Z 19004MPS 120V220 9999 -SHRA SCT026CB 21/10 Q1014 R26/CLRD70 NOSIG RMK QFE759/1013


NOWCAST.SU ULAA 121600Z VRB02MPS 0500 FG SKC 10/06 Q0 NOSIG
AUTOTAF.ME ULAA 121300Z 1214/1223 VRB02MPS 0500 FG NSC TX11/1214Z TN09/1223Z
TAF ULAA 121400Z 1215/1315 18003MPS 9999 SCT025
TEMPO 1215/1218 18004G09MPS
FM121800 16004MPS 6000 BKN016
TEMPO 1218/1309 18005G11MPS 4000 -SHRA BKN005 BKN011CB=
Северодвинск
SYNAR 22546 Северодвинск 121200Z 18002MPS 9999 BKN020CB 23/08 Q1016 RMK QFE761/1015 CLD:8CBAC


NOWCAST.SU ULAD 121600Z VRB02MPS 0500 FG SKC 10/06 Q0 NOSIG
AUTOTAF.ME ULAD 121300Z 1214/1223 VRB02MPS 0500 FG NSC TX11/1214Z TN09/1222Z
FM122300 VRB02MPS 0500 +SN FG VV004
 
Мезень
SYNAR 22471 Мезень 121200Z 15002MPS CAVOK 21/12 Q1017 RMK QFE761/1015 CLD:7AC


NOWCAST.SU ULAE 121600Z VRB02MPS 0500 FG BKN084 10/05 Q0 NOSIG
AUTOTAF.ME ULAE 121300Z 1214/1223 VRB02MPS 0500 FG NSC TX10/1214Z TN08/1221Z
 
Архангельск (Васьково)
SYNAR 22550 Архангельск 121200Z 20003MPS CAVOK 23/11 Q1016 RMK QFE761/1015 CLD:8ACCC
(70/16KM)


NOWCAST.SU ULAH 121600Z VRB02MPS 0500 FG BKN093 10/06 Q0 NOSIG
AUTOTAF.ME ULAH 121300Z 1214/1223 VRB02MPS 0500 FG NSC TX11/1214Z TN09/1223Z
 
Лешуконское
SYNAR 22573 Лешуконское 121200Z 18002MPS 9999 SCT033 23/10 Q1018 RMK QFE757/1009 CLD:8CUCI


NOWCAST.SU ULAL 121600Z VRB02MPS 0500 FG BKN069 10/05 Q0 NOSIG
AUTOTAF.ME ULAL 121300Z 1214/1223 VRB02MPS 0500 FG NSC TX10/1214Z TN08/1220Z
 
Нарьян-Мар
SYNAR 23205 Нарьян-Мар 121200Z 30004MPS 9999 BKN049 16/06 Q1020 RMK QFE763/1018 CLD:7SCAC


NOWCAST.SU ULAM 121600Z VRB02MPS 0500 FG BKN046 06/04 Q0 NOSIG
AUTOTAF.ME ULAM 121300Z 1214/1223 VRB02MPS 0500 FG NSC TX07/1214Z TN05/1219Z
BECMG 1215/1216 BKN040
BECMG 1217/1218 NSC
BECMG 1219/1220 OVC004
FM122200 VRB02MPS 0500 FG VV002
 
Шенкурск
SYNAR 22768 Шенкурск 121200Z 17002MPS 9999 FEW033 23/09 Q1019 RMK QFE760/1014 CLD:6CUACCS


NOWCAST.SU ULAN 121600Z VRB02MPS 0500 FG SKC 10/05 Q0 NOSIG
AUTOTAF.ME ULAN 121300Z 1214/1223 VRB02MPS 0500 FG NSC TX11/1214Z TN08/1219Z
 
Онега
SYNAR 22641 Онега 121200Z 16002MPS 9999 FEW020 22/12 Q1015 RMK QFE760/1013 CLD:8SCAC


NOWCAST.SU ULAO 121600Z VRB02MPS 0500 FG SKC 11/06 Q0 NOSIG
AUTOTAF.ME ULAO 121300Z 1214/1223 VRB02MPS 0500 FG NSC TX11/1214Z TN08/1223Z
BECMG 1221/1222 +SN FG
BECMG 1222/1223 OVC004
 
Карпогоры
SYNAR 22671 Карпогоры 121200Z 22001MPS //// //// 23/09 Q1019 RMK QFE758/1010 CLD:NO_OBSERVATIONS


NOWCAST.SU ULAP 121600Z VRB02MPS 0500 FG SKC 10/06 Q0 NOSIG
AUTOTAF.ME ULAP 121300Z 1214/1223 VRB02MPS 0500 FG NSC TX11/1214Z TN08/1222Z
 
Каргополь
SYNAR 22845 Каргополь 121200Z 18003MPS 9999 FEW066 24/10 Q1018 RMK QFE751/1002 CLD:6ACCC


NOWCAST.SU ULAR 121600Z VRB02MPS 0500 FG SKC 11/06 Q0 NOSIG
AUTOTAF.ME ULAR 121300Z 1214/1223 VRB02MPS 0500 FG NSC TX12/1214Z TN11/1216Z
 
Соловки
SYNAR 22429 Соловки 121200Z 13006G11MPS 9000 -SHRA BKN049CB 16/12 Q1012 RMK QFE758/1011 CLD:8CBAC


NOWCAST.SU ULAS 121600Z VRB02MPS 0500 +SN FG VV002 07/07 Q0 NOSIG
AUTOTAF.ME ULAS 121300Z 1214/1223 VRB02MPS 0500 +SN FG VV004 TX07/1214Z TN07/1214Z
BECMG 1220/1221 NSC
FM122300 VRB02MPS 2500 SN BR OVC004
 
Нижняя Пеша
SYNAR 22383 Нижняя Пеша 121200Z 19003MPS CAVOK 19/07 Q1019 RMK QFE762/1017 CLD:5CI


NOWCAST.SU ULAV 121600Z VRB02MPS 0500 FG SKC 09/04 Q0 NOSIG
AUTOTAF.ME ULAV 121300Z 1214/1223 VRB02MPS 0500 FG NSC TX09/1214Z TN07/1220Z
 
Долгощелье
SYNAR 22365 Абрамовский маяк 121200Z 10003MPS 9999 SCT020 16/11 Q1017 RMK QFE760/1014 CLD:8SCAC
(350/37KM)


NOWCAST.SU ULBD 121600Z VRB02MPS 0500 FG BKN084 10/06 Q0 NOSIG
AUTOTAF.ME ULBD 121300Z 1214/1223 VRB02MPS 0500 FG NSC TX10/1214Z TN09/1219Z
 
Каменка
SYNAR 22471 Мезень 121200Z 15002MPS CAVOK 21/12 Q1017 RMK QFE761/1015 CLD:7AC


NOWCAST.SU ULBK 121600Z VRB02MPS 0500 FG BKN084 10/05 Q0 NOSIG
AUTOTAF.ME ULBK 121300Z 1214/1223 VRB02MPS 0500 FG NSC TX10/1214Z TN08/1221Z
 
Шойна
SYNAR 22271 Шойна 121200Z 17006MPS CAVOK 17/08 Q1017 RMK QFE762/1016 CLD:8AC


NOWCAST.SU ULBO 121600Z VRB02MPS 0500 FG BKN084 08/04 Q0 NOSIG
AUTOTAF.ME ULBO 121300Z 1214/1223 VRB02MPS 0500 FG NSC TX08/1214Z TN07/1220Z
BECMG 1221/1222 +SN FG
 
Верхняя Золотица
SYNAR 22446 Зимнегорский Маяк 121200Z 17005MPS 9999 BKN020 21/11 Q1015 RMK QFE754/1006 CLD:8SCAC
(230/38KM)


NOWCAST.SU ULBW 121600Z VRB02MPS 0500 FG BKN069 10/06 Q0 NOSIG
AUTOTAF.ME ULBW 121300Z 1214/1223 VRB02MPS 0500 FG NSC TX10/1214Z TN07/1223Z
BECMG 1220/1221 +SN FG
BECMG 1221/1222 OVC004
 
Рогачёво (Амдерма-2)
SYNAR 20744 Малые Кармакулы 121200Z 02004MPS 9999 BKN020 06/04 Q1017 RMK QFE761/1015 CLD:8SCAC
(10/83KM)


NOWCAST.SU ULDA 121600Z VRB02MPS 0500 +SN FG VV013 02/01 Q0 NOSIG
AUTOTAF.ME ULDA 121300Z 1214/1223 VRB02MPS 0500 +SN FG VV015 TX02/1214Z TN01/1219Z
BECMG 1216/1217 OVC008
FM121800 VRB02MPS 0500 FG VV004
BECMG 1218/1219 NSC
 
Амдерма
SYNAR 23022 Амдерма 121200Z 25006MPS 9999 BKN014 08/05 Q1018 RMK QFE759/1012 CLD:7SC


NOWCAST.SU ULDD 121600Z VRB02MPS 0500 FG SKC 03/02 Q0 NOSIG
AUTOTAF.ME ULDD 121300Z 1214/1223 VRB02MPS 0500 FG NSC TX03/1214Z TN02/1220Z
BECMG 1216/1217 OVC004
 
МР Титова
SYNAR 23112 Варандей 121200Z 29004MPS 9999 BKN025 08/05 Q1019 RMK QFE763/1018 CLD:7SC
(340/60KM)


NOWCAST.SU ULDI 121600Z VRB02MPS 0500 FG SKC 05/02 Q0 NOSIG
AUTOTAF.ME ULDI 121300Z 1214/1223 VRB02MPS 0500 FG BKN040 TX05/1214Z TN03/1221Z
BECMG 1214/1215 NSC
 
МЛСП Приразломная
SYNAR 23112 Варандей 121200Z 29004MPS 9999 BKN025 08/05 Q1019 RMK QFE763/1018 CLD:7SC
(150/57KM)


NOWCAST.SU ULDP 121600Z VRB02MPS 0500 FG VV002 04/02 Q0 NOSIG
AUTOTAF.ME ULDP 121300Z 1214/1223 VRB02MPS 0500 FG VV004 TX05/1222Z TN04/1214Z
BECMG 1216/1217 NSC
BECMG 1218/1219 OVC002
BECMG 1220/1221 NSC
 
МР Требса
SYNAR 23112 Варандей 121200Z 29004MPS 9999 BKN025 08/05 Q1019 RMK QFE763/1018 CLD:7SC
(50/17KM)


NOWCAST.SU ULDR 121600Z VRB02MPS 0500 FG SKC 04/03 Q0 NOSIG
AUTOTAF.ME ULDR 121300Z 1214/1223 VRB02MPS 0500 FG NSC TX04/1214Z TN04/1214Z
BECMG 1218/1219 OVC002
BECMG 1220/1221 NSC
BECMG 1222/1223 OVC004
 
Каратайка
SYNAR 23024 Мыс Белый Нос 121200Z 21004MPS 9999 FEW010 08/06 Q1019 RMK QFE763/1018 CLD:8SCCI
(330/104KM)


NOWCAST.SU ULDT 121600Z VRB02MPS 0500 FG SKC 05/02 Q0 NOSIG
AUTOTAF.ME ULDT 121300Z 1214/1223 VRB02MPS 0500 FG NSC TX05/1214Z TN03/1223Z
 
Варандей
SYNAR 23112 Варандей 121200Z 29004MPS 9999 BKN025 08/05 Q1019 RMK QFE763/1018 CLD:7SC


NOWCAST.SU ULDW 121600Z VRB02MPS 0500 FG SKC 04/03 Q0 NOSIG
AUTOTAF.ME ULDW 121300Z 1214/1223 VRB02MPS 0500 FG NSC TX05/1223Z TN04/1214Z
BECMG 1218/1219 OVC002
BECMG 1220/1221 NSC
BECMG 1221/1222 OVC004
 
Харьягинский
SYNAR 23217 Харьяга 121200Z 29003MPS //// //// 13/07 Q1020 RMK QFE757/1009 CLD:NO_OBSERVATIONS


NOWCAST.SU ULEG 121600Z VRB02MPS 0500 FG BKN055 06/03 Q0 NOSIG
AUTOTAF.ME ULEG 121300Z 1214/1223 VRB02MPS 0500 FG BKN040 TX07/1214Z TN03/1221Z
BECMG 1215/1216 NSC
BECMG 1216/1217 BKN040
BECMG 1218/1219 NSC
 
Хорей-Вер
SYNAR 23217 Харьяга 121200Z 29003MPS //// //// 13/07 Q1020 RMK QFE757/1009 CLD:NO_OBSERVATIONS
(250/60KM)


NOWCAST.SU ULEH 121600Z VRB02MPS 0500 FG SKC 06/03 Q0 NOSIG
AUTOTAF.ME ULEH 121300Z 1214/1223 VRB02MPS 0500 FG BKN040 TX06/1214Z TN03/1221Z
BECMG 1215/1216 NSC
BECMG 1221/1222 OVC002
 
Индига
SYNAR 22292 Индига 121200Z 36003MPS 9999 SCT010 12/07 Q1019 RMK QFE764/1019 CLD:7CUCC
(280/16KM)


NOWCAST.SU ULEI 121600Z VRB02MPS 0500 FG SKC 08/03 Q0 NOSIG
AUTOTAF.ME ULEI 121300Z 1214/1223 VRB02MPS 0500 FG NSC TX08/1214Z TN06/1220Z
 
Коткино
SYNAR 23207 Коткино 121200Z 24002MPS 1200 BKN020 18/06 Q1020 RMK QFE763/1018 CLD:7CUAC


NOWCAST.SU ULEK 121600Z VRB02MPS 0500 FG SKC 08/02 Q0 NOSIG
AUTOTAF.ME ULEK 121300Z 1214/1223 VRB02MPS 0500 FG NSC TX09/1214Z TN06/1220Z
 
Южное Шапкино
SYNAR 23217 Харьяга 121200Z 29003MPS //// //// 13/07 Q1020 RMK QFE757/1009 CLD:NO_OBSERVATIONS
(90/91KM)


NOWCAST.SU ULEU 121600Z VRB02MPS 0500 FG BKN064 06/04 Q0 NOSIG
AUTOTAF.ME ULEU 121300Z 1214/1223 VRB02MPS 0500 FG NSC TX06/1214Z TN03/1222Z
BECMG 1218/1219 OVC004
BECMG 1219/1220 NSC
BECMG 1221/1222 OVC004
 
Красноборск
SYNAR 22876 Красноборск 121200Z 05001MPS 9999 FEW020 21/08 Q1021 RMK QFE760/1014 CLD:3CUCI


NOWCAST.SU ULKB 121600Z VRB02MPS 0500 FG BKN062 10/05 Q0 NOSIG
AUTOTAF.ME ULKB 121300Z 1214/1223 VRB02MPS 0500 FG NSC TX10/1214Z TN07/1221Z
 
Котлас
SYNAR 22887 Котлас 121200Z 18001MPS 9999 SCT033 19/10 Q1022 RMK QFE761/1014 CLD:6CUCI


NOWCAST.SU ULKK 121600Z VRB02MPS 0500 FG BKN069 10/04 Q0 NOSIG
AUTOTAF.ME ULKK 121300Z 1214/1223 VRB02MPS 0500 FG NSC TX10/1214Z TN06/1221Z
BECMG 1221/1222 OVC004
 
Котлас (Савватия)
SYNAR 22887 Котлас 121200Z 18001MPS 9999 SCT033 19/10 Q1022 RMK QFE761/1014 CLD:6CUCI
(340/27KM)


NOWCAST.SU ULKS 121600Z VRB02MPS 0500 FG BKN063 10/04 Q0 NOSIG
AUTOTAF.ME ULKS 121300Z 1214/1223 VRB02MPS 0500 FG NSC TX10/1214Z TN06/1221Z
BECMG 1222/1223 OVC004
 
Верхняя Тойма
SYNAR 22778 Верхняя Тойма 121200Z 18002MPS 9999 FEW020 22/08 Q1021 RMK QFE760/1013 CLD:6CUCI


NOWCAST.SU ULKT 121600Z VRB02MPS 0500 FG SKC 10/06 Q0 NOSIG
AUTOTAF.ME ULKT 121300Z 1214/1223 VRB02MPS 0500 FG NSC TX11/1214Z TN07/1223Z
 
Вельск
SYNAR 22867 Вельск 121200Z 18002MPS 9999 SCT020 24/08 Q1020 RMK QFE756/1009 CLD:7CUCS


NOWCAST.SU ULKW 121600Z VRB02MPS 0500 FG SKC 11/05 Q0 NOSIG
AUTOTAF.ME ULKW 121300Z 1214/1223 VRB02MPS 0500 FG NSC TX11/1214Z TN08/1223Z
 
Санкт-Петербург (НИИ НМП)
SYNAR 26063 Санкт-Петербург 121200Z 22002MPS 4000 -SHRA OVC010CB 20/18 Q1014 RMK QFE759/1012 CLD:8CB
(340/11KM)


NOWCAST.SU ULLE 121600Z VRB02MPS 0500 +SN FG VV002 10/09 Q0 NOSIG
AUTOTAF.ME ULLE 121300Z 1214/1223 VRB02MPS 0500 +SN FG VV004 TX10/1214Z TN09/1218Z
FM121800 VRB02MPS 0500 FG NSC
BECMG 1219/1220 OVC004
BECMG 1222/1223 NSC
 
Морской Фасад
SYNAR 26063 Санкт-Петербург 121200Z 22002MPS 4000 -SHRA OVC010CB 20/18 Q1014 RMK QFE759/1012 CLD:8CB


NOWCAST.SU ULLF 121600Z VRB02MPS 0500 +SN FG VV002 10/09 Q0 NOSIG
AUTOTAF.ME ULLF 121300Z 1214/1223 VRB02MPS 0500 +SN FG VV004 TX10/1214Z TN09/1217Z
BECMG 1216/1217 NSC
BECMG 1217/1218 FG
BECMG 1219/1220 OVC004
FM122200 VRB02MPS 0500 FG VV002
 
ГПН-5
SYNAR 26063 Санкт-Петербург 121200Z 22002MPS 4000 -SHRA OVC010CB 20/18 Q1014 RMK QFE759/1012 CLD:8CB


NOWCAST.SU ULLG 121600Z VRB02MPS 0500 +SN FG VV002 10/09 Q0 NOSIG
AUTOTAF.ME ULLG 121300Z 1214/1223 VRB02MPS 0500 +SN FG VV004 TX10/1214Z TN09/1217Z
BECMG 1216/1217 NSC
BECMG 1217/1218 FG
BECMG 1219/1220 OVC004
FM122200 VRB02MPS 0500 FG VV002
 
Санкт-Петербург (Пулково)
METAR ULLI 121600Z 31005MPS 9999 BKN006 BKN016CB OVC036 21/20 Q1012 RESHRA R28L/290345 R28R/290050 NOSIG RMK OBST OBSC


NOWCAST.SU ULLI 121600Z VRB02MPS 0500 +SN FG VV002 10/09 Q0 NOSIG
AUTOTAF.ME ULLI 121300Z 1214/1223 VRB02MPS 0500 +SN FG VV004 TX10/1214Z TN09/1218Z
FM121800 VRB02MPS 0500 FG NSC
BECMG 1219/1220 OVC004
BECMG 1222/1223 NSC
TAF ULLI 121358Z 1215/1315 22005MPS 9999 BKN020
TEMPO 1215/1218 28005G10MPS 5000 -SHRA BKN016CB
BECMG 1218/1220 28003MPS
TEMPO 1221/1304 3000 MIFG BR
PROB40 TEMPO 1221/1304 0400 FG BKN002=
Великий Новгород (Кречевицы)
SYNAR 26179 Великий Новгород 121200Z 17003MPS 4000 -SHRA OVC010CB 21/20 Q1014 RMK QFE758/1010 CLD:8CB
(210/14KM)


NOWCAST.SU ULLK 121600Z VRB02MPS 0500 +SN FG VV002 11/10 Q0 NOSIG
AUTOTAF.ME ULLK 121300Z 1214/1223 VRB02MPS 0500 +SN FG VV004 TX12/1214Z TN09/1222Z
BECMG 1217/1218 NSC
BECMG 1218/1219 FG
BECMG 1219/1220 OVC004
 
Петродворец (Марли)
SYNAR 26060 Кронштадт 121200Z 22003MPS //// //// 20/20 Q1013 RMK QFE759/1012 CLD:NO_OBSERVATIONS
(320/12KM)


NOWCAST.SU ULLN 121600Z VRB02MPS 0500 +SN FG VV002 10/09 Q0 NOSIG
AUTOTAF.ME ULLN 121300Z 1214/1223 VRB02MPS 0500 +SN FG VV004 TX10/1214Z TN09/1218Z
FM121800 VRB02MPS 0500 FG NSC
BECMG 1219/1220 OVC004
BECMG 1222/1223 NSC
 
Санкт-Петербург (Хелидрайв)
SYNAR 26063 Санкт-Петербург 121200Z 22002MPS 4000 -SHRA OVC010CB 20/18 Q1014 RMK QFE759/1012 CLD:8CB
(10/16KM)


NOWCAST.SU ULLO 121600Z VRB02MPS 0500 +SN FG VV002 10/09 Q0 NOSIG
AUTOTAF.ME ULLO 121300Z 1214/1223 VRB02MPS 0500 +SN FG VV004 TX10/1214Z TN09/1218Z
FM121800 VRB02MPS 0500 FG NSC
BECMG 1219/1220 OVC004
BECMG 1222/1223 NSC
 
Пушкин
SYNAR 26063 Санкт-Петербург 121200Z 22002MPS 4000 -SHRA OVC010CB 20/18 Q1014 RMK QFE759/1012 CLD:8CB
(360/32KM)


NOWCAST.SU ULLP 121600Z VRB02MPS 0500 +SN FG VV002 10/10 Q0 NOSIG
AUTOTAF.ME ULLP 121300Z 1214/1223 VRB02MPS 0500 +SN FG VV004 TX10/1214Z TN08/1221Z
FM121900 VRB02MPS 0500 FG NSC
 
КАД-52
SYNAR 26063 Санкт-Петербург 121200Z 22002MPS 4000 -SHRA OVC010CB 20/18 Q1014 RMK QFE759/1012 CLD:8CB
(310/16KM)


NOWCAST.SU ULLR 121600Z VRB02MPS 0500 +SN FG VV002 10/10 Q0 NOSIG
AUTOTAF.ME ULLR 121300Z 1214/1223 VRB02MPS 0500 +SN FG VV004 TX10/1214Z TN09/1218Z
FM121800 VRB02MPS 0500 FG NSC
BECMG 1219/1220 OVC004
BECMG 1222/1223 NSC
 
Сиверский
SYNAR 26069 Белогорка 121200Z 22004MPS 4000 -SHRA BKN018CB 20/19 Q1013 RMK QFE752/1002 CLD:7CBAS


NOWCAST.SU ULLS 121600Z VRB02MPS 0500 +SN FG VV002 10/10 Q0 NOSIG
AUTOTAF.ME ULLS 121300Z 1214/1223 VRB02MPS 0500 +SN FG VV004 TX10/1214Z TN08/1221Z
FM122000 VRB02MPS 0500 FG NSC
 
Бычье Поле
SYNAR 26060 Кронштадт 121200Z 22003MPS //// //// 20/20 Q1013 RMK QFE759/1012 CLD:NO_OBSERVATIONS


NOWCAST.SU ULLY 121600Z VRB02MPS 0500 FG VV002 10/09 Q0 NOSIG
AUTOTAF.ME ULLY 121300Z 1214/1223 VRB02MPS 0500 +SN FG VV004 TX10/1214Z TN09/1218Z
BECMG 1214/1215 FG
BECMG 1216/1217 NSC
BECMG 1217/1218 OVC004
FM121900 VRB02MPS 0500 FG NSC
FM122100 VRB02MPS 0500 FG VV004
FM122200 VRB02MPS 0500 FG NSC
 
Яхт-клуб
SYNAR 26063 Санкт-Петербург 121200Z 22002MPS 4000 -SHRA OVC010CB 20/18 Q1014 RMK QFE759/1012 CLD:8CB


NOWCAST.SU ULLZ 121600Z VRB02MPS 0500 +SN FG VV002 10/09 Q0 NOSIG
AUTOTAF.ME ULLZ 121300Z 1214/1223 VRB02MPS 0500 +SN FG VV004 TX10/1214Z TN09/1217Z
BECMG 1216/1217 NSC
BECMG 1217/1218 FG
BECMG 1219/1220 OVC004
FM122200 VRB02MPS 0500 FG VV002
 
Ковдор
SYNAR 22214 Зашеек 121200Z 05004MPS 9999 FEW003 00/00 Q1089 RMK CLD:2
(100/84KM)


NOWCAST.SU ULMD 121600Z VRB02MPS 0500 +SN FG VV002 01/01 Q0 NOSIG
AUTOTAF.ME ULMD 121300Z 1214/1223 VRB02MPS 0500 +SN FG NSC TX08/1214Z TN07/1220Z
BECMG 1215/1216 OVC004
FM122100 VRB02MPS 0500 FG NSC
FM122300 VRB02MPS 0500 +SN FG VV004
 
Апатиты (Хибины)
SYNAR 22213 Апатиты 121200Z 10004MPS 9999 -SHRA OVC021CB 16/15 Q1010 RMK QFE745/0993 CLD:8CB
(310/14KM)


NOWCAST.SU ULMK 121600Z VRB02MPS 0500 +SN FG VV002 07/07 Q0 NOSIG
AUTOTAF.ME ULMK 121300Z 1214/1223 VRB02MPS 0500 +SN FG VV004 TX07/1214Z TN07/1214Z
BECMG 1220/1221 NSC
BECMG 1221/1222 OVC004
 
Ловозеро
SYNAR 22127 Ловозеро 121200Z 16003G06MPS 4000 SHRA OVC019CB 15/14 Q1011 RMK QFE743/0991 CLD:8CB


NOWCAST.SU ULML 121600Z VRB02MPS 0500 +SN FG VV002 07/06 Q0 NOSIG
AUTOTAF.ME ULML 121300Z 1214/1223 VRB02MPS 0500 FG NSC TX08/1214Z TN06/1221Z
FM121500 VRB02MPS 0500 +SN FG VV004
BECMG 1217/1218 NSC
BECMG 1218/1219 OVC004
BECMG 1221/1222 OVC002
 
Мурманск
METAR ULMM 121600Z 14002MPS 9999 -SHRA BKN014CB 15/15 Q1008 R13/290155 NOSIG RMK QFE749


NOWCAST.SU ULMM 121600Z VRB02MPS 0500 +SN FG VV002 08/07 Q0 NOSIG
AUTOTAF.ME ULMM 121300Z 1214/1223 VRB02MPS 0500 +SN FG VV004 TX08/1214Z TN06/1223Z
BECMG 1222/1223 OVC040
TAF ULMM 121350Z 1215/1315 15003MPS 6000 -SHRA BKN016CB
TEMPO 1215/1219 BKN011CB
BECMG 1219/1221 36005G10MPS BKN007 BKN011CB
TEMPO 1221/1303 BKN004 BKN011CB
BECMG 1303/1305 BKN016CB=
Килпъявр
SYNAR 22113 Мурманск 121200Z 18004G07MPS 9000 -RA BKN013 15/14 Q1009 RMK QFE752/1003 CLD:8STAS
(120/29KM)


NOWCAST.SU ULMW 121600Z VRB02MPS 0500 +SN FG SKC 07/07 Q0 NOSIG
AUTOTAF.ME ULMW 121300Z 1214/1223 VRB02MPS 0500 +SN FG NSC TX07/1214Z TN05/1221Z
BECMG 1216/1217 OVC004
BECMG 1219/1220 OVC040
BECMG 1220/1221 OVC004
FM122300 VRB02MPS 0500 +SN FG VV040
 
Краснощелье
SYNAR 22235 Краснощелье 121200Z 16002G05MPS 9999 -RA OVC010 19/13 Q1013 RMK QFE745/0993 CLD:8NS


NOWCAST.SU ULMX 121600Z VRB02MPS 0500 +SN FG VV002 08/06 Q0 NOSIG
AUTOTAF.ME ULMX 121300Z 1214/1223 VRB02MPS 0500 FG NSC TX09/1214Z TN07/1220Z
FM121600 VRB02MPS 0500 +SN FG VV004
BECMG 1217/1218 NSC
BECMG 1218/1219 OVC004
 
Валдай-Авиа
SYNAR 26289 Валдай 121200Z 19003MPS 9999 BKN020 27/16 Q1015 RMK QFE743/0991 CLD:7CUASCS


NOWCAST.SU ULNA 121600Z VRB02MPS 0500 +SN FG VV002 01/01 Q0 NOSIG
AUTOTAF.ME ULNA 121300Z 1214/1223 VRB02MPS 0500 +SN FG VV004 TX12/1214Z TN09/1222Z
BECMG 1218/1219 NSC
BECMG 1219/1220 FG
BECMG 1221/1222 OVC002
 
Боровичи
SYNAR 26291 Боровичи 121200Z 19002MPS 9999 SCT033 28/14 Q1015 RMK QFE753/1004 CLD:6CUCS


NOWCAST.SU ULNB 121600Z VRB02MPS 0500 +SN FG VV002 11/10 Q0 NOSIG
AUTOTAF.ME ULNB 121300Z 1214/1223 VRB02MPS 0500 HZ NSC TX13/1214Z TN09/1221Z
BECMG 1214/1215 FG
FM121600 VRB02MPS 0500 +SN FG VV004
FM122100 VRB02MPS 0500 FG NSC
 
Новгород
SYNAR 26179 Великий Новгород 121200Z 17003MPS 4000 -SHRA OVC010CB 21/20 Q1014 RMK QFE758/1010 CLD:8CB


NOWCAST.SU ULNN 121600Z VRB02MPS 0500 +SN FG VV002 11/10 Q0 NOSIG
AUTOTAF.ME ULNN 121300Z 1214/1223 VRB02MPS 0500 +SN FG VV004 TX12/1215Z TN09/1223Z
BECMG 1217/1218 NSC
FM122100 VRB02MPS 0500 FG VV004
 
Старая Русса
SYNAR 26275 Старая Русса 121200Z 17002MPS 9999 RESHRA FEW010CB 21/21 Q1014 RMK QFE758/1011 CLD:7CBAC


NOWCAST.SU ULNR 121600Z VRB02MPS 0500 FG SKC 13/09 Q0 NOSIG
AUTOTAF.ME ULNR 121300Z 1214/1223 VRB02MPS 0500 FG NSC TX13/1214Z TN09/1222Z
BECMG 1217/1218 +SN FG
BECMG 1219/1220 FG
BECMG 1221/1222 OVC004
 
Валдай
SYNAR 26289 Валдай 121200Z 19003MPS 9999 BKN020 27/16 Q1015 RMK QFE743/0991 CLD:7CUASCS


NOWCAST.SU ULNW 121600Z VRB02MPS 0500 +SN FG VV002 10/10 Q0 NOSIG
AUTOTAF.ME ULNW 121300Z 1214/1223 VRB02MPS 0500 +SN FG VV004 TX12/1214Z TN09/1222Z
FM122000 VRB02MPS 0500 FG NSC
BECMG 1221/1222 OVC002
 
Великие Луки
SYNAR 26477 Великие Луки 121200Z 00000MPS 9999 RESHRA OVC020CB 21/21 Q1016 RMK QFE752/1003 CLD:8CB


NOWCAST.SU ULOL 121600Z VRB02MPS 0500 FG SKC 13/09 Q0 NOSIG
AUTOTAF.ME ULOL 121300Z 1214/1223 VRB02MPS 0500 FG NSC TX13/1214Z TN10/1222Z
BECMG 1220/1221 OVC004
BECMG 1221/1222 NSC
 
Псков (Кресты)
METAR ULOO 121600Z 30003MPS 240V350 9999 FEW027 SCT043TCU 23/18 Q1014 R01/090065 NOSIG RMK QFE756


NOWCAST.SU ULOO 121600Z VRB02MPS 0500 FG SKC 13/10 Q0 NOSIG
AUTOTAF.ME ULOO 121300Z 1214/1223 VRB02MPS 0500 FG NSC TX13/1215Z TN09/1223Z
TAF ULOO 121353Z 1215/1224 29003MPS 6000 BKN016
TEMPO 1221/1224 0300 FG SCT002=
Середка
SYNAR 26258 Псков 121200Z 29001MPS 9999 RESHRA BKN010CB 22/21 Q1014 RMK QFE756/1009 CLD:7CB
(170/37KM)


NOWCAST.SU ULOR 121600Z VRB02MPS 0500 FG SKC 12/10 Q0 NOSIG
AUTOTAF.ME ULOR 121300Z 1214/1223 VRB02MPS 0500 FG NSC TX12/1214Z TN09/1221Z
BECMG 1219/1220 OVC004
 
Петрозаводск (Бесовец)
METAR ULPB 121600Z 00000MPS 9000 -SHRA BKN051CB 19/19 Q1012 R19/290150 NOSIG RMK QFE755/1007


NOWCAST.SU ULPB 121600Z VRB02MPS 2000 SN BR OVC005 10/09 Q0 NOSIG
AUTOTAF.ME ULPB 121300Z 1214/1223 VRB02MPS 0500 +SN FG NSC TX10/1214Z TN09/1217Z
FM121600 VRB02MPS 2500 SN BR OVC004
BECMG 1216/1217 1200
FM122000 VRB02MPS 0500 +SN FG VV004
BECMG 1221/1222 NSC
FM122300 VRB02MPS 0500 FG VV004
TAF ULPB 121355Z 1215/1224 23003MPS 6000 BKN020
TEMPO 1215/1218 19005G10MPS 1000 TSRA BR BKN010 BKN016CB
PROB40 TEMPO 1221/1224 1000 MIFG BR BKN002=
Кемь
SYNAR 22520 Кемь-Порт 121200Z 13006MPS 9999 RESHSN OVC026CB 16/13 Q1010 RMK QFE757/1009 CLD:8CB


NOWCAST.SU ULPE 121600Z VRB02MPS 0500 +SN FG VV002 08/08 Q0 NOSIG
AUTOTAF.ME ULPE 121300Z 1214/1223 VRB02MPS 0500 +SN FG VV004 TX08/1214Z TN08/1214Z
BECMG 1216/1217 NSC
BECMG 1218/1219 OVC004
 
Калевала
SYNAR 22408 Калевала 121200Z 17002MPS 4000 -RA OVC012 17/16 Q1009 RMK QFE745/0994 CLD:8NS


NOWCAST.SU ULPK 121600Z VRB02MPS 0500 +SN FG VV002 09/09 Q0 NOSIG
AUTOTAF.ME ULPK 121300Z 1214/1223 VRB02MPS 0500 +SN FG VV004 TX09/1215Z TN08/1214Z
BECMG 1218/1219 OVC002
BECMG 1219/1220 FG
BECMG 1220/1221 OVC004
FM122300 VRB02MPS 0500 FG NSC
 
Валаам
SYNAR 22805 Валаам Остров 121200Z 14003MPS 0200 -RA VV/// 13/13 Q1012 RMK QFE757/1009 CLD:OBSC


NOWCAST.SU ULPL 121600Z VRB02MPS 0200 FG VV001 06/06 Q0 NOSIG
AUTOTAF.ME ULPL 121300Z 1214/1223 VRB02MPS 0200 +SN FG VV002 TX07/1214Z TN06/1215Z
BECMG 1215/1216 FG
 
Костомукша
SYNAR 22408 Калевала 121200Z 17002MPS 4000 -RA OVC012 17/16 Q1009 RMK QFE745/0994 CLD:8NS
(20/70KM)


NOWCAST.SU ULPM 121600Z VRB02MPS 0100 +SN FG VV001 01/01 Q0 NOSIG
AUTOTAF.ME ULPM 121300Z 1214/1223 VRB02MPS 0200 +SN FG VV002 TX09/1214Z TN08/1221Z
BECMG 1221/1222 NSC
 
Петрозаводск (Пески)
SYNAR 22820 Петрозаводск 121200Z 16003MPS 9999 RESHRA SCT033CB 23/16 Q1013 RMK QFE749/0999 CLD:8CBAC


NOWCAST.SU ULPP 121600Z VRB02MPS 2000 SN BR OVC005 09/09 Q0 NOSIG
AUTOTAF.ME ULPP 121300Z 1214/1223 VRB02MPS 0500 +SN FG VV004 TX10/1214Z TN09/1216Z
FM121600 VRB02MPS 2500 SN BR OVC004
BECMG 1216/1217 1200
FM122000 VRB02MPS 0500 +SN FG VV004
BECMG 1220/1221 OVC008
BECMG 1221/1222 OVC004
FM122300 VRB02MPS 0500 FG VV008
 
Сегежа
SYNAR 22621 Сегежа 121200Z 14001MPS 3000 ///033 18/16 Q1011 RMK QFE748/0997 CLD:


NOWCAST.SU ULPS 121600Z VRB02MPS 0500 +SN FG SKC 09/08 Q0 NOSIG
AUTOTAF.ME ULPS 121300Z 1214/1223 VRB02MPS 0500 FG NSC TX10/1214Z TN09/1215Z
FM121500 VRB02MPS 0500 +SN FG VV004
BECMG 1215/1216 NSC
BECMG 1216/1217 OVC004
BECMG 1218/1219 OVC002
FM122100 VRB02MPS 0500 +SN FG VV004
FM122200 VRB02MPS 0500 FG VV004
 
Сортавала
SYNAR 22802 Сортавала 121200Z 12001MPS 6000 -SHRA BKN024CB 17/16 Q1012 RMK QFE757/1009 CLD:8CBAC


NOWCAST.SU ULPW 121600Z VRB02MPS 0500 +SN FG VV002 10/09 Q0 NOSIG
AUTOTAF.ME ULPW 121300Z 1214/1223 VRB02MPS 0200 +SN FG VV002 TX10/1216Z TN09/1214Z
BECMG 1215/1216 OVC004
BECMG 1217/1218 OVC002
BECMG 1220/1221 FG
FM122200 VRB02MPS 0500 FG NSC
FM122300 VRB02MPS 0500 FG VV004
 
Старая Слобода
SYNAR 22913 Лодейное Поле 121200Z 16001MPS 9999 SCT020CB 26/17 Q1012 RMK QFE757/1009 CLD:7CBAC
(120/14KM)


NOWCAST.SU ULSB 121600Z VRB02MPS 0500 +SN FG VV002 10/09 Q0 NOSIG
AUTOTAF.ME ULSB 121300Z 1214/1223 VRB02MPS 0500 +SN FG VV004 TX10/1214Z TN10/1214Z
BECMG 1217/1218 FG
BECMG 1218/1219 OVC008
BECMG 1219/1220 OVC004
FM122200 VRB02MPS 0500 +SN FG VV008
FM122300 VRB02MPS 0500 +SN FG VV004
 
Сельцо
SYNAR 26061 Шепелево 121200Z 24002MPS //// //// 19/19 Q1013 RMK QFE759/1012 CLD:NO_OBSERVATIONS
(330/30KM)


NOWCAST.SU ULSC 121600Z VRB02MPS 0500 +SN FG VV002 10/09 Q0 NOSIG
AUTOTAF.ME ULSC 121300Z 1214/1223 VRB02MPS 0500 +SN FG VV004 TX10/1214Z TN08/1221Z
FM121800 VRB02MPS 0500 FG NSC
 
Местаново
SYNAR 26061 Шепелево 121200Z 24002MPS //// //// 19/19 Q1013 RMK QFE759/1012 CLD:NO_OBSERVATIONS
(0/27KM)


NOWCAST.SU ULSF 121600Z VRB02MPS 0500 +SN FG VV002 10/09 Q0 NOSIG
AUTOTAF.ME ULSF 121300Z 1214/1223 VRB02MPS 0500 +SN FG VV004 TX10/1214Z TN08/1221Z
FM121800 VRB02MPS 0500 FG NSC
 
Гостилицы
SYNAR 26061 Шепелево 121200Z 24002MPS //// //// 19/19 Q1013 RMK QFE759/1012 CLD:NO_OBSERVATIONS
(300/24KM)


NOWCAST.SU ULSG 121600Z VRB02MPS 0500 +SN FG VV002 10/09 Q0 NOSIG
AUTOTAF.ME ULSG 121300Z 1214/1223 VRB02MPS 0500 +SN FG VV004 TX10/1214Z TN08/1221Z
FM121800 VRB02MPS 0500 FG NSC
 
Санкт-Петербург (Геркулес гидро)
SYNAR 26063 Санкт-Петербург 121200Z 22002MPS 4000 -SHRA OVC010CB 20/18 Q1014 RMK QFE759/1012 CLD:8CB


NOWCAST.SU ULSH 121600Z VRB02MPS 0500 +SN FG VV002 10/09 Q0 NOSIG
AUTOTAF.ME ULSH 121300Z 1214/1223 VRB02MPS 0500 +SN FG VV004 TX10/1214Z TN09/1217Z
BECMG 1216/1217 NSC
BECMG 1217/1218 FG
BECMG 1219/1220 OVC004
FM122200 VRB02MPS 0500 FG VV002
 
Кусино
SYNAR 26080 Кириши 121200Z 19003MPS 9999 RESHRA NSC 21/21 Q1013 RMK QFE757/1010 CLD:8SC
(70/13KM)


NOWCAST.SU ULSI 121600Z VRB02MPS 0500 FG SKC 12/09 Q0 NOSIG
AUTOTAF.ME ULSI 121300Z 1214/1223 VRB02MPS 0500 FG NSC TX12/1214Z TN09/1223Z
BECMG 1217/1218 OVC004
BECMG 1218/1219 +SN FG
BECMG 1219/1220 NSC
FM122300 VRB02MPS 0500 FG NSC
 
Корпикюля
SYNAR 26069 Белогорка 121200Z 22004MPS 4000 -SHRA BKN018CB 20/19 Q1013 RMK QFE752/1002 CLD:7CBAS
(200/29KM)


NOWCAST.SU ULSK 121600Z VRB02MPS 0500 +SN FG VV002 10/10 Q0 NOSIG
AUTOTAF.ME ULSK 121300Z 1214/1223 VRB02MPS 0500 +SN FG VV004 TX10/1214Z TN08/1221Z
BECMG 1218/1219 NSC
BECMG 1219/1220 FG
 
Манушкино
SYNAR 26072 Шлиссельбург 121200Z 24001MPS 9999 SCT033CB 22/19 Q1013 RMK QFE758/1011 CLD:8CBACCI
(60/13KM)


NOWCAST.SU ULSM 121600Z VRB02MPS 0500 +SN FG VV002 10/10 Q0 NOSIG
AUTOTAF.ME ULSM 121300Z 1214/1223 VRB02MPS 0500 +SN FG VV004 TX10/1214Z TN09/1218Z
FM121800 VRB02MPS 0500 FG NSC
BECMG 1222/1223 OVC004
 
Аэродром Тихвин
SYNAR 26094 Тихвин 121200Z 18002MPS 9999 FEW033 29/16 Q1014 RMK QFE754/1006 CLD:6CUCS


NOWCAST.SU ULST 121600Z VRB02MPS 0500 +SN FG VV002 10/10 Q0 NOSIG
AUTOTAF.ME ULST 121300Z 1214/1223 VRB02MPS 0500 FG NSC TX12/1214Z TN10/1216Z
FM121500 VRB02MPS 0500 +SN FG VV004
BECMG 1218/1219 OVC002
BECMG 1220/1221 NSC
BECMG 1221/1222 FG
FM122300 VRB02MPS 0500 FG VV004
 
Куммолово
SYNAR 26061 Шепелево 121200Z 24002MPS //// //// 19/19 Q1013 RMK QFE759/1012 CLD:NO_OBSERVATIONS
(40/27KM)


NOWCAST.SU ULSU 121600Z VRB02MPS 0500 +SN FG VV002 09/08 Q0 NOSIG
AUTOTAF.ME ULSU 121300Z 1214/1223 VRB02MPS 0500 +SN FG VV004 TX10/1214Z TN09/1216Z
BECMG 1216/1217 FG
BECMG 1217/1218 NSC
BECMG 1219/1220 OVC004
 
Северный ветер
SYNAR 26072 Шлиссельбург 121200Z 24001MPS 9999 SCT033CB 22/19 Q1013 RMK QFE758/1011 CLD:8CBACCI
(290/29KM)


NOWCAST.SU ULSW 121600Z VRB02MPS 0500 +SN FG VV002 11/10 Q0 NOSIG
AUTOTAF.ME ULSW 121300Z 1214/1223 VRB02MPS 0500 FG VV004 TX11/1214Z TN09/1220Z
BECMG 1215/1216 +SN FG
BECMG 1217/1218 NSC
BECMG 1219/1220 FG
FM122300 VRB02MPS 0500 FG VV004
 
ТосноСпас
SYNAR 26078 Любань 121200Z 18002MPS //// //// 22/20 Q1013 RMK QFE756/1008 CLD:NO_OBSERVATIONS
(130/29KM)


NOWCAST.SU ULSX 121600Z VRB02MPS 0500 +SN FG VV002 11/10 Q0 NOSIG
AUTOTAF.ME ULSX 121300Z 1214/1223 VRB02MPS 0500 FG VV004 TX11/1214Z TN08/1222Z
BECMG 1214/1215 +SN FG
BECMG 1219/1220 NSC
BECMG 1220/1221 FG
FM122300 VRB02MPS 0500 FG VV004
 
Сиворицы-2
SYNAR 26069 Белогорка 121200Z 22004MPS 4000 -SHRA BKN018CB 20/19 Q1013 RMK QFE752/1002 CLD:7CBAS
(150/17KM)


NOWCAST.SU ULSY 121600Z VRB02MPS 0500 +SN FG VV002 10/10 Q0 NOSIG
AUTOTAF.ME ULSY 121300Z 1214/1223 VRB02MPS 0500 +SN FG VV004 TX10/1214Z TN08/1220Z
BECMG 1218/1219 FG
BECMG 1219/1220 NSC
 
Озеро Красногвардейское
SYNAR 22897 Озерки 121200Z 25003MPS 9999 //// 19/18 Q1014 RMK QFE759/1012 CLD:NO_OBSERVATIONS
(240/15KM)


NOWCAST.SU ULSZ 121600Z VRB02MPS 0500 FG VV002 09/09 Q0 NOSIG
AUTOTAF.ME ULSZ 121300Z 1214/1223 VRB02MPS 0500 +SN FG VV004 TX10/1214Z TN09/1216Z
FM121500 VRB02MPS 0500 FG NSC
BECMG 1215/1216 OVC004
BECMG 1218/1219 OVC002
BECMG 1220/1221 NSC
 
Череповец
METAR ULWC 121600Z 14005MPS CAVOK 24/12 Q1016 R03/010060 NOSIG RMK QFE752/1003


NOWCAST.SU ULWC 121600Z VRB02MPS 0500 FG SKC 13/05 Q0 NOSIG
AUTOTAF.ME ULWC 121300Z 1214/1223 VRB02MPS 0500 FG NSC TX13/1214Z TN11/1222Z
TAF ULWC 121400Z 1215/1224 18003G09MPS 9999 BKN017
TEMPO 1215/1221 16006G11MPS
TEMPO 1221/1224 21008G13MPS 3100 -SHRA SCT007 BKN015CB
PROB40 TEMPO 1221/1224 -TSRA BKN015CB=
Великий Устюг
SYNAR 22981 Великий Устюг 121200Z 06003MPS 9999 SCT033 20/08 Q1021 RMK QFE756/1009 CLD:5CUCI


NOWCAST.SU ULWU 121600Z VRB02MPS 0500 FG SKC 10/05 Q0 NOSIG
AUTOTAF.ME ULWU 121300Z 1214/1223 VRB02MPS 0500 FG NSC TX10/1214Z TN06/1222Z
BECMG 1221/1222 OVC004
 
Вологда
SYNAR 27037 Вологда 121200Z 17003MPS 9999 SCT020 24/10 Q1020 RMK QFE753/1004 CLD:6CUACCI


NOWCAST.SU ULWW 121600Z VRB02MPS 0500 FG SKC 12/05 Q0 NOSIG
AUTOTAF.ME ULWW 121300Z 1214/1223 VRB02MPS 0500 FG NSC TX13/1214Z TN11/1217Z
 
Брест
METAR UMBB 121300Z 27001MPS 9000 SCT050 SCT100 30/17 Q1014 NOSIG


NOWCAST.SU UMBB 121600Z VRB02MPS 0500 FG SKC 15/10 Q0 NOSIG
AUTOTAF.ME UMBB 121300Z 1214/1223 VRB02MPS 0500 FG NSC TX16/1214Z TN13/1221Z
TAF UMBB 121330Z 1212/1221 CNL=
 


NOSIG
 
Лида
SYNAR 26832 Лида 121200Z 01001MPS 9999 FEW033 28/18 Q1016 RMK QFE747/0997 CLD:6CUCI


NOWCAST.SU UMDD 121600Z VRB02MPS 0500 FG SKC 15/09 Q0 NOSIG
AUTOTAF.ME UMDD 121300Z 1214/1223 VRB02MPS 0500 FG NSC TX15/1214Z TN11/1223Z
 
Гомель
METAR UMGG 121600Z 12003MPS 9999 TS SCT056CB BKN100 33/18 Q1014 NOSIG


TSAR UMGG 121600Z LAST HOUR TS OBS: 030/166-172KM, 040/154KM, 100/94KM, 120/91-102KM, 130/114KM, 150/103-122KM, 160/97-117KM, 180/24-45KM, 190/47KM, 200/72-116KM, 210/27-127KM, 220/59-117KM, 230/35-126KM, 240/45-100KM, 250/68-80KM, 260/92KM, 270/51-89KM, 280/78-91KM, 290/54-97KM, 300/74-85KM, 330/115KM, 340/91-155KM, 350/104-152KM
NEAREST TS 180/24KM
NOWCAST.SU UMGG 121600Z VRB02MPS 0500 FG SKC 16/09 Q0 TEMPO -TSRA
AUTOTAF.ME UMGG 121300Z 1214/1223 VRB02MPS 0500 FG NSC TX17/1214Z TN12/1222Z
BECMG 1217/1218 HZ
BECMG 1219/1220 FG
TAF UMGG 121102Z 1212/1312 20005MPS 9999 SCT040 TX34/1213Z TN23/1302Z
TEMPO 1212/1218 VRB12MPS 3000 -TSRA SQ BKN025CB
PROB40 TEMPO 1215/1218 VRB17MPS 2000 TSRAGR SQ BKN007 BKN025CB
TEMPO 1218/1305 VRB02MPS 3000 -SHRA BR BKN010 SCT020CB
TEMPO 1305/1312 17005G10MPS FEW030CB=
Витебск (Восточный)
METAR UMII 121600Z VRB01MPS 9999 FEW026 25/19 Q1015 NOSIG


TSAR UMII 121600Z LAST HOUR TS OBS: 170/143-167KM, 180/142-164KM
NEAREST TS 180/142KM
NOWCAST.SU UMII 121600Z VRB02MPS 0500 FG SKC 01/01 Q0 NOSIG
AUTOTAF.ME UMII 121300Z 1214/1223 VRB02MPS 0500 +SN FG VV004 TX12/1214Z TN10/1221Z
FM121500 VRB02MPS 0500 FG NSC
BECMG 1217/1218 OVC004
BECMG 1219/1220 NSC
BECMG 1221/1222 OVC002
TAF UMII 121404Z 1215/1224 14003G08MPS 6000 BKN016
TEMPO 1215/1224 16003G08MPS 1500 SHRA BR SCT004 BKN020CB=
Орша
METAR UMIO 121600Z 01003MPS CAVOK 25/20 Q1015 NOSIG RMK QFE744/0992


TSAR UMIO 121600Z LAST HOUR TS OBS: 160/70-115KM, 170/66-111KM, 180/66-131KM
NEAREST TS 170/66KM
NOWCAST.SU UMIO 121600Z VRB02MPS 0500 FG SKC 01/01 Q0 NOSIG
AUTOTAF.ME UMIO 121300Z 1214/1223 VRB02MPS 0500 FG NSC TX14/1215Z TN11/1221Z
BECMG 1217/1218 OVC004
BECMG 1221/1222 OVC002
BECMG 1222/1223 +SN FG
TAF UMIO 121448Z 1215/1224 CNL=
Калининград (Храброво)
METAR UMKK 121600Z 02003MPS 340V050 CAVOK 21/17 Q1015 R24/95D NOSIG RMK QFE760/1014


NOWCAST.SU UMKK 121600Z VRB02MPS 0500 FG VV002 10/08 Q0 NOSIG
AUTOTAF.ME UMKK 121300Z 1214/1223 VRB02MPS 0500 FG NSC TX10/1214Z TN09/1219Z
BECMG 1215/1216 OVC004
BECMG 1218/1219 OVC002
BECMG 1220/1221 OVC004
FM122200 VRB02MPS 0500 FG NSC
TAF UMKK 121356Z 1215/1315 01003G10MPS 9999 BKN016
BECMG 1216/1218 04003G08MPS
BECMG 1221/1223 08005G10MPS
TEMPO 1303/1315 2000 TSRA BKN013CB
BECMG 1309/1312 16008G15MPS
BECMG 1312/1314 24009G17MPS=
МЛСП Д-6
SYNAR 26509 Клайпеда 121200Z 27002MPS 9999 OVC014 20/16 Q1017 RMK QFE762/1016 CLD:8SC
(30/56KM)


NOWCAST.SU UMKM 121600Z VRB02MPS 0500 FG SKC 09/08 Q0 NOSIG
AUTOTAF.ME UMKM 121300Z 1214/1223 VRB02MPS 0500 FG NSC TX10/1221Z TN09/1214Z
BECMG 1214/1215 OVC004
BECMG 1215/1216 NSC
BECMG 1219/1220 OVC004
FM122200 VRB02MPS 0500 FG VV002
 
Минск (Мачулищи)
SYNAR 26850 Минск 121200Z 35002MPS 9999 SCT033 29/19 Q1016 RMK QFE741/0988 CLD:8CUCI
(20/22KM)


NOWCAST.SU UMLI 121600Z VRB02MPS 0500 FG SKC 01/01 Q0 NOSIG
AUTOTAF.ME UMLI 121300Z 1214/1223 VRB02MPS 0500 FG NSC TX16/1214Z TN12/1222Z
BECMG 1221/1222 OVC004
BECMG 1222/1223 NSC
 
Барановичи
SYNAR 26941 Барановичи 121200Z 32002MPS 9999 FEW033 29/19 Q1016 RMK QFE744/0992 CLD:2CU


NOWCAST.SU UMMA 121600Z VRB02MPS 0500 FG SKC 15/09 Q0 NOSIG
AUTOTAF.ME UMMA 121300Z 1214/1223 VRB02MPS 0500 FG NSC TX16/1214Z TN12/1221Z
 
Гродно (Обухово)
METAR UMMG 121300Z VRB01MPS 9999 BKN040 BKN100 28/19 Q1015 NOSIG


NOWCAST.SU UMMG 121600Z VRB02MPS 0500 FG SKC 15/09 Q0 NOSIG
AUTOTAF.ME UMMG 121300Z 1214/1223 VRB02MPS 0500 FG NSC TX15/1214Z TN11/1223Z
TAF UMMG 121401Z 1212/1221 CNL=
Минск (Липки)
SYNAR 26850 Минск 121200Z 35002MPS 9999 SCT033 29/19 Q1016 RMK QFE741/0988 CLD:8CUCI


NOWCAST.SU UMMI 121600Z VRB02MPS 0500 FG SKC 01/01 Q0 NOSIG
AUTOTAF.ME UMMI 121300Z 1214/1223 VRB02MPS 0500 FG NSC TX16/1214Z TN12/1221Z
BECMG 1220/1221 OVC004
BECMG 1222/1223 NSC
 
Поставы (Озерки)
SYNAR 26645 Лынтупы 121200Z 29002MPS 9999 BKN026 26/18 Q1016 RMK QFE743/0991 CLD:5CU
(250/35KM)


NOWCAST.SU UMMK 121600Z VRB02MPS 0500 FG SKC 14/09 Q0 NOSIG
AUTOTAF.ME UMMK 121300Z 1214/1223 VRB02MPS 0500 FG NSC TX15/1214Z TN10/1223Z
BECMG 1219/1220 OVC002
BECMG 1220/1221 NSC
 
Минск-1
SYNAR 26850 Минск 121200Z 35002MPS 9999 SCT033 29/19 Q1016 RMK QFE741/0988 CLD:8CUCI
(40/15KM)


NOWCAST.SU UMMM 121600Z VRB02MPS 0500 FG SKC 01/01 Q0 NOSIG
AUTOTAF.ME UMMM 121300Z 1214/1223 VRB02MPS 0500 FG NSC TX15/1214Z TN12/1221Z
BECMG 1220/1221 OVC004
BECMG 1222/1223 NSC
 
Минск-2
METAR UMMS 121600Z 04003MPS CAVOK 28/20 Q1014 NOSIG


TSAR UMMS 121600Z LAST HOUR TS OBS: 140/165KM, 150/176-183KM
NEAREST TS 140/165KM
NOWCAST.SU UMMS 121600Z VRB02MPS 0500 FG SKC 01/01 Q0 NOSIG
AUTOTAF.ME UMMS 121300Z 1214/1223 VRB02MPS 0500 FG NSC TX16/1214Z TN12/1221Z
BECMG 1221/1222 OVC002
TAF UMMS 121100Z 1212/1312 25005G10MPS 9999 SCT030
TEMPO 1212/1219 VRB14MPS 3000 -TSRA SQ FEW004 BKN020CB
BECMG 1219/1220 VRB02MPS
TEMPO 1220/1305 3000 BCFG BR FEW002
BECMG 1305/1306 12005G10MPS
TEMPO 1309/1312 3000 -TSRA BKN020CB=
Бобруйск (Носовка)
SYNAR 26961 Бобруйск 121200Z 31001MPS 9999 FEW020 31/20 Q1015 RMK QFE747/0996 CLD:3CUCI
(340/13KM)


TSAR UMNB 121600Z LAST HOUR TS OBS: 040/109-118KM, 050/93-127KM, 060/81-114KM, 070/104KM, 080/86KM, 110/64KM, 120/52-85KM, 130/41-131KM, 140/57-164KM, 150/75-175KM, 160/50-164KM, 170/67-156KM, 180/109-153KM, 190/133-154KM
NEAREST TS 130/41KM
NOWCAST.SU UMNB 121600Z VRB02MPS 0500 FG SKC 16/10 Q0 NOSIG
AUTOTAF.ME UMNB 121300Z 1214/1223 VRB02MPS 0500 FG NSC TX17/1214Z TN12/1221Z
BECMG 1216/1217 HZ
BECMG 1218/1219 FG
BECMG 1222/1223 OVC002
 
Гродно (Каролино)
SYNAR 26832 Лида 121200Z 01001MPS 9999 FEW033 28/18 Q1016 RMK QFE747/0997 CLD:6CUCI
(70/108KM)


NOWCAST.SU UMNG 121600Z VRB02MPS 0500 FG SKC 14/09 Q0 NOSIG
AUTOTAF.ME UMNG 121300Z 1214/1223 VRB02MPS 0500 FG NSC TX15/1214Z TN11/1223Z
 
Витебск (Куковячино)
SYNAR 26666 Витебск 121200Z 08001MPS 7000 SCT033 20/19 Q1016 RMK QFE746/0995 CLD:8CUAS
(80/18KM)


TSAR UMNI 121600Z LAST HOUR TS OBS: 160/152KM, 170/147-149KM
NEAREST TS 170/147KM
NOWCAST.SU UMNI 121600Z VRB02MPS 0500 FG SKC 12/10 Q0 NOSIG
AUTOTAF.ME UMNI 121300Z 1214/1223 VRB02MPS 0500 +SN FG VV004 TX12/1214Z TN10/1221Z
FM121500 VRB02MPS 0500 FG NSC
BECMG 1216/1217 OVC004
BECMG 1217/1218 NSC
BECMG 1222/1223 OVC004
 
Лунинец
SYNAR 33019 Пинск 121200Z 28001MPS 9999 FEW033 31/21 Q1015 RMK QFE748/0998 CLD:5CUCI
(250/52KM)


NOWCAST.SU UMNL 121600Z VRB02MPS 0500 FG SKC 16/10 Q0 NOSIG
AUTOTAF.ME UMNL 121300Z 1214/1223 VRB02MPS 0500 FG NSC TX16/1214Z TN12/1222Z
 
Могилев
METAR UMOO 121200Z 30002MPS 9000 NSC 26/22 Q1017 NOSIG


TSAR UMOO 121600Z LAST HOUR TS OBS: 110/38KM, 120/27-60KM, 130/50KM, 140/16-74KM, 150/66KM, 160/36-80KM, 170/56KM, 180/120-162KM, 190/120-166KM, 200/146-170KM
NEAREST TS 140/16KM
NOWCAST.SU UMOO 121600Z VRB02MPS 0500 FG SKC 15/11 Q0 TEMPO -TSRA
AUTOTAF.ME UMOO 121300Z 1214/1223 VRB02MPS 0500 FG NSC TX15/1214Z TN11/1221Z
FM121900 VRB02MPS 0500 +SN FG VV004
BECMG 1219/1220 FG
BECMG 1221/1222 OVC002
TAF UMOO 121328Z 1212/1221 CNL=
Хожево
SYNAR 26850 Минск 121200Z 35002MPS 9999 SCT033 29/19 Q1016 RMK QFE741/0988 CLD:8CUCI
(120/63KM)


NOWCAST.SU UMOV 121600Z VRB02MPS 0500 FG SKC 14/10 Q0 NOSIG
AUTOTAF.ME UMOV 121300Z 1214/1223 VRB02MPS 0500 FG NSC TX15/1214Z TN10/1223Z
BECMG 1221/1222 OVC004
 
Абакан
METAR UNAA 121600Z 02003MPS CAVOK 19/13 Q1008 R02/CLRD65 NOSIG RMK QFE733


NOWCAST.SU UNAA 121600Z VRB02MPS 0500 FG SKC 01/01 Q0 NOSIG
AUTOTAF.ME UNAA 121300Z 1214/1223 VRB02MPS 0500 FG NSC TX11/1214Z TN08/1220Z
BECMG 1218/1219 OVC004
BECMG 1219/1220 NSC
TAF UNAA 121347Z 1215/1315 03003G08MPS 9999 SCT040CB
TEMPO 1309/1315 -TSRA=
Краснотуранск
SYNAR 29768 Лебяжье 121200Z 32002MPS //// //// 25/12 Q1008 RMK QFE733/0978 CLD:NO_OBSERVATIONS
(160/13KM)


NOWCAST.SU UNAT 121600Z VRB02MPS 0500 FG SKC 01/01 Q0 NOSIG
AUTOTAF.ME UNAT 121300Z 1214/1223 VRB02MPS 0500 FG NSC TX11/1214Z TN08/1219Z
BECMG 1216/1217 OVC004
BECMG 1219/1220 NSC
 
Шушенское (Казанцево)
SYNAR 29869 Ермаковское 121200Z 10002MPS 9999 FEW033 26/13 Q1008 RMK QFE729/0972 CLD:2SC
(110/27KM)


NOWCAST.SU UNAU 121600Z VRB02MPS 0500 FG SKC 01/01 Q0 NOSIG
AUTOTAF.ME UNAU 121300Z 1214/1223 VRB02MPS 0500 FG NSC TX11/1214Z TN07/1220Z
BECMG 1216/1217 OVC004
BECMG 1220/1221 NSC
 
Барнаул (Имени Германа Титова)
METAR UNBB 121600Z 11001MPS CAVOK 21/17 Q1007 R06/CLRD66 NOSIG RMK QFE733


NOWCAST.SU UNBB 121600Z VRB02MPS 0500 FG SKC 01/01 Q0 NOSIG
AUTOTAF.ME UNBB 121300Z 1214/1223 VRB02MPS 0500 FG NSC TX12/1214Z TN08/1221Z
TAF UNBB 121400Z 1215/1315 07003G08MPS 9999 SCT040CB
TEMPO 1303/1315 04008MPS=
Аккем
SYNAR 36442 Кара-Тюрек 121200Z 01001MPS 9999 FEW033 12/02 Q//// RMK CLD:2CUAC
(330/15KM)


NOWCAST.SU UNBC 121600Z VRB02MPS 0500 FG SKC 01/01 Q0 NOSIG
AUTOTAF.ME UNBC 121300Z 1214/1223 VRB02MPS 0500 FG NSC TX03/1214Z TN02/1216Z
BECMG 1216/1217 OVC004
BECMG 1217/1218 NSC
 
Горно-Алтайск
SYNAR 36052 Горно-Алтайск 121200Z 35003MPS CAVOK 26/17 Q1008 RMK QFE729/0973 CLD:4CI


NOWCAST.SU UNBG 121600Z VRB02MPS 0500 FG SKC 01/01 Q0 NOSIG
AUTOTAF.ME UNBG 121300Z 1214/1223 VRB02MPS 0500 FG NSC TX10/1214Z TN07/1219Z
BECMG 1217/1218 OVC004
BECMG 1220/1221 NSC
BECMG 1221/1222 OVC004
 
Бия
SYNAR 29939 Бийск 121200Z 09001MPS 9999 -SHRA BKN020CB 21/18 Q1008 RMK QFE735/0980 CLD:7CBAC
(310/35KM)


NOWCAST.SU UNBI 121600Z VRB02MPS 0500 FG SKC 11/09 Q0 NOSIG
AUTOTAF.ME UNBI 121300Z 1214/1223 VRB02MPS 0500 FG NSC TX12/1214Z TN09/1219Z
BECMG 1218/1219 OVC004
 
Волчиха
SYNAR 36022 Волчиха 121200Z 04003MPS 9999 FEW033 29/15 Q1006 RMK QFE736/0981 CLD:1CU


NOWCAST.SU UNBM 121600Z VRB02MPS 0500 FG SKC 01/01 Q0 NOSIG
AUTOTAF.ME UNBM 121300Z 1214/1223 VRB02MPS 0500 FG NSC TX14/1214Z TN10/1220Z
 
Онгудай
SYNAR 36231 Онгудай 121200Z 29002MPS CAVOK 28/07 Q1008 RMK QFE683/0911 CLD:SKC


NOWCAST.SU UNBN 121600Z VRB02MPS 0500 FG SKC 01/01 Q0 NOSIG
AUTOTAF.ME UNBN 121300Z 1214/1223 VRB02MPS 0500 FG NSC TX09/1214Z TN05/1220Z
 
Усть-Кокса
SYNAR 36229 Усть-Кокса 121200Z 25002MPS 9999 SCT033 27/11 Q1007 RMK CLD:3CU


NOWCAST.SU UNBU 121600Z VRB02MPS 0500 FG SKC 01/01 Q0 NOSIG
AUTOTAF.ME UNBU 121300Z 1214/1223 VRB02MPS 0500 FG NSC TX09/1214Z TN04/1221Z
BECMG 1217/1218 OVC004
BECMG 1222/1223 NSC
 
ТурСиб
SYNAR 36058 Чемал 121200Z 33003MPS 9999 FEW033 29/12 Q1007 RMK QFE718/0957 CLD:2CUAC
(160/21KM)


NOWCAST.SU UNBY 121600Z VRB02MPS 0500 FG SKC 01/01 Q0 NOSIG
AUTOTAF.ME UNBY 121300Z 1214/1223 VRB02MPS 0500 FG NSC TX10/1214Z TN06/1219Z
BECMG 1217/1218 OVC004
BECMG 1221/1222 NSC
 
Новосибирск (Северный)
SYNAR 29637 Учебная 121200Z 10001MPS 9999 FEW020 26/09 Q1008 RMK QFE744/0992 CLD:2CU
(180/14KM)


NOWCAST.SU UNCC 121600Z VRB02MPS 0500 FG SKC 10/07 Q0 NOSIG
AUTOTAF.ME UNCC 121300Z 1214/1223 VRB02MPS 0500 FG NSC TX11/1214Z TN08/1219Z
BECMG 1217/1218 OVC004
BECMG 1218/1219 NSC
BECMG 1222/1223 OVC004
 
Краснозерское
SYNAR 29813 Красноозерск 121200Z 08002MPS 9999 FEW020 28/15 Q1007 RMK QFE741/0988 CLD:2CUCI


NOWCAST.SU UNCN 121600Z VRB02MPS 0500 FG SKC 11/08 Q0 NOSIG
AUTOTAF.ME UNCN 121300Z 1214/1223 VRB02MPS 0500 FG NSC TX12/1214Z TN08/1222Z
 
Карасук
SYNAR 36058 Чемал 121200Z 33003MPS 9999 FEW033 29/12 Q1007 RMK QFE718/0957 CLD:2CUAC
(160/21KM)


NOWCAST.SU UNCX 121600Z VRB02MPS 0500 FG SKC 01/01 Q0 NOSIG
AUTOTAF.ME UNCX 121300Z 1214/1223 VRB02MPS 0500 FG NSC TX10/1214Z TN06/1219Z
BECMG 1217/1218 OVC004
BECMG 1221/1222 NSC
 
Кемерово (Имени Алексея Леонова)
METAR UNEE 121600Z 04002MPS CAVOK 20/12 Q1008 R23/////// NOSIG RMK QFE733


NOWCAST.SU UNEE 121600Z VRB02MPS 0500 FG SKC 01/01 Q0 NOSIG
AUTOTAF.ME UNEE 121300Z 1214/1223 VRB02MPS 0500 FG NSC TX10/1214Z TN07/1219Z
TAF UNEE 121400Z 1215/1315 02003G08MPS 8000 SCT040CB TX28/1309Z TN13/1222Z
TEMPO 1218/1302 0300 FG=
Тура МВЛ
SYNAR 24507 Тура 121200Z 08001MPS 9999 -SHRA OVC020CB 20/19 Q1059 RMK QFE736/0982 CLD:8CB
(60/11KM)


NOWCAST.SU UNHT 121600Z VRB02MPS 0500 +SN FG VV002 01/01 Q0 NOSIG
AUTOTAF.ME UNHT 121300Z 1214/1223 VRB02MPS 0500 +SN FG VV004 TX10/1214Z TN09/1215Z
BECMG 1220/1221 FG
BECMG 1221/1222 OVC002
 
Байкит
SYNAR 23891 Байкит 121200Z 00000MPS 9999 FEW050 20/17 Q1005 RMK QFE731/0975 CLD:8SCAC


NOWCAST.SU UNIB 121600Z VRB02MPS 0500 FG VV002 01/01 Q0 NOSIG
AUTOTAF.ME UNIB 121300Z 1214/1223 VRB02MPS 0500 FG VV004 TX08/1214Z TN07/1217Z
BECMG 1217/1218 NSC
BECMG 1218/1219 OVC002
BECMG 1220/1221 NSC
FM122300 VRB02MPS 0500 FG VV004
 
Эконда
 


NOWCAST.SU UNIH 121600Z VRB02MPS 0500 FG SKC 01/01 Q0 NOSIG
AUTOTAF.ME UNIH 121300Z 1214/1223 VRB02MPS 0500 FG NSC TX11/1214Z TN10/1216Z
 
Енисейск
SYNAR 29263 Енисейск 121200Z 33001MPS 9999 FEW033 23/15 Q1007 RMK QFE747/0997 CLD:5CUAC


NOWCAST.SU UNII 121600Z VRB02MPS 0500 FG SKC 08/07 Q0 NOSIG
AUTOTAF.ME UNII 121300Z 1214/1223 VRB02MPS 0500 FG NSC TX09/1214Z TN08/1216Z
 
Мотыгино
SYNAR 29276 Мотыгино 121200Z 25001MPS //// //// 23/12 Q1008 RMK QFE740/0987 CLD:NO_OBSERVATIONS


NOWCAST.SU UNIM 121600Z VRB02MPS 0500 FG SKC 08/06 Q0 NOSIG
AUTOTAF.ME UNIM 121300Z 1214/1223 VRB02MPS 0500 FG NSC TX10/1214Z TN06/1221Z
BECMG 1217/1218 OVC004
BECMG 1221/1222 OVC002
 
Подкаменная Тунгуска
SYNAR 23884 Бор 121200Z 26001MPS 9999 SCT020CB 21/13 Q1005 RMK QFE748/0998 CLD:3CB


NOWCAST.SU UNIP 121600Z VRB02MPS 0500 FG SKC 08/07 Q0 NOSIG
AUTOTAF.ME UNIP 121300Z 1214/1223 VRB02MPS 0500 FG NSC TX09/1214Z TN08/1216Z
BECMG 1217/1218 OVC004
BECMG 1222/1223 NSC
 
Ярцево
SYNAR 23987 Ярцево 121200Z 22003MPS 9999 BKN020CB 24/13 Q1006 RMK QFE749/0998 CLD:5CB


NOWCAST.SU UNIQ 121600Z VRB02MPS 0500 FG SKC 08/08 Q0 NOSIG
AUTOTAF.ME UNIQ 121300Z 1214/1223 VRB02MPS 0500 FG NSC TX08/1214Z TN07/1217Z
BECMG 1219/1220 +SN FG
 
Северо-Енисейск
SYNAR 23986 Северо-Енисейский 121200Z 27003MPS 9999 SCT020CB 21/08 Q1007 RMK QFE710/0946 CLD:7CBCI


NOWCAST.SU UNIS 121600Z VRB02MPS 0500 FG SKC 01/01 Q0 NOSIG
AUTOTAF.ME UNIS 121300Z 1214/1223 VRB02MPS 0500 FG NSC TX08/1214Z TN06/1219Z
 
Тура-Горный
SYNAR 24507 Тура 121200Z 08001MPS 9999 -SHRA OVC020CB 20/19 Q1059 RMK QFE736/0982 CLD:8CB


NOWCAST.SU UNIT 121600Z VRB02MPS 0500 +SN FG VV002 01/01 Q0 NOSIG
AUTOTAF.ME UNIT 121300Z 1214/1223 VRB02MPS 0500 +SN FG VV004 TX10/1214Z TN09/1215Z
FM122100 VRB02MPS 0500 FG NSC
BECMG 1221/1222 OVC002
 
Ванавара
SYNAR 24908 Ванавара 121200Z 27001MPS 9999 BKN020CB 24/20 Q1004 RMK QFE730/0973 CLD:8CBAC


NOWCAST.SU UNIW 121600Z VRB02MPS 0500 +SN FG VV002 01/01 Q0 NOSIG
AUTOTAF.ME UNIW 121300Z 1214/1223 VRB02MPS 0500 +SN FG NSC TX10/1214Z TN09/1216Z
BECMG 1214/1215 OVC004
 
Осиновый Мыс
SYNAR 29282 Богучаны 121200Z 00000MPS 9999 OVC020CB 20/17 Q1007 RMK QFE743/0990 CLD:8CB
(20/97KM)


NOWCAST.SU UNJS 121600Z VRB02MPS 0500 FG SKC 09/06 Q0 NOSIG
AUTOTAF.ME UNJS 121300Z 1214/1223 VRB02MPS 0500 FG NSC TX10/1214Z TN07/1219Z
BECMG 1217/1218 OVC004
 
Богучаны
SYNAR 29282 Богучаны 121200Z 00000MPS 9999 OVC020CB 20/17 Q1007 RMK QFE743/0990 CLD:8CB


NOWCAST.SU UNKB 121600Z VRB02MPS 0500 FG SKC 09/06 Q0 NOSIG
AUTOTAF.ME UNKB 121300Z 1214/1223 VRB02MPS 0500 FG NSC TX10/1214Z TN08/1219Z
 
Кодинск
SYNAR 29393 Червянка 121200Z 16001MPS 9999 -SHRA SCT020CB 19/18 Q1008 RMK QFE736/0981 CLD:8CBAC
(160/96KM)


NOWCAST.SU UNKI 121600Z VRB02MPS 0500 FG SKC 01/01 Q0 NOSIG
AUTOTAF.ME UNKI 121300Z 1214/1223 VRB02MPS 0500 FG NSC TX10/1214Z TN09/1215Z
 
Красноярск (Северный)
SYNAR 29571 Минино 121200Z 26001MPS 9999 FEW020 25/10 Q1008 RMK QFE735/0980 CLD:7CUACCI
(220/22KM)


NOWCAST.SU UNKK 121600Z VRB02MPS 0500 FG SKC 01/01 Q0 NOSIG
AUTOTAF.ME UNKK 121300Z 1214/1223 VRB02MPS 0500 FG NSC TX09/1214Z TN06/1220Z
BECMG 1216/1217 OVC004
BECMG 1221/1222 NSC
 
Красноярск (Емельяново)
METAR UNKL 121600Z 00000MPS CAVOK 15/13 Q1009 R29/CLRD65 NOSIG RMK QFE731


NOWCAST.SU UNKL 121600Z VRB02MPS 0500 FG SKC 01/01 Q0 NOSIG
AUTOTAF.ME UNKL 121300Z 1214/1223 VRB02MPS 0500 FG NSC TX09/1214Z TN06/1219Z
BECMG 1218/1219 OVC004
BECMG 1222/1223 NSC
TAF UNKL 121353Z 1215/1315 30003G08MPS 9999 SCT018CB=
Красноярск (Черемшанка)
SYNAR 29571 Минино 121200Z 26001MPS 9999 FEW020 25/10 Q1008 RMK QFE735/0980 CLD:7CUACCI
(140/16KM)


NOWCAST.SU UNKM 121600Z VRB02MPS 0500 FG SKC 01/01 Q0 NOSIG
AUTOTAF.ME UNKM 121300Z 1214/1223 VRB02MPS 0500 FG NSC TX09/1214Z TN06/1219Z
BECMG 1218/1219 OVC004
BECMG 1222/1223 NSC
 
Канск (Восточный)
SYNAR 29581 Канск 121200Z 00000MPS 9999 SCT020CB 23/14 Q1008 RMK QFE738/0984 CLD:7CBACCI


NOWCAST.SU UNKN 121600Z VRB02MPS 0500 FG SKC 09/07 Q0 NOSIG
AUTOTAF.ME UNKN 121300Z 1214/1223 VRB02MPS 0500 FG NSC TX10/1214Z TN07/1221Z
 
Шарыпово
SYNAR 29558 Шарыпово 121200Z 35003MPS 9999 FEW033 23/10 Q1010 RMK QFE728/0971 CLD:3CUCI


NOWCAST.SU UNKO 121600Z VRB02MPS 0500 FG SKC 01/01 Q0 NOSIG
AUTOTAF.ME UNKO 121300Z 1214/1223 VRB02MPS 0500 FG NSC TX09/1214Z TN06/1219Z
BECMG 1217/1218 OVC004
BECMG 1219/1220 NSC
BECMG 1221/1222 OVC004
 
Красноярск (Бобровый Лог)
SYNAR 29570 Красноярск 121200Z 00000MPS 9999 FEW020 25/13 Q1008 RMK QFE731/0975 CLD:6CUACCC


NOWCAST.SU UNKP 121600Z VRB02MPS 0500 FG SKC 08/07 Q0 NOSIG
AUTOTAF.ME UNKP 121300Z 1214/1223 VRB02MPS 0500 FG NSC TX09/1214Z TN06/1220Z
BECMG 1216/1217 OVC004
BECMG 1221/1222 NSC
 
Ачинск
SYNAR 29467 Ачинск 121200Z 25002MPS 9999 FEW020 24/12 Q1009 RMK QFE733/0978 CLD:2CU


NOWCAST.SU UNKS 121600Z VRB02MPS 0500 FG SKC 01/01 Q0 NOSIG
AUTOTAF.ME UNKS 121300Z 1214/1223 VRB02MPS 0500 FG NSC TX09/1214Z TN06/1220Z
BECMG 1217/1218 OVC004
 
Вознесенка
SYNAR 29570 Красноярск 121200Z 00000MPS 9999 FEW020 25/13 Q1008 RMK QFE731/0975 CLD:6CUACCC
(270/31KM)


NOWCAST.SU UNKW 121600Z VRB02MPS 0500 FG SKC 01/01 Q0 NOSIG
AUTOTAF.ME UNKW 121300Z 1214/1223 VRB02MPS 0500 FG NSC TX09/1214Z TN06/1220Z
BECMG 1216/1217 OVC004
BECMG 1221/1222 NSC
 
Кызыл
SYNAR 36096 Кызыл 121200Z 27003MPS 9999 FEW033 25/10 Q1010 RMK QFE701/0935 CLD:5SCAC


NOWCAST.SU UNKY 121600Z VRB02MPS 0500 FG SKC 01/01 Q0 NOSIG
AUTOTAF.ME UNKY 121300Z 1214/1223 VRB02MPS 0500 FG NSC TX11/1214Z TN06/1220Z
BECMG 1219/1220 OVC004
 
Колпашево
SYNAR 29231 Колпашево 121200Z 22001MPS 9999 FEW020CB 27/12 Q1006 RMK QFE748/0997 CLD:2CBAC


NOWCAST.SU UNLL 121600Z VRB02MPS 0500 +SN FG SKC 10/08 Q0 NOSIG
AUTOTAF.ME UNLL 121300Z 1214/1223 VRB02MPS 0500 FG NSC TX11/1214Z TN09/1218Z
BECMG 1215/1216 +SN FG
BECMG 1216/1217 FG
 
Парабель
SYNAR 29128 Парабель 121200Z 22001MPS 9999 SCT033 27/14 Q1006 RMK QFE749/0998 CLD:3SC


NOWCAST.SU UNLP 121600Z VRB02MPS 0500 FG SKC 10/08 Q0 NOSIG
AUTOTAF.ME UNLP 121300Z 1214/1223 VRB02MPS 0500 FG NSC TX12/1214Z TN09/1218Z
BECMG 1218/1219 OVC004
 
Новосибирск (Ельцовка)
SYNAR 29637 Учебная 121200Z 10001MPS 9999 FEW020 26/09 Q1008 RMK QFE744/0992 CLD:2CU
(210/15KM)


NOWCAST.SU UNNE 121600Z VRB02MPS 0500 FG SKC 10/07 Q0 NOSIG
AUTOTAF.ME UNNE 121300Z 1214/1223 VRB02MPS 0500 FG NSC TX11/1214Z TN08/1219Z
BECMG 1217/1218 OVC004
BECMG 1218/1219 NSC
BECMG 1222/1223 OVC004
 
Новосибирск (Городской Аэропорт)
SYNAR 29637 Учебная 121200Z 10001MPS 9999 FEW020 26/09 Q1008 RMK QFE744/0992 CLD:2CU
(180/14KM)


NOWCAST.SU UNNG 121600Z VRB02MPS 0500 FG SKC 10/07 Q0 NOSIG
AUTOTAF.ME UNNG 121300Z 1214/1223 VRB02MPS 0500 FG NSC TX11/1214Z TN08/1219Z
BECMG 1217/1218 OVC004
BECMG 1218/1219 NSC
BECMG 1222/1223 OVC004
 
Мочище
SYNAR 29637 Учебная 121200Z 10001MPS 9999 FEW020 26/09 Q1008 RMK QFE744/0992 CLD:2CU
(220/27KM)


NOWCAST.SU UNNM 121600Z VRB02MPS 0500 FG SKC 01/01 Q0 NOSIG
AUTOTAF.ME UNNM 121300Z 1214/1223 VRB02MPS 0500 FG NSC TX11/1214Z TN07/1221Z
BECMG 1217/1218 OVC004
BECMG 1218/1219 NSC
BECMG 1222/1223 OVC004
 
Северное
SYNAR 29418 Северное 121200Z 20002MPS 9999 FEW020CB 27/16 Q1007 RMK QFE744/0992 CLD:3CBAC


NOWCAST.SU UNNS 121600Z VRB02MPS 0500 +SN FG SKC 10/09 Q0 NOSIG
AUTOTAF.ME UNNS 121300Z 1214/1223 VRB02MPS 0500 +SN FG NSC TX11/1214Z TN09/1217Z
BECMG 1216/1217 FG
BECMG 1220/1221 OVC004
BECMG 1222/1223 OVC002
 
Новосибирск (Толмачёво)
METAR UNNT 121600Z 00000MPS CAVOK 19/14 Q1008 R25/090070 R34/////// NOSIG RMK QFE746/0994


NOWCAST.SU UNNT 121600Z VRB02MPS 0500 FG SKC 10/08 Q0 NOSIG
AUTOTAF.ME UNNT 121300Z 1214/1223 VRB02MPS 0500 FG NSC TX11/1214Z TN08/1219Z
BECMG 1216/1217 OVC004
BECMG 1218/1219 NSC
BECMG 1222/1223 OVC004
TAF UNNT 121400Z 1215/1315 02003G08MPS 8000 SCT040 TX28/1309Z TN15/1222Z=
Усть-Ишим
SYNAR 28382 Усть-Ишим 121200Z 25001MPS 9999 FEW020CB 25/17 Q1006 RMK QFE749/0999 CLD:7CBASCI


NOWCAST.SU UNOI 121600Z VRB02MPS 0500 FG SKC 12/09 Q0 NOSIG
AUTOTAF.ME UNOI 121300Z 1214/1223 VRB02MPS 0500 HZ NSC TX13/1214Z TN10/1218Z
BECMG 1214/1215 FG
BECMG 1221/1222 OVC004
 
Омск (Калачево)
SYNAR 28698 Омск 121200Z 32003MPS 9999 TSRA BKN020CB 26/18 Q1007 RMK QFE744/0992 CLD:7CBCI
(10/29KM)


NOWCAST.SU UNOL 121600Z VRB02MPS 0500 FG SKC 12/10 Q0 NOSIG
AUTOTAF.ME UNOL 121300Z 1214/1223 VRB02MPS 0500 FG NSC TX13/1214Z TN09/1222Z
BECMG 1217/1218 OVC004
BECMG 1222/1223 NSC
 
Омск Центральный
METAR UNOO 121600Z 08003MPS CAVOK 24/19 Q1006 R07/CLRD60 NOSIG RMK QFE746


NOWCAST.SU UNOO 121600Z VRB02MPS 0500 FG SKC 12/09 Q0 NOSIG
AUTOTAF.ME UNOO 121300Z 1214/1223 VRB02MPS 0500 FG NSC TX13/1214Z TN09/1223Z
BECMG 1217/1218 OVC004
BECMG 1222/1223 NSC
TAF UNOO 121350Z 1215/1315 VRB01MPS 9999 SCT030CB
TEMPO 1215/1218 VRB13MPS 3100 -TSRA SCT010 BKN020CB
TEMPO 1221/1224 1000 BR MIFG
TEMPO 1306/1312 VRB13MPS 3100 -TSRA SCT010 BKN020CB=
Омск (Северный)
SYNAR 28698 Омск 121200Z 32003MPS 9999 TSRA BKN020CB 26/18 Q1007 RMK QFE744/0992 CLD:7CBCI
(300/12KM)


NOWCAST.SU UNOS 121600Z VRB02MPS 0500 FG SKC 12/09 Q0 NOSIG
AUTOTAF.ME UNOS 121300Z 1214/1223 VRB02MPS 0500 FG NSC TX13/1214Z TN09/1222Z
BECMG 1217/1218 OVC004
BECMG 1222/1223 NSC
 
Тара
SYNAR 28493 Тара 121200Z 00000MPS 9999 SCT020CB 28/18 Q1006 RMK QFE748/0997 CLD:6CBACCI


NOWCAST.SU UNOT 121600Z VRB02MPS 0500 FG VV002 12/11 Q0 NOSIG
AUTOTAF.ME UNOT 121300Z 1214/1223 VRB02MPS 0500 FG VV004 TX13/1214Z TN09/1221Z
BECMG 1221/1222 NSC
 
Омск (Поповка)
SYNAR 28698 Омск 121200Z 32003MPS 9999 TSRA BKN020CB 26/18 Q1007 RMK QFE744/0992 CLD:7CBCI
(50/25KM)


NOWCAST.SU UNOY 121600Z VRB02MPS 0500 FG SKC 12/09 Q0 NOSIG
AUTOTAF.ME UNOY 121300Z 1214/1223 VRB02MPS 0500 FG NSC TX13/1214Z TN09/1222Z
BECMG 1217/1218 OVC004
BECMG 1222/1223 NSC
 
Красноярск (Кузнецово)
SYNAR 29570 Красноярск 121200Z 00000MPS 9999 FEW020 25/13 Q1008 RMK QFE731/0975 CLD:6CUACCC
(300/18KM)


NOWCAST.SU UNQK 121600Z VRB02MPS 0500 FG SKC 01/01 Q0 NOSIG
AUTOTAF.ME UNQK 121300Z 1214/1223 VRB02MPS 0500 FG NSC TX09/1214Z TN06/1220Z
BECMG 1216/1217 OVC004
BECMG 1221/1222 NSC
 
Манский
SYNAR 29578 Шалинское 121200Z 35001MPS 9999 FEW020CB 23/12 Q1009 RMK QFE721/0961 CLD:3CBCI


NOWCAST.SU UNQM 121600Z VRB02MPS 0500 FG VV002 01/01 Q0 NOSIG
AUTOTAF.ME UNQM 121300Z 1214/1223 VRB02MPS 0500 FG NSC TX09/1214Z TN06/1218Z
BECMG 1215/1216 OVC004
BECMG 1218/1219 NSC
 
Назарово
SYNAR 29561 Назарово 121200Z 28001MPS 9999 SCT020CB 24/12 Q1009 RMK QFE733/0978 CLD:4CB
(300/12KM)


NOWCAST.SU UNQN 121600Z VRB02MPS 0500 FG SKC 01/01 Q0 NOSIG
AUTOTAF.ME UNQN 121300Z 1214/1223 VRB02MPS 0500 FG NSC TX09/1214Z TN06/1220Z
BECMG 1217/1218 OVC004
 
Красноярск (Солнечный)
SYNAR 29571 Минино 121200Z 26001MPS 9999 FEW020 25/10 Q1008 RMK QFE735/0980 CLD:7CUACCI
(250/13KM)


NOWCAST.SU UNQS 121600Z VRB02MPS 0500 FG SKC 01/01 Q0 NOSIG
AUTOTAF.ME UNQS 121300Z 1214/1223 VRB02MPS 0500 FG NSC TX09/1214Z TN06/1219Z
BECMG 1216/1217 OVC004
BECMG 1221/1222 NSC
 
Тасеево
SYNAR 29379 Тасеево 121200Z 27001MPS 9999 BKN033 25/12 Q1008 RMK QFE741/0988 CLD:7CUCI
(280/21KM)


NOWCAST.SU UNQT 121600Z VRB02MPS 0500 FG SKC 09/06 Q0 NOSIG
AUTOTAF.ME UNQT 121300Z 1214/1223 VRB02MPS 0500 FG NSC TX10/1214Z TN07/1219Z
 
Долгий Мост
SYNAR 29485 Абан 121200Z 17001MPS 9999 SCT020CB 22/16 Q1008 RMK QFE734/0979 CLD:7CBACCS
(260/48KM)


NOWCAST.SU UNQX 121600Z VRB02MPS 0500 FG SKC 01/01 Q0 NOSIG
AUTOTAF.ME UNQX 121300Z 1214/1223 VRB02MPS 0500 FG NSC TX09/1214Z TN08/1216Z
BECMG 1216/1217 OVC004
BECMG 1218/1219 OVC002
BECMG 1220/1221 OVC004
 
Барабинск
SYNAR 29612 Барабинск 121200Z 00000MPS 9999 FEW020 29/14 Q1007 RMK QFE744/0993 CLD:2CU


NOWCAST.SU UNRR 121600Z VRB02MPS 0500 FG SKC 12/08 Q0 NOSIG
AUTOTAF.ME UNRR 121300Z 1214/1223 VRB02MPS 0500 FG NSC TX13/1214Z TN10/1218Z
BECMG 1218/1219 OVC002
BECMG 1220/1221 OVC004
BECMG 1222/1223 NSC
 
Игол (Центральный)
SYNAR 29203 Новый Васюган 121200Z 17002MPS 9999 TSRA FEW020CB 24/20 Q1007 RMK QFE747/0997 CLD:5CBACCI
(0/93KM)


NOWCAST.SU UNSG 121600Z VRB02MPS 0500 FG SKC 10/09 Q0 NOSIG
AUTOTAF.ME UNSG 121300Z 1214/1223 VRB02MPS 0500 +SN FG NSC TX10/1214Z TN09/1218Z
BECMG 1214/1215 FG
BECMG 1218/1219 OVC004
 
Шингинская
SYNAR 29313 Пудино 121200Z 25001MPS 9999 SCT020 26/16 Q1007 RMK QFE746/0995 CLD:7CUACCI
(150/100KM)


NOWCAST.SU UNSI 121600Z VRB02MPS 0500 FG SKC 11/08 Q0 NOSIG
AUTOTAF.ME UNSI 121300Z 1214/1223 VRB02MPS 0500 FG NSC TX13/1214Z TN09/1220Z
 
Стрежевой
SYNAR 23955 Александровское 121200Z 34003MPS 9999 FEW010CB 27/13 Q1006 RMK QFE750/1000 CLD:5CBACCI
(160/33KM)


NOWCAST.SU UNSS 121600Z VRB02MPS 0500 FG SKC 11/07 Q0 NOSIG
AUTOTAF.ME UNSS 121300Z 1214/1223 VRB02MPS 0500 FG NSC TX12/1214Z TN08/1220Z
 
Бакчар
SYNAR 29328 Бакчар 121200Z 19001MPS 9999 FEW020CB 27/10 Q1007 RMK QFE745/0994 CLD:3CBCI


NOWCAST.SU UNTB 121600Z VRB02MPS 0500 FG SKC 10/07 Q0 NOSIG
AUTOTAF.ME UNTB 121300Z 1214/1223 VRB02MPS 0500 FG NSC TX11/1214Z TN08/1220Z
BECMG 1219/1220 OVC004
BECMG 1222/1223 NSC
 
Березкино
SYNAR 29430 Томск 121200Z 34001MPS 9999 FEW033 25/13 Q1007 RMK QFE743/0990 CLD:2CUAC
(90/14KM)


NOWCAST.SU UNTR 121600Z VRB02MPS 0500 FG SKC 09/07 Q0 NOSIG
AUTOTAF.ME UNTR 121300Z 1214/1223 VRB02MPS 0500 FG NSC TX11/1214Z TN07/1220Z
 
Томск (Богашёво)
METAR UNTT 121600Z 00000MPS CAVOK 23/12 Q1008 R21/////// NOSIG RMK QFE740


NOWCAST.SU UNTT 121600Z VRB02MPS 0500 FG SKC 09/07 Q0 NOSIG
AUTOTAF.ME UNTT 121300Z 1214/1223 VRB02MPS 0500 FG NSC TX10/1214Z TN07/1219Z
TAF UNTT 121400Z 1215/1224 14003G08MPS 9999 SCT040=
Таштагол
SYNAR 29954 Таштагол 121200Z 30002MPS 9999 FEW033 23/13 Q1009 RMK QFE719/0958 CLD:4SCACCI


NOWCAST.SU UNWI 121600Z VRB02MPS 0500 FG VV002 01/01 Q0 NOSIG
AUTOTAF.ME UNWI 121300Z 1214/1223 VRB02MPS 0500 FG NSC TX10/1214Z TN07/1218Z
BECMG 1214/1215 OVC004
BECMG 1220/1221 NSC
BECMG 1221/1222 OVC004
 
Новокузнецк (Спиченково)
METAR UNWW 121600Z 01002MPS 350V110 CAVOK 18/16 Q1008 R01/09//55 NOSIG RMK QFE729


NOWCAST.SU UNWW 121600Z VRB02MPS 0500 FG SKC 01/01 Q0 NOSIG
AUTOTAF.ME UNWW 121300Z 1214/1223 VRB02MPS 0500 FG NSC TX11/1214Z TN07/1220Z
BECMG 1219/1220 OVC004
BECMG 1222/1223 NSC
TAF UNWW 121400Z 1215/1315 02003G08MPS 9999 BKN040 TX28/1309Z TN12/1221Z
TEMPO 1220/1301 0300 FG BKN002=
Диксон
SYNAR 20674 Остров Диксон 121200Z 05010MPS 0300 FG VV/// 03/03 Q1018 RMK QFE758/1011 CLD:OBSC


NOWCAST.SU UODD 121600Z VRB02MPS 0500 FG VV002 03/02 Q0 NOSIG
AUTOTAF.ME UODD 121300Z 1214/1223 VRB02MPS 0500 FG VV004 TX04/1222Z TN03/1214Z
BECMG 1216/1217 NSC
BECMG 1218/1219 OVC002
BECMG 1220/1221 NSC
 
Нагурское
SYNAR 20046 Остров Хейса 121200Z 15003MPS 0500 FG OVC002 02/02 Q1021 RMK QFE763/1017 CLD:8ST
(90/191KM)


NOWCAST.SU UODN 121600Z VRB02MPS 0100 FG SKC 00/00 Q0 NOSIG
AUTOTAF.ME UODN 121300Z 1214/1223 VRB02MPS 0200 FG VV004 TX00/1214Z TN00/1214Z
BECMG 1214/1215 NSC
BECMG 1216/1217 OVC004
BECMG 1218/1219 NSC
 
Остров Средний
SYNAR 20087 Остров Голомянный 121200Z 21004MPS 0200 FG VV/// 00/00 Q1024 RMK QFE767/1023 CLD:OBSC


NOWCAST.SU UODS 121600Z VRB02MPS 0100 FG SKC 00/00 Q0 NOSIG
AUTOTAF.ME UODS 121300Z 1214/1223 VRB02MPS 0200 FG NSC TX00/1214Z TN00/1214Z
 
Хатанга
SYNAR 20891 Хатанга 121200Z 07006MPS CAVOK 21/14 Q1015 RMK QFE758/1011 CLD:8ACCI


NOWCAST.SU UOHH 121600Z VRB02MPS 0500 FG SKC 09/06 Q0 NOSIG
AUTOTAF.ME UOHH 121300Z 1214/1223 VRB02MPS 0500 FG NSC TX09/1214Z TN07/1221Z
FM122000 VRB02MPS 0500 +SN FG VV004
 
Новая
SYNAR 20891 Хатанга 121200Z 07006MPS CAVOK 21/14 Q1015 RMK QFE758/1011 CLD:8ACCI
(60/50KM)


NOWCAST.SU UOHN 121600Z VRB02MPS 0500 FG VV002 10/08 Q0 NOSIG
AUTOTAF.ME UOHN 121300Z 1214/1223 VRB02MPS 0500 FG NSC TX10/1214Z TN09/1218Z
BECMG 1215/1216 OVC004
BECMG 1216/1217 +SN FG
 
Светлогорск
SYNAR 23376 Светлогорск 121200Z 07001MPS 9999 SHRA OVC020CB 20/17 Q1007 RMK QFE746/0995 CLD:8CB
(0/12KM)


NOWCAST.SU UOIG 121600Z VRB02MPS 0500 FG SKC 11/07 Q0 NOSIG
AUTOTAF.ME UOIG 121300Z 1214/1223 VRB02MPS 0500 FG NSC TX11/1214Z TN09/1220Z
BECMG 1220/1221 OVC004
BECMG 1221/1222 NSC
 
Хантайское озеро
SYNAR 23176 Исток 121200Z 00000MPS 9999 BKN010CB 24/07 Q1008 RMK QFE748/0998 CLD:8CBCI
(310/37KM)


NOWCAST.SU UOIH 121600Z VRB02MPS 0500 FG SKC 08/06 Q0 NOSIG
AUTOTAF.ME UOIH 121300Z 1214/1223 VRB02MPS 0500 FG NSC TX09/1214Z TN06/1221Z
BECMG 1217/1218 OVC004
BECMG 1218/1219 +SN FG
BECMG 1222/1223 OVC040
 
Игарка
SYNAR 23274 Игарка 121200Z 07001MPS CAVOK 24/13 Q1007 RMK QFE753/1004 CLD:7ACCI


NOWCAST.SU UOII 121600Z VRB02MPS 0500 FG SKC 09/06 Q0 NOSIG
AUTOTAF.ME UOII 121300Z 1214/1223 VRB02MPS 0500 FG NSC TX10/1214Z TN08/1219Z
BECMG 1221/1222 OVC002
 
Снежногорск
SYNAR 23179 Снежногорск 121200Z 01001MPS CAVOK 22/14 Q1008 RMK QFE747/0997 CLD:7CI


NOWCAST.SU UOIS 121600Z VRB02MPS 0500 FG SKC 09/06 Q0 NOSIG
AUTOTAF.ME UOIS 121300Z 1214/1223 VRB02MPS 0500 FG NSC TX10/1214Z TN07/1223Z
BECMG 1220/1221 OVC004
BECMG 1222/1223 NSC
 
Дудинка
SYNAR 23174 Потапово 121200Z 27003MPS 9999 TSRA OVC020CB 24/15 Q1008 RMK QFE752/1003 CLD:8CB
(180/78KM)


NOWCAST.SU UOOD 121600Z VRB02MPS 0500 FG SKC 10/06 Q0 NOSIG
AUTOTAF.ME UOOD 121300Z 1214/1223 VRB02MPS 0500 FG NSC TX11/1214Z TN08/1218Z
 
Ванкор
SYNAR 23274 Игарка 121200Z 07001MPS CAVOK 24/13 Q1007 RMK QFE753/1004 CLD:7ACCI
(110/129KM)


NOWCAST.SU UOOG 121600Z VRB02MPS 0500 FG SKC 12/06 Q0 NOSIG
AUTOTAF.ME UOOG 121300Z 1214/1223 VRB02MPS 0500 FG NSC TX13/1214Z TN10/1219Z
BECMG 1216/1217 HZ
BECMG 1219/1220 FG
 
Северо-Соленое
SYNAR 20978 Караул 121200Z 36006G10MPS 9999 SCT020 22/16 Q1010 RMK QFE754/1006 CLD:6CUAC
(30/120KM)


NOWCAST.SU UOOI 121600Z VRB02MPS 0500 FG SKC 11/06 Q0 NOSIG
AUTOTAF.ME UOOI 121300Z 1214/1223 VRB02MPS 0500 FG NSC TX12/1214Z TN09/1220Z
 
Южно-Соленое
SYNAR 20978 Караул 121200Z 36006G10MPS 9999 SCT020 22/16 Q1010 RMK QFE754/1006 CLD:6CUAC
(30/127KM)


NOWCAST.SU UOOJ 121600Z VRB02MPS 0500 FG SKC 11/06 Q0 NOSIG
AUTOTAF.ME UOOJ 121300Z 1214/1223 VRB02MPS 0500 FG NSC TX12/1214Z TN09/1221Z
 
Факел
SYNAR 20978 Караул 121200Z 36006G10MPS 9999 SCT020 22/16 Q1010 RMK QFE754/1006 CLD:6CUAC
(330/98KM)


NOWCAST.SU UOOK 121600Z VRB02MPS 0500 FG SKC 11/06 Q0 NOSIG
AUTOTAF.ME UOOK 121300Z 1214/1223 VRB02MPS 0500 FG NSC TX12/1214Z TN09/1220Z
 
Пелятка Норильская
SYNAR 20978 Караул 121200Z 36006G10MPS 9999 SCT020 22/16 Q1010 RMK QFE754/1006 CLD:6CUAC
(40/73KM)


NOWCAST.SU UOOL 121600Z VRB02MPS 0500 FG SKC 10/07 Q0 NOSIG
AUTOTAF.ME UOOL 121300Z 1214/1223 VRB02MPS 0500 FG NSC TX11/1214Z TN08/1220Z
BECMG 1219/1220 OVC002
BECMG 1220/1221 NSC
BECMG 1221/1222 OVC002
 
Мессояха
SYNAR 20978 Караул 121200Z 36006G10MPS 9999 SCT020 22/16 Q1010 RMK QFE754/1006 CLD:6CUAC
(10/109KM)


NOWCAST.SU UOOM 121600Z VRB02MPS 0500 FG SKC 12/06 Q0 NOSIG
AUTOTAF.ME UOOM 121300Z 1214/1223 VRB02MPS 0500 FG NSC TX12/1214Z TN09/1220Z
BECMG 1220/1221 OVC004
 
Волочанка
SYNAR 20982 Волочанка 121200Z 11006MPS 9999 BKN066 21/16 Q1012 RMK QFE755/1007 CLD:8ACCS


NOWCAST.SU UOON 121600Z VRB02MPS 0500 FG SKC 09/07 Q0 NOSIG
AUTOTAF.ME UOON 121300Z 1214/1223 VRB02MPS 0500 FG NSC TX11/1214Z TN08/1218Z
FM121700 VRB02MPS 0500 +SN FG VV004
BECMG 1218/1219 OVC002
BECMG 1219/1220 OVC004
BECMG 1222/1223 OVC002
 
Норильск (Алыкель)
METAR UOOO 121600Z 02005MPS CAVOK 21/15 Q1007 R01/CLRD60 NOSIG RMK QFE741/0988


NOWCAST.SU UOOO 121600Z VRB02MPS 0500 FG SKC 11/06 Q0 NOSIG
AUTOTAF.ME UOOO 121300Z 1214/1223 VRB02MPS 0500 FG NSC TX12/1214Z TN09/1221Z
TAF UOOO 121347Z 1215/1315 03003G08MPS 6000 SCT017CB
TEMPO 1215/1218 -TSRA
TEMPO 1218/1303 0500 -SHRA FG BKN003 BKN017CB
BECMG 1223/1302 25005G12MPS
TEMPO 1308/1315 20007G15MPS -TSRA=
Усть-Порт
SYNAR 20978 Караул 121200Z 36006G10MPS 9999 SCT020 22/16 Q1010 RMK QFE754/1006 CLD:6CUAC
(310/66KM)


NOWCAST.SU UOOP 121600Z VRB02MPS 0500 FG SKC 09/05 Q0 NOSIG
AUTOTAF.ME UOOP 121300Z 1214/1223 VRB02MPS 0500 FG NSC TX10/1214Z TN08/1218Z
BECMG 1219/1220 OVC002
BECMG 1220/1221 OVC004
BECMG 1221/1222 NSC
 
Караул
SYNAR 20978 Караул 121200Z 36006G10MPS 9999 SCT020 22/16 Q1010 RMK QFE754/1006 CLD:6CUAC


NOWCAST.SU UOOR 121600Z VRB02MPS 0500 FG VV002 07/06 Q0 NOSIG
AUTOTAF.ME UOOR 121300Z 1214/1223 VRB02MPS 0500 FG NSC TX09/1214Z TN06/1218Z
BECMG 1215/1216 OVC004
BECMG 1218/1219 OVC002
BECMG 1220/1221 OVC004
 
Усть-Тарея
 


NOWCAST.SU UOOU 121600Z VRB02MPS 0500 FG SKC 04/02 Q0 NOSIG
AUTOTAF.ME UOOU 121300Z 1214/1223 VRB02MPS 0500 FG NSC TX04/1214Z TN04/1214Z
BECMG 1216/1217 OVC004
BECMG 1220/1221 NSC
BECMG 1222/1223 OVC004
 
Валек
SYNAR 23078 Норильск 121200Z 32002MPS 9999 SCT020 24/16 Q1009 RMK QFE750/1001 CLD:8CUCS


NOWCAST.SU UOOW 121600Z VRB02MPS 0500 FG SKC 10/07 Q0 NOSIG
AUTOTAF.ME UOOW 121300Z 1214/1223 VRB02MPS 0500 FG NSC TX11/1214Z TN09/1218Z
BECMG 1221/1222 OVC004
BECMG 1222/1223 NSC
 
Туруханск
SYNAR 23472 Туруханск 121200Z 33002MPS 9999 TSRA OVC010CB 16/16 Q1006 RMK QFE751/1001 CLD:8CB


NOWCAST.SU UOTT 121600Z VRB02MPS 0500 FG SKC 09/07 Q0 NOSIG
AUTOTAF.ME UOTT 121300Z 1214/1223 VRB02MPS 0500 FG NSC TX10/1214Z TN08/1218Z
BECMG 1218/1219 OVC004
BECMG 1220/1221 NSC
 
Севастополь (Бельбек)
SYNAR 33998 Ай-Петри 121200Z 14006MPS 9999 SCT010 24/12 Q//// RMK CLD:6CUCI
(120/47KM)


NOWCAST.SU URFB 121600Z VRB02MPS 0500 FG SKC 14/10 Q0 NOSIG
AUTOTAF.ME URFB 121300Z 1214/1223 VRB02MPS 0500 FG NSC TX15/1214Z TN12/1222Z
 
Симферополь
SYNAR 33946 Симферополь 121200Z 07009G12MPS 9999 FEW027CB 34/15 Q1012 RMK QFE742/0990 CLD:8CBACCI


NOWCAST.SU URFF 121600Z VRB02MPS 0500 FG SKC 14/08 Q0 NOSIG
AUTOTAF.ME URFF 121300Z 1214/1223 VRB02MPS 0500 FG NSC TX15/1214Z TN12/1221Z
 
Саки
SYNAR 33946 Симферополь 121200Z 07009G12MPS 9999 FEW027CB 34/15 Q1012 RMK QFE742/0990 CLD:8CBACCI
(100/29KM)


NOWCAST.SU URFI 121600Z VRB02MPS 0500 FG SKC 15/09 Q0 NOSIG
AUTOTAF.ME URFI 121300Z 1214/1223 VRB02MPS 0500 FG NSC TX15/1214Z TN12/1223Z
 
Симферополь (Заводское)
SYNAR 33946 Симферополь 121200Z 07009G12MPS 9999 FEW027CB 34/15 Q1012 RMK QFE742/0990 CLD:8CBACCI
(330/14KM)


NOWCAST.SU URFW 121600Z VRB02MPS 0500 FG SKC 01/01 Q0 NOSIG
AUTOTAF.ME URFW 121300Z 1214/1223 VRB02MPS 0500 FG NSC TX15/1214Z TN11/1223Z
 
Анапа (Витязево)
METAR URKA 121600Z 06007MPS CAVOK 32/16 Q1009 R03/010070 NOSIG RMK QFE752/1003


NOWCAST.SU URKA 121600Z VRB02MPS 0500 FG SKC 17/06 Q0 NOSIG
AUTOTAF.ME URKA 121400Z 1215/1224 VRB02MPS 0500 FG NSC TX17/1215Z TN13/1300Z
TAF URKA 121354Z 1215/1315 05006G12MPS 9999 SCT040CB
TEMPO 1215/1315 09010G17MPS
PROB40 1215/1218 -TSRA=
 


NOSIG
 
Геленджик
SYNAR 37004 Геленджик 121200Z 27002MPS CAVOK 30/23 Q1009 RMK QFE755/1006 CLD:6CS


NOWCAST.SU URKG 121600Z VRB02MPS 0500 FG SKC 16/08 Q0 NOSIG
AUTOTAF.ME URKG 121400Z 1215/1224 VRB02MPS 0500 FG NSC TX16/1215Z TN14/1223Z
 
Краснодар (Пашковский)
METAR URKK 121600Z 05008MPS CAVOK 34/13 Q1008 R05R/CLRD70 NOSIG RMK QFE753


NOWCAST.SU URKK 121600Z VRB02MPS 0500 FG SKC 16/07 Q0 NOSIG
AUTOTAF.ME URKK 121400Z 1215/1224 VRB02MPS 0500 FG NSC TX16/1215Z TN13/1223Z
TAF URKK 121351Z 1215/1315 07007G14MPS 9999 SCT030CB
TEMPO 1218/1309 05003G08MPS=
Майкоп
SYNAR 37021 Майкоп 121200Z 08004MPS 9999 SCT033 37/12 Q1010 RMK QFE738/0984 CLD:6CUCI


NOWCAST.SU URKM 121600Z VRB02MPS 0500 FG SKC 01/01 Q0 NOSIG
AUTOTAF.ME URKM 121400Z 1215/1224 VRB02MPS 0500 FG NSC TX17/1215Z TN13/1223Z
 
Геленджик (Геленджик Бухта)
SYNAR 37004 Геленджик 121200Z 27002MPS CAVOK 30/23 Q1009 RMK QFE755/1006 CLD:6CS


NOWCAST.SU URKN 121600Z VRB02MPS 0500 FG SKC 16/07 Q0 NOSIG
AUTOTAF.ME URKN 121400Z 1215/1224 VRB02MPS 0500 FG NSC TX16/1215Z TN14/1223Z
 
Армавир (Центральный)
SYNAR 37031 Армавир 121200Z 02004G11MPS 9999 FEW020 36/12 Q1010 RMK QFE743/0991 CLD:3CUCI


TSAR URKR 121600Z LAST HOUR TS OBS: 140/162-181KM
NEAREST TS 140/162KM
NOWCAST.SU URKR 121600Z VRB02MPS 0500 FG SKC 01/01 Q0 NOSIG
AUTOTAF.ME URKR 121400Z 1215/1224 VRB02MPS 0500 FG NSC TX16/1215Z TN12/1223Z
 
Энем-АС
SYNAR 37014 Горячий Ключ 121200Z 05001MPS 9999 FEW020CB 37/10 Q1009 RMK QFE751/1001 CLD:6CBACCC
(160/37KM)


NOWCAST.SU URKS 121600Z VRB02MPS 0500 FG SKC 17/06 Q0 NOSIG
AUTOTAF.ME URKS 121400Z 1215/1224 VRB02MPS 0500 FG NSC TX17/1215Z TN13/1223Z
 
Тихорецк
SYNAR 34838 Тихорецк 121200Z 04004MPS 9999 FEW020 35/09 Q1011 RMK QFE751/1001 CLD:6CUCC


NOWCAST.SU URKT 121600Z VRB02MPS 0500 FG SKC 16/04 Q0 NOSIG
AUTOTAF.ME URKT 121400Z 1215/1224 VRB02MPS 0500 FG NSC TX17/1215Z TN12/1221Z
 
Краснодар (Белевцы)
SYNAR 37014 Горячий Ключ 121200Z 05001MPS 9999 FEW020CB 37/10 Q1009 RMK QFE751/1001 CLD:6CBACCC
(180/69KM)


NOWCAST.SU URKY 121600Z VRB02MPS 0500 FG SKC 17/05 Q0 NOSIG
AUTOTAF.ME URKY 121400Z 1215/1224 VRB02MPS 0500 FG NSC TX17/1215Z TN13/1221Z
 
Новотитаровская (Азимут)
SYNAR 37014 Горячий Ключ 121200Z 05001MPS 9999 FEW020CB 37/10 Q1009 RMK QFE751/1001 CLD:6CBACCC
(170/71KM)


NOWCAST.SU URKZ 121600Z VRB02MPS 0500 FG SKC 17/05 Q0 NOSIG
AUTOTAF.ME URKZ 121400Z 1215/1224 VRB02MPS 0500 FG NSC TX17/1215Z TN13/1222Z
 
Ессентуки
SYNAR 37123 Кисловодск 121200Z 13002MPS 9999 BKN033 27/11 Q1017 RMK QFE680/0906 CLD:7SCCI
(210/20KM)


TSAR URME 121600Z LAST HOUR TS OBS: 150/166KM, 160/155-160KM, 170/149-151KM, 180/47KM, 190/74KM, 200/50KM, 210/57KM, 220/28KM, 240/39KM
NEAREST TS 220/28KM
NOWCAST.SU URME 121600Z VRB02MPS 0500 FG SKC 01/01 Q0 TEMPO -TSRA
AUTOTAF.ME URME 121400Z 1215/1224 VRB02MPS 0500 FG NSC TX16/1215Z TN10/1222Z
 
Грозный (Северный)
METAR URMG 121600Z 25004MPS CAVOK 33/11 Q1008 R26/090070 NOSIG RMK QFE741/0989


NOWCAST.SU URMG 121600Z VRB02MPS 0500 FG SKC 14/10 Q0 NOSIG
AUTOTAF.ME URMG 121400Z 1215/1224 VRB02MPS 0500 FG NSC TX15/1215Z TN10/1223Z
TAF URMG 121400Z 1215/1224 25003G08MPS 9999 SCT060=
Кисловодск
SYNAR 37123 Кисловодск 121200Z 13002MPS 9999 BKN033 27/11 Q1017 RMK QFE680/0906 CLD:7SCCI


TSAR URMK 121600Z LAST HOUR TS OBS: 150/156-194KM, 160/37-172KM, 170/139-164KM, 180/10-60KM, 200/38KM, 240/19KM
NEAREST TS 180/10KM
NOWCAST.SU URMK 121600Z VRB02MPS 0500 FG SKC 01/01 Q0 TEMPO -TSRA
AUTOTAF.ME URMK 121400Z 1215/1224 VRB02MPS 0500 FG NSC TX13/1215Z TN09/1222Z
 
Махачкала (Уйташ)
METAR URML 121600Z 16003MPS 9999 NSC 30/18 Q1007 R14/01//70 NOSIG RMK QFE755/1007


NOWCAST.SU URML 121600Z VRB02MPS 0500 FG SKC 15/09 Q0 NOSIG
AUTOTAF.ME URML 121400Z 1215/1224 VRB02MPS 0500 FG NSC TX15/1215Z TN12/1221Z
TAF URML 121400Z 1215/1224 16003G10MPS 9999 NSC
TEMPO 1215/1221 22003G10MPS=
Минеральные Воды
METAR URMM 121600Z 20002MPS 9999 NSC 31/15 Q1010 R11/090070 NOSIG RMK QFE729/0973


TSAR URMM 121600Z LAST HOUR TS OBS: 160/175KM, 170/168-171KM, 180/167-167KM, 200/69-98KM, 210/75KM, 220/55-84KM, 230/66KM
NEAREST TS 220/55KM
NOWCAST.SU URMM 121600Z VRB02MPS 0500 FG SKC 01/01 Q0 NOSIG
AUTOTAF.ME URMM 121400Z 1215/1224 VRB02MPS 0500 FG NSC TX16/1215Z TN11/1222Z
TAF URMM 121400Z 1215/1315 10003G08MPS 9999 BKN060 TX32/1312Z TN18/1302Z
BECMG 1305/1307 11006G13MPS
TEMPO 1307/1315 05007G14MPS=
Нальчик
METAR URMN 121600Z 23003MPS 9999 BKN120 27/15 Q1010 R24/010070 NOSIG RMK QFE721


TSAR URMN 121600Z LAST HOUR TS OBS: 170/88-115KM, 180/87-139KM, 190/90-143KM, 200/94-124KM, 210/101KM, 260/83KM, 280/68-98KM, 290/104KM, 300/90KM
NEAREST TS 280/68KM
NOWCAST.SU URMN 121600Z VRB02MPS 0500 FG SKC 01/01 Q0 NOSIG
AUTOTAF.ME URMN 121400Z 1215/1224 VRB02MPS 0500 FG NSC TX13/1215Z TN10/1222Z
TAF AMD URMN 121500Z 1215/1224 24003G10MPS 9999 BKN020CB=
Владикавказ (Беслан)
METAR URMO 121600Z 31002MPS 9999 NSC 25/18 Q1012 R27/010070 NOSIG RMK QFE714/0953


TSAR URMO 121600Z LAST HOUR TS OBS: 200/163KM, 210/95-125KM, 220/104-144KM, 230/87-156KM, 240/100-140KM, 250/127KM
NEAREST TS 230/87KM
NOWCAST.SU URMO 121600Z VRB02MPS 0500 FG SKC 01/01 Q0 NOSIG
AUTOTAF.ME URMO 121400Z 1215/1224 VRB02MPS 0500 FG NSC TX13/1215Z TN09/1222Z
TAF URMO 121400Z 1215/1224 25003G08MPS 9999 BKN050CB=
Магас
SYNAR 37218 Назрань 121200Z 15002MPS 9999 BKN033 29/14 Q1014 RMK QFE702/0936 CLD:7CUCS
(210/23KM)


TSAR URMS 121600Z LAST HOUR TS OBS: 220/126-155KM, 230/137-166KM, 240/121-135KM
NEAREST TS 240/121KM
NOWCAST.SU URMS 121600Z VRB02MPS 0500 FG SKC 01/01 Q0 NOSIG
AUTOTAF.ME URMS 121400Z 1215/1224 VRB02MPS 0500 FG NSC TX15/1215Z TN10/1223Z
 
Ставрополь (Шпаковское)
METAR URMT 121600Z 04007MPS CAVOK 30/11 Q1012 R07/010070 NOSIG RMK QFE719


TSAR URMT 121600Z LAST HOUR TS OBS: 160/145-173KM, 170/141-168KM
NEAREST TS 170/141KM
NOWCAST.SU URMT 121600Z VRB02MPS 0500 FG SKC 01/01 Q0 NOSIG
AUTOTAF.ME URMT 121400Z 1215/1224 VRB02MPS 0500 FG NSC TX16/1215Z TN11/1223Z
TAF URMT 121400Z 1215/1224 06006G12MPS 9999 SCT030=
Грачевка
SYNAR 34949 Ставрополь 121200Z 04006MPS 9999 BKN033 34/06 Q1013 RMK QFE719/0959 CLD:5SC
(250/29KM)


TSAR URMX 121600Z LAST HOUR TS OBS: 170/150KM, 180/149KM
NEAREST TS 180/149KM
NOWCAST.SU URMX 121600Z VRB02MPS 0500 FG SKC 16/05 Q0 NOSIG
AUTOTAF.ME URMX 121400Z 1215/1224 VRB02MPS 0500 FG NSC TX17/1215Z TN11/1223Z
 
Казачья
SYNAR 34949 Ставрополь 121200Z 04006MPS 9999 BKN033 34/06 Q1013 RMK QFE719/0959 CLD:5SC
(60/38KM)


TSAR URMZ 121600Z LAST HOUR TS OBS: 150/135-171KM, 160/157KM
NEAREST TS 150/135KM
NOWCAST.SU URMZ 121600Z VRB02MPS 0500 FG SKC 01/01 Q0 NOSIG
AUTOTAF.ME URMZ 121400Z 1215/1224 VRB02MPS 0500 FG NSC TX16/1215Z TN12/1223Z
 
Шахты
SYNAR 34635 Шахты 121200Z 03004MPS CAVOK 32/04 Q1014 RMK QFE750/1000 CLD:SKC


NOWCAST.SU URRH 121600Z VRB02MPS 0500 FG SKC 15/02 Q0 NOSIG
AUTOTAF.ME URRH 121400Z 1215/1224 VRB02MPS 0500 FG NSC TX16/1215Z TN11/1222Z
 
Миллерово
SYNAR 34438 Миллерово 121200Z 01004MPS //// //// 32/09 Q1017 RMK QFE748/0998 CLD:NO_OBSERVATIONS


NOWCAST.SU URRI 121600Z VRB02MPS 0500 FG SKC 14/03 Q0 NOSIG
AUTOTAF.ME URRI 121400Z 1215/1224 VRB02MPS 0500 FG NSC TX15/1215Z TN09/1300Z
 
Ростов-на-Дону (Платов)
METAR URRP 121600Z 06006MPS CAVOK 32/04 Q1013 R05/CLRD70 NOSIG RMK QFE755/1006


NOWCAST.SU URRP 121600Z VRB02MPS 0500 FG SKC 15/02 Q0 NOSIG
AUTOTAF.ME URRP 121400Z 1215/1224 VRB02MPS 0500 FG NSC TX16/1215Z TN11/1222Z
TAF URRP 121355Z 1215/1315 05005G12MPS 9999 FEW030CB TX33/1311Z TN21/1301Z
TEMPO 1215/1218 07007G14MPS
TEMPO 1306/1315 07007G14MPS=
Волгодонск
SYNAR 34646 Цимлянск 121200Z 08004MPS CAVOK 30/12 Q1014 RMK QFE754/1006 CLD:SKC


NOWCAST.SU URRQ 121600Z VRB02MPS 0500 FG SKC 14/05 Q0 NOSIG
AUTOTAF.ME URRQ 121400Z 1215/1224 VRB02MPS 0500 FG NSC TX15/1215Z TN11/1223Z
 
Ростов-на-Дону
SYNAR 34735 Зерноград 121200Z 06003MPS CAVOK 34/07 Q1013 RMK QFE752/1002 CLD:SKC
(140/59KM)


NOWCAST.SU URRR 121600Z VRB02MPS 0500 FG SKC 16/02 Q0 NOSIG
AUTOTAF.ME URRR 121400Z 1215/1224 VRB02MPS 0500 FG NSC TX16/1215Z TN11/1300Z
 
Таганрог (Южный)
SYNAR 34720 Таганрог 121200Z 11001MPS CAVOK 35/18 Q1013 RMK QFE756/1009 CLD:2CI


NOWCAST.SU URRT 121600Z VRB02MPS 0500 FG SKC 16/04 Q0 NOSIG
AUTOTAF.ME URRT 121400Z 1215/1224 VRB02MPS 0500 FG NSC TX16/1215Z TN12/1223Z
 
Лазаревское
SYNAR 37018 Туапсе 121200Z 25002MPS 9999 FEW033 33/25 Q1009 RMK QFE751/1001 CLD:2CUCI
(310/30KM)


NOWCAST.SU URSA 121600Z VRB02MPS 0500 FG SKC 14/10 Q0 NOSIG
AUTOTAF.ME URSA 121400Z 1215/1224 VRB02MPS 0500 FG NSC TX14/1215Z TN12/1221Z
BECMG 1221/1222 OVC002
BECMG 1223/1224 OVC004
 
Сочи
METAR URSS 121600Z 27003MPS 9999 FEW027 28/24 Q1007 WS ALL RWY R02/010070 R06/010070 NOSIG RMK R06/29004G09MPS MT OBSC QFE754


NOWCAST.SU URSS 121600Z VRB02MPS 0500 FG SKC 13/11 Q0 NOSIG
AUTOTAF.ME URSS 121400Z 1215/1224 VRB02MPS 0500 FG NSC TX14/1215Z TN12/1220Z
BECMG 1216/1217 OVC004
BECMG 1218/1219 NSC
TAF URSS 121355Z 1215/1315 29006G11MPS 9999 SCT016 SCT040CB
TEMPO 1215/1217 VRB07G12MPS -TSRA
BECMG 1217/1218 05003G08MPS BKN016
BECMG 1300/1302 04006MPS FEW016 SCT100
BECMG 1306/1307 25004G09MPS FEW030 SCT100
BECMG 1308/1309 28006G11MPS FEW030CB
TEMPO 1309/1315 -TSRA=
Вертолетчик
SYNAR 37171 Сочи (Адлер) 121200Z 32005MPS 9999 TSRA BKN050CB 30/24 Q1008 RMK QFE755/1006 CLD:6CB
(160/30KM)


NOWCAST.SU URSW 121600Z VRB02MPS 0500 FG SKC 13/11 Q0 NOSIG
AUTOTAF.ME URSW 121400Z 1215/1224 VRB02MPS 0500 FG NSC TX14/1215Z TN11/1300Z
BECMG 1216/1217 OVC004
BECMG 1218/1219 NSC
 
Астрахань
METAR URWA 121600Z 35006MPS CAVOK 30/04 Q1009 R27/010070 NOSIG RMK QFE758/1011


NOWCAST.SU URWA 121600Z VRB02MPS 0500 FG SKC 14/04 Q0 NOSIG
AUTOTAF.ME URWA 121400Z 1215/1224 VRB02MPS 0500 FG NSC TX15/1215Z TN11/1221Z
TAF URWA 121400Z 1215/1224 35005G11MPS CAVOK
TEMPO 1215/1220 02006G12MPS=
Элиста
METAR URWI 121600Z AUTO 04007MPS 9999 // NSC 30/02 Q1012


NOWCAST.SU URWI 121600Z VRB02MPS 0500 FG SKC 15/02 Q0 NOSIG
AUTOTAF.ME URWI 121400Z 1215/1224 VRB02MPS 0500 FG NSC TX16/1215Z TN10/1222Z
TAF AMD URWI 121555Z 1215/1224 CNL=
Камышин
SYNAR 34363 Камышин 121200Z 36006MPS CAVOK 29/06 Q1014 RMK QFE749/0999 CLD:1CI


NOWCAST.SU URWK 121600Z VRB02MPS 0500 FG SKC 13/04 Q0 NOSIG
AUTOTAF.ME URWK 121400Z 1215/1224 VRB02MPS 0500 FG NSC TX14/1215Z TN09/1223Z
 
МЛСК им. В.Филановского
SYNAR 34984 Лагань 121200Z 35005MPS 9999 FEW033 35/08 Q1009 RMK QFE758/1011 CLD:2SC
(300/99KM)


NOWCAST.SU URWO 121600Z VRB02MPS 0500 FG SKC 15/08 Q0 NOSIG
AUTOTAF.ME URWO 121400Z 1215/1224 VRB02MPS 0500 FG NSC TX15/1215Z TN14/1221Z
 
Волгоград (Гумрак)
METAR URWW 121600Z 01005MPS CAVOK 27/06 Q1014 R05/010070 NOSIG


NOWCAST.SU URWW 121600Z VRB02MPS 0500 FG SKC 14/03 Q0 NOSIG
AUTOTAF.ME URWW 121400Z 1215/1224 VRB02MPS 0500 FG NSC TX15/1215Z TN09/1223Z
TAF URWW 121357Z 1215/1224 36005G14MPS 9999 SCT030
TEMPO 1215/1224 03008G15MPS=
Челябинск (Баландино)
METAR USCC 121600Z 36006MPS 9999 -SHRA SCT013CB 20/18 Q1004 R27/000060 NOSIG RMK QFE733


TSAR USCC 121600Z LAST HOUR TS OBS: 170/142-163KM, 180/120-162KM, 190/121-167KM, 200/126-175KM, 210/136-185KM, 220/149KM
NEAREST TS 180/120KM
NOWCAST.SU USCC 121600Z VRB02MPS 0500 FG SKC 01/01 Q0 NOSIG
AUTOTAF.ME USCC 121400Z 1215/1224 VRB02MPS 0500 FG NSC TX12/1215Z TN10/1219Z
FM122300 VRB02MPS 0500 +SN FG VV004
TAF USCC 121350Z 1215/1315 02003G14MPS 9999 BKN016CB
TEMPO 1215/1315 36008G18MPS 2100 -TSRA BKN011CB=
Устиново
SYNAR 28647 Миасс 121200Z 01004MPS 9999 BKN020CB 21/17 Q1005 RMK QFE723/0965 CLD:7CB
(20/17KM)


TSAR USCD 121600Z LAST HOUR TS OBS: 130/106-130KM, 140/89-145KM, 150/82-131KM, 160/72-120KM, 170/70-113KM, 180/69-112KM, 190/26-113KM, 200/51-119KM, 210/31-124KM, 220/64-88KM, 230/7-73KM, 250/18KM
NEAREST TS 230/7KM
NOWCAST.SU USCD 121600Z VRB02MPS 0500 FG VV002 01/01 Q0 TEMPO -TSRA
AUTOTAF.ME USCD 121400Z 1215/1224 VRB02MPS 0500 FG VV004 TX10/1215Z TN09/1218Z
BECMG 1216/1217 NSC
BECMG 1219/1220 +SN FG
BECMG 1220/1221 OVC004
 
Челябинск (Шагол)
SYNAR 28645 Челябинск 121200Z 34005G10MPS 9999 BKN010CB 25/21 Q1004 RMK QFE731/0975 CLD:6CB
(180/12KM)


TSAR USCG 121600Z LAST HOUR TS OBS: 170/117-161KM, 180/115-157KM, 190/116-162KM, 200/121-170KM, 210/131-175KM, 220/129-145KM, 230/113KM, 240/101KM
NEAREST TS 240/101KM
NOWCAST.SU USCG 121600Z VRB02MPS 0500 FG SKC 01/01 Q0 NOSIG
AUTOTAF.ME USCG 121400Z 1215/1224 VRB02MPS 0500 FG NSC TX12/1215Z TN09/1300Z
BECMG 1220/1221 +SN FG
BECMG 1222/1223 OVC004
 
Магнитогорск
METAR USCM 121605Z 36009MPS 9999 -SHRA BKN011CB 17/16 Q1000 R36/290352 TEMPO 36022MPS 1000 TSRAGR VV003 RMK QFE712


TSAR USCM 121600Z LAST HOUR TS OBS: 010/117KM, 020/77-170KM, 030/57-175KM, 040/64-129KM, 050/73-115KM, 060/103KM, 110/85KM, 120/107KM, 130/86-120KM, 140/126-151KM, 150/137-188KM, 160/147-176KM, 170/164-169KM, 180/164KM
NEAREST TS 30/57KM
NOWCAST.SU USCM 121600Z VRB02MPS 0500 +SN FG VV002 01/01 Q0 NOSIG
AUTOTAF.ME USCM 121400Z 1215/1224 VRB02MPS 0500 +SN FG VV004 TX09/1215Z TN08/1222Z
TAF USCM 121350Z 1215/1224 02005G15MPS 9999 BKN016CB
TEMPO 1215/1224 36010G22MPS 1600 TSRAGR OVC011CB=
Сабетта
METAR USDA 121600Z AUTO 35008MPS 9999 ///004/// 02/02 Q1016 RMK QFE761/1014


NOWCAST.SU USDA 121600Z VRB02MPS 0500 FG VV001 03/01 Q0 NOSIG
AUTOTAF.ME USDA 121400Z 1215/1224 VRB02MPS 0500 FG VV004 TX03/1215Z TN02/1218Z
BECMG 1215/1216 OVC002
TAF AMD USDA 121359Z 1212/1221 CNL=
Бованенково
SYNAR 20967 Сеяха 121200Z 01005MPS CAVOK 10/07 Q1015 RMK QFE759/1013 CLD:6ACCI
(90/158KM)


NOWCAST.SU USDB 121600Z VRB02MPS 0500 FG SKC 04/02 Q0 NOSIG
AUTOTAF.ME USDB 121400Z 1215/1224 VRB02MPS 0500 FG NSC TX04/1215Z TN03/1218Z
BECMG 1219/1220 OVC004
 
Салехард
SYNAR 23330 Салехард 121200Z 32003MPS 9999 RESHRA SCT033 13/08 Q1016 RMK QFE760/1013 CLD:8SCACCI


NOWCAST.SU USDD 121600Z VRB02MPS 0500 FG BKN068 08/03 Q0 NOSIG
AUTOTAF.ME USDD 121400Z 1215/1224 VRB02MPS 0500 FG NSC TX09/1215Z TN05/1300Z
BECMG 1219/1220 BKN040
BECMG 1221/1222 NSC
FM130000 VRB02MPS 0500 +SN FG VV004
 
 


NOSIG
 
Гыда
SYNAR 20871 Сопочная Карга 121200Z 08008MPS 9999 FEW020 18/12 Q1013 RMK QFE759/1012 CLD:6CUAC
(50/184KM)


NOWCAST.SU USDG 121600Z VRB02MPS 0500 FG SKC 07/04 Q0 NOSIG
AUTOTAF.ME USDG 121400Z 1215/1224 VRB02MPS 0500 FG NSC TX07/1215Z TN05/1221Z
BECMG 1218/1219 OVC004
BECMG 1221/1222 OVC002
BECMG 1223/1224 NSC
 
Харасавей
SYNAR 20864 Тамбей 121200Z 01006MPS //// //// 04/03 Q1017 RMK QFE762/1016 CLD:NO_OBSERVATIONS
(80/176KM)


NOWCAST.SU USDH 121600Z VRB02MPS 0500 FG VV005 01/00 Q0 NOSIG
AUTOTAF.ME USDH 121400Z 1215/1224 VRB02MPS 0500 FG NSC TX01/1215Z TN00/1221Z
BECMG 1215/1216 OVC004
BECMG 1223/1224 NSC
 
Антипаюта
SYNAR 23058 Антипаюта 121200Z 36005MPS 9999 OVC020 20/14 Q1011 RMK QFE757/1010 CLD:8SC


NOWCAST.SU USDI 121600Z VRB02MPS 0500 FG SKC 07/06 Q0 NOSIG
AUTOTAF.ME USDI 121400Z 1215/1224 VRB02MPS 0500 FG NSC TX08/1217Z TN07/1215Z
 
Мыс Каменный
SYNAR 23242 Новый Порт 121200Z 31005MPS CAVOK 21/14 Q1012 RMK QFE757/1010 CLD:7AC
(200/92KM)


NOWCAST.SU USDK 121600Z VRB02MPS 0500 FG VV002 04/02 Q0 NOSIG
AUTOTAF.ME USDK 121400Z 1215/1224 VRB02MPS 0500 FG VV004 TX04/1215Z TN03/1218Z
BECMG 1219/1220 NSC
BECMG 1221/1222 OVC004
 
Лабытнанги
SYNAR 23330 Салехард 121200Z 32003MPS 9999 RESHRA SCT033 13/08 Q1016 RMK QFE760/1013 CLD:8SCACCI
(150/19KM)


NOWCAST.SU USDL 121600Z VRB02MPS 0500 FG SKC 09/03 Q0 NOSIG
AUTOTAF.ME USDL 121400Z 1215/1224 VRB02MPS 0500 FG NSC TX10/1215Z TN06/1223Z
FM122200 VRB02MPS 0500 +SN FG BKN040
FM122300 VRB02MPS 1200 SN BR OVC040
 
Утренний
 


NOWCAST.SU USDM 121600Z VRB02MPS 0500 FG SKC 06/03 Q0 NOSIG
AUTOTAF.ME USDM 121400Z 1215/1224 VRB02MPS 0500 FG NSC TX07/1215Z TN05/1219Z
BECMG 1220/1221 OVC004
BECMG 1221/1222 NSC
 
Толька
SYNAR 23662 Толька 121200Z 05001MPS 9999 RETS SCT020CB 24/14 Q1005 RMK QFE750/1001 CLD:7CBCI


NOWCAST.SU USDO 121600Z VRB02MPS 0500 FG SKC 10/07 Q0 NOSIG
AUTOTAF.ME USDO 121400Z 1215/1224 VRB02MPS 0500 FG NSC TX10/1215Z TN07/1221Z
BECMG 1222/1223 +SN FG
BECMG 1223/1224 OVC004
 
Красноселькуп
SYNAR 23465 Красноселькуп 121200Z 05001MPS 9999 BKN020CB 24/11 Q1006 RMK QFE752/1003 CLD:6CB


NOWCAST.SU USDP 121600Z VRB02MPS 0500 FG SKC 09/07 Q0 NOSIG
AUTOTAF.ME USDP 121400Z 1215/1224 VRB02MPS 0500 FG NSC TX10/1215Z TN08/1218Z
 
Яр-Сале
SYNAR 23345 Ныда 121200Z 02007MPS 9999 SCT010CB 19/15 Q1011 RMK QFE757/1010 CLD:4CB
(110/96KM)


NOWCAST.SU USDR 121600Z VRB02MPS 0500 FG SKC 10/04 Q0 NOSIG
AUTOTAF.ME USDR 121400Z 1215/1224 VRB02MPS 0500 FG NSC TX11/1215Z TN06/1221Z
 
Тарко-Сале
SYNAR 23552 Тарко-Сале 121200Z 34001MPS 9999 FEW033CB 22/16 Q1007 RMK QFE752/1003 CLD:8CBACCS


NOWCAST.SU USDS 121600Z VRB02MPS 0500 FG SKC 10/08 Q0 NOSIG
AUTOTAF.ME USDS 121400Z 1215/1224 VRB02MPS 0500 FG NSC TX10/1215Z TN08/1219Z
BECMG 1217/1218 OVC004
BECMG 1223/1224 NSC
 
Тазовский
SYNAR 23256 Тазовский 121200Z 02005MPS 9999 TSRA SCT023CB 19/18 Q1009 RMK QFE754/1005 CLD:6CBCI


NOWCAST.SU USDT 121600Z VRB02MPS 0500 FG SKC 09/06 Q0 NOSIG
AUTOTAF.ME USDT 121400Z 1215/1224 VRB02MPS 0500 FG NSC TX10/1215Z TN06/1220Z
BECMG 1221/1222 OVC004
 
Уренгой
SYNAR 23453 Уренгой 121200Z 01002MPS 9999 SCT033 23/15 Q1007 RMK QFE753/1004 CLD:3CU


NOWCAST.SU USDU 121600Z VRB02MPS 0500 FG SKC 11/07 Q0 NOSIG
AUTOTAF.ME USDU 121400Z 1215/1224 VRB02MPS 0500 FG NSC TX11/1215Z TN08/1221Z
BECMG 1218/1219 OVC004
BECMG 1222/1223 NSC
 
Новый Порт
SYNAR 23242 Новый Порт 121200Z 31005MPS CAVOK 21/14 Q1012 RMK QFE757/1010 CLD:7AC


NOWCAST.SU USDW 121600Z VRB02MPS 0500 FG SKC 07/03 Q0 NOSIG
AUTOTAF.ME USDW 121400Z 1215/1224 VRB02MPS 0500 FG NSC TX08/1215Z TN06/1219Z
 
Березово
SYNAR 23631 Березово 121200Z 30006MPS 2000 DZ OVC009 11/10 Q1015 RMK QFE758/1011 CLD:8ST


NOWCAST.SU USHB 121600Z VRB02MPS 0500 +SN FG VV048 06/05 Q0 NOSIG
AUTOTAF.ME USHB 121400Z 1215/1224 VRB02MPS 0500 FG NSC TX07/1215Z TN06/1216Z
FM121600 VRB02MPS 0500 +SN FG VV040
BECMG 1223/1224 OVC008
 
Ханты-Мансийск
METAR USHH 121600Z 02003MPS 340V070 CAVOK 23/15 Q1009 R06/010060 NOSIG


NOWCAST.SU USHH 121600Z VRB02MPS 0500 FG BKN085 12/08 Q0 NOSIG
AUTOTAF.ME USHH 121400Z 1215/1224 VRB02MPS 0500 FG NSC TX12/1215Z TN10/1219Z
TAF USHH 121338Z 1215/1315 01003G12MPS 9999 BKN020
TEMPO 1215/1221 VRB18MPS 5000 -TSRA SQ SCT006 BKN016CB
TEMPO 1221/1302 5000 BR MIFG SCT002 BKN016
TEMPO 1306/1315 -TSRA BKN016CB=
Игрим
SYNAR 23631 Березово 121200Z 30006MPS 2000 DZ OVC009 11/10 Q1015 RMK QFE758/1011 CLD:8ST
(20/85KM)


NOWCAST.SU USHI 121600Z VRB02MPS 0500 FG SKC 07/05 Q0 NOSIG
AUTOTAF.ME USHI 121400Z 1215/1224 VRB02MPS 0500 FG NSC TX07/1215Z TN06/1222Z
BECMG 1220/1221 OVC004
 
Междуреченский
SYNAR 28064 Леуши 121200Z 36005MPS 9999 BKN020CB 22/18 Q1009 RMK QFE750/1000 CLD:8CBACCI
(300/11KM)


TSAR USHM 121600Z LAST HOUR TS OBS: 140/107-135KM, 150/101-150KM, 160/92-157KM, 170/89-147KM, 180/88-165KM, 190/145-169KM
NEAREST TS 180/88KM
NOWCAST.SU USHM 121600Z VRB02MPS 0500 +SN FG VV002 09/09 Q0 NOSIG
AUTOTAF.ME USHM 121400Z 1215/1224 VRB02MPS 0500 +SN FG VV004 TX09/1215Z TN08/1221Z
BECMG 1217/1218 NSC
BECMG 1218/1219 FG
BECMG 1219/1220 OVC004
 
Нягань
SYNAR 23823 Вонъеган 121200Z 01003MPS //// //// 17/11 Q1014 RMK QFE750/1000 CLD:NO_OBSERVATIONS
(240/41KM)


NOWCAST.SU USHN 121600Z VRB02MPS 0500 FG SKC 08/05 Q0 NOSIG
AUTOTAF.ME USHN 121400Z 1215/1224 VRB02MPS 0500 FG NSC TX09/1215Z TN07/1218Z
BECMG 1222/1223 OVC004
 
Горноправдинск
SYNAR 23939 Алтай 121200Z 03003MPS //// //// 26/17 Q1008 RMK QFE753/1004 CLD:NO_OBSERVATIONS
(300/59KM)


TSAR USHP 121600Z LAST HOUR TS OBS: 190/106-124KM, 200/92-175KM, 210/96-180KM, 220/102KM
NEAREST TS 200/92KM
NOWCAST.SU USHP 121600Z VRB02MPS 0500 FG SKC 12/08 Q0 NOSIG
AUTOTAF.ME USHP 121400Z 1215/1224 VRB02MPS 0500 FG NSC TX13/1215Z TN09/1222Z
 
Белоярский
SYNAR 23632 Казым 121200Z 32002MPS 9999 OVC010CB 17/12 Q1013 RMK QFE757/1009 CLD:8CB
(80/26KM)


NOWCAST.SU USHQ 121600Z VRB02MPS 0500 FG SKC 09/05 Q0 NOSIG
AUTOTAF.ME USHQ 121400Z 1215/1224 VRB02MPS 0500 FG NSC TX09/1215Z TN07/1221Z
 
Советский
SYNAR 23823 Вонъеган 121200Z 01003MPS //// //// 17/11 Q1014 RMK QFE750/1000 CLD:NO_OBSERVATIONS
(40/98KM)


NOWCAST.SU USHS 121600Z VRB02MPS 0500 FG SKC 09/05 Q0 NOSIG
AUTOTAF.ME USHS 121400Z 1215/1224 VRB02MPS 0500 FG NSC TX09/1215Z TN07/1223Z
 
Урай
SYNAR 23929 Шаим 121200Z 01004MPS 9999 BKN020 21/14 Q1011 RMK QFE753/1004 CLD:7SC
(310/41KM)


TSAR USHU 121600Z LAST HOUR TS OBS: 150/161-183KM, 160/178KM
NEAREST TS 150/161KM
NOWCAST.SU USHU 121600Z VRB02MPS 0500 +SN FG VV002 08/07 Q0 NOSIG
AUTOTAF.ME USHU 121400Z 1215/1224 VRB02MPS 0500 +SN FG VV004 TX08/1215Z TN07/1223Z
BECMG 1216/1217 FG
 
Няксимволь
SYNAR 23724 Няксимволь 121200Z 32003MPS 9999 OVC033 17/09 Q1016 RMK QFE757/1009 CLD:8SC


NOWCAST.SU USHW 121600Z VRB02MPS 0500 FG SKC 09/04 Q0 NOSIG
AUTOTAF.ME USHW 121400Z 1215/1224 VRB02MPS 0500 FG NSC TX09/1215Z TN07/1222Z
 
Ижевск
SYNAR 28411 Ижевск 121200Z 35004G09MPS 9999 OVC020 15/09 Q1015 RMK QFE746/0995 CLD:8SC


NOWCAST.SU USII 121600Z VRB02MPS 0500 FG SKC 09/04 Q0 NOSIG
AUTOTAF.ME USII 121400Z 1215/1224 VRB02MPS 0500 FG NSC TX09/1215Z TN07/1221Z
 
Киров (Победилово)
SYNAR 27199 Киров 121200Z 01003G07MPS 9999 BKN033 17/06 Q1020 RMK QFE750/1001 CLD:6CU
(60/20KM)


NOWCAST.SU USKK 121600Z VRB02MPS 0500 FG SKC 09/03 Q0 NOSIG
AUTOTAF.ME USKK 121400Z 1215/1224 VRB02MPS 0500 FG NSC TX09/1215Z TN04/1223Z
 
Котельнич
SYNAR 27283 Котельнич 121200Z 03005G08MPS 9999 BKN020 18/08 Q1021 RMK QFE754/1005 CLD:6SC


NOWCAST.SU USKO 121600Z VRB02MPS 0500 FG SKC 09/04 Q0 NOSIG
AUTOTAF.ME USKO 121400Z 1215/1224 VRB02MPS 0500 FG NSC TX09/1215Z TN04/1223Z
BECMG 1221/1222 OVC004
 
КС Лонг-Юганская
SYNAR 23445 Надым 121200Z 34005MPS 9999 OVC024 20/15 Q1011 RMK QFE756/1008 CLD:8SC
(40/112KM)


NOWCAST.SU USML 121600Z VRB02MPS 0500 FG SKC 10/05 Q0 NOSIG
AUTOTAF.ME USML 121400Z 1215/1224 VRB02MPS 0500 FG NSC TX11/1215Z TN08/1219Z
 
Надым
SYNAR 23445 Надым 121200Z 34005MPS 9999 OVC024 20/15 Q1011 RMK QFE756/1008 CLD:8SC


NOWCAST.SU USMM 121600Z VRB02MPS 0500 FG SKC 11/06 Q0 NOSIG
AUTOTAF.ME USMM 121400Z 1215/1224 VRB02MPS 0500 FG NSC TX12/1215Z TN08/1221Z
 
Ямбург
SYNAR 23058 Антипаюта 121200Z 36005MPS 9999 OVC020 20/14 Q1011 RMK QFE757/1010 CLD:8SC
(30/141KM)


NOWCAST.SU USMQ 121600Z VRB02MPS 0500 FG SKC 10/06 Q0 NOSIG
AUTOTAF.ME USMQ 121400Z 1215/1224 VRB02MPS 0500 HZ NSC TX11/1215Z TN08/1220Z
BECMG 1215/1216 FG
 
Новый Уренгой
SYNAR 23358 Новый Уренгой 121200Z 04003MPS 9999 -SHRA BKN020CB 20/16 Q1008 RMK QFE750/1000 CLD:8CBACCI
(70/12KM)


NOWCAST.SU USMU 121600Z VRB02MPS 0500 FG SKC 10/07 Q0 NOSIG
AUTOTAF.ME USMU 121400Z 1215/1224 VRB02MPS 0500 FG NSC TX11/1215Z TN08/1220Z
FM121800 VRB02MPS 0500 +SN FG VV004
BECMG 1219/1220 FG
 
Нижневартовск
METAR USNN 121600Z 36002MPS CAVOK 22/15 Q1005 R03/0///65 NOSIG RMK QFE750


NOWCAST.SU USNN 121600Z VRB02MPS 0500 FG SKC 12/06 Q0 NOSIG
AUTOTAF.ME USNN 121400Z 1215/1224 VRB02MPS 0500 FG NSC TX13/1215Z TN10/1220Z
TAF USNN 121352Z 1215/1315 30003G10MPS 9999 SCT040
TEMPO 1215/1224 VRB01MPS FEW003=
Радужный
SYNAR 23758 Радужный 121200Z 01004MPS 9999 BKN020 27/09 Q1006 RMK QFE748/0997 CLD:5CU


NOWCAST.SU USNR 121600Z VRB02MPS 0500 FG SKC 12/06 Q0 NOSIG
AUTOTAF.ME USNR 121400Z 1215/1224 VRB02MPS 0500 FG NSC TX12/1215Z TN09/1221Z
 
Пермь (Бахаревка)
SYNAR 28224 Пермь 121200Z 36004MPS 9999 OVC020 14/10 Q1014 RMK QFE745/0993 CLD:8SC
(80/29KM)


NOWCAST.SU USPB 121600Z VRB02MPS 0500 FG SKC 09/05 Q0 NOSIG
AUTOTAF.ME USPB 121400Z 1215/1224 VRB02MPS 0500 FG NSC TX09/1215Z TN08/1219Z
 
Пермь (Большое Савино)
METAR USPP 121600Z 36004MPS 320V040 9999 BKN038 14/10 Q1014 R03/090060 NOSIG RMK QFE750


NOWCAST.SU USPP 121600Z VRB02MPS 0500 FG SKC 09/05 Q0 NOSIG
AUTOTAF.ME USPP 121400Z 1215/1224 VRB02MPS 0500 FG NSC TX09/1215Z TN08/1218Z
TAF USPP 121357Z 1215/1315 36003G13MPS 8000 -SHRA BKN016CB
TEMPO 1215/1218 31003G15MPS
BECMG 1305/1306 9999 NSW BKN020=
Березники
SYNAR 28029 Березники 121200Z 35003MPS 9999 OVC033 15/10 Q1016 RMK QFE745/0994 CLD:8SC
(170/23KM)


NOWCAST.SU USPT 121600Z VRB02MPS 0500 FG SKC 01/01 Q0 NOSIG
AUTOTAF.ME USPT 121400Z 1215/1224 VRB02MPS 0500 FG NSC TX09/1215Z TN07/1221Z
 
Когалым
SYNAR 23748 Когалым 121200Z 35004MPS CAVOK 28/07 Q1007 RMK QFE749/0998 CLD:2AC


NOWCAST.SU USRK 121600Z VRB02MPS 0500 FG SKC 12/05 Q0 NOSIG
AUTOTAF.ME USRK 121400Z 1215/1224 VRB02MPS 0500 FG NSC TX13/1215Z TN09/1220Z
 
Нефтеюганск
SYNAR 23849 Сургут 121200Z 36005MPS 9999 FEW033CB 28/10 Q1007 RMK QFE749/0999 CLD:3CBAC
(60/48KM)


NOWCAST.SU USRN 121600Z VRB02MPS 0500 FG SKC 12/06 Q0 NOSIG
AUTOTAF.ME USRN 121400Z 1215/1224 VRB02MPS 0500 FG NSC TX13/1215Z TN09/1221Z
 
Ноябрьск
SYNAR 23657 Ноябрьск 121200Z 01003MPS 9999 BKN050 25/14 Q1007 RMK QFE743/0991 CLD:5CU


NOWCAST.SU USRO 121600Z VRB02MPS 0500 FG SKC 11/07 Q0 NOSIG
AUTOTAF.ME USRO 121400Z 1215/1224 VRB02MPS 0500 FG NSC TX11/1215Z TN08/1221Z
BECMG 1220/1221 OVC004
 
Сургут
METAR USRR 121600Z 01002MPS CAVOK 24/12 Q1007 R25/CLRD60 NOSIG RMK QFE750


NOWCAST.SU USRR 121600Z VRB02MPS 0500 FG SKC 12/07 Q0 NOSIG
AUTOTAF.ME USRR 121400Z 1215/1224 VRB02MPS 0500 FG NSC TX12/1215Z TN09/1221Z
TAF USRR 121340Z 1215/1315 36003G10MPS 9999 SCT030
TEMPO 1218/1302 VRB01MPS 0200 FG VV002
TEMPO 1307/1315 5000 -TSRA BKN016CB=
Североуральск
SYNAR 23921 Ивдель 121200Z 05002MPS 9999 -SHRA OVC020CB 17/11 Q1015 RMK QFE752/1003 CLD:8CB
(30/47KM)


NOWCAST.SU USSE 121600Z VRB02MPS 0500 FG SKC 09/05 Q0 NOSIG
AUTOTAF.ME USSE 121400Z 1215/1224 VRB02MPS 0500 FG NSC TX09/1215Z TN07/1221Z
 
Грань
SYNAR 28240 Нижний Тагил 121200Z 01006MPS 9999 OVC020CB 13/12 Q1011 RMK QFE734/0979 CLD:8CB
(350/17KM)


NOWCAST.SU USSG 121600Z VRB02MPS 0500 FG SKC 01/01 Q0 NOSIG
AUTOTAF.ME USSG 121400Z 1215/1224 VRB02MPS 0500 +SN FG NSC TX07/1215Z TN06/1221Z
BECMG 1215/1216 FG
BECMG 1216/1217 +SN FG
BECMG 1220/1221 OVC004
 
Ивдель
SYNAR 23921 Ивдель 121200Z 05002MPS 9999 -SHRA OVC020CB 17/11 Q1015 RMK QFE752/1003 CLD:8CB


NOWCAST.SU USSI 121600Z VRB02MPS 0500 FG SKC 09/05 Q0 NOSIG
AUTOTAF.ME USSI 121400Z 1215/1224 VRB02MPS 0500 FG NSC TX09/1215Z TN07/1221Z
 
Екатеринбург (Арамиль)
SYNAR 28440 Екатеринбург 121200Z 31001MPS 9999 OVC020CB 17/15 Q1009 RMK QFE731/0975 CLD:8CB
(330/17KM)


NOWCAST.SU USSK 121600Z VRB02MPS 0500 +SN FG VV002 01/01 Q0 NOSIG
AUTOTAF.ME USSK 121400Z 1215/1224 VRB02MPS 0500 +SN FG VV004 TX09/1215Z TN07/1222Z
 
Алапаевск
SYNAR 28248 Алапаевск 121200Z 35002MPS 9999 OVC033 20/16 Q1009 RMK QFE745/0993 CLD:8SC


TSAR USSQ 121600Z LAST HOUR TS OBS: 150/153-169KM
NEAREST TS 150/153KM
NOWCAST.SU USSQ 121600Z VRB02MPS 0500 FG VV002 09/07 Q0 NOSIG
AUTOTAF.ME USSQ 121400Z 1215/1224 VRB02MPS 0500 FG VV004 TX09/1215Z TN08/1217Z
BECMG 1218/1219 OVC002
BECMG 1220/1221 NSC
BECMG 1221/1222 OVC004
 
Екатеринбург (Кольцово)
METAR USSS 121600Z 35007MPS 320V020 9999 VCTS OVC003CB 16/16 Q1009 R26R/220050 NOSIG RMK QFE736/0981


NOWCAST.SU USSS 121600Z VRB02MPS 0500 +SN FG VV002 01/01 Q0 NOSIG
AUTOTAF.ME USSS 121400Z 1215/1224 VRB02MPS 0500 +SN FG VV004 TX09/1215Z TN07/1222Z
BECMG 1221/1222 OVC002
BECMG 1223/1224 OVC004
TAF AMD USSS 121451Z 1215/1315 36003G14MPS 6000 -SHRA BKN006CB
TEMPO 1215/1302 -TSRA BKN003 BKN011CB
BECMG 1303/1306 9999 NSW BKN016CB
BECMG 1306/1309 02008G15MPS=
Тавда
SYNAR 28158 Таборы 121200Z 36004MPS 9999 SCT010CB 26/18 Q1007 RMK QFE749/0999 CLD:8CBCI
(320/64KM)


TSAR USSW 121600Z LAST HOUR TS OBS: 030/24-90KM, 040/53-110KM, 050/31-98KM, 060/40-88KM, 070/2-82KM, 090/13-35KM, 130/30KM, 150/22-173KM, 160/101KM, 170/98KM, 210/177KM
NEAREST TS 70/2KM
NOWCAST.SU USSW 121600Z VRB02MPS 0500 FG SKC 11/09 Q0 TEMPO -TSRA
AUTOTAF.ME USSW 121400Z 1215/1224 VRB02MPS 0500 FG NSC TX12/1215Z TN09/1221Z
BECMG 1216/1217 OVC004
 
Сосьва
SYNAR 28049 Гари 121200Z 33008G11MPS CAVOK 16/13 Q1011 RMK QFE746/0995 CLD:7
(50/39KM)


NOWCAST.SU USSX 121600Z VRB02MPS 0500 FG SKC 08/05 Q0 NOSIG
AUTOTAF.ME USSX 121400Z 1215/1224 VRB02MPS 0500 FG NSC TX08/1215Z TN08/1215Z
 
Уват
SYNAR 28076 Демьянское 121200Z 01003MPS 9999 FEW020 27/17 Q1007 RMK QFE750/1000 CLD:5CUCI
(20/54KM)


TSAR USTA 121600Z LAST HOUR TS OBS: 020/19KM, 050/26KM, 090/18-29KM, 100/8KM, 120/35KM, 140/27KM, 160/21-44KM, 170/41-59KM, 180/40-59KM, 190/20-61KM, 200/42-82KM, 210/47-113KM, 220/24-104KM, 230/32-112KM, 240/41-89KM, 250/3-61KM, 270/14KM, 350/18KM
NEAREST TS 250/3KM
NOWCAST.SU USTA 121600Z VRB02MPS 0500 FG SKC 12/09 Q0 TEMPO -TSRA
AUTOTAF.ME USTA 121400Z 1215/1224 VRB02MPS 0500 FG NSC TX12/1215Z TN09/1221Z
FM121700 VRB02MPS 0500 +SN FG VV004
BECMG 1219/1220 FG
 
Тобольск (Ремезов)
SYNAR 28275 Тобольск 121200Z 06002MPS 9999 RETS BKN020CB 20/18 Q1006 RMK QFE750/1000 CLD:7CBAC
(330/12KM)


TSAR USTJ 121600Z LAST HOUR TS OBS: 010/44-142KM, 020/65-148KM, 030/69-136KM, 290/85KM, 300/83-92KM, 310/36-102KM, 320/57-115KM, 330/51-94KM, 340/46-89KM, 350/64-105KM, 360/44-102KM
NEAREST TS 310/36KM
NOWCAST.SU USTJ 121600Z VRB02MPS 0500 +SN FG VV002 11/10 Q0 NOSIG
AUTOTAF.ME USTJ 121400Z 1215/1224 VRB02MPS 0500 FG NSC TX12/1215Z TN10/1218Z
FM121600 VRB02MPS 0500 +SN FG VV004
BECMG 1216/1217 FG
 
Тюмень (Плеханово)
SYNAR 28367 Тюмень 121200Z 02003MPS 9999 SCT020CB 28/18 Q1005 RMK QFE744/0993 CLD:6CBCI


TSAR USTL 121600Z LAST HOUR TS OBS: 010/88-170KM, 020/134-181KM, 030/142-186KM, 040/14-36KM, 060/24KM, 070/34KM, 110/73-83KM, 120/62-92KM, 130/73-103KM, 350/107KM, 360/87-127KM
NEAREST TS 40/14KM
NOWCAST.SU USTL 121600Z VRB02MPS 0500 FG SKC 13/08 Q0 TEMPO -TSRA
AUTOTAF.ME USTL 121400Z 1215/1224 VRB02MPS 0500 FG NSC TX13/1215Z TN10/1222Z
BECMG 1220/1221 OVC004
 
Тобольск
SYNAR 28275 Тобольск 121200Z 06002MPS 9999 RETS BKN020CB 20/18 Q1006 RMK QFE750/1000 CLD:7CBAC


TSAR USTO 121600Z LAST HOUR TS OBS: 010/35-115KM, 020/38-143KM, 030/60-132KM, 040/72-116KM, 210/163-180KM, 280/76-87KM, 290/92KM, 300/62-101KM, 310/24-112KM, 320/46-103KM, 330/40-89KM, 340/57-78KM, 350/36-95KM, 360/54-93KM
NEAREST TS 310/24KM
NOWCAST.SU USTO 121600Z VRB02MPS 0500 FG SKC 12/09 Q0 TEMPO -TSRA
AUTOTAF.ME USTO 121400Z 1215/1224 VRB02MPS 0500 FG NSC TX12/1215Z TN10/1219Z
BECMG 1216/1217 OVC004
 
Тюмень (Рощино)
METAR USTR 121600Z 02003MPS 9999 SCT050CB 22/18 Q1007 R30/190063 R03/090065 TEMPO VRB18MPS 1000 TSRAGR SQ BKN016CB


TSAR USTR 121600Z LAST HOUR TS OBS: 010/87-167KM, 020/108-178KM, 030/139-183KM, 050/40KM, 070/21KM, 080/31-43KM, 110/71-93KM, 120/91-101KM, 130/82-112KM, 360/85-124KM
NEAREST TS 70/21KM
NOWCAST.SU USTR 121600Z VRB02MPS 0500 FG SKC 13/08 Q0 TEMPO -TSRA
AUTOTAF.ME USTR 121400Z 1215/1224 VRB02MPS 0500 FG NSC TX13/1215Z TN10/1221Z
BECMG 1219/1220 OVC004
TAF USTR 121348Z 1215/1315 02003G08MPS 9999 SCT020CB
TEMPO 1215/1218 08006G14MPS -TSRA BKN016CB
TEMPO 1218/1303 2100 BR SCT005 SCT016CB
TEMPO 1306/1312 -TSRA BKN016CB=
Курган
SYNAR 28661 Курган 121200Z 08002MPS 9999 RESHRA SCT033CB 28/16 Q1003 RMK QFE746/0994 CLD:6CBACCI


TSAR USUU 121600Z LAST HOUR TS OBS: 020/151-174KM, 030/140-179KM
NEAREST TS 30/140KM
NOWCAST.SU USUU 121600Z VRB02MPS 0500 FG SKC 13/07 Q0 NOSIG
AUTOTAF.ME USUU 121400Z 1215/1224 VRB02MPS 0500 FG NSC TX13/1215Z TN10/1221Z
BECMG 1219/1220 HZ
BECMG 1220/1221 FG
 
Ashgabat
METAR UTAA 121600Z 17006KT 9999 FEW050CB SCT050 BKN100 26/20 Q1006 R88/CLRD70 NOSIG


NOWCAST.SU UTAA 121600Z VRB02KT 0100 HZ SKC 01/01 Q0 NOSIG
AUTOTAF.ME UTAA 121400Z 1215/1224 VRB02KT 0200 HZ NSC TX14/1215Z TN13/1216Z
BECMG 1220/1221 FG
TAF UTAA 121045Z 1211/1312 33014G24KT 6000 SCT050CB BKN030
TEMPO 1211/1215 VRB42KT 1000 DS TSRA
PROB40 TEMPO 1215/1220 VRB32KT 3000 BLDU -TSRA
BECMG 1220/1222 27016KT=
Turkmenbashi
METAR UTAK 121600Z 33014KT CAVOK 28/18 Q1007 R34L/CLRD70 NOSIG


NOWCAST.SU UTAK 121600Z VRB02KT 0500 FG SKC 14/08 Q0 NOSIG
AUTOTAF.ME UTAK 121400Z 1215/1224 VRB02KT 0500 FG NSC TX15/1215Z TN12/1219Z
BECMG 1221/1222 OVC004
TAF UTAK 121030Z 1212/1312 36018G28KT 6000 NSC
TEMPO 1212/1216 33026KT 3000 BLDU SCT033 SCT100
BECMG 1217/1219 33016KT
TEMPO 1222/1304 4000 BR SCT008
BECMG 1304/1305 9999 SCT026=
Mary
METAR UTAM 121600Z 31010KT 6000 SCT066 SCT100 OVC230 34/15 Q1002 R88/CLRD70 NOSIG


NOWCAST.SU UTAM 121600Z VRB02KT 0100 FG SKC 01/01 Q0 NOSIG
AUTOTAF.ME UTAM 121400Z 1215/1224 VRB02KT 0200 FG NSC TX17/1215Z TN12/1222Z
TAF UTAM 121040Z 1212/1312 30010G20KT 5000 SCT050CB SCT050 BKN100
TEMPO 1212/1216 32020G30KT 2000 BLDU
PROB40 TEMPO 1212/1221 -TSSHRA
TEMPO 1216/1221 VRB28KT 3000 BKN030=
Dashoguz
METAR UTAT 121600Z 33004KT CAVOK 33/13 Q1000 R26/CLRD70 NOSIG


NOWCAST.SU UTAT 121600Z VRB02KT 0500 FG SKC 16/05 Q0 NOSIG
AUTOTAF.ME UTAT 121400Z 1215/1224 VRB02KT 0500 FG NSC TX17/1215Z TN13/1219Z
TAF UTAT 121041Z 1212/1312 31012G22KT 6000 SCT050CB BKN100
TEMPO 1212/1218 35020G30KT 2000 TSRA BLDU=
Dushanbe
METAR UTDD 121600Z 00000MPS 9000 FEW066CB BKN130 30/10 Q1003 R09/CLRD// NOSIG RMK QFE685/0913


NOWCAST.SU UTDD 121600Z VRB02MPS 0100 FG SKC 01/01 Q0 NOSIG
AUTOTAF.ME UTDD 121400Z 1215/1224 VRB02MPS 0200 FG NSC TX12/1215Z TN08/1222Z
FM121700 VRB02MPS 0200 +SN FG VV002
TAF UTDD 121100Z 1212/1312 VRB02MPS 8000 SCT066CB BKN100
TEMPO 1212/1218 28008G13MPS -TSRA
PROB40 TEMPO 1218/1223 VRB08MPS TS=
METAR UTDK 121600Z 02003MPS 9999 NSC 29/13 Q1002 R01/09//70 RMK QFE695/0927


NOSIG
TAF AMD UTDK 121504Z 1216/1304 03005MPS 6000 SCT040CB BKN100
BECMG 1302/1303 21005MPS=
Khudzhand
METAR UTDL 121600Z 20003MPS 9999 FEW066CB SCT086 29/11 Q1002 R26/CLRD70 NOSIG RMK QFE714/0953


NOWCAST.SU UTDL 121600Z VRB02MPS 0500 FG SKC 01/01 Q0 NOSIG
AUTOTAF.ME UTDL 121400Z 1215/1224 VRB02MPS 0500 FG NSC TX14/1215Z TN11/1222Z
TAF COR UTDL 121109Z 1212/1312 24005MPS 9999 FEW060CB SCT080
TEMPO 1212/1302 VRB12MPS -TSRA SCT050CB
BECMG 1302/1304 08005MPS=
Namangan
METAR UTFN 121600Z 34008KT 290V350 9999 VCTS SCT050CB 29/12 Q1002 R28/CLRD70 NOSIG


NOWCAST.SU UTFN 121600Z VRB02KT 0500 HZ SKC 01/01 Q0 NOSIG
AUTOTAF.ME UTFN 121400Z 1215/1224 VRB02KT 0500 HZ NSC TX14/1215Z TN11/1218Z
BECMG 1216/1217 FG
TAF UTFN 121100Z 1212/1312 34010KT 7000 FEW050CB TX35/1311Z TN24/1301Z
TEMPO 1212/1220 24012G22KT -TSRA SCT040CB=
Nukus Karakalpak
METAR UTNN 121600Z 24004KT CAVOK 31/11 Q1000 R33/CLRD60 NOSIG


NOWCAST.SU UTNN 121600Z VRB02KT 0500 FG SKC 16/05 Q0 NOSIG
AUTOTAF.ME UTNN 121400Z 1215/1224 VRB02KT 0500 FG NSC TX17/1215Z TN12/1300Z
TAF UTNN 121100Z 1212/1312 29012G22KT CAVOK TX37/1312Z TN24/1301Z=
Urgench
METAR UTNU 121600Z 29004KT CAVOK 30/14 Q1000 R31/CLRD70 NOSIG


NOWCAST.SU UTNU 121600Z VRB02KT 0500 FG SKC 15/06 Q0 NOSIG
AUTOTAF.ME UTNU 121400Z 1215/1224 VRB02KT 0500 FG NSC TX16/1215Z TN12/1220Z
TAF UTNU 121100Z 1212/1312 34012G22KT 8000 SCT040 BKN100
TEMPO 1212/1218 30020G30KT 3000 -DS SCT020CB BKN100=
Navoi
METAR UTSA 121600Z 24012KT 9999 NSC 32/09 Q1002 R25/CLRD70 NOSIG


NOWCAST.SU UTSA 121600Z VRB02KT 0500 FG SKC 01/01 Q0 NOSIG
AUTOTAF.ME UTSA 121400Z 1215/1224 VRB02KT 0500 FG NSC TX17/1215Z TN10/1300Z
TAF UTSA 121101Z 1212/1312 30010KT 7000 FEW050CB TX36/1311Z TN21/1300Z
TEMPO 1212/1223 30014G24KT 4000 -DS FEW012 SCT040CB
PROB40 TEMPO 1212/1223 -TSRA SCT033CB=
Bukhara
METAR UTSB 121600Z 31008KT 9999 SCT050CB 31/09 Q1001 R01/CLRD70 NOSIG


NOWCAST.SU UTSB 121600Z VRB02KT 0100 FG SKC 01/01 Q0 NOSIG
AUTOTAF.ME UTSB 121400Z 1215/1224 VRB02KT 0200 FG NSC TX17/1215Z TN11/1222Z
TAF UTSB 121100Z 1212/1312 35010KT 7000 FEW050CB TX36/1311Z TN22/1300Z
TEMPO 1212/1223 30012G22KT 4000 -TSRA -DS FEW012 SCT040CB=
Karshi Khanabad
METAR UTSK 121600Z 02006KT CAVOK 32/11 Q1002 R16/CLRD70


NOWCAST.SU UTSK 121600Z VRB02KT 0100 FG SKC 01/01 Q0 NOSIG
AUTOTAF.ME UTSK 121400Z 1215/1224 VRB02KT 0200 FG NSC TX16/1215Z TN10/1300Z
TAF UTSK 121459Z 1216/1301 29010G20KT 7000 FEW050CB SCT100
TEMPO 1216/1301 VRB20G30KT 3000 -TSRA -DS BKN050CB BKN100=
Samarkand
METAR UTSS 121600Z 29002KT 9999 BKN065CB 28/12 Q1004 R27/70D NOSIG


NOWCAST.SU UTSS 121600Z VRB02KT 0100 FG SKC 01/01 Q0 NOSIG
AUTOTAF.ME UTSS 121400Z 1215/1224 VRB02KT 0200 FG NSC TX13/1215Z TN10/1222Z
TAF UTSS 121100Z 1212/1312 32010G20KT 7000 SCT060CB BKN100
TEMPO 1212/1218 VRB20G30KT 3000 -TSRA -DS BKN050CB
TEMPO 1218/1306 24016G26KT
PROB40 TEMPO 1218/1306 -TSRA BKN040CB=
Termez
METAR UTST 121600Z 28010KT CAVOK 34/11 Q0998 R25/CLRD70 NOSIG


NOWCAST.SU UTST 121600Z VRB02KT 0100 FG SKC 01/01 Q0 NOSIG
AUTOTAF.ME UTST 121400Z 1215/1224 VRB02KT 0200 FG NSC TX18/1215Z TN12/1300Z
TAF UTST 121100Z 1212/1312 28010C20KT 6000 NSC TX42/1311Z TN24/1301Z
TEMPO 1212/1223 25020G30KT 1500 DS SCT060CB BKN100=
Tashkent-vostoch
SYNAR 38457 Ташкент 121200Z 21001MPS 9999 FEW020 35/11 Q999 RMK QFE708/0944 CLD:7CUAC
(240/11KM)


NOWCAST.SU UTTP 121600Z VRB02KT 0500 FG SKC 01/01 Q0 NOSIG
AUTOTAF.ME UTTP 121400Z 1215/1224 VRB02KT 0500 FG NSC TX14/1215Z TN11/1221Z
 
Taskent Yuzni
METAR UTTT 121600Z 32006KT 290V350 9999 SCT066CB 32/08 Q1002 R08R/CLRD70 NOSIG


NOWCAST.SU UTTT 121600Z VRB02KT 0500 FG SKC 01/01 Q0 NOSIG
AUTOTAF.ME UTTT 121400Z 1215/1224 VRB02KT 0500 FG NSC TX15/1215Z TN11/1222Z
TAF UTTT 121100Z 1212/1312 07010KT 7000 FEW060CB SCT100 TX35/1311Z TN22/1300Z
TEMPO 1212/1224 VRB14G24KT -TSRA SCT050CB=
Ржев (Компрессорная)
SYNAR 26499 Старица 121200Z 17004MPS CAVOK 28/13 Q1018 RMK QFE746/0995 CLD:2CI
(60/50KM)


TSAR UUAK 121600Z LAST HOUR TS OBS: 130/79KM, 140/84-106KM, 150/94-113KM, 160/89-148KM, 170/102-169KM, 180/100-164KM, 190/102-165KM, 200/105-149KM
NEAREST TS 130/79KM
NOWCAST.SU UUAK 121600Z VRB02MPS 0500 HZ SKC 14/09 Q0 NOSIG
AUTOTAF.ME UUAK 121400Z 1215/1224 VRB02MPS 0500 FG NSC TX15/1215Z TN10/1219Z
BECMG 1215/1216 HZ
BECMG 1216/1217 FG
FM121800 VRB02MPS 0500 +SN FG VV004
BECMG 1218/1219 OVC002
FM122100 VRB02MPS 0500 +SN FG NSC
FM130000 VRB02MPS 0500 +SN FG VV004
 
Охотактив
SYNAR 27333 Кострома 121200Z 23001MPS 9999 SCT020 25/11 Q1020 RMK QFE753/1005 CLD:6CUCI
(270/11KM)


NOWCAST.SU UUAO 121600Z VRB02MPS 0500 FG SKC 12/05 Q0 NOSIG
AUTOTAF.ME UUAO 121400Z 1215/1224 VRB02MPS 0500 FG NSC TX13/1215Z TN08/1221Z
 
Кострома (Сокеркино)
SYNAR 27333 Кострома 121200Z 23001MPS 9999 SCT020 25/11 Q1020 RMK QFE753/1005 CLD:6CUCI
(240/16KM)


NOWCAST.SU UUBA 121600Z VRB02MPS 0500 FG SKC 12/05 Q0 NOSIG
AUTOTAF.ME UUBA 121400Z 1215/1224 VRB02MPS 0500 FG NSC TX13/1215Z TN08/1221Z
 
Москва (Быково)
SYNAR 27613 Домодедово 121200Z 12004MPS 9999 SCT050 28/12 Q1021 RMK QFE747/0996 CLD:4CU
(200/26KM)


NOWCAST.SU UUBB 121600Z VRB02MPS 0500 FG SKC 13/06 Q0 NOSIG
AUTOTAF.ME UUBB 121400Z 1215/1224 VRB02MPS 0500 FG NSC TX14/1215Z TN08/1223Z
 
Калуга (Грабцево)
METAR UUBC 121600Z VRB01MPS CAVOK 25/16 Q1017 R31/CLRD60 NOSIG RMK QFE746/0995


TSAR UUBC 121600Z LAST HOUR TS OBS: 320/126-138KM, 330/131-163KM
NEAREST TS 320/126KM
NOWCAST.SU UUBC 121600Z VRB02MPS 0500 FG SKC 01/01 Q0 NOSIG
AUTOTAF.ME UUBC 121400Z 1215/1224 VRB02MPS 0500 FG NSC TX13/1215Z TN09/1221Z
TAF UUBC 121345Z 1215/1224 12003MPS 9999 SCT040=
Рязань (Дягилево)
SYNAR 27730 Рязань 121200Z 33001MPS CAVOK 27/08 Q1020 RMK QFE750/1001 CLD:SKC


NOWCAST.SU UUBD 121600Z VRB02MPS 0500 FG SKC 13/04 Q0 NOSIG
AUTOTAF.ME UUBD 121400Z 1215/1224 VRB02MPS 0500 FG NSC TX14/1215Z TN08/1222Z
 
Сасово
SYNAR 27745 Сасово 121200Z 01002MPS 9999 SCT050 27/12 Q1019 RMK QFE753/1005 CLD:3CU


NOWCAST.SU UUBG 121600Z VRB02MPS 0500 FG SKC 12/04 Q0 NOSIG
AUTOTAF.ME UUBG 121400Z 1215/1224 VRB02MPS 0500 FG NSC TX13/1215Z TN07/1223Z
 
Иваново (Южный)
SYNAR 27347 Иваново 121200Z 31001MPS 9999 FEW050 26/10 Q1020 RMK QFE753/1005 CLD:2CU


NOWCAST.SU UUBI 121600Z VRB02MPS 0500 FG SKC 12/06 Q0 NOSIG
AUTOTAF.ME UUBI 121400Z 1215/1224 VRB02MPS 0500 FG NSC TX12/1215Z TN07/1223Z
 
Рыбинск (Староселье)
SYNAR 27225 Рыбинск 121200Z 14002MPS CAVOK 26/09 Q1019 RMK QFE754/1006 CLD:2CI
(270/15KM)


NOWCAST.SU UUBK 121600Z VRB02MPS 0500 FG SKC 13/05 Q0 NOSIG
AUTOTAF.ME UUBK 121400Z 1215/1224 VRB02MPS 0500 FG NSC TX13/1215Z TN10/1220Z
 
Владимир (Семязино)
SYNAR 27532 Владимир 121200Z 31001MPS 9999 FEW033 26/08 Q1020 RMK QFE749/0999 CLD:1CU


NOWCAST.SU UUBL 121600Z VRB02MPS 0500 FG SKC 13/04 Q0 NOSIG
AUTOTAF.ME UUBL 121400Z 1215/1224 VRB02MPS 0500 FG NSC TX13/1215Z TN08/1222Z
 
Мячково
SYNAR 27613 Домодедово 121200Z 12004MPS 9999 SCT050 28/12 Q1021 RMK QFE747/0996 CLD:4CU
(200/19KM)


NOWCAST.SU UUBM 121600Z VRB02MPS 0500 FG SKC 13/06 Q0 NOSIG
AUTOTAF.ME UUBM 121400Z 1215/1224 VRB02MPS 0500 FG NSC TX14/1215Z TN08/1223Z
 
Тверь (Змеево)
SYNAR 27402 Тверь 121200Z 19002MPS CAVOK 29/10 Q1018 RMK QFE750/1000 CLD:SKC


TSAR UUBN 121600Z LAST HOUR TS OBS: 200/126-170KM, 210/175KM
NEAREST TS 200/126KM
NOWCAST.SU UUBN 121600Z VRB02MPS 0500 FG SKC 14/06 Q0 NOSIG
AUTOTAF.ME UUBN 121400Z 1215/1224 VRB02MPS 0500 FG NSC TX14/1215Z TN10/1221Z
BECMG 1218/1219 HZ
FM122000 VRB02MPS 0500 +SN FG VV002
BECMG 1220/1221 OVC004
 
Брянск
METAR UUBP 200930Z 33003MPS 280V020 CAVOK 25/10 Q1015 R34/////// NOSIG RMK QFE743/0991


TSAR UUBP 121600Z LAST HOUR TS OBS: 010/94-159KM, 020/162KM, 190/38KM, 200/62KM, 210/17-67KM, 220/49-74KM, 230/25-59KM, 240/69KM, 250/36-47KM, 280/33-45KM, 290/21-87KM, 300/53-107KM, 310/42-132KM, 320/66-123KM, 330/58-133KM, 340/73-146KM, 350/94-159KM, 360/92-156KM
NEAREST TS 210/17KM
NOWCAST.SU UUBP 121600Z VRB02MPS 0500 FG SKC 01/01 Q0 TEMPO -TSRA
AUTOTAF.ME UUBP 121400Z 1215/1224 VRB02MPS 0500 FG NSC TX15/1215Z TN10/1300Z
BECMG 1222/1223 HZ
TAF UUBP 121357Z 1215/1224 CNL=
Шарья
SYNAR 27271 Шарья 121200Z 36002MPS 9999 SCT050 22/06 Q1022 RMK QFE754/1006 CLD:5CUCI


NOWCAST.SU UUBQ 121600Z VRB02MPS 0500 FG SKC 10/03 Q0 NOSIG
AUTOTAF.ME UUBQ 121400Z 1215/1224 VRB02MPS 0500 FG NSC TX10/1215Z TN05/1222Z
 
Рязань (Турлатово)
SYNAR 27730 Рязань 121200Z 33001MPS CAVOK 27/08 Q1020 RMK QFE750/1001 CLD:SKC
(310/13KM)


NOWCAST.SU UUBR 121600Z VRB02MPS 0500 FG SKC 13/04 Q0 NOSIG
AUTOTAF.ME UUBR 121400Z 1215/1224 VRB02MPS 0500 FG NSC TX14/1215Z TN08/1223Z
 
Смоленск (Южный)
SYNAR 26781 Смоленск 121200Z 30003MPS 4000 TSRA OVC020CB 23/16 Q1018 RMK QFE742/0989 CLD:8CB


TSAR UUBS 121600Z LAST HOUR TS OBS: 050/116KM, 060/94-104KM, 070/96KM, 110/88-99KM, 120/99-109KM, 130/89-122KM, 140/96-153KM, 150/90-189KM, 160/84-154KM, 170/81-123KM, 180/100KM, 210/145-170KM, 220/135-153KM
NEAREST TS 170/81KM
NOWCAST.SU UUBS 121600Z VRB02MPS 0500 FG VV002 01/01 Q0 NOSIG
AUTOTAF.ME UUBS 121400Z 1215/1224 VRB02MPS 0500 FG NSC TX13/1215Z TN10/1221Z
BECMG 1215/1216 OVC004
BECMG 1217/1218 NSC
BECMG 1218/1219 +SN FG
FM122000 VRB02MPS 0500 +SN FG VV004
 
 


NOSIG
 
Раменское (Жуковский)
METAR UUBW 121600Z 16002MPS CAVOK 27/12 Q1017 R30/010060 NOSIG RMK QFE752


NOWCAST.SU UUBW 121600Z VRB02MPS 0500 FG SKC 13/06 Q0 NOSIG
AUTOTAF.ME UUBW 121400Z 1215/1224 VRB02MPS 0500 FG NSC TX13/1215Z TN08/1223Z
TAF UUBW 121350Z 1215/1315 17003MPS 9999 SCT040 TX30/1312Z TN17/1301Z
PROB40 TEMPO 1306/1315 -TSRA SCT020CB=
Ярославль (Левцово)
SYNAR 27330 Ярославль 121200Z 21001MPS 9999 SCT033 26/11 Q1020 RMK QFE756/1008 CLD:4CU
(220/14KM)


NOWCAST.SU UUBX 121600Z VRB02MPS 0500 FG SKC 12/05 Q0 NOSIG
AUTOTAF.ME UUBX 121400Z 1215/1224 VRB02MPS 0500 FG NSC TX13/1215Z TN09/1221Z
 
Листвянка
SYNAR 27730 Рязань 121200Z 33001MPS CAVOK 27/08 Q1020 RMK QFE750/1001 CLD:SKC
(310/21KM)


NOWCAST.SU UUBZ 121600Z VRB02MPS 0500 FG SKC 13/04 Q0 NOSIG
AUTOTAF.ME UUBZ 121400Z 1215/1224 VRB02MPS 0500 FG NSC TX14/1215Z TN08/1222Z
 
Белоомут
SYNAR 27625 Коломна 121200Z 07001MPS 9999 SCT033 27/12 Q1020 RMK QFE754/1005 CLD:3CU
(300/41KM)


NOWCAST.SU UUCB 121600Z VRB02MPS 0500 FG SKC 13/03 Q0 NOSIG
AUTOTAF.ME UUCB 121400Z 1215/1224 VRB02MPS 0500 FG NSC TX14/1215Z TN08/1222Z
 
Дорожный
SYNAR 27417 Клин 121200Z 17002MPS 9999 SCT020 29/12 Q1019 RMK QFE749/0998 CLD:3CU


NOWCAST.SU UUCD 121600Z VRB02MPS 0500 FG SKC 14/05 Q0 NOSIG
AUTOTAF.ME UUCD 121400Z 1215/1224 VRB02MPS 0500 FG NSC TX14/1215Z TN10/1223Z
FM130000 VRB02MPS 0500 +SN FG VV004
 
Хоругвино
SYNAR 27514 Шереметьево 121200Z 20005MPS 9999 SCT050 28/10 Q1012 RMK QFE745/0993 CLD:6CUAC
(140/22KM)


NOWCAST.SU UUCH 121600Z VRB02MPS 0500 FG SKC 01/01 Q0 NOSIG
AUTOTAF.ME UUCH 121400Z 1215/1224 VRB02MPS 0500 FG NSC TX14/1215Z TN09/1221Z
 
Ильясово
SYNAR 27625 Коломна 121200Z 07001MPS 9999 SCT033 27/12 Q1020 RMK QFE754/1005 CLD:3CU
(350/23KM)


NOWCAST.SU UUCI 121600Z VRB02MPS 0500 FG SKC 13/04 Q0 NOSIG
AUTOTAF.ME UUCI 121400Z 1215/1224 VRB02MPS 0500 FG NSC TX14/1215Z TN08/1222Z
 
Кузнечково
SYNAR 27417 Клин 121200Z 17002MPS 9999 SCT020 29/12 Q1019 RMK QFE749/0998 CLD:3CU
(40/19KM)


TSAR UUCJ 121600Z LAST HOUR TS OBS: 230/114KM, 240/103KM, 250/93KM
NEAREST TS 250/93KM
NOWCAST.SU UUCJ 121600Z VRB02MPS 0500 FG SKC 01/01 Q0 NOSIG
AUTOTAF.ME UUCJ 121400Z 1215/1224 VRB02MPS 0500 FG NSC TX14/1215Z TN10/1300Z
BECMG 1222/1223 +SN FG
 
Горка
SYNAR 27518 Подмосковная 121200Z 21002MPS 9999 BKN020 28/12 Q1019 RMK QFE749/0999 CLD:6SC
(100/13KM)


NOWCAST.SU UUCK 121600Z VRB02MPS 0500 FG SKC 14/05 Q0 NOSIG
AUTOTAF.ME UUCK 121400Z 1215/1224 VRB02MPS 0500 FG NSC TX14/1215Z TN10/1220Z
BECMG 1223/1224 +SN FG
 
Нудоль
SYNAR 27511 Ново-Йерусалим 121200Z 17002MPS 9999 FEW033 28/10 Q1019 RMK QFE749/0999 CLD:3CUCS
(140/27KM)


TSAR UUCN 121600Z LAST HOUR TS OBS: 230/106KM, 240/95KM, 250/88KM
NEAREST TS 250/88KM
NOWCAST.SU UUCN 121600Z VRB02MPS 0500 FG SKC 13/06 Q0 NOSIG
AUTOTAF.ME UUCN 121400Z 1215/1224 VRB02MPS 0500 FG NSC TX14/1215Z TN10/1223Z
BECMG 1223/1224 +SN FG
 
Павлово
SYNAR 27518 Подмосковная 121200Z 21002MPS 9999 BKN020 28/12 Q1019 RMK QFE749/0999 CLD:6SC
(160/12KM)


NOWCAST.SU UUCO 121600Z VRB02MPS 0500 FG SKC 14/05 Q0 NOSIG
AUTOTAF.ME UUCO 121400Z 1215/1224 VRB02MPS 0500 FG NSC TX14/1215Z TN09/1221Z
 
Янино
SYNAR 27625 Коломна 121200Z 07001MPS 9999 SCT033 27/12 Q1020 RMK QFE754/1005 CLD:3CU
(260/45KM)


NOWCAST.SU UUCQ 121600Z VRB02MPS 0500 FG SKC 13/04 Q0 NOSIG
AUTOTAF.ME UUCQ 121400Z 1215/1224 VRB02MPS 0500 FG NSC TX14/1215Z TN08/1221Z
 
Торбеево
SYNAR 27618 Серпухов 121200Z 22002MPS 9999 FEW033 28/11 Q1019 RMK QFE749/0999 CLD:4CUAC
(240/30KM)


NOWCAST.SU UUCT 121600Z VRB02MPS 0500 FG SKC 13/06 Q0 NOSIG
AUTOTAF.ME UUCT 121400Z 1215/1224 VRB02MPS 0500 FG NSC TX14/1215Z TN08/1222Z
 
Гринвуд
SYNAR 27619 Москва (Тушино) 121200Z 11001MPS 9999 BKN020 26/11 Q1019 RMK QFE749/0999 CLD:5CU


NOWCAST.SU UUCU 121600Z VRB02MPS 0500 FG SKC 14/05 Q0 NOSIG
AUTOTAF.ME UUCU 121400Z 1215/1224 VRB02MPS 0500 FG NSC TX14/1215Z TN09/1222Z
 
Вихрево
SYNAR 27419 Дмитров 121200Z 20001MPS 9999 BKN020 28/11 Q1019 RMK QFE748/0997 CLD:5CU
(290/38KM)


NOWCAST.SU UUCW 121600Z VRB02MPS 0500 FG SKC 01/01 Q0 NOSIG
AUTOTAF.ME UUCW 121400Z 1215/1224 VRB02MPS 0500 FG NSC TX14/1215Z TN08/1300Z
 
Университет Сбербанка
SYNAR 27511 Ново-Йерусалим 121200Z 17002MPS 9999 FEW033 28/10 Q1019 RMK QFE749/0999 CLD:3CUCS
(300/13KM)


NOWCAST.SU UUCX 121600Z VRB02MPS 0500 FG SKC 14/05 Q0 NOSIG
AUTOTAF.ME UUCX 121400Z 1215/1224 VRB02MPS 0500 FG NSC TX14/1215Z TN10/1220Z
BECMG 1223/1224 +SN FG
 
Дубна
SYNAR 27417 Клин 121200Z 17002MPS 9999 SCT020 29/12 Q1019 RMK QFE749/0998 CLD:3CU
(210/44KM)


NOWCAST.SU UUDB 121600Z VRB02MPS 0500 FG SKC 13/07 Q0 NOSIG
AUTOTAF.ME UUDB 121400Z 1215/1224 VRB02MPS 0500 FG NSC TX14/1215Z TN10/1222Z
 
Сонино
SYNAR 27710 Алексин 121200Z 12001MPS CAVOK 28/10 Q1020 RMK QFE747/0996 CLD:SKC
(230/24KM)


NOWCAST.SU UUDC 121600Z VRB02MPS 0500 FG SKC 01/01 Q0 NOSIG
AUTOTAF.ME UUDC 121400Z 1215/1224 VRB02MPS 0500 FG NSC TX14/1215Z TN08/1222Z
 
Москва (Домодедово)
METAR UUDD 121600Z 22002MPS 180V250 CAVOK 27/13 Q1018 R14R/CLRD60 NOSIG


NOWCAST.SU UUDD 121600Z VRB02MPS 0500 FG SKC 13/06 Q0 NOSIG
AUTOTAF.ME UUDD 121400Z 1215/1224 VRB02MPS 0500 FG NSC TX14/1215Z TN08/1223Z
TAF UUDD 121358Z 1215/1321 18003MPS 9999 SCT040 TX29/1312Z TN16/1301Z
PROB40 TEMPO 1306/1317 -TSRA BKN020CB
BECMG 1309/1311 29006MPS=
Большое Грызлово
SYNAR 27618 Серпухов 121200Z 22002MPS 9999 FEW033 28/11 Q1019 RMK QFE749/0999 CLD:4CUAC
(320/20KM)


NOWCAST.SU UUDG 121600Z VRB02MPS 0500 FG SKC 01/01 Q0 NOSIG
AUTOTAF.ME UUDG 121400Z 1215/1224 VRB02MPS 0500 FG NSC TX14/1215Z TN08/1223Z
 
Ярославль (Туношна)
METAR UUDL 121600Z 18002MPS CAVOK 25/13 Q1018 R23/010060 NOSIG RMK QFE755


NOWCAST.SU UUDL 121600Z VRB02MPS 0500 FG SKC 12/05 Q0 NOSIG
AUTOTAF.ME UUDL 121400Z 1215/1224 VRB02MPS 0500 FG NSC TX13/1215Z TN09/1220Z
TAF UUDL 121400Z 1215/1315 16003MPS 9999 SCT040 TX26/1312Z TN13/1301Z=
Новинки
SYNAR 27618 Серпухов 121200Z 22002MPS 9999 FEW033 28/11 Q1019 RMK QFE749/0999 CLD:4CUAC
(250/13KM)


NOWCAST.SU UUDN 121600Z VRB02MPS 0500 FG SKC 13/06 Q0 NOSIG
AUTOTAF.ME UUDN 121400Z 1215/1224 VRB02MPS 0500 FG NSC TX14/1215Z TN08/1222Z
 
Пахомово
SYNAR 27618 Серпухов 121200Z 22002MPS 9999 FEW033 28/11 Q1019 RMK QFE749/0999 CLD:4CUAC
(350/35KM)


NOWCAST.SU UUDP 121600Z VRB02MPS 0500 FG SKC 01/01 Q0 NOSIG
AUTOTAF.ME UUDP 121400Z 1215/1224 VRB02MPS 0500 FG NSC TX14/1215Z TN08/1223Z
 
Хелипорт Реутов
SYNAR 27605 Москва (Балчуг) 121200Z 09001MPS 9999 BKN033 28/09 Q1019 RMK QFE753/1004 CLD:6CU
(260/14KM)


NOWCAST.SU UUDR 121600Z VRB02MPS 0500 FG SKC 14/05 Q0 NOSIG
AUTOTAF.ME UUDR 121400Z 1215/1224 VRB02MPS 0500 FG NSC TX14/1215Z TN09/1223Z
 
Чулпаново
SYNAR 27613 Домодедово 121200Z 12004MPS 9999 SCT050 28/12 Q1021 RMK QFE747/0996 CLD:4CU
(90/17KM)


NOWCAST.SU UUDU 121600Z VRB02MPS 0500 FG SKC 14/06 Q0 NOSIG
AUTOTAF.ME UUDU 121400Z 1215/1224 VRB02MPS 0500 FG NSC TX14/1215Z TN08/1223Z
 
Взлетная
SYNAR 27613 Домодедово 121200Z 12004MPS 9999 SCT050 28/12 Q1021 RMK QFE747/0996 CLD:4CU


NOWCAST.SU UUDW 121600Z VRB02MPS 0500 FG SKC 14/06 Q0 NOSIG
AUTOTAF.ME UUDW 121400Z 1215/1224 VRB02MPS 0500 FG NSC TX14/1215Z TN08/1223Z
 
Гурбан-3
SYNAR 27419 Дмитров 121200Z 20001MPS 9999 BKN020 28/11 Q1019 RMK QFE748/0997 CLD:5CU
(0/20KM)


NOWCAST.SU UUEC 121600Z VRB02MPS 0500 FG SKC 14/06 Q0 NOSIG
AUTOTAF.ME UUEC 121400Z 1215/1224 VRB02MPS 0500 FG NSC TX14/1215Z TN10/1221Z
 
Москва (Шереметьево)
METAR UUEE 121600Z 20004MPS CAVOK 27/11 Q1017 R24L/CLRD62 R24C/CLRD62 NOSIG


NOWCAST.SU UUEE 121600Z VRB02MPS 0500 FG SKC 14/06 Q0 NOSIG
AUTOTAF.ME UUEE 121400Z 1215/1224 VRB02MPS 0500 FG NSC TX14/1215Z TN09/1222Z
TAF UUEE 121350Z 1215/1315 18003G09MPS 9999 SCT040 TX30/1312Z TN18/1302Z
PROB40 TEMPO 1300/1315 -TSRA BKN016CB
BECMG 1306/1309 24005MPS=
 


NOSIG
 
Кимры (Борки)
SYNAR 27419 Дмитров 121200Z 20001MPS 9999 BKN020 28/11 Q1019 RMK QFE748/0997 CLD:5CU
(160/52KM)


NOWCAST.SU UUEI 121600Z VRB02MPS 0500 FG SKC 14/06 Q0 NOSIG
AUTOTAF.ME UUEI 121400Z 1215/1224 VRB02MPS 0500 FG NSC TX14/1215Z TN10/1222Z
 
Волен (Хелипорт)
SYNAR 27419 Дмитров 121200Z 20001MPS 9999 BKN020 28/11 Q1019 RMK QFE748/0997 CLD:5CU


NOWCAST.SU UUEJ 121600Z VRB02MPS 0500 FG SKC 14/05 Q0 NOSIG
AUTOTAF.ME UUEJ 121400Z 1215/1224 VRB02MPS 0500 FG NSC TX14/1215Z TN10/1221Z
 
Аэродром Конаково
SYNAR 27417 Клин 121200Z 17002MPS 9999 SCT020 29/12 Q1019 RMK QFE749/0998 CLD:3CU
(190/33KM)


NOWCAST.SU UUEL 121600Z VRB02MPS 0500 FG SKC 13/06 Q0 NOSIG
AUTOTAF.ME UUEL 121400Z 1215/1224 VRB02MPS 0500 FG NSC TX14/1215Z TN10/1223Z
BECMG 1221/1222 +SN FG
BECMG 1222/1223 FG
FM130000 VRB02MPS 0500 +SN FG VV004
 
Тверь (Мигалово)
SYNAR 27402 Тверь 121200Z 19002MPS CAVOK 29/10 Q1018 RMK QFE750/1000 CLD:SKC


TSAR UUEM 121600Z LAST HOUR TS OBS: 190/149KM, 200/112-179KM, 210/161-189KM
NEAREST TS 200/112KM
NOWCAST.SU UUEM 121600Z VRB02MPS 0500 FG SKC 14/07 Q0 NOSIG
AUTOTAF.ME UUEM 121400Z 1215/1224 VRB02MPS 0500 FG NSC TX14/1215Z TN10/1221Z
BECMG 1218/1219 HZ
FM122000 VRB02MPS 0500 +SN FG VV002
BECMG 1220/1221 OVC004
 
Завидово (Русь)
SYNAR 27417 Клин 121200Z 17002MPS 9999 SCT020 29/12 Q1019 RMK QFE749/0998 CLD:3CU
(120/36KM)


TSAR UUEP 121600Z LAST HOUR TS OBS: 210/127-173KM, 220/96-153KM
NEAREST TS 220/96KM
NOWCAST.SU UUEP 121600Z VRB02MPS 0500 FG SKC 14/06 Q0 NOSIG
AUTOTAF.ME UUEP 121400Z 1215/1224 VRB02MPS 0500 FG NSC TX14/1215Z TN10/1223Z
BECMG 1219/1220 HZ
BECMG 1220/1221 FG
FM122300 VRB02MPS 0500 +SN FG VV002
BECMG 1223/1224 OVC004
 
Гурбан
SYNAR 27419 Дмитров 121200Z 20001MPS 9999 BKN020 28/11 Q1019 RMK QFE748/0997 CLD:5CU
(0/21KM)


NOWCAST.SU UUEQ 121600Z VRB02MPS 0500 FG SKC 14/06 Q0 NOSIG
AUTOTAF.ME UUEQ 121400Z 1215/1224 VRB02MPS 0500 FG NSC TX14/1215Z TN10/1221Z
 
Талдом (Юркино)
SYNAR 27419 Дмитров 121200Z 20001MPS 9999 BKN020 28/11 Q1019 RMK QFE748/0997 CLD:5CU
(180/43KM)


NOWCAST.SU UUET 121600Z VRB02MPS 0500 FG SKC 14/06 Q0 NOSIG
AUTOTAF.ME UUET 121400Z 1215/1224 VRB02MPS 0500 FG NSC TX14/1215Z TN10/1222Z
BECMG 1222/1223 HZ
 
Залесье
SYNAR 27401 Торжок 121200Z 18003MPS CAVOK 28/13 Q1017 RMK QFE747/0996 CLD:4CI
(350/29KM)


TSAR UUEX 121600Z LAST HOUR TS OBS: 180/102-155KM, 190/141-165KM, 200/164-168KM, 210/173-178KM
NEAREST TS 180/102KM
NOWCAST.SU UUEX 121600Z VRB02MPS 0500 FG SKC 14/07 Q0 NOSIG
AUTOTAF.ME UUEX 121400Z 1215/1224 VRB02MPS 0500 FG NSC TX14/1215Z TN09/1223Z
FM122000 VRB02MPS 0500 +SN FG VV002
BECMG 1220/1221 OVC004
BECMG 1222/1223 FG
 
Юрьевское (Волжанка)
SYNAR 27402 Тверь 121200Z 19002MPS CAVOK 29/10 Q1018 RMK QFE750/1000 CLD:SKC
(290/27KM)


TSAR UUEY 121600Z LAST HOUR TS OBS: 210/122-184KM
NEAREST TS 210/122KM
NOWCAST.SU UUEY 121600Z VRB02MPS 0500 FG SKC 14/06 Q0 NOSIG
AUTOTAF.ME UUEY 121400Z 1215/1224 VRB02MPS 0500 FG NSC TX14/1215Z TN10/1221Z
BECMG 1218/1219 HZ
BECMG 1219/1220 FG
FM122100 VRB02MPS 0500 +SN FG VV004
FM130000 VRB02MPS 2500 SN BR OVC004
 
Хатенки
SYNAR 27707 Сухиничи 121200Z 14003MPS CAVOK 27/12 Q1019 RMK QFE742/0990 CLD:SKC
(270/25KM)


TSAR UUFH 121600Z LAST HOUR TS OBS: 260/84KM, 270/96KM, 280/84-97KM, 290/90-101KM, 300/78-110KM, 310/81-122KM, 320/96-152KM, 330/114-169KM, 340/147-171KM, 350/159KM
NEAREST TS 300/78KM
NOWCAST.SU UUFH 121600Z VRB02MPS 0500 FG SKC 01/01 Q0 NOSIG
AUTOTAF.ME UUFH 121400Z 1215/1224 VRB02MPS 0500 FG NSC TX13/1215Z TN09/1222Z
 
Михеево
SYNAR 27606 Малоярославец 121200Z 21001MPS 9999 FEW020 28/13 Q1019 RMK QFE746/0995 CLD:1CU
(70/40KM)


TSAR UUFM 121600Z LAST HOUR TS OBS: 220/133KM, 230/119KM, 240/96-106KM, 250/74-97KM, 260/68-92KM, 280/68-92KM, 290/73-97KM, 300/74-105KM, 310/76-104KM, 320/88-96KM, 330/81-103KM, 340/115KM
NEAREST TS 260/68KM
NOWCAST.SU UUFM 121600Z VRB02MPS 0500 FG SKC 13/08 Q0 NOSIG
AUTOTAF.ME UUFM 121400Z 1215/1224 VRB02MPS 0500 FG NSC TX13/1215Z TN10/1220Z
 
Недельное
SYNAR 27606 Малоярославец 121200Z 21001MPS 9999 FEW020 28/13 Q1019 RMK QFE746/0995 CLD:1CU
(330/24KM)


TSAR UUFN 121600Z LAST HOUR TS OBS: 310/120KM, 320/132-146KM
NEAREST TS 310/120KM
NOWCAST.SU UUFN 121600Z VRB02MPS 0500 FG SKC 01/01 Q0 NOSIG
AUTOTAF.ME UUFN 121400Z 1215/1224 VRB02MPS 0500 FG NSC TX13/1215Z TN09/1221Z
 
Калуга (Орешково)
SYNAR 27705 Калуга 121200Z 16002MPS CAVOK 28/09 Q1020 RMK QFE744/0993 CLD:2CI
(70/33KM)


TSAR UUFO 121600Z LAST HOUR TS OBS: 270/93KM, 280/82-94KM, 290/100KM, 300/89-109KM, 310/99-122KM, 320/113-149KM, 330/122-152KM, 340/129-164KM
NEAREST TS 280/82KM
NOWCAST.SU UUFO 121600Z VRB02MPS 0500 FG SKC 12/08 Q0 NOSIG
AUTOTAF.ME UUFO 121400Z 1215/1224 VRB02MPS 0500 FG NSC TX13/1215Z TN09/1221Z
 
Стародуб
SYNAR 26985 Унеча 121200Z 13003MPS 9999 BKN020CB 32/18 Q1017 RMK QFE745/0994 CLD:7CBCI
(340/30KM)


TSAR UUFS 121600Z LAST HOUR TS OBS: 010/101-167KM, 020/105-178KM, 030/91-190KM, 040/48-106KM, 050/58-92KM, 060/69-102KM, 070/49-92KM, 080/61-74KM, 190/74KM, 200/53-78KM, 210/34-134KM, 220/66-141KM, 230/42KM, 340/148KM, 350/124-166KM, 360/99-164KM
NEAREST TS 210/34KM
NOWCAST.SU UUFS 121600Z VRB02MPS 0500 FG SKC 15/09 Q0 TEMPO -TSRA
AUTOTAF.ME UUFS 121400Z 1215/1224 VRB02MPS 0500 FG NSC TX16/1215Z TN11/1223Z
 
Иваньково
SYNAR 27627 Кашира 121200Z 24001MPS 9999 BKN020 29/11 Q1020 RMK QFE745/0993 CLD:5CU
(50/18KM)


NOWCAST.SU UUGI 121600Z VRB02MPS 0500 FG SKC 01/01 Q0 NOSIG
AUTOTAF.ME UUGI 121400Z 1215/1224 VRB02MPS 0500 FG NSC TX14/1215Z TN08/1223Z
 
Макариха ДНС
SYNAR 23410 Усинск 121200Z 36001MPS //// //// 14/05 Q1021 RMK QFE758/1011 CLD:NO_OBSERVATIONS
(210/91KM)


NOWCAST.SU UUHH 121600Z VRB02MPS 0500 FG SKC 06/03 Q0 NOSIG
AUTOTAF.ME UUHH 121400Z 1215/1224 VRB02MPS 0500 FG NSC TX07/1215Z TN04/1221Z
BECMG 1218/1219 BKN040
BECMG 1220/1221 NSC
 
Уса-38
SYNAR 23410 Усинск 121200Z 36001MPS //// //// 14/05 Q1021 RMK QFE758/1011 CLD:NO_OBSERVATIONS


NOWCAST.SU UUHM 121600Z VRB02MPS 0500 FG BKN048 07/03 Q0 NOSIG
AUTOTAF.ME UUHM 121400Z 1215/1224 VRB02MPS 0500 FG BKN040 TX07/1215Z TN03/1222Z
BECMG 1217/1218 NSC
BECMG 1223/1224 OVC004
 
Дарьино
SYNAR 27428 Александров 121200Z 18001MPS 9999 SCT033 26/09 Q1020 RMK QFE748/0997 CLD:3CU


NOWCAST.SU UUID 121600Z VRB02MPS 0500 FG SKC 13/04 Q0 NOSIG
AUTOTAF.ME UUID 121400Z 1215/1224 VRB02MPS 0500 FG NSC TX13/1215Z TN08/1222Z
 
Плес (Спасское)
SYNAR 27344 Приволжск 121200Z 28001MPS 9999 SCT033 26/13 Q1020 RMK QFE754/1006 CLD:3CU
(240/14KM)


NOWCAST.SU UUIE 121600Z VRB02MPS 0500 FG SKC 12/06 Q0 NOSIG
AUTOTAF.ME UUIE 121400Z 1215/1224 VRB02MPS 0500 FG NSC TX12/1215Z TN07/1223Z
BECMG 1221/1222 OVC004
BECMG 1222/1223 NSC
 
Аэродром Доброград
SYNAR 27532 Владимир 121200Z 31001MPS 9999 FEW033 26/08 Q1020 RMK QFE749/0999 CLD:1CU
(260/56KM)


NOWCAST.SU UUIG 121600Z VRB02MPS 0500 FG SKC 12/05 Q0 NOSIG
AUTOTAF.ME UUIG 121400Z 1215/1224 VRB02MPS 0500 FG NSC TX12/1215Z TN07/1222Z
 
Палех
SYNAR 27441 Шуя 121200Z 02002MPS 9999 FEW033 25/08 Q1020 RMK QFE756/1008 CLD:2CU
(280/28KM)


NOWCAST.SU UUIH 121600Z VRB02MPS 0500 FG SKC 11/06 Q0 NOSIG
AUTOTAF.ME UUIH 121400Z 1215/1224 VRB02MPS 0500 FG NSC TX12/1215Z TN06/1300Z
BECMG 1220/1221 OVC004
 
Мордыш
SYNAR 27532 Владимир 121200Z 31001MPS 9999 FEW033 26/08 Q1020 RMK QFE749/0999 CLD:1CU
(220/26KM)


NOWCAST.SU UUIM 121600Z VRB02MPS 0500 FG SKC 12/05 Q0 NOSIG
AUTOTAF.ME UUIM 121400Z 1215/1224 VRB02MPS 0500 FG NSC TX13/1215Z TN07/1223Z
 
Небылое
SYNAR 27437 Юрьев-Польский 121200Z 16001MPS 9999 FEW033 26/08 Q1020 RMK QFE751/1001 CLD:1CU
(300/19KM)


NOWCAST.SU UUIN 121600Z VRB02MPS 0500 FG SKC 12/05 Q0 NOSIG
AUTOTAF.ME UUIN 121400Z 1215/1224 VRB02MPS 0500 FG NSC TX13/1215Z TN08/1222Z
 
Суздаль (Павловское)
SYNAR 27532 Владимир 121200Z 31001MPS 9999 FEW033 26/08 Q1020 RMK QFE749/0999 CLD:1CU
(200/23KM)


NOWCAST.SU UUIP 121600Z VRB02MPS 0500 FG SKC 12/05 Q0 NOSIG
AUTOTAF.ME UUIP 121400Z 1215/1224 VRB02MPS 0500 FG NSC TX13/1215Z TN07/1223Z
 
Сновицы
SYNAR 27532 Владимир 121200Z 31001MPS 9999 FEW033 26/08 Q1020 RMK QFE749/0999 CLD:1CU


NOWCAST.SU UUIS 121600Z VRB02MPS 0500 FG SKC 12/04 Q0 NOSIG
AUTOTAF.ME UUIS 121400Z 1215/1224 VRB02MPS 0500 FG NSC TX13/1215Z TN08/1222Z
 
Почаевский проезд
SYNAR 27532 Владимир 121200Z 31001MPS 9999 FEW033 26/08 Q1020 RMK QFE749/0999 CLD:1CU


NOWCAST.SU UUIX 121600Z VRB02MPS 0500 FG SKC 13/04 Q0 NOSIG
AUTOTAF.ME UUIX 121400Z 1215/1224 VRB02MPS 0500 FG NSC TX13/1215Z TN08/1222Z
 
Крутицы
SYNAR 27736 Шилово 121200Z 34001MPS 9999 FEW020 27/08 Q1020 RMK QFE755/1007 CLD:2CU


NOWCAST.SU UUJK 121600Z VRB02MPS 0500 FG SKC 12/06 Q0 NOSIG
AUTOTAF.ME UUJK 121400Z 1215/1224 VRB02MPS 0500 FG NSC TX13/1215Z TN08/1222Z
 
Кубинка
SYNAR 27611 Наро-Фоминск 121200Z 19002MPS 9999 FEW020 27/11 Q1019 RMK QFE747/0996 CLD:2CU
(170/26KM)


TSAR UUMB 121600Z LAST HOUR TS OBS: 260/91KM, 280/91KM, 290/94KM
NEAREST TS 260/91KM
NOWCAST.SU UUMB 121600Z VRB02MPS 0500 FG SKC 13/06 Q0 NOSIG
AUTOTAF.ME UUMB 121400Z 1215/1224 VRB02MPS 0500 FG NSC TX14/1215Z TN10/1221Z
BECMG 1222/1223 +SN FG
BECMG 1223/1224 OVC004
 
Черноголовка
SYNAR 27523 Павловский Посад 121200Z 09002MPS 9999 FEW020 27/10 Q1020 RMK QFE752/1003 CLD:2CU
(140/36KM)


NOWCAST.SU UUMC 121600Z VRB02MPS 0500 FG SKC 13/05 Q0 NOSIG
AUTOTAF.ME UUMC 121400Z 1215/1224 VRB02MPS 0500 FG NSC TX14/1215Z TN08/1223Z
 
Сельниково
SYNAR 27625 Коломна 121200Z 07001MPS 9999 SCT033 27/12 Q1020 RMK QFE754/1005 CLD:3CU
(270/26KM)


NOWCAST.SU UUMD 121600Z VRB02MPS 0500 FG SKC 13/04 Q0 NOSIG
AUTOTAF.ME UUMD 121400Z 1215/1224 VRB02MPS 0500 FG NSC TX13/1215Z TN08/1222Z
 
Северка
SYNAR 27625 Коломна 121200Z 07001MPS 9999 SCT033 27/12 Q1020 RMK QFE754/1005 CLD:3CU


NOWCAST.SU UUML 121600Z VRB02MPS 0500 FG SKC 13/04 Q0 NOSIG
AUTOTAF.ME UUML 121400Z 1215/1224 VRB02MPS 0500 FG NSC TX13/1215Z TN08/1222Z
 
КС-18 Мышкин
SYNAR 27225 Рыбинск 121200Z 14002MPS CAVOK 26/09 Q1019 RMK QFE754/1006 CLD:2CI
(30/34KM)


NOWCAST.SU UUMN 121600Z VRB02MPS 0500 FG SKC 13/06 Q0 NOSIG
AUTOTAF.ME UUMN 121400Z 1215/1224 VRB02MPS 0500 FG NSC TX13/1215Z TN10/1221Z
 
Москва (Остафьево)
METAR UUMO 180600Z 19002MPS 140V290 9999 BKN/// 20/18 Q1007 R07/290050 NOSIG RMK QFE741/0988


NOWCAST.SU UUMO 121600Z VRB02MPS 0500 FG SKC 14/06 Q0 NOSIG
AUTOTAF.ME UUMO 121400Z 1215/1224 VRB02MPS 0500 FG NSC TX14/1215Z TN08/1300Z
TAF AMD UUMO 180558Z 1806/1815 CNL=
Буньково
SYNAR 27511 Ново-Йерусалим 121200Z 17002MPS 9999 FEW033 28/10 Q1019 RMK QFE749/0999 CLD:3CUCS


NOWCAST.SU UUMR 121600Z VRB02MPS 0500 FG SKC 01/01 Q0 NOSIG
AUTOTAF.ME UUMR 121400Z 1215/1224 VRB02MPS 0500 FG NSC TX14/1215Z TN10/1221Z
BECMG 1221/1222 +SN FG
BECMG 1222/1223 OVC004
 
Чкаловский
SYNAR 27612 Москва (ВДНХ) 121200Z 15001MPS CAVOK 28/12 Q1020 RMK QFE750/1001 CLD:5AC
(260/28KM)


NOWCAST.SU UUMU 121600Z VRB02MPS 0500 FG SKC 13/05 Q0 NOSIG
AUTOTAF.ME UUMU 121400Z 1215/1224 VRB02MPS 0500 FG NSC TX14/1215Z TN08/1300Z
 
Воскресенск
SYNAR 27625 Коломна 121200Z 07001MPS 9999 SCT033 27/12 Q1020 RMK QFE754/1005 CLD:3CU
(160/22KM)


NOWCAST.SU UUMV 121600Z VRB02MPS 0500 FG SKC 13/05 Q0 NOSIG
AUTOTAF.ME UUMV 121400Z 1215/1224 VRB02MPS 0500 FG NSC TX13/1215Z TN08/1222Z
 
Аэродром Ватулино
SYNAR 27509 Можайск 121200Z 21003MPS 9999 FEW020 28/13 Q1019 RMK QFE747/0996 CLD:2CUCI
(210/18KM)


TSAR UUMW 121600Z LAST HOUR TS OBS: 220/126-168KM, 230/111-134KM, 240/98-109KM, 250/77-101KM, 260/60-95KM, 270/58-70KM, 290/62KM
NEAREST TS 270/58KM
NOWCAST.SU UUMW 121600Z VRB02MPS 0500 FG SKC 01/01 Q0 NOSIG
AUTOTAF.ME UUMW 121400Z 1215/1224 VRB02MPS 0500 FG NSC TX14/1215Z TN10/1222Z
FM122300 VRB02MPS 0500 +SN FG VV004
 
Благовещенье
SYNAR 27419 Дмитров 121200Z 20001MPS 9999 BKN020 28/11 Q1019 RMK QFE748/0997 CLD:5CU
(270/33KM)


NOWCAST.SU UUMX 121600Z VRB02MPS 0500 FG SKC 01/01 Q0 NOSIG
AUTOTAF.ME UUMX 121400Z 1215/1224 VRB02MPS 0500 FG NSC TX14/1215Z TN09/1222Z
 
Озеры
SYNAR 27627 Кашира 121200Z 24001MPS 9999 BKN020 29/11 Q1020 RMK QFE745/0993 CLD:5CU
(270/31KM)


NOWCAST.SU UUMY 121600Z VRB02MPS 0500 FG SKC 01/01 Q0 NOSIG
AUTOTAF.ME UUMY 121400Z 1215/1224 VRB02MPS 0500 FG NSC TX14/1215Z TN08/1223Z
 
Белгород
METAR UUOB 121600Z 08003MPS CAVOK 29/10 Q1017 R11/010070 NOSIG


NOWCAST.SU UUOB 121600Z VRB02MPS 0500 FG SKC 01/01 Q0 NOSIG
AUTOTAF.ME UUOB 121400Z 1215/1224 VRB02MPS 0500 FG NSC TX16/1215Z TN10/1223Z
TAF UUOB 121355Z 1215/1224 07003G08MPS 9999 SCT030=
Воронеж (Придача)
SYNAR 34123 Воронеж 121200Z 02002MPS CAVOK 28/10 Q1019 RMK QFE750/1000 CLD:2AC


NOWCAST.SU UUOD 121600Z VRB02MPS 0500 FG SKC 13/05 Q0 NOSIG
AUTOTAF.ME UUOD 121400Z 1215/1224 VRB02MPS 0500 FG NSC TX14/1215Z TN08/1223Z
 
Курск (Восточный)
METAR UUOK 121600Z 04002MPS CAVOK 28/11 Q1017 R12/090060 NOSIG RMK QFE745/0993


NOWCAST.SU UUOK 121600Z VRB02MPS 0500 FG SKC 01/01 Q0 NOSIG
AUTOTAF.ME UUOK 121400Z 1215/1224 VRB02MPS 0500 FG NSC TX14/1215Z TN09/1222Z
TAF UUOK 121345Z 1215/1224 VRB01MPS 9999 SCT040=
Липецк
METAR UUOL 121600Z AUTO 07003MPS 9999 NCD 25/13 Q1018


NOWCAST.SU UUOL 121600Z VRB02MPS 0500 FG SKC 12/06 Q0 NOSIG
AUTOTAF.ME UUOL 121400Z 1215/1224 VRB02MPS 0500 FG NSC TX13/1215Z TN08/1222Z
TAF UUOL 121400Z 1215/1224 05003MPS CAVOK=
Воронеж (Чертовицкое)
METAR UUOO 121600Z 05002MPS CAVOK 27/11 Q1017 R12/010070 NOSIG RMK QFE749


NOWCAST.SU UUOO 121600Z VRB02MPS 0500 FG SKC 13/05 Q0 NOSIG
AUTOTAF.ME UUOO 121400Z 1215/1224 VRB02MPS 0500 FG NSC TX14/1215Z TN08/1222Z
TAF UUOO 121400Z 1215/1224 09003MPS CAVOK=
Орел (Южный)
SYNAR 27906 Орел 121200Z 12002MPS CAVOK 28/11 Q1019 RMK QFE746/0995 CLD:SKC


TSAR UUOR 121600Z LAST HOUR TS OBS: 330/188KM
NEAREST TS 330/188KM
NOWCAST.SU UUOR 121600Z VRB02MPS 0500 FG SKC 13/06 Q0 NOSIG
AUTOTAF.ME UUOR 121400Z 1215/1224 VRB02MPS 0500 FG NSC TX14/1215Z TN08/1222Z
 
Старый Оскол
SYNAR 34110 Богородицкое 121200Z 12002MPS CAVOK 30/09 Q1019 RMK QFE743/0991 CLD:SKC
(240/34KM)


NOWCAST.SU UUOS 121600Z VRB02MPS 0500 FG SKC 01/01 Q0 NOSIG
AUTOTAF.ME UUOS 121400Z 1215/1224 VRB02MPS 0500 FG NSC TX15/1215Z TN09/1223Z
 
Тамбов (Донское)
SYNAR 27947 Тамбов 121200Z 34005MPS CAVOK 27/06 Q1019 RMK QFE752/1003 CLD:2CI


NOWCAST.SU UUOT 121600Z VRB02MPS 0500 FG SKC 13/05 Q0 NOSIG
AUTOTAF.ME UUOT 121400Z 1215/1224 VRB02MPS 0500 FG NSC TX13/1215Z TN08/1222Z
 
Усмань (Чистоозерская)
SYNAR 34026 Конь-Колодезь 121200Z 02002MPS 9999 FEW033 29/09 Q1019 RMK QFE751/1002 CLD:2CU
(290/39KM)


NOWCAST.SU UUOU 121600Z VRB02MPS 0500 FG SKC 13/05 Q0 NOSIG
AUTOTAF.ME UUOU 121400Z 1215/1224 VRB02MPS 0500 FG NSC TX14/1215Z TN07/1300Z
 
Валуйки
SYNAR 34321 Валуйки 121200Z 05003MPS CAVOK 31/08 Q1018 RMK QFE753/1004 CLD:SKC


NOWCAST.SU UUOW 121600Z VRB02MPS 0500 FG SKC 15/04 Q0 NOSIG
AUTOTAF.ME UUOW 121400Z 1215/1224 VRB02MPS 0500 FG NSC TX15/1215Z TN10/1222Z
 
Воронеж (Солнечная)
SYNAR 34123 Воронеж 121200Z 02002MPS CAVOK 28/10 Q1019 RMK QFE750/1000 CLD:2AC


NOWCAST.SU UUOZ 121600Z VRB02MPS 0500 FG SKC 13/05 Q0 NOSIG
AUTOTAF.ME UUOZ 121400Z 1215/1224 VRB02MPS 0500 FG NSC TX14/1215Z TN08/1223Z
 
Гаврилов Ям (Агат)
SYNAR 27329 Ростов Великий 121200Z 13002MPS CAVOK 26/09 Q1020 RMK QFE755/1007 CLD:SKC
(240/28KM)


NOWCAST.SU UUQA 121600Z VRB02MPS 0500 FG SKC 12/05 Q0 NOSIG
AUTOTAF.ME UUQA 121400Z 1215/1224 VRB02MPS 0500 FG NSC TX13/1215Z TN09/1220Z
 
Ярославль (Любим)
SYNAR 27330 Ярославль 121200Z 21001MPS 9999 SCT033 26/11 Q1020 RMK QFE756/1008 CLD:4CU


NOWCAST.SU UUQL 121600Z VRB02MPS 0500 FG SKC 12/05 Q0 NOSIG
AUTOTAF.ME UUQL 121400Z 1215/1224 VRB02MPS 0500 FG NSC TX13/1215Z TN09/1221Z
 
Попов Луг
SYNAR 27425 Переславль-Залесский 121200Z 16001MPS CAVOK 26/10 Q1020 RMK QFE749/0998 CLD:SKC


NOWCAST.SU UUQP 121600Z VRB02MPS 0500 FG SKC 13/05 Q0 NOSIG
AUTOTAF.ME UUQP 121400Z 1215/1224 VRB02MPS 0500 FG NSC TX13/1215Z TN09/1222Z
 
Рыбинск-Аксон
SYNAR 27225 Рыбинск 121200Z 14002MPS CAVOK 26/09 Q1019 RMK QFE754/1006 CLD:2CI


NOWCAST.SU UUQR 121600Z VRB02MPS 0500 FG SKC 13/06 Q0 NOSIG
AUTOTAF.ME UUQR 121400Z 1215/1224 VRB02MPS 0500 FG NSC TX13/1215Z TN10/1222Z
 
Лось
SYNAR 27425 Переславль-Залесский 121200Z 16001MPS CAVOK 26/10 Q1020 RMK QFE749/0998 CLD:SKC
(110/33KM)


NOWCAST.SU UUQX 121600Z VRB02MPS 0500 FG SKC 13/05 Q0 NOSIG
AUTOTAF.ME UUQX 121400Z 1215/1224 VRB02MPS 0500 FG NSC TX14/1215Z TN09/1223Z
 
Строгановка
SYNAR 23217 Харьяга 121200Z 29003MPS //// //// 13/07 Q1020 RMK QFE757/1009 CLD:NO_OBSERVATIONS
(10/33KM)


NOWCAST.SU UURA 121600Z VRB02MPS 0500 FG BKN048 06/03 Q0 NOSIG
AUTOTAF.ME UURA 121400Z 1215/1224 VRB02MPS 0500 FG BKN040 TX07/1215Z TN03/1222Z
BECMG 1219/1220 NSC
 
Сандивей ДНС
SYNAR 23217 Харьяга 121200Z 29003MPS //// //// 13/07 Q1020 RMK QFE757/1009 CLD:NO_OBSERVATIONS
(290/69KM)


NOWCAST.SU UURD 121600Z VRB02MPS 0500 FG BKN043 06/03 Q0 NOSIG
AUTOTAF.ME UURD 121400Z 1215/1224 VRB02MPS 0500 FG BKN040 TX07/1215Z TN04/1221Z
BECMG 1219/1220 NSC
 
Кипиево
SYNAR 23411 Мутный Материк 121200Z 29001MPS 9999 BKN020 14/07 Q1021 RMK QFE759/1012 CLD:7SC
(40/43KM)


NOWCAST.SU UURK 121600Z VRB02MPS 0500 FG BKN054 07/03 Q0 NOSIG
AUTOTAF.ME UURK 121400Z 1215/1224 VRB02MPS 0500 FG NSC TX07/1215Z TN03/1222Z
BECMG 1222/1223 OVC004
 
Приуральское
SYNAR 23418 Печора 121200Z 08002MPS 9999 SCT020 14/06 Q1020 RMK QFE759/1012 CLD:3CU
(320/56KM)


NOWCAST.SU UURP 121600Z VRB02MPS 0500 FG BKN048 07/03 Q0 NOSIG
AUTOTAF.ME UURP 121400Z 1215/1224 VRB02MPS 0500 FG BKN040 TX07/1215Z TN03/1222Z
BECMG 1219/1220 NSC
 
Аржаники
SYNAR 27507 Гагарин 121200Z 18003MPS CAVOK 28/10 Q1019 RMK QFE746/0995 CLD:SKC
(180/44KM)


TSAR UUSA 121600Z LAST HOUR TS OBS: 130/10KM, 160/26KM, 170/45KM, 180/60KM, 190/25-171KM, 200/47-178KM, 210/52-188KM, 220/79-127KM, 230/87-119KM, 240/106KM
NEAREST TS 130/10KM
NOWCAST.SU UUSA 121600Z VRB02MPS 0500 FG SKC 01/01 Q0 TEMPO -TSRA
AUTOTAF.ME UUSA 121400Z 1215/1224 VRB02MPS 0500 FG NSC TX14/1215Z TN10/1221Z
BECMG 1218/1219 HZ
BECMG 1219/1220 FG
FM122100 VRB02MPS 0500 +SN FG VV004
 
Горовидка
SYNAR 26695 Вязьма 121200Z 20001MPS 9999 FEW050 28/15 Q1019 RMK QFE741/0989 CLD:2CUCI
(200/14KM)


TSAR UUSG 121600Z LAST HOUR TS OBS: 020/28KM, 030/79KM, 040/15-64KM, 050/43KM, 060/12-53KM, 070/23-35KM, 110/24KM, 120/25KM, 140/14-16KM, 150/38-38KM, 160/33-77KM, 170/53-96KM, 180/31-138KM, 190/10-164KM, 200/54-171KM, 210/34-182KM, 220/41-146KM, 230/19-50KM, 240/18-70KM, 250/28KM, 260/40-75KM, 280/52-64KM, 290/16-40KM, 310/18KM, 340/7KM, 350/11KM
NEAREST TS 340/7KM
NOWCAST.SU UUSG 121600Z VRB02MPS 0500 HZ SKC 01/01 Q0 TEMPO -TSRA
AUTOTAF.ME UUSG 121400Z 1215/1224 VRB02MPS 0500 FG NSC TX14/1215Z TN10/1221Z
BECMG 1215/1216 HZ
BECMG 1217/1218 FG
FM121900 VRB02MPS 0500 +SN FG VV002
BECMG 1219/1220 FG
FM122100 VRB02MPS 0500 FG VV004
FM122200 VRB02MPS 0500 +SN FG VV002
FM130000 VRB02MPS 0500 +SN FG VV004
 
Кирилловка
SYNAR 27402 Тверь 121200Z 19002MPS CAVOK 29/10 Q1018 RMK QFE750/1000 CLD:SKC
(350/34KM)


TSAR UUTA 121600Z LAST HOUR TS OBS: 200/128-147KM, 210/94-179KM, 220/145KM
NEAREST TS 210/94KM
NOWCAST.SU UUTA 121600Z VRB02MPS 0500 FG SKC 14/06 Q0 NOSIG
AUTOTAF.ME UUTA 121400Z 1215/1224 VRB02MPS 0500 FG NSC TX14/1215Z TN10/1300Z
FM122300 VRB02MPS 0500 +SN FG VV002
BECMG 1223/1224 OVC004
 
Адмиральская Бухта
SYNAR 27402 Тверь 121200Z 19002MPS CAVOK 29/10 Q1018 RMK QFE750/1000 CLD:SKC
(290/22KM)


TSAR UUTB 121600Z LAST HOUR TS OBS: 200/155KM, 210/121-183KM
NEAREST TS 210/121KM
NOWCAST.SU UUTB 121600Z VRB02MPS 0500 FG SKC 14/06 Q0 NOSIG
AUTOTAF.ME UUTB 121400Z 1215/1224 VRB02MPS 0500 FG NSC TX14/1215Z TN10/1221Z
BECMG 1218/1219 HZ
FM122000 VRB02MPS 0500 +SN FG VV002
BECMG 1220/1221 OVC004
FM130000 VRB02MPS 2500 SN BR OVC004
 
Серебряный Бор
SYNAR 27417 Клин 121200Z 17002MPS 9999 SCT020 29/12 Q1019 RMK QFE749/0998 CLD:3CU
(30/28KM)


TSAR UUTF 121600Z LAST HOUR TS OBS: 230/106-125KM, 240/94-105KM, 250/86KM
NEAREST TS 250/86KM
NOWCAST.SU UUTF 121600Z VRB02MPS 0500 FG SKC 01/01 Q0 NOSIG
AUTOTAF.ME UUTF 121400Z 1215/1224 VRB02MPS 0500 FG NSC TX14/1215Z TN10/1223Z
BECMG 1223/1224 +SN FG
 
Большая Волга
SYNAR 27417 Клин 121200Z 17002MPS 9999 SCT020 29/12 Q1019 RMK QFE749/0998 CLD:3CU
(210/47KM)


NOWCAST.SU UUTG 121600Z VRB02MPS 0500 FG SKC 13/07 Q0 NOSIG
AUTOTAF.ME UUTG 121400Z 1215/1224 VRB02MPS 0500 FG NSC TX14/1215Z TN10/1222Z
 
Вараксино
SYNAR 26499 Старица 121200Z 17004MPS CAVOK 28/13 Q1018 RMK QFE746/0995 CLD:2CI
(40/66KM)


TSAR UUTH 121600Z LAST HOUR TS OBS: 110/63KM, 120/71KM, 130/61-83KM, 140/74KM, 150/67-87KM, 160/61-140KM, 170/73-160KM, 180/71-157KM, 190/72-160KM, 200/75-123KM, 210/79-109KM
NEAREST TS 130/61KM
NOWCAST.SU UUTH 121600Z VRB02MPS 0500 HZ SKC 14/09 Q0 NOSIG
AUTOTAF.ME UUTH 121400Z 1215/1224 VRB02MPS 0500 FG NSC TX15/1215Z TN10/1219Z
BECMG 1215/1216 HZ
BECMG 1216/1217 FG
FM121800 VRB02MPS 0500 +SN FG VV004
BECMG 1218/1219 OVC002
FM122100 VRB02MPS 0500 +SN FG NSC
FM122300 VRB02MPS 0500 +SN FG VV004
 
Завидово (Треуголка)
SYNAR 27417 Клин 121200Z 17002MPS 9999 SCT020 29/12 Q1019 RMK QFE749/0998 CLD:3CU
(150/29KM)


TSAR UUTJ 121600Z LAST HOUR TS OBS: 210/142KM, 220/127-162KM, 230/113KM
NEAREST TS 230/113KM
NOWCAST.SU UUTJ 121600Z VRB02MPS 0500 FG SKC 14/06 Q0 NOSIG
AUTOTAF.ME UUTJ 121400Z 1215/1224 VRB02MPS 0500 FG NSC TX14/1215Z TN10/1223Z
BECMG 1219/1220 HZ
BECMG 1220/1221 FG
FM122200 VRB02MPS 0500 +SN FG VV004
 
Калязин
SYNAR 27316 Кашин 121200Z 18001MPS 9999 SCT020 26/14 Q1019 RMK QFE751/1002 CLD:3CU
(300/21KM)


NOWCAST.SU UUTK 121600Z VRB02MPS 0500 FG SKC 14/06 Q0 NOSIG
AUTOTAF.ME UUTK 121100Z 1212/1221 VRB02MPS 0500 FG NSC TX14/1212Z TN11/1220Z
 
Александровская Слобода
SYNAR 27402 Тверь 121200Z 19002MPS CAVOK 29/10 Q1018 RMK QFE750/1000 CLD:SKC
(280/48KM)


TSAR UUTL 121600Z LAST HOUR TS OBS: 210/172KM, 220/141-156KM
NEAREST TS 220/141KM
NOWCAST.SU UUTL 121600Z VRB02MPS 0500 FG SKC 14/06 Q0 NOSIG
AUTOTAF.ME UUTL 121100Z 1212/1221 VRB02MPS 0500 FG NSC TX15/1213Z TN11/1220Z
BECMG 1219/1220 HZ
BECMG 1220/1221 FG
 
Орловка
SYNAR 26499 Старица 121200Z 17004MPS CAVOK 28/13 Q1018 RMK QFE746/0995 CLD:2CI
(350/38KM)


TSAR UUTO 121600Z LAST HOUR TS OBS: 160/34-52KM, 170/71KM, 180/50-149KM, 190/70-152KM, 200/73-159KM, 210/96-164KM, 220/110-158KM, 230/126KM
NEAREST TS 160/34KM
NOWCAST.SU UUTO 121600Z VRB02MPS 0500 FG SKC 01/01 Q0 TEMPO -TSRA
AUTOTAF.ME UUTO 121100Z 1212/1221 VRB02MPS 0500 FG NSC TX15/1213Z TN11/1220Z
BECMG 1216/1217 HZ
BECMG 1218/1219 FG
BECMG 1219/1220 OVC002
FM122100 VRB02MPS 0500 FG VV004
 
Поповка
SYNAR 27316 Кашин 121200Z 18001MPS 9999 SCT020 26/14 Q1019 RMK QFE751/1002 CLD:3CU
(290/19KM)


NOWCAST.SU UUTP 121600Z VRB02MPS 0500 FG SKC 14/06 Q0 NOSIG
AUTOTAF.ME UUTP 121100Z 1212/1221 VRB02MPS 0500 FG NSC TX14/1212Z TN11/1220Z
 
Свердловка
SYNAR 27417 Клин 121200Z 17002MPS 9999 SCT020 29/12 Q1019 RMK QFE749/0998 CLD:3CU
(160/32KM)


TSAR UUTQ 121600Z LAST HOUR TS OBS: 220/136-151KM, 230/122KM
NEAREST TS 230/122KM
NOWCAST.SU UUTQ 121600Z VRB02MPS 0500 FG SKC 14/06 Q0 NOSIG
AUTOTAF.ME UUTQ 121100Z 1212/1221 VRB02MPS 0500 FG NSC TX14/1212Z TN11/1221Z
BECMG 1219/1220 HZ
BECMG 1220/1221 FG
 
Старица
SYNAR 26499 Старица 121200Z 17004MPS CAVOK 28/13 Q1018 RMK QFE746/0995 CLD:2CI


TSAR UUTS 121600Z LAST HOUR TS OBS: 170/74-111KM, 180/92-150KM, 190/112-153KM, 200/134-158KM, 210/143-173KM, 220/156KM
NEAREST TS 170/74KM
NOWCAST.SU UUTS 121600Z VRB02MPS 0500 FG SKC 14/08 Q0 NOSIG
AUTOTAF.ME UUTS 121100Z 1212/1221 VRB02MPS 0500 FG NSC TX14/1212Z TN10/1220Z
FM121900 VRB02MPS 0500 +SN FG VV002
BECMG 1220/1221 OVC004
 
Волжская 7
SYNAR 27417 Клин 121200Z 17002MPS 9999 SCT020 29/12 Q1019 RMK QFE749/0998 CLD:3CU
(160/32KM)


TSAR UUTV 121600Z LAST HOUR TS OBS: 210/147KM, 220/132KM, 230/118KM
NEAREST TS 230/118KM
NOWCAST.SU UUTV 121600Z VRB02MPS 0500 FG SKC 13/06 Q0 NOSIG
AUTOTAF.ME UUTV 121100Z 1212/1221 VRB02MPS 0500 FG NSC TX14/1212Z TN11/1220Z
BECMG 1219/1220 HZ
BECMG 1220/1221 FG
 
Волга Кантри Клаб
SYNAR 26499 Старица 121200Z 17004MPS CAVOK 28/13 Q1018 RMK QFE746/0995 CLD:2CI
(30/34KM)


TSAR UUTW 121600Z LAST HOUR TS OBS: 140/51KM, 150/66KM, 160/61-83KM, 170/77-116KM, 180/76-155KM, 190/93-160KM, 200/95-163KM, 210/104-153KM, 220/117-141KM
NEAREST TS 140/51KM
NOWCAST.SU UUTW 121600Z VRB02MPS 0500 HZ SKC 14/09 Q0 NOSIG
AUTOTAF.ME UUTW 121100Z 1212/1221 VRB02MPS 0500 FG NSC TX15/1213Z TN10/1220Z
BECMG 1215/1216 HZ
BECMG 1216/1217 FG
FM121800 VRB02MPS 0500 +SN FG VV004
BECMG 1218/1219 OVC002
FM122100 VRB02MPS 0500 +SN FG VV004
 
Завидово (Большое)
SYNAR 27417 Клин 121200Z 17002MPS 9999 SCT020 29/12 Q1019 RMK QFE749/0998 CLD:3CU
(150/25KM)


TSAR UUTZ 121600Z LAST HOUR TS OBS: 220/127-142KM, 230/114KM
NEAREST TS 230/114KM
NOWCAST.SU UUTZ 121600Z VRB02MPS 0500 FG SKC 13/06 Q0 NOSIG
AUTOTAF.ME UUTZ 121100Z 1212/1221 VRB02MPS 0500 FG NSC TX14/1212Z TN11/1220Z
BECMG 1219/1220 HZ
BECMG 1220/1221 FG
 
Москва (Кремль)
SYNAR 27605 Москва (Балчуг) 121200Z 09001MPS 9999 BKN033 28/09 Q1019 RMK QFE753/1004 CLD:6CU


NOWCAST.SU UUUC 121600Z VRB02MPS 0500 FG SKC 14/05 Q0 NOSIG
AUTOTAF.ME UUUC 121100Z 1212/1221 VRB02MPS 0500 FG NSC TX14/1212Z TN10/1221Z
 
ГКБ №15
SYNAR 27605 Москва (Балчуг) 121200Z 09001MPS 9999 BKN033 28/09 Q1019 RMK QFE753/1004 CLD:6CU
(280/13KM)


NOWCAST.SU UUUN 121600Z VRB02MPS 0500 FG SKC 14/05 Q0 NOSIG
AUTOTAF.ME UUUN 121100Z 1212/1221 VRB02MPS 0500 FG NSC TX14/1212Z TN10/1221Z
 
 


NOSIG
 
Хелипорт-Москва
SYNAR 27619 Москва (Тушино) 121200Z 11001MPS 9999 BKN020 26/11 Q1019 RMK QFE749/0999 CLD:5CU


NOWCAST.SU UUUZ 121600Z VRB02MPS 0500 FG SKC 14/05 Q0 NOSIG
AUTOTAF.ME UUUZ 121100Z 1212/1221 VRB02MPS 0500 FG NSC TX15/1213Z TN10/1220Z
 
Ермолино
SYNAR 27611 Наро-Фоминск 121200Z 19002MPS 9999 FEW020 27/11 Q1019 RMK QFE747/0996 CLD:2CU
(20/18KM)


TSAR UUWE 121600Z LAST HOUR TS OBS: 290/94KM, 300/102KM, 310/113KM
NEAREST TS 290/94KM
NOWCAST.SU UUWE 121600Z VRB02MPS 0500 FG SKC 13/06 Q0 NOSIG
AUTOTAF.ME UUWE 121100Z 1212/1221 VRB02MPS 0500 FG NSC TX14/1212Z TN10/1220Z
 
Аэроград Можайский
SYNAR 27509 Можайск 121200Z 21003MPS 9999 FEW020 28/13 Q1019 RMK QFE747/0996 CLD:2CUCI
(280/13KM)


TSAR UUWH 121600Z LAST HOUR TS OBS: 220/131KM, 230/116KM, 240/103-103KM, 250/94-94KM, 260/76-89KM, 270/63-87KM, 290/66-78KM, 300/74KM
NEAREST TS 270/63KM
NOWCAST.SU UUWH 121600Z VRB02MPS 0500 FG SKC 13/07 Q0 NOSIG
AUTOTAF.ME UUWH 121100Z 1212/1221 VRB02MPS 0500 FG NSC TX14/1212Z TN11/1220Z
 
Кудиново
SYNAR 27606 Малоярославец 121200Z 21001MPS 9999 FEW020 28/13 Q1019 RMK QFE746/0995 CLD:1CU
(90/15KM)


TSAR UUWK 121600Z LAST HOUR TS OBS: 240/101KM, 260/93KM, 270/90-90KM, 280/91-92KM, 290/96-98KM, 300/87-105KM, 310/86-107KM, 320/99KM, 330/114KM
NEAREST TS 310/86KM
NOWCAST.SU UUWK 121600Z VRB02MPS 0500 FG SKC 13/07 Q0 NOSIG
AUTOTAF.ME UUWK 121100Z 1212/1221 VRB02MPS 0500 FG NSC TX14/1212Z TN10/1220Z
 
Лужки
SYNAR 27614 Михайловское 121200Z 20002MPS 9999 BKN033 27/14 Q1020 RMK QFE747/0996 CLD:5CU


NOWCAST.SU UUWL 121600Z VRB02MPS 0500 FG SKC 14/06 Q0 NOSIG
AUTOTAF.ME UUWL 121100Z 1212/1221 VRB02MPS 0500 FG NSC TX14/1212Z TN09/1221Z
 
 


NOSIG
 
ГБУ Областной аэропорт Протасово
SYNAR 27730 Рязань 121200Z 33001MPS CAVOK 27/08 Q1020 RMK QFE750/1001 CLD:SKC
(320/21KM)


NOWCAST.SU UUWP 121600Z VRB02MPS 0500 FG SKC 13/04 Q0 NOSIG
AUTOTAF.ME UUWP 121100Z 1212/1221 VRB02MPS 0500 FG NSC TX14/1212Z TN09/1221Z
 
Шишкин Лес
SYNAR 27614 Михайловское 121200Z 20002MPS 9999 BKN033 27/14 Q1020 RMK QFE747/0996 CLD:5CU


NOWCAST.SU UUWQ 121600Z VRB02MPS 0500 FG SKC 13/06 Q0 NOSIG
AUTOTAF.ME UUWQ 121100Z 1212/1221 VRB02MPS 0500 FG NSC TX14/1212Z TN09/1221Z
 
Аэросоюз-Ясенево
SYNAR 27524 Внуково 121200Z 12003MPS 9999 BKN050 28/11 Q1019 RMK QFE744/0992 CLD:5CU
(270/13KM)


NOWCAST.SU UUWR 121600Z VRB02MPS 0500 FG SKC 14/05 Q0 NOSIG
AUTOTAF.ME UUWR 121100Z 1212/1221 VRB02MPS 0500 FG NSC TX15/1214Z TN10/1220Z
 
Москва (Внуково)
METAR UUWW 121600Z 21004MPS CAVOK 26/11 Q1017 R24/000070 NOSIG


NOWCAST.SU UUWW 121600Z VRB02MPS 0500 FG SKC 01/01 Q0 NOSIG
AUTOTAF.ME UUWW 121100Z 1212/1221 VRB02MPS 0500 FG NSC TX14/1212Z TN09/1221Z
TAF UUWW 121350Z 1215/1315 16003MPS 9999 SCT040 TX29/1312Z TN16/1303Z
PROB40 TEMPO 1301/1315 -TSRA BKN020CB
BECMG 1308/1311 29006MPS=
Аносино-2
SYNAR 27511 Ново-Йерусалим 121200Z 17002MPS 9999 FEW033 28/10 Q1019 RMK QFE749/0999 CLD:3CUCS
(310/13KM)


NOWCAST.SU UUWY 121600Z VRB02MPS 0500 FG SKC 14/05 Q0 NOSIG
AUTOTAF.ME UUWY 121100Z 1212/1221 VRB02MPS 0500 FG NSC TX14/1212Z TN10/1221Z
 
Знаменское
SYNAR 27518 Подмосковная 121200Z 21002MPS 9999 BKN020 28/12 Q1019 RMK QFE749/0999 CLD:6SC


NOWCAST.SU UUWZ 121600Z VRB02MPS 0500 FG SKC 14/05 Q0 NOSIG
AUTOTAF.ME UUWZ 121100Z 1212/1221 VRB02MPS 0500 FG NSC TX15/1213Z TN09/1221Z
 
ПЭК Ущелье
SYNAR 23527 Саранпауль 121200Z 10002MPS 9999 SCT033 19/09 Q1016 RMK QFE759/1012 CLD:6SCCI
(90/87KM)


NOWCAST.SU UUXE 121600Z VRB02MPS 0500 FG SKC 01/01 Q0 NOSIG
AUTOTAF.ME UUXE 121100Z 1212/1221 VRB02MPS 0500 FG NSC TX03/1212Z TN00/1218Z
BECMG 1213/1214 OVC004
BECMG 1214/1215 NSC
 
Черпаю (ДНС)
SYNAR 23324 Петрунь 121200Z 30002MPS 9999 OVC023 11/05 Q1021 RMK QFE759/1013 CLD:8SC
(170/114KM)


NOWCAST.SU UUXZ 121600Z VRB02MPS 0500 FG BKN038 06/02 Q0 NOSIG
AUTOTAF.ME UUXZ 121100Z 1212/1221 VRB02MPS 0500 FG NSC TX06/1212Z TN04/1221Z
BECMG 1215/1216 BKN040
BECMG 1218/1219 NSC
BECMG 1219/1220 OVC002
FM122100 VRB02MPS 0500 FG NSC
 
Ухта
SYNAR 23606 Ухта 121200Z 33002MPS 9999 FEW033 14/06 Q1021 RMK QFE753/1004 CLD:6SCACCI


NOWCAST.SU UUYH 121600Z VRB02MPS 0500 FG BKN056 08/03 Q0 NOSIG
AUTOTAF.ME UUYH 121100Z 1212/1221 VRB02MPS 0500 FG NSC TX08/1212Z TN05/1221Z
BECMG 1220/1221 BKN040
 
Инта
SYNAR 23324 Петрунь 121200Z 30002MPS 9999 OVC023 11/05 Q1021 RMK QFE759/1013 CLD:8SC
(40/51KM)


NOWCAST.SU UUYI 121600Z VRB02MPS 0500 FG BKN041 07/03 Q0 NOSIG
AUTOTAF.ME UUYI 121100Z 1212/1221 VRB02MPS 0500 FG NSC TX07/1212Z TN05/1220Z
BECMG 1215/1216 BKN040
BECMG 1218/1219 NSC
 
Вуктыл
SYNAR 23711 Троицко-Печорское 121200Z 34002MPS 9999 OVC038CB 12/07 Q1020 RMK QFE753/1004 CLD:8CB
(200/136KM)


NOWCAST.SU UUYK 121600Z VRB02MPS 0500 FG BKN056 07/03 Q0 NOSIG
AUTOTAF.ME UUYK 121100Z 1212/1221 VRB02MPS 0500 FG BKN040 TX08/1212Z TN05/1220Z
BECMG 1212/1213 NSC
BECMG 1216/1217 BKN040
BECMG 1220/1221 NSC
 
Емва
SYNAR 23701 Весляна 121200Z 33002MPS 9999 BKN020CB 17/07 Q1022 RMK QFE756/1009 CLD:6CBAC
(360/42KM)


NOWCAST.SU UUYM 121600Z VRB02MPS 0500 FG SKC 09/03 Q0 NOSIG
AUTOTAF.ME UUYM 121100Z 1212/1221 VRB02MPS 0500 FG NSC TX09/1212Z TN05/1221Z
 
Печора
SYNAR 23418 Печора 121200Z 08002MPS 9999 SCT020 14/06 Q1020 RMK QFE759/1012 CLD:3CU


NOWCAST.SU UUYP 121600Z VRB02MPS 0500 FG BKN054 07/03 Q0 NOSIG
AUTOTAF.ME UUYP 121100Z 1212/1221 VRB02MPS 0500 FG NSC TX08/1212Z TN05/1220Z
BECMG 1212/1213 BKN040
BECMG 1215/1216 NSC
BECMG 1217/1218 BKN040
FM122000 VRB02MPS 0500 FG NSC
 
Троицко-Печорск
SYNAR 23711 Троицко-Печорское 121200Z 34002MPS 9999 OVC038CB 12/07 Q1020 RMK QFE753/1004 CLD:8CB


NOWCAST.SU UUYR 121600Z VRB02MPS 0500 FG BKN057 08/03 Q0 NOSIG
AUTOTAF.ME UUYR 121100Z 1212/1221 VRB02MPS 0500 FG NSC TX08/1212Z TN05/1220Z
 
Усинск
SYNAR 23410 Усинск 121200Z 36001MPS //// //// 14/05 Q1021 RMK QFE758/1011 CLD:NO_OBSERVATIONS


NOWCAST.SU UUYS 121600Z VRB02MPS 0500 FG BKN048 07/04 Q0 NOSIG
AUTOTAF.ME UUYS 121100Z 1212/1221 VRB02MPS 0500 FG NSC TX07/1212Z TN04/1220Z
BECMG 1212/1213 BKN040
BECMG 1213/1214 NSC
BECMG 1214/1215 BKN040
FM121700 VRB02MPS 0500 FG NSC
 
Усть-Кулом
SYNAR 23803 Усть-Кулом 121200Z 27002MPS 9999 OVC020CB 15/04 Q1021 RMK QFE753/1004 CLD:8CBAC


NOWCAST.SU UUYT 121600Z VRB02MPS 0500 FG BKN056 08/03 Q0 NOSIG
AUTOTAF.ME UUYT 121100Z 1212/1221 VRB02MPS 0500 FG NSC TX09/1212Z TN05/1220Z
 
Ижма
SYNAR 23411 Мутный Материк 121200Z 29001MPS 9999 BKN020 14/07 Q1021 RMK QFE759/1012 CLD:7SC
(30/116KM)


NOWCAST.SU UUYV 121600Z VRB02MPS 0500 FG BKN061 07/03 Q0 NOSIG
AUTOTAF.ME UUYV 121100Z 1212/1221 VRB02MPS 0500 FG NSC TX08/1212Z TN04/1221Z
BECMG 1220/1221 OVC004
 
Воркута
SYNAR 23226 Воркута 121200Z 31002MPS 9999 OVC024 10/05 Q1019 RMK QFE748/0998 CLD:8SC


NOWCAST.SU UUYW 121600Z VRB02MPS 0500 FG BKN045 08/02 Q0 NOSIG
AUTOTAF.ME UUYW 121100Z 1212/1221 VRB02MPS 0500 FG BKN040 TX08/1212Z TN06/1220Z
BECMG 1212/1213 NSC
BECMG 1215/1216 BKN040
BECMG 1217/1218 NSC
 
Усть-Цильма
SYNAR 23405 Усть-Цильма 121200Z 35001MPS 9999 SCT033 15/08 Q1022 RMK QFE759/1012 CLD:6SCACCI


NOWCAST.SU UUYX 121600Z VRB02MPS 0500 FG BKN055 07/04 Q0 NOSIG
AUTOTAF.ME UUYX 121100Z 1212/1221 VRB02MPS 0500 FG NSC TX08/1213Z TN04/1221Z
BECMG 1214/1215 BKN040
BECMG 1215/1216 NSC
BECMG 1216/1217 BKN040
FM121900 VRB02MPS 0500 FG VV004
 
Сыктывкар
METAR UUYY 121600Z 16001MPS 9999 FEW046 16/09 Q1020 R18/CLRD61 NOSIG RMK QFE757/1009


NOWCAST.SU UUYY 121600Z VRB02MPS 0500 FG SKC 08/03 Q0 NOSIG
AUTOTAF.ME UUYY 121100Z 1212/1221 VRB02MPS 0500 FG NSC TX09/1212Z TN05/1221Z
TAF UUYY 121400Z 1215/1315 02003G10MPS 9999 SCT020CB
BECMG 1218/1219 18003MPS=
Большое Болдино
SYNAR 27665 Лукоянов 121200Z 34003G06MPS 9999 FEW033 25/10 Q1019 RMK QFE744/0993 CLD:2CU
(270/52KM)


NOWCAST.SU UWGB 121600Z VRB02MPS 0500 FG SKC 11/03 Q0 NOSIG
AUTOTAF.ME UWGB 121100Z 1212/1221 VRB02MPS 0500 FG NSC TX12/1212Z TN07/1221Z
 
Нижний Новгород (Стригино)
METAR UWGG 121600Z 01004MPS CAVOK 24/08 Q1018 R36R/090070 NOSIG


NOWCAST.SU UWGG 121600Z VRB02MPS 0500 FG SKC 12/04 Q0 NOSIG
AUTOTAF.ME UWGG 121100Z 1212/1221 VRB02MPS 0500 FG NSC TX13/1212Z TN08/1221Z
TAF UWGG 121350Z 1215/1315 03003G09MPS 9999 SCT040 TX26/1215Z TN12/1301Z=
Бабино
SYNAR 27459 Нижний Новгород 121200Z 33002G06MPS CAVOK 24/08 Q1019 RMK QFE750/1000 CLD:4CI
(80/26KM)


NOWCAST.SU UWGI 121600Z VRB02MPS 0500 FG SKC 12/04 Q0 NOSIG
AUTOTAF.ME UWGI 121100Z 1212/1221 VRB02MPS 0500 FG NSC TX13/1212Z TN08/1221Z
 
Охлопково
SYNAR 27459 Нижний Новгород 121200Z 33002G06MPS CAVOK 24/08 Q1019 RMK QFE750/1000 CLD:4CI
(80/57KM)


NOWCAST.SU UWGO 121600Z VRB02MPS 0500 FG SKC 11/05 Q0 NOSIG
AUTOTAF.ME UWGO 121100Z 1212/1221 VRB02MPS 0500 FG NSC TX13/1212Z TN07/1221Z
 
Вознесенское
SYNAR 27752 Темников 121200Z 01002G06MPS 9999 SCT033 26/07 Q1019 RMK QFE751/1002 CLD:3CU
(140/40KM)


NOWCAST.SU UWGV 121600Z VRB02MPS 0500 FG SKC 12/04 Q0 NOSIG
AUTOTAF.ME UWGV 121100Z 1212/1221 VRB02MPS 0500 FG NSC TX14/1212Z TN08/1221Z
 
Бугульма
SYNAR 28711 Бугульма 121200Z 36009G13MPS 9999 BKN024CB 16/10 Q1012 RMK QFE732/0976 CLD:8CBAC


NOWCAST.SU UWKB 121600Z VRB02MPS 0500 FG SKC 01/01 Q0 NOSIG
AUTOTAF.ME UWKB 121100Z 1212/1221 VRB02MPS 0500 FG NSC TX10/1212Z TN07/1221Z
 
Казань
METAR UWKD 121600Z 36007G12MPS CAVOK 20/07 Q1016 R29/70D NOSIG RMK QFE751/1001


NOWCAST.SU UWKD 121600Z VRB02MPS 0500 FG SKC 10/03 Q0 NOSIG
AUTOTAF.ME UWKD 121100Z 1212/1221 VRB02MPS 0500 FG NSC TX12/1212Z TN08/1220Z
TAF UWKD 121357Z 1215/1315 36006G13MPS 9999 SCT020 TX26/1312Z TN12/1301Z=
Нижнекамск (Бегишево)
METAR UWKE 121600Z 01009MPS 9999 BKN037 15/09 Q1015 R03/090070 NOSIG RMK QFE744/0992


NOWCAST.SU UWKE 121600Z VRB02MPS 0500 FG SKC 10/04 Q0 NOSIG
AUTOTAF.ME UWKE 121100Z 1212/1221 VRB02MPS 0500 FG NSC TX11/1212Z TN08/1219Z
TAF UWKE 121350Z 1215/1315 01006G12MPS 9999 SCT040
TEMPO 1215/1218 35009G17MPS SCT016
TEMPO 1218/1224 35007G14MPS BKN020
TEMPO 1300/1309 3100 -SHRA BKN016CB=
Балтаси
SYNAR 27593 Арск 121200Z 36005G13MPS 9999 FEW033 21/05 Q1016 RMK QFE748/0997 CLD:2CU
(210/38KM)


NOWCAST.SU UWKF 121600Z VRB02MPS 0500 FG SKC 10/03 Q0 NOSIG
AUTOTAF.ME UWKF 121100Z 1212/1221 VRB02MPS 0500 FG NSC TX11/1212Z TN07/1221Z
 
Казань (Борисоглебское)
SYNAR 27595 Казань 121200Z 35004G10MPS 9999 FEW050 22/08 Q1016 RMK QFE751/1001 CLD:2CU
(160/16KM)


NOWCAST.SU UWKG 121600Z VRB02MPS 0500 FG SKC 10/03 Q0 NOSIG
AUTOTAF.ME UWKG 121100Z 1212/1221 VRB02MPS 0500 FG NSC TX12/1212Z TN08/1220Z
 
Йошкар-Ола
SYNAR 27485 Йошкар-Ола 121200Z 36005G08MPS 9999 FEW020 22/08 Q1018 RMK QFE752/1003 CLD:2CU
(220/11KM)


NOWCAST.SU UWKJ 121600Z VRB02MPS 0500 FG SKC 09/03 Q0 NOSIG
AUTOTAF.ME UWKJ 121100Z 1212/1221 VRB02MPS 0500 FG NSC TX11/1212Z TN07/1220Z
 
Елабуга (Северный)
SYNAR 28506 Елабуга 121200Z 02005G10MPS 9999 FEW020 19/07 Q1014 RMK QFE752/1003 CLD:2SC


NOWCAST.SU UWKL 121600Z VRB02MPS 0500 FG SKC 10/04 Q0 NOSIG
AUTOTAF.ME UWKL 121100Z 1212/1221 VRB02MPS 0500 FG NSC TX11/1212Z TN08/1220Z
 
Мензелинск
SYNAR 28517 Мензелинск 121200Z 01007G11MPS 9999 BKN020CB 17/10 Q1013 RMK QFE749/0999 CLD:7CB


NOWCAST.SU UWKP 121600Z VRB02MPS 0500 FG SKC 09/04 Q0 NOSIG
AUTOTAF.ME UWKP 121100Z 1212/1221 VRB02MPS 0500 FG NSC TX10/1212Z TN08/1218Z
 
Куралово
SYNAR 27594 Вязовые 121200Z 01008G12MPS 9999 SCT033 22/08 Q1016 RMK QFE751/1001 CLD:4CU
(320/27KM)


NOWCAST.SU UWKQ 121600Z VRB02MPS 0500 FG SKC 01/01 Q0 NOSIG
AUTOTAF.ME UWKQ 121100Z 1212/1221 VRB02MPS 0500 FG NSC TX12/1212Z TN08/1220Z
 
Сарманово
SYNAR 28606 Акташ 121200Z 01005G12MPS CAVOK 18/09 Q1014 RMK QFE749/0999 CLD:6AC
(230/37KM)


NOWCAST.SU UWKR 121600Z VRB02MPS 0500 FG SKC 10/04 Q0 NOSIG
AUTOTAF.ME UWKR 121100Z 1212/1221 VRB02MPS 0500 FG NSC TX11/1212Z TN08/1219Z
 
Чебоксары
METAR UWKS 121600Z 02005MPS 9999 FEW030 20/07 Q1018 R06/090060 NOSIG RMK QFE748


NOWCAST.SU UWKS 121600Z VRB02MPS 0500 FG SKC 10/03 Q0 NOSIG
AUTOTAF.ME UWKS 121100Z 1212/1221 VRB02MPS 0500 FG NSC TX11/1212Z TN07/1221Z
TAF UWKS 121342Z 1215/1224 36003G09MPS 9999 SCT040 TX21/1215Z TN12/1223Z=
Казань (Юдино)
SYNAR 27595 Казань 121200Z 35004G10MPS 9999 FEW050 22/08 Q1016 RMK QFE751/1001 CLD:2CU
(140/18KM)


NOWCAST.SU UWKW 121600Z VRB02MPS 0500 FG SKC 10/03 Q0 NOSIG
AUTOTAF.ME UWKW 121100Z 1212/1221 VRB02MPS 0500 FG NSC TX12/1212Z TN08/1220Z
 
Ульяновск (Баратаевка)
METAR UWLL 121600Z 35007MPS CAVOK 22/03 Q1015 R02/090065 NOSIG RMK QFE749/0999


NOWCAST.SU UWLL 121600Z VRB02MPS 0500 FG SKC 11/03 Q0 NOSIG
AUTOTAF.ME UWLL 121100Z 1212/1221 VRB02MPS 0500 FG NSC TX12/1212Z TN09/1220Z
TAF UWLL 121351Z 1215/1315 35005G12MPS 9999 BKN016 TX24/1312Z TN12/1301Z
TEMPO 1215/1218 02010G16MPS
TEMPO 1306/1312 04010G16MPS=
Новоселки
SYNAR 27799 Димитровград 121200Z 35005G11MPS 9999 FEW030 24/08 Q1014 RMK QFE753/1005 CLD:2CUCI
(350/36KM)


NOWCAST.SU UWLN 121600Z VRB02MPS 0500 FG SKC 11/03 Q0 NOSIG
AUTOTAF.ME UWLN 121100Z 1212/1221 VRB02MPS 0500 FG NSC TX12/1212Z TN09/1219Z
 
Солдатская Ташла
SYNAR 27785 Ульяновск 121200Z 02002MPS 9999 FEW050 25/05 Q1015 RMK QFE749/0999 CLD:2CU
(350/29KM)


NOWCAST.SU UWLS 121600Z VRB02MPS 0500 FG SKC 01/01 Q0 NOSIG
AUTOTAF.ME UWLS 121100Z 1212/1221 VRB02MPS 0500 FG NSC TX12/1212Z TN09/1219Z
 
Ульяновск (Восточный)
METAR UWLW 121600Z 01007MPS 9999 FEW040 22/09 Q1014 R02/CLRD60 NOSIG RMK QFE754/1005


NOWCAST.SU UWLW 121600Z VRB02MPS 0500 FG SKC 11/04 Q0 NOSIG
AUTOTAF.ME UWLW 121100Z 1212/1221 VRB02MPS 0500 FG NSC TX12/1212Z TN10/1219Z
TAF UWLW 121350Z 1215/1315 36007G13MPS 9999 SCT033 TX25/1312Z TN14/1301Z
TEMPO 1215/1216 02008G15MPS
TEMPO 1304/1315 01009G14MPS=
Зилаир
SYNAR 35026 Зилаир 121200Z 35003MPS 9999 RESHRA OVC020CB 16/15 Q999 RMK QFE703/0938 CLD:8CB


TSAR UWOI 121600Z LAST HOUR TS OBS: 110/94-106KM, 120/92-114KM, 130/106-139KM, 140/97-172KM, 150/107-189KM, 160/101-147KM
NEAREST TS 120/92KM
NOWCAST.SU UWOI 121600Z VRB02MPS 0500 +SN FG VV002 01/01 Q0 NOSIG
AUTOTAF.ME UWOI 121100Z 1212/1221 VRB02MPS 0500 +SN FG VV004 TX08/1212Z TN08/1212Z
BECMG 1218/1219 OVC002
FM122100 VRB02MPS 2500 SN BR OVC004
 
Оренбург
METAR UWOO 121600Z 34013G18MPS 9999 -SHRA OVC011CB 16/15 Q0999 R26/290050 NOSIG RMK QFE739/0985


NOWCAST.SU UWOO 121600Z VRB02MPS 0500 +SN FG VV002 08/08 Q0 NOSIG
AUTOTAF.ME UWOO 121100Z 1212/1221 VRB02MPS 0500 +SN FG VV004 TX09/1212Z TN08/1214Z
BECMG 1220/1221 NSC
TAF UWOO 121352Z 1215/1315 34010G18MPS 6000 BKN016CB TX18/1305Z TN12/1223Z
TEMPO 1215/1315 02012G22MPS 3000 -TSRA BKN007CB=
Первомайский
SYNAR 35008 Первомайский 121200Z 36007G15MPS 9999 RESHRA BKN032CB 24/10 Q1008 RMK QFE749/0999 CLD:7CBCS


NOWCAST.SU UWOP 121600Z VRB02MPS 0500 FG SKC 11/04 Q0 NOSIG
AUTOTAF.ME UWOP 121100Z 1212/1221 VRB02MPS 0500 FG NSC TX13/1212Z TN09/1221Z
 
Орск
METAR UWOR 121600Z 32004MPS 9999 BKN049CB 17/17 Q0994 R25/290255 NOSIG RMK QFE722/0963


TSAR UWOR 121600Z LAST HOUR TS OBS: 010/54-95KM, 020/33-128KM, 030/58-183KM, 040/40-148KM, 050/50KM, 060/15KM, 070/28KM, 080/40KM, 110/41KM, 120/29-63KM, 130/18-52KM, 140/43-68KM, 150/61KM, 160/36KM, 180/13KM, 230/19KM, 250/30KM, 280/41KM, 290/28KM, 300/16KM, 310/51KM, 320/41KM, 340/34KM, 350/54KM, 360/9-73KM
NEAREST TS 360/9KM
NOWCAST.SU UWOR 121600Z VRB02MPS 0200 +SN FG VV002 01/01 Q0 TEMPO -TSRA
AUTOTAF.ME UWOR 121100Z 1212/1221 VRB02MPS 0500 +SN FG VV004 TX09/1212Z TN08/1214Z
BECMG 1218/1219 OVC002
BECMG 1220/1221 OVC004
TAF UWOR 121350Z 1215/1224 29008G14MPS 6000 BKN016CB TX16/1215Z TN13/1223Z
TEMPO 1215/1224 02010G20MPS 3000 -TSRA BKN010CB=
Бузулук
SYNAR 28908 Авангард Зерносовхоз 121200Z 01008G15MPS 9999 SCT020 24/10 Q1009 RMK QFE749/0998 CLD:6CUCI
(250/67KM)


NOWCAST.SU UWOX 121600Z VRB02MPS 0500 FG SKC 11/04 Q0 NOSIG
AUTOTAF.ME UWOX 121100Z 1212/1221 VRB02MPS 0500 FG NSC TX12/1212Z TN09/1221Z
 
Кушкуль (Сакмара)
SYNAR 35121 Оренбург 121200Z 34009G13MPS 9999 BKN020CB 19/14 Q1002 RMK QFE741/0988 CLD:8CBAC
(190/26KM)


NOWCAST.SU UWOY 121600Z VRB02MPS 0500 +SN FG VV002 08/07 Q0 NOSIG
AUTOTAF.ME UWOY 121100Z 1212/1221 VRB02MPS 0500 +SN FG VV004 TX09/1212Z TN08/1214Z
BECMG 1217/1218 NSC
BECMG 1220/1221 OVC004
 
Пенза
SYNAR 27962 Пенза 121200Z 03004MPS 9999 SCT033 26/08 Q1017 RMK QFE747/0996 CLD:6CUACCI


NOWCAST.SU UWPP 121600Z VRB02MPS 0500 FG SKC 12/04 Q0 NOSIG
AUTOTAF.ME UWPP 121100Z 1212/1221 VRB02MPS 0500 FG NSC TX13/1212Z TN08/1221Z
 
Саранск
METAR UWPS 121600Z 02006MPS CAVOK 23/07 Q1017 R02/CLRD60 NOSIG RMK QFE743


NOWCAST.SU UWPS 121600Z VRB02MPS 0500 FG SKC 01/01 Q0 NOSIG
AUTOTAF.ME UWPS 121100Z 1212/1221 VRB02MPS 0500 FG NSC TX12/1212Z TN07/1221Z
TAF UWPS 121353Z 1215/1224 01005G11MPS 9999 BKN040 TX23/1215Z TN16/1224Z=
Балаково (Малая Быковка)
SYNAR 34186 Ершов 121200Z 36009G13MPS 9999 SCT033 26/07 Q1012 RMK QFE749/0998 CLD:3CU
(140/66KM)


NOWCAST.SU UWSB 121600Z VRB02MPS 0500 FG SKC 12/04 Q0 NOSIG
AUTOTAF.ME UWSB 121100Z 1212/1221 VRB02MPS 0500 FG NSC TX13/1212Z TN10/1220Z
 
Саратов (Гагарин)
METAR UWSG 121600Z 01007MPS CAVOK 26/07 Q1013 R26/CLRD70 NOSIG RMK QFE757/1010


NOWCAST.SU UWSG 121600Z VRB02MPS 0500 FG SKC 13/04 Q0 NOSIG
AUTOTAF.ME UWSG 121100Z 1212/1221 VRB02MPS 0500 FG NSC TX14/1212Z TN11/1219Z
TAF UWSG 121352Z 1215/1224 35005G12MPS CAVOK TX28/1215Z TN18/1224Z=
Красный Кут
SYNAR 34273 Красный Кут 121200Z 36008G12MPS CAVOK 29/06 Q1013 RMK QFE755/1007 CLD:3ACCI


NOWCAST.SU UWSK 121600Z VRB02MPS 0500 FG SKC 13/03 Q0 NOSIG
AUTOTAF.ME UWSK 121100Z 1212/1221 VRB02MPS 0500 FG NSC TX14/1212Z TN09/1221Z
 
Пугачев
SYNAR 34098 Пугачев 121200Z 36008G14MPS 9999 SCT020 25/08 Q1012 RMK QFE755/1007 CLD:3CU


NOWCAST.SU UWSP 121600Z VRB02MPS 0500 FG SKC 12/03 Q0 NOSIG
AUTOTAF.ME UWSP 121100Z 1212/1221 VRB02MPS 0500 FG NSC TX13/1212Z TN10/1219Z
 
Саратов (Центральный)
SYNAR 34178 Саратов (ЮВ) 121200Z 34005G10MPS 9999 FEW033 28/04 Q1015 RMK QFE749/0999 CLD:4CUCI


NOWCAST.SU UWSS 121600Z VRB02MPS 0500 FG SKC 13/04 Q0 NOSIG
AUTOTAF.ME UWSS 121100Z 1212/1221 VRB02MPS 0500 FG NSC TX14/1212Z TN11/1219Z
 
Балашов (Репное)
SYNAR 34152 Балашов 121200Z 36003MPS CAVOK 30/10 Q1018 RMK QFE748/0998 CLD:SKC


NOWCAST.SU UWSW 121600Z VRB02MPS 0500 FG SKC 12/04 Q0 NOSIG
AUTOTAF.ME UWSW 121100Z 1212/1221 VRB02MPS 0500 FG NSC TX14/1213Z TN09/1220Z
 
Караишево
SYNAR 27693 Лаишево 121200Z 34006G11MPS //// //// 22/05 Q1015 RMK QFE750/1000 CLD:NO_OBSERVATIONS
(140/19KM)


NOWCAST.SU UWTK 121600Z VRB02MPS 0500 FG SKC 10/03 Q0 NOSIG
AUTOTAF.ME UWTK 121100Z 1212/1221 VRB02MPS 0500 FG NSC TX12/1212Z TN08/1220Z
 
Альметьевск (Пойма)
SYNAR 28606 Акташ 121200Z 01005G12MPS CAVOK 18/09 Q1014 RMK QFE749/0999 CLD:6AC
(330/13KM)


NOWCAST.SU UWTP 121600Z VRB02MPS 0500 FG SKC 09/04 Q0 NOSIG
AUTOTAF.ME UWTP 121100Z 1212/1221 VRB02MPS 0500 FG NSC TX10/1212Z TN07/1221Z
 
Казань (Автодром)
SYNAR 27595 Казань 121200Z 35004G10MPS 9999 FEW050 22/08 Q1016 RMK QFE751/1001 CLD:2CU
(190/16KM)


NOWCAST.SU UWTX 121600Z VRB02MPS 0500 FG SKC 10/03 Q0 NOSIG
AUTOTAF.ME UWTX 121100Z 1212/1221 VRB02MPS 0500 FG NSC TX12/1212Z TN08/1220Z
 
Белорецк
SYNAR 28831 Белорецк 121200Z 36002MPS 9999 TSRA OVC020CB 19/15 Q1004 RMK QFE705/0940 CLD:8CB


TSAR UWUB 121600Z LAST HOUR TS OBS: 040/76-132KM, 050/85-118KM, 060/62-105KM, 070/85-96KM, 080/55-92KM, 100/55-92KM, 140/149KM
NEAREST TS 80/55KM
NOWCAST.SU UWUB 121600Z VRB02MPS 0500 +SN FG VV002 01/01 Q0 NOSIG
AUTOTAF.ME UWUB 121100Z 1212/1221 VRB02MPS 0500 FG VV004 TX09/1212Z TN08/1217Z
FM121500 VRB02MPS 0500 +SN FG NSC
BECMG 1215/1216 OVC004
 
Нефтекамск
SYNAR 28418 Сарапул 121200Z 36005G10MPS 9999 BKN020 15/10 Q1014 RMK QFE748/0997 CLD:7SC
(320/55KM)


NOWCAST.SU UWUF 121600Z VRB02MPS 0500 FG SKC 09/05 Q0 NOSIG
AUTOTAF.ME UWUF 121100Z 1212/1221 VRB02MPS 0500 FG NSC TX10/1212Z TN08/1219Z
 
Октябрьский
SYNAR 28712 Туймазы 121200Z 33008G12MPS 9999 OVC033 17/09 Q1010 RMK QFE745/0994 CLD:8SC
(50/27KM)


NOWCAST.SU UWUK 121600Z VRB02MPS 0500 FG SKC 09/05 Q0 NOSIG
AUTOTAF.ME UWUK 121100Z 1212/1221 VRB02MPS 0500 FG NSC TX10/1212Z TN08/1220Z
 
Уфа (Максимовка)
SYNAR 28722 Уфа 121200Z 34005G10MPS 9999 -SHRA OVC020CB 16/13 Q1007 RMK QFE746/0994 CLD:8CB
(240/25KM)


NOWCAST.SU UWUM 121600Z VRB02MPS 0500 FG SKC 08/07 Q0 NOSIG
AUTOTAF.ME UWUM 121100Z 1212/1221 VRB02MPS 0500 +SN FG VV004 TX08/1212Z TN08/1212Z
BECMG 1214/1215 NSC
BECMG 1215/1216 FG
 
Первушино
SYNAR 28624 Кушнаренково 121200Z 02005G10MPS 9999 OVC020 17/11 Q1009 RMK QFE747/0997 CLD:8SC
(300/29KM)


NOWCAST.SU UWUO 121600Z VRB02MPS 0500 FG SKC 09/07 Q0 NOSIG
AUTOTAF.ME UWUO 121100Z 1212/1221 VRB02MPS 0500 +SN FG NSC TX09/1213Z TN08/1212Z
BECMG 1212/1213 FG
 
Стерлитамак
SYNAR 28825 Стерлитамак 121200Z 02004G11MPS 4000 -RA OVC010 16/13 Q1005 RMK QFE741/0988 CLD:8NS
(70/16KM)


NOWCAST.SU UWUS 121600Z VRB02MPS 0500 +SN FG VV002 08/07 Q0 NOSIG
AUTOTAF.ME UWUS 121100Z 1212/1221 VRB02MPS 0500 +SN FG VV004 TX08/1212Z TN08/1212Z
BECMG 1216/1217 NSC
BECMG 1218/1219 OVC004
 
Уфа
METAR UWUU 121600Z 35010MPS 9999 OVC013CB 15/13 Q1007 R32L/290246 NOSIG


NOWCAST.SU UWUU 121600Z VRB02MPS 0500 +SN FG VV002 08/07 Q0 NOSIG
AUTOTAF.ME UWUU 121100Z 1212/1221 VRB02MPS 0500 +SN FG VV004 TX08/1212Z TN08/1212Z
FM121800 VRB02MPS 0500 FG NSC
BECMG 1220/1221 +SN FG
TAF UWUU 121350Z 1215/1315 34009G17MPS 9999 OVC016 TX20/1311Z TN14/1301Z
TEMPO 1215/1315 02006G12MPS 2100 -TSRA FEW006 BKN020CB=
Старосубхангулово (Бурзян)
SYNAR 28823 Тукан 121200Z 01004MPS 9999 OVC020 18/15 Q1003 RMK QFE704/0939 CLD:8SC
(10/87KM)


TSAR UWUW 121600Z LAST HOUR TS OBS: 140/160KM, 150/171-177KM
NEAREST TS 140/160KM
NOWCAST.SU UWUW 121600Z VRB02MPS 0200 +SN FG VV002 01/01 Q0 NOSIG
AUTOTAF.ME UWUW 121100Z 1212/1221 VRB02MPS 0500 +SN FG VV004 TX08/1212Z TN08/1212Z
BECMG 1218/1219 NSC
BECMG 1219/1220 OVC004
 
Бугуруслан (Главный)
SYNAR 28806 Бугуруслан 121200Z 36004G10MPS 9999 BKN045 22/10 Q1010 RMK QFE749/0998 CLD:7CUAC


NOWCAST.SU UWWB 121600Z VRB02MPS 0500 FG SKC 10/05 Q0 NOSIG
AUTOTAF.ME UWWB 121100Z 1212/1221 VRB02MPS 0500 FG NSC TX11/1212Z TN09/1217Z
 
Самара (Безымянка)
SYNAR 28904 Самара (Безымянка) 121200Z 36007G14MPS 9999 SCT033 25/07 Q1009 RMK QFE753/1004 CLD:5CUAC


NOWCAST.SU UWWG 121600Z VRB02MPS 0500 FG SKC 11/03 Q0 NOSIG
AUTOTAF.ME UWWG 121100Z 1212/1221 VRB02MPS 0500 FG NSC TX12/1212Z TN09/1221Z
 
Красный Яр
SYNAR 28900 Самара (ОГМС) 121200Z 01002MPS 9999 BKN020 24/07 Q1012 RMK QFE746/0995 CLD:5CU
(210/32KM)


NOWCAST.SU UWWQ 121600Z VRB02MPS 0500 FG SKC 11/04 Q0 NOSIG
AUTOTAF.ME UWWQ 121100Z 1212/1221 VRB02MPS 0500 FG NSC TX12/1212Z TN09/1219Z
 
Самара (Смышляевка)
SYNAR 28904 Самара (Безымянка) 121200Z 36007G14MPS 9999 SCT033 25/07 Q1009 RMK QFE753/1004 CLD:5CUAC


NOWCAST.SU UWWS 121600Z VRB02MPS 0500 FG SKC 11/03 Q0 NOSIG
AUTOTAF.ME UWWS 121100Z 1212/1221 VRB02MPS 0500 FG NSC TX12/1212Z TN09/1221Z
 
Самара (Кряж)
SYNAR 28904 Самара (Безымянка) 121200Z 36007G14MPS 9999 SCT033 25/07 Q1009 RMK QFE753/1004 CLD:5CUAC
(60/14KM)


NOWCAST.SU UWWV 121600Z VRB02MPS 0500 FG SKC 11/03 Q0 NOSIG
AUTOTAF.ME UWWV 121100Z 1212/1221 VRB02MPS 0500 FG NSC TX12/1212Z TN09/1221Z
 
Самара (Курумоч)
METAR UWWW 121600Z 35010MPS CAVOK 21/07 Q1012 R33/CLRD63 NOSIG RMK QFE748/0998


NOWCAST.SU UWWW 121600Z VRB02MPS 0500 FG SKC 11/04 Q0 NOSIG
AUTOTAF.ME UWWW 121100Z 1212/1221 VRB02MPS 0500 FG NSC TX12/1212Z TN09/1219Z
TAF UWWW 121354Z 1215/1315 35008G15MPS 9999 SCT030 TX26/1311Z TN15/1301Z
TEMPO 1215/1315 02012G18MPS=
Бугуруслан (Северный)
SYNAR 28806 Бугуруслан 121200Z 36004G10MPS 9999 BKN045 22/10 Q1010 RMK QFE749/0998 CLD:7CUAC
(150/12KM)


NOWCAST.SU UWWZ 121600Z VRB02MPS 0500 FG SKC 01/01 Q0 NOSIG
AUTOTAF.ME UWWZ 121100Z 1212/1221 VRB02MPS 0500 FG NSC TX11/1212Z TN09/1217Z
 

Таблица обновляется в 12 и 42 минуты каждого часа круглосуточно.

Цвет рамки ячеек таблицы означает класс метеоусловий (высота нижней границы облаков* х видимость):
зелёный - VFR (выше 900х8000);
голубой - MVFR (ниже 900х8000, но не ниже 300х5000);
красный - IFR (ниже 300х5000, но не ниже 150х2000);
пурпурный - LIFR (ниже 150х2000, но не ниже 90х800);
фиолетовый - VLIFR (ниже 90х800).

*ВНГО - высота нижней границы самого нижнего слоя облаков, закрывающего более половины небосвода (BKN или OVC).